ENHM 271550Z 25004KT 9999 BKN010 08/06 Q1022 W10/S3 UUOK 271530Z 36004MPS 9999 SCT033CB 20/17 Q1014 R12/290055 NOSIG RMK QFE743/0990 KIWI 271553Z AUTO VRB06KT 10SM BKN008 OVC020 14/11 A3017 RMK AO2 CIG 008V013 SLP217 T01390111 KJMR 271538Z AUTO 11007KT 4SM RA BKN009 OVC013 14/12 A2987 RMK AO2 P0008 KIXA 271550Z AUTO 21008KT 10SM CLR 27/17 A3015 RMK AO2 KJMS 271556Z AUTO 07009KT 10SM SCT024 SCT033 18/12 A2982 RMK AO2 SLP097 T01830122 UUOO 271530Z 13003MPS 9999 FEW050CB 22/16 Q1013 R12/290150 TEMPO -TSRA RMK QFE746 KIXD 271553Z 16006KT 10SM CLR 20/17 A2975 RMK AO2 SLP068 T02000167 ENHV 271550Z 00000KT CAVOK 13/02 Q1023 PPIZ 271556Z AUTO 00000KT 2SM BR FEW004 OVC014 02/02 A3034 RMK AO2 TSNO T00220016 SLP278 $ KIYA 271535Z AUTO 14009G15KT 10SM SCT019 SCT027 BKN055 27/23 A2995 RMK AO2 LTG DSNT NW T02700232 ENKB 271550Z 34005KT 280V040 CAVOK 18/06 Q1022 FDSK 271500Z 13003KT 9999 FEW035 23/12 Q1024 KJNX 271555Z AUTO 18004KT 10SM CLR 27/18 A3015 RMK AO2 VLPS 271200Z 14006KT 9999 BKN020 SCT050 30/25 Q1005 NOSIG KIZA 271529Z AUTO 00000KT 10SM OVC007 12/09 A2998 RMK AO2 ENLA 271550Z AUTO 05016KT //// // NCD 14/09 Q1020 W///S3 KJOT 271535Z AUTO 18008KT 10SM SCT021 SCT110 25/20 A2991 RMK AO2 T02470198 KJQF 271452Z 24006KT 10SM CLR 27/14 A3019 LBGO 271530Z AUTO VRB02KT 9999 NCD 21/16 Q1016 NOSIG KIZG 271554Z AUTO 00000KT 10SM BKN019 18/12 A3013 RMK AO2 SLP203 T01830117 ENKR 271550Z 20010KT CAVOK 18/02 Q1025 RMK WIND 731FT 22015KT KM91 271555Z AUTO 18008KT 10SM CLR 26/19 A3004 RMK A01 ENLK 271550Z 32007KT CAVOK 12/06 Q1025 KN03 271555Z AUTO 23004KT 10SM SCT043 SCT049 SCT060 27/18 A3004 RMK AO2 VLSK 271300Z 18006KT 4000 TSRA SCT016CB OVC083 29/25 Q1006 CB E NOSIG ENMH 271250Z 21006KT CAVOK 16/02 Q1023 KLAA 271553Z AUTO 27016KT 10SM OVC019 13/08 A2972 RMK AO2 SLP041 T01280078 TSNO FDUS 271200Z AUTO 09004KT //// // ////// 23/05 Q1025 ENNA 271550Z 23010KT CAVOK 21/02 Q1022 RMK WIND 1800FT 28021KT ENML 271550Z 24006KT CAVOK 19/10 Q1021 ENNE 271550Z 01007KT CAVOK 08/06 Q1025 W///S/ KLAF 271554Z 20007KT 10SM SCT110 24/17 A2997 RMK AO2 SLP143 T02390172 ENMS 271550Z 25007KT CAVOK 20/01 Q1024 RMK WIND 412FT 25007KT 210V300 KLBB 271553Z 24005KT 10SM FEW250 22/06 A2981 RMK AO2 SLP052 T02170061 ENOA 271520Z 16004KT 090V190 9999 BKN007 08/05 Q1022 W///S3 KJSL 271540Z AUTO 14016G27KT 2SM HZ CLR 28/22 A2990 RMK A01 VIS 1V4 ENNK 271550Z 26017KT CAVOK 16/07 Q1025 KJTC 271555Z AUTO 31010G15KT 10SM CLR 15/M03 A3009 RMK AO2 KLAL 271550Z 08011KT 10SM BKN040 27/17 A3007 KLAM 271535Z AUTO 05006KT 10SM CLR 11/00 A2999 RMK AO2 T01110004 ENNM 271550Z 09004KT 010V120 CAVOK 22/03 Q1022 KLAN 271553Z 12006KT 10SM SCT028 BKN035 26/19 A2997 RMK AO2 SLP145 T02560194 KLBE 271545Z 24010KT 10SM SCT250 27/18 A3009 KLBF 271553Z AUTO 03009KT 10SM SCT018 BKN026 OVC042 16/12 A2979 RMK AO2 SLP072 T01610122 KJSO 271555Z AUTO 00000KT 2SM +TSRA SCT001 SCT016 OVC026 18/18 A2993 RMK AO2 LTG DSNT ALQS P0020 T01900185 LATI 271550Z 35009KT CAVOK 25/14 Q1016 NOSIG KLAR 271553Z AUTO 33012KT 10SM CLR 10/02 A2997 RMK AO2 SLP092 T01000017 VMMC 271546Z 17017KT 8000 3000SE SHRA FEW006 SCT015 BKN040 26/26 Q1007 TEMPO 2000 SHRA KLAS 271556Z 06004KT 10SM FEW120 24/01 A2987 RMK AO2 SLP093 T02440006 KJST 271554Z AUTO 29005KT 10SM FEW036 25/14 A3013 RMK AO2 SLP186 T02500139 KLBL 271555Z 32010KT 10SM CLR 19/08 A2974 RMK AO1 ENOL 271550Z 35005KT 300V030 CAVOK 21/03 Q1021 NOSIG KJSV 271555Z AUTO 14005KT 10SM CLR 25/20 A2978 RMK AO2 LTG DSNT S KLAW 271553Z 20010G19KT 10SM CLR 23/17 A2971 RMK AO2 SLP051 T02280167 KLAX 271553Z 10003KT 7SM OVC018 17/12 A2996 RMK AO2 SLP143 T01720122 $ KLCG 271535Z AUTO 00000KT 10SM SCT017 BKN055 20/16 A2977 RMK AO2 T01970155 KLCH 271553Z 15019G25KT 10SM FEW024 27/22 A2987 RMK AO2 PK WND 13027/1535 SLP122 T02720217 KLCI 271556Z AUTO 08007KT 10SM CLR 18/13 A3013 RMK AO2 SLP216 T01830133 PNO $ KN38 271555Z AUTO 21009G16KT 10SM SCT031 BKN038 25/M36 A3008 RMK AO2 ENQA 271550Z AUTO 35003KT 320V020 9999NDV BKN005/// 10/07 Q1022 W09/S4 KLBT 271554Z AUTO VRB04KT 10SM CLR 29/17 A3015 RMK AO2 SLP208 T02940167 KLCK 271535Z AUTO 00000KT 10SM CLR 26/18 A3004 RMK AO2 T02610179 ENQC 271550Z AUTO VRB01KT 9999NDV BKN003/// 10/08 Q1022 W///S4 ENOV 271550Z VRB06KT CAVOK 20/05 Q1021 RMK WIND 2175FT 31009KT KLBX 271553Z AUTO 16021G29KT 10SM SCT020 BKN027 OVC034 28/24 A2980 RMK AO2 PK WND 17032/1531 SLP091 T02830244 KLCQ 271535Z AUTO 09004KT 10SM SCT044 SCT050 27/16 A3010 RMK AO2 VLVT 271530Z 09004KT 3000 BR FEW040 29/25 Q1006 NOSIG KKLS 271555Z AUTO 00000KT 10SM OVC060 12/06 A3024 RMK AO1 ENRA 271550Z 30006KT CAVOK 19/03 Q1024 KLEB 271553Z VRB05KT 10SM CLR 26/15 A3004 RMK AO2 SLP163 T02560150 KJVL 271545Z 16007KT 10SM SCT110 BKN250 24/18 A2987 KLDM 271555Z AUTO 15006KT 5SM HZ BKN010 22/20 A2992 RMK AO2 T02210195 KLEE 271553Z 09007KT 10SM CLR 29/16 A3008 RMK AO2 SLP184 T02940156 KJWG 271555Z AUTO 22017G22KT 10SM CLR 25/16 A2968 RMK AO2 T02540164 ENQR 271550Z AUTO 04010KT 9999NDV OVC005/// 09/07 Q1022 W///S3 KN60 271552Z AUTO 31005KT 17/10 A2983 RMK AO1 SLP104 T01670100 UUWW 271530Z 03004MPS 010V080 9999 SCT046 24/12 Q1017 R06/000070 NOSIG ENSB 271550Z 23012G23KT 150V250 9999 VCSH FEW020 BKN040 05/M01 Q1005 RMK WIND 1400FT 19018KT UWGG 271530Z 34003MPS 9999 BKN033CB 21/13 Q1017 R36L/090070 NOSIG RMK QFE755 ENRM 271550Z 01012KT 340V040 CAVOK 19/04 Q1023 ENSD 271450Z 31008KT CAVOK 22/03 Q1020 RMK WIND 1138FT VRB06KT KJVW 271555Z AUTO 17008G17KT 9SM FEW025 FEW030 28/25 A2998 RMK AO2 KJWN 271555Z AUTO 18008KT 10SM CLR 27/18 A3003 RMK LCEN 271520Z 26004KT 9999 FEW025CB SCT030 21/14 Q1008 NOSIG ENSE 271550Z AUTO 03011KT 9999NDV OVC004/// 08/07 Q1022 W///S3 ENSF 271550Z AUTO 02010KT 9999NDV OVC007/// 09/07 Q1022 W///S3 ENRO 271550Z VRB07KT CAVOK 18/00 Q1021 ENSG 271550Z 23005KT CAVOK 19/01 Q1021 RMK WIND 3806FT 35005KT ENSH 271450Z 19010KT CAVOK 13/06 Q1025 KLFI 271458Z AUTO 22009KT 9SM CLR 27/17 A3014 RMK AO2 SLP213 T02670172 52005 $ KJXI 271537Z AUTO 17004KT 5SM TSRA SCT012 BKN055 OVC065 19/18 A2991 RMK AO2 LTG DSNT S AND NW P0011 KLGA 271551Z 15009KT 10SM SCT160 SCT250 29/20 A3006 RMK AO2 SLP177 T02890200 $ ENRS 271550Z 29004KT CAVOK 11/06 Q1025 KLFK 271553Z AUTO 05005KT 7SM VCTS -RA BKN044 BKN060 OVC080 20/19 A2982 RMK AO2 LTG DSNT SW-NW RAB1459 SLP096 P0008 T02000189 KLGB 271553Z 21006KT 10SM OVC018 17/13 A2996 RMK AO2 SLP143 T01720133 ENSK 271550Z 23005KT CAVOK 14/06 Q1025 KLGC 271535Z AUTO 18005KT 10SM CLR 29/21 A3011 RMK AO2 T02860205 ENSL 271550Z 03007KT 350V060 CAVOK 11/08 Q1022 W11/S3 ENTC 271550Z 28015KT CAVOK 12/05 Q1023 NOSIG RMK WIND 2600FT 22018KT KLGD 271555Z AUTO 34014G18KT 10SM SCT039 11/M02 A3008 RMK AO1 LBPD 271530Z AUTO 03004KT 340V120 9999 NCD 23/12 Q1016 NOSIG KLEW 271555Z AUTO 09005KT 10SM OVC016 15/11 A3015 RMK AO1 KJXN 271556Z 20008KT 10SM FEW029 26/18 A2999 RMK AO2 SLP149 T02560178 KLEX 271554Z 22009KT 10SM CLR 27/19 A3008 RMK AO2 SLP176 T02720194 ENSO 271350Z 34007KT 300V010 9999 FEW030 15/09 Q1021 KJYG 271555Z AUTO 15011KT 10SM -RA SCT017 16/13 A2979 RMK AO2 KJWY 271535Z AUTO 14005KT 7SM RA SCT003 SCT030 OVC090 18/18 A2986 RMK AO2 P0003 T01800180 ENRY 271550Z 11006KT CAVOK 16/09 Q1020 ENSR 271550Z 33007KT CAVOK 14/07 Q1023 WIND 1119FT 25005KT ENSS 271550Z 20011KT CAVOK 15/04 Q1024 RMK WIND 500FT 21017KT KLFT 271553Z VRB04KT 8SM -RA BKN018 BKN033 BKN070 26/23 A2994 RMK AO2 RAB1457E06B33 SLP138 P0003 T02610233 KLHB 271555Z AUTO 36008KT 10SM -TSRA OVC039 18/18 A2984 RMK AO2 LTG DSNT ALQS P0012 T01830175 ENST 271550Z VRB04KT CAVOK 18/06 Q1024 RMK WIND 300FT 31005KT KJYL 271535Z AUTO 11007KT 10SM CLR 29/16 A3015 RMK AO2 T02860156 KJYM 271555Z AUTO 19006KT 10SM CLR 24/16 A3001 RMK AO2 T02370157 UUYY 271530Z 02006MPS 9999 SCT033CB 15/09 Q1020 R01/CLRD61 NOSIG RMK QFE756/1008 EPCE 271530Z 08005KT 9999 VCTS BKN079 16/14 Q1017 RMK 156 090 7/7 = KJYO 271535Z AUTO 16006KT 130V190 10SM CLR 30/21 A3009 RMK AO2 ENTO 271550Z 19004KT 140V230 CAVOK 17/09 Q1019 ENUG 271550Z AUTO 23014KT 9999NDV SCT150/// 10/06 Q1022 W07/S4 KJZI 271555Z AUTO 07008G13KT 10SM FEW041 FEW100 27/17 A3015 RMK AO2 KJYR 271555Z AUTO 12006KT 10SM -RA SCT020 SCT070 BKN090 17/15 A2980 RMK AO2 LTG DSNT SE-W EPDA 271530Z 04007KT 340V090 9999 BKN068 15/10 Q1017 RMK 153 070 7/7 LTG DSNT ENVA 271550Z 28002KT CAVOK 22/04 Q1021 NOSIG RMK WIND 670FT 05005KT FGBT 271500Z 23010KT 9999 SCT010 30/26 Q1011 KLGU 271551Z AUTO 00000KT 10SM CLR 13/07 A2998 RMK AO2 SLP123 T01280072 KLIC 271555Z AUTO 33019G26KT 3SM RA BR SCT012 BKN027 OVC033 07/07 A2981 RMK AO2 PK WND 33030/1513 SLP074 P0006 T00720067 KLHM 271555Z AUTO 00000KT 10SM CLR 20/09 A2993 RMK AO1 ENVD 271550Z 19007KT 160V230 CAVOK 14/05 Q1024 EPDE 271530Z VRB03KT CAVOK 23/14 Q1016 RMK 233 054 4/2= KJZP 271535Z AUTO 14007KT 10SM SCT050 BKN070 BKN080 25/10 A3020 RMK AO2 T02540102 KLHQ 271553Z AUTO 24007KT 10SM CLR 27/18 A3006 RMK AO2 SLP171 T02720183 EPBY 271530Z 27005KT 220V300 9999 FEW056TCU 24/10 Q1016 ENVH 271550Z AUTO 08004KT 9999NDV NCD 12/09 Q1020 W///S3 UWKD 271530Z 16003MPS CAVOK 26/13 Q1016 R11/CLRD70 NOSIG RMK QFE752/1003 UWKE 271530Z 23002MPS CAVOK 28/13 Q1017 R03/090070 NOSIG RMK QFE746/0994 VOBG 271500Z 27008KT 9999 FEW012 FEW025CB 27/18 Q1014 KMAE 271553Z AUTO 28003KT 10SM CLR 21/10 A2994 RMK AO2 SLP137 T02060100 KLHW 271458Z AUTO 10004KT 10SM CLR 27/16 A3011 RMK AO2 SLP199 T02730163 52006 KMAF 271553Z 31012KT 10SM CLR 28/M06 A2984 RMK AO2 SLP055 T02781056 $ KLHX 271553Z AUTO 28017KT 10SM -RA SCT030 OVC041 11/08 A2977 RMK AO2 SLP057 P0000 T01060083 KLJF 271553Z AUTO 15006KT 10SM -RA CLR 18/17 A2980 RMK AO2 LBSF 271530Z 06009KT 010V090 CAVOK 24/11 Q1017 NOSIG DXNG 271500Z 20005KT 170V260 9999 FEW007 30/24 Q1015 NOSIG KLHZ 271550Z AUTO 19005KT 10SM CLR 26/16 A3019 RMK AO2 VOCB 271530Z 20006KT 6000 SCT015 FEW020CB 28/24 Q1012 NOSIG KMAI 271553Z AUTO 12006KT 10SM CLR 28/16 A3006 RMK AO1 SLP178 T02780156 ENVR 271350Z 19006KT CAVOK 12/07 Q1025 VOBL 271530Z 21005KT 8000 SCT015 28/22 Q1015 NOSIG KLIT 271553Z 15010 10SM SCT010 BKN021 BKN033 26/22 A2987 RMK T02560217 VOBM 271300Z 27012KT 9999 SCT015 30/22 Q1012 KO22 271655Z AUTO 31003KT 10SM CLR 21/09 A2996 RMK AO1 KMAN 271435Z AUTO 31010G17KT 10SM CLR 12/02 A3003 RMK A01 KMAO 271555Z AUTO 15004KT 10SM CLR 27/16 A3016 RMK AO2 VOCI 271530Z 36015G20KT 2000 +TSRA FEW008 SCT012 FEW025CB OVC080 26/23 Q1012 NOSIG KMBG 271552Z AUTO 02011KT 10SM CLR 19/10 A2980 RMK AO2 SLP086 T01890100 UWKS 271530Z 22003MPS 9999 SCT030 27/09 Q1016 R24/010060 NOSIG RMK QFE748 VNKT 271550Z 20004KT 6000 FEW020 SCT030 21/17 Q1012 NOSIG VOCL 271530Z 30008KT 6000 SCT015 FEW025CB BKN080 27/25 Q1011 TEMPO 4000 TSRA KMCB 271553Z AUTO 17009KT 10SM FEW014 SCT047 BKN060 27/21 A3000 RMK AO2 SLP152 T02670211 KMCC 271555Z AUTO 00000KT 6SM HZ CLR 19/10 A2996 RMK AO2 KMBL 271555Z AUTO 11007KT 10SM FEW055 26/18 A2992 RMK AO1 KMCD 271556Z AUTO 10006KT 10SM CLR 18/16 A2997 RMK AO2 T01780160 KMCE 271553Z AUTO 32006KT 10SM CLR 20/09 A2993 RMK AO2 SLP135 T02000089 TSNO KMAW 271555Z AUTO 17011KT 10SM BKN017 23/21 A2992 RMK AO2 EPGD 271530Z 34004KT 290V010 9999 FEW025CB 16/14 Q1017 KMBO 271555Z AUTO 15003KT 10SM SCT019 SCT024 25/21 A2999 RMK AO2 LTG DSNT W PWINO KMCF 271458Z AUTO 09005KT 10SM M 28/20 A3005 RMK AO2 SLP179 T02750195 52007 $ VOBZ 271530Z 29005KT 2000 HZ FEW020 FEW025CB 31/24 Q1003 NOSIG KMCI 271553Z 20007KT 10SM FEW010 SCT130 OVC200 20/17 A2974 RMK AO2 SLP065 T02000172 KLKR 271555Z AUTO 11003KT 10SM FEW050 27/17 A3017 RMK AO2 PWINO KMBS 271553Z VRB05KT 10SM CLR 27/17 A2998 RMK AO2 SLP146 T02720172 KLLJ 271555Z AUTO 12006KT 10SM SCT070 SCT120 13/02 A2993 RMK AO2 RAB02E06 SLP095 P0000 T01280017 $ KMCJ 271535Z AUTO 10021G31KT 7SM BKN019 OVC028 28/23 A2974 RMK AO1 KMCK 271553Z AUTO 06009KT 10SM BKN021 OVC028 15/12 A2976 RMK AO2 SLP071 T01500122 LCLK 271530Z 22009KT 9999 FEW030 23/14 Q1008 NOSIG UWLW 271500Z 00000MPS 8000 NSC 29/12 Q1016 R20/CLRD60 NOSIG RMK QFE756 KLKU 271535Z AUTO 22003KT 10SM CLR 30/23 A3010 RMK AO2 KLKV 271555Z 35012KT 10SM CLR 09/00 A3012 RMK AO1 KMDD 271535Z AUTO 30012G17KT 10SM CLR 27/M06 A2985 RMK AO2 T02741059 KMCN 271553Z 12008KT 10SM CLR 28/13 A3012 RMK AO2 SLP196 T02780133 KMCO 271553Z 03007KT 10SM SCT044 30/17 A3006 RMK AO2 SLP177 T03000172 KLLQ 271553Z AUTO 15010G17KT 120V200 4SM RA BR BKN009 OVC110 23/21 A2992 RMK AO2 LTG DSNT NE RAE1459B29 SLP127 P0002 T02280211 KMDH 271552Z 13005KT 10SM OVC020 21/19 A2993 RMK AO2 SLP133 T02060189 KMDJ 271555Z AUTO 14018KT 10SM CLR 27/19 A2998 RMK A01 KMEB 271552Z AUTO 29004KT 10SM BKN055 27/17 A3017 RMK AO2 SLP213 T02670167 KLNC 271555Z AUTO 16007KT 10SM -RA SCT022 BKN075 OVC100 18/17 A2987 RMK AO2 LTG DSNT SE THRU W P0001 T01820172 KLND 271553Z AUTO 08004KT 10SM CLR 13/04 A2994 RMK AO2 SLP104 T01330044 KMCW 271553Z AUTO 00000KT 2SM RA BR SCT006 OVC032 17/16 A2981 RMK AO2 RAE11B44 SLP087 P0005 T01720161 KO54 271455Z AUTO 00000KT 10SM CLR 12/05 A3007 RMK AO1 KLMO 271554Z AUTO 02013G17KT 10SM CLR 16/04 A2990 RMK AO2 T01600036 KMCX 271555Z AUTO 21010G16KT 10SM SCT120 25/15 A2996 RMK AO2 T02500154 KMEH 271556Z AUTO 00000KT 10SM OVC026 06/M01 A3009 RMK AO2 SLP194 T00561011 KMDQ 271555Z AUTO 20012KT 10SM SCT050 28/12 A3008 RMK AO2 KMEI 271458Z 16006KT 10SM CLR 28/20 A3001 RMK AO2 SLP157 60000 T02780200 55005 KMDS 271550Z AUTO 20010KT 10SM -RA FEW012 15/15 A2980 RMK AO2 KLMT 271553Z 31003KT 10SM CLR 09/02 A3013 RMK AO2 SLP186 T00940017 KLNK 271554Z VRB05KT 8SM SCT025 SCT055 BKN070 21/14 A2976 RMK AO2 SLP071 T02060144 KMDT 271556Z 33003KT 10SM SCT030 BKN250 28/18 A3005 RMK AO2 SLP173 T02830183 LDDU 271530Z 16004KT 070V230 CAVOK 24/15 Q1017 NOSIG KLNL 271530Z AUTO 00000KT 10SM OVC120 21/14 A2993 RMK AO2 T02080141 TSNO UWOO 271530Z 31002MPS 9999 FEW040 28/07 Q1016 R26/CLRD65 NOSIG RMK QFE752/1002 KMFD 271552Z VRB05KT 10SM CLR 26/16 A3005 RMK AO2 SLP166 T02560161 KMEM 271554Z 17011G18KT 10SM FEW028 OVC130 27/21 A2994 RMK AO2 SLP136 T02670206 KMDW 271553Z 20011KT 10SM FEW022 BKN110 BKN140 BKN200 OVC250 25/18 A2990 RMK AO2 SLP116 T02500178 KMFE 271553Z 17014G21KT 7SM CLR 33/24 A2974 RMK AO2 SLP067 T03280244 ENZV 271550Z 29010KT 9999 NSC 14/08 Q1021 NOSIG LBWN 271530Z 20003KT 160V240 9999 SCT036 18/15 Q1014 NOSIG KLNN 271535Z AUTO 28008KT 10SM CLR 24/18 A3001 RMK AO1 T02410180 UWOR 271500Z 04005MPS 9999 FEW050CB BKN100 24/15 Q1017 R25/CLRD65 NOSIG RMK QFE738/0984 KLNP 271535Z AUTO 17004KT 10SM CLR 26/12 A3020 RMK AO2 PWINO KMDZ 271535Z AUTO 09005KT 10SM BKN080 OVC090 18/16 A2986 RMK AO2 T01800157 KMFI 271554Z AUTO 10010KT 10SM BKN070 21/16 A2985 RMK AO2 RAB1458E13 SLP105 P0000 T02110156 KMER 271545Z 35006KT 8SM SKC 22/10 A2994 KLNR 271556Z AUTO 17011KT 10SM BKN039 BKN049 OVC110 23/17 A2985 RMK AO2 SLP099 T02330167 EPIR 271530Z 29008KT CAVOK 24/09 Q1016 RMK 244 038 5/4= KLNS 271553Z 00000KT 8SM SCT040 28/19 A3006 RMK AO2 SLP175 T02830194 KO69 271555Z AUTO 00000KT 8SM CLR 15/11 A2999 RMK AO1 DXSK 271500Z 22002KT 9999 SCT016 BKN260 33/24 Q//// KLOL 271553Z AUTO 00000KT 10SM CLR 18/M01 A3002 RMK AO2 SLP137 T01781011 KLPC 271556Z AUTO 28005KT 10SM OVC008 13/11 A2999 RMK AO2 SLP158 T01280106 KMGC 271535Z AUTO 17005KT 10SM SCT085 SCT110 22/18 A2994 RMK AO2 VOGO 270700Z 29010KT 6000 FEW016 FEW022TCU BKN220 33/25 Q1010 NOSIG KMEV 271555Z AUTO 00000KT 10SM CLR 13/05 A3008 RMK AO2 KLOM 271555Z AUTO 23004KT 10SM CLR 28/20 A3006 RMK AO1 KMGE 271458Z 09004KT 10SM BKN050 BKN070 OVC250 24/18 A3013 RMK AO2A SLP195 T02410176 50003 $ KMGG 271539Z AUTO 12003KT 5SM -RA SCT024 SCT029 BKN046 18/16 A2983 RMK AO2 T01840163 KMEZ 271555Z AUTO 00000KT 10SM BKN100 25/20 A2984 RMK AO2 LCPH 271530Z 29012KT 9999 FEW025 23/16 Q1008 KMFR 271553Z 06003KT 10SM SCT034 12/05 A3019 RMK AO2 SLP220 T01220050 KLOR 271453Z AUTO 16008KT 10SM CLR 27/18 A3006 RMK AO2 SLP176 T02670178 58003 KMGJ 271554Z AUTO 22006KT 10SM FEW110 28/20 A3004 RMK AO2 SLP171 T02780200 TSNO KLOT 271535Z AUTO 19012G15KT 10SM CLR 24/18 A2992 RMK AO2 T02420175 KLOU 271553Z 18007KT 150V220 10SM CLR 27/19 A3004 RMK AO2 SLP169 T02720194 EPLB 271530Z 10006KT CAVOK 24/14 Q1016 EPKK 271530Z 30003KT 9999 FEW050 24/09 Q1016 KMGM 271553Z 14008KT 10SM CLR 30/18 A3007 RMK AO2 SLP179 T03000178 KMFV 271535Z AUTO 23008KT 10SM CLR 27/15 A3013 RMK AO2 KMHE 271553Z AUTO 18007KT 4SM RA BR FEW007 FEW050 OVC080 16/16 A2979 RMK AO2 SLP083 P0010 T01610156 KMGN 271554Z AUTO 00000KT 10SM CLR 26/17 A2994 RMK AO2 T02590174 FHAW 271450Z 14014KT 9999 FEW023 29/21 Q1015 BLU NOSIG KO86 271555Z AUTO 00000KT 10SM CLR 15/07 A3008 RMK AO1 VOHS 271530Z 27010KT 6000 SCT020 FEW030CB 33/17 Q1009 NOSIG KLOZ 271553Z AUTO 24010KT 10SM CLR 28/17 A3011 RMK AO2 SLP185 T02780167 KLPR 271553Z AUTO 20008KT 9SM CLR 26/17 A3002 RMK AO2 SLP161 T02560167 TSNO KMGR 271534Z AUTO 14006KT 10SM CLR 27/15 A3010 RMK AO2 KMIA 271553Z 07011G17KT 10SM SCT034 SCT050 SCT250 29/19 A3000 RMK AO2 SLP159 T02890194 LCRA 271550Z 25010KT 9999 FEW035 23/13 Q1008 NOSIG EPKS 271530Z 26006KT 9999 FEW053 24/09 Q1016 RMK 239 038 7/2= KMHK 271552Z 12004KT 10SM BKN100 21/15 A2974 RMK AO2 SLP066 T02060150 KLQK 271555Z AUTO 19007KT 10SM CLR 26/17 A3016 RMK AO2 T02640168 KMIB 271523Z AUTO 34008KT 10SM FEW008 OVC017 14/12 A2981 RMK AO2 EPMB 271530Z 01002KT 9999 SCT033 22/14 Q1016 RMK 222 058 4/3= EPLK 271530Z 09004KT 010V180 9999 SCT050 BKN200 24/10 Q1016 RMK 241 040 6/4= KMHL 271555Z AUTO 18014G19KT 10SM BKN021 OVC027 26/21 A2976 RMK AO2 KMIC 271553Z 13009KT 2 1/2SM RA FEW017 BKN050 OVC065 18/15 A2982 RMK AO2 RAB1456 SLP098 P0009 T01780150 EPKT 271530Z 23004KT 200V260 CAVOK 23/09 Q1016 KLRD 271556Z 21005KT 10SM CLR 31/22 A2973 RMK AO2 SLP066 T03110222 EPLL 271530Z VRB01KT CAVOK 24/10 Q1016 VOHY 271530Z 32008KT 4000 HZ FEW015 32/16 Q1009 NOSIG KMGW 271553Z 18004KT 10SM CLR 28/16 A3010 RMK AO2 SLP183 T02780156 KMIE 271553Z 22009KT 10SM CLR 27/18 A3001 RMK AO2 SLP151 T02720178 KLRF 271553Z AUTO 16007KT 10SM BKN014 BKN021 24/22 A2986 RMK AO2 RAB35E48 CIG 014V021 BKN014 V SCT KMGY 271553Z AUTO VRB04KT 10SM CLR 26/18 A3004 RMK AO2 SLP164 T02610178 KMHR 271551Z 09003KT 7SM SKC 18/11 A2995 EPMI 271530Z VRB02KT 9999 FEW040 BKN070 21/11 Q1017 RMK 205 054 5/2 = KP08 271555Z AUTO VRB04KT 10SM CLR 25/M01 A2992 RMK AO2 KMHS 271556Z AUTO VRB03KT 10SM CLR 13/03 A3011 RMK AO2 SLP197 T01280033 KLRJ 271535Z AUTO 00000KT 10SM SCT030 BKN100 BKN120 18/15 A2978 RMK AO2 LEAB 271500Z 26018KT CAVOK 28/07 Q1014 NOSIG KMHT 271553Z 00000KT 10SM BKN250 23/13 A3008 RMK AO2 SLP198 T02280133 KLSB 271555Z AUTO 31009KT 10SM CLR 19/M03 A3000 RMK AO2 KMHV 271540Z AUTO 00000KT 10SM CLR 21/07 A2996 RMK A01 EPMM 271530Z 12004KT 9999 SCT050 SCT100 BKN200 21/11 Q1017 RMK 213 051 6/3= KLSE 271553Z 00000KT 10SM FEW026 SCT080 23/18 A2980 RMK AO2 SLP084 T02330178 KLSF 271458Z AUTO 14004KT 10SM CLR 26/17 A3010 RMK AO2 SLP194 T02640174 58004 KLRO 271555Z AUTO 12007KT 10SM CLR 27/16 A3015 RMK AO2 LEAG 271530Z AUTO 31014KT 270V020 CAVOK 25/07 Q1016 EPMO 271530Z 11011KT 9999 -SHRA VCTS SCT054CB 18/14 Q1017 EPLY 271530Z VRB02KT 9999 FEW050 BKN200 25/11 Q1016 RMK 249 040 6/2= UWSS 271530Z 14003MPS 9999 SCT050CB BKN100 25/15 Q1015 R12/010095 NOSIG RMK QFE749 LEBA 271500Z 25011KT 210V300 9999 FEW020 26/10 Q1015 KMIS 271555Z AUTO VRB05G15KT 10SM CLR 31/19 A3001 RMK A01 LEBB 271530Z 30013KT 280V340 9999 FEW040 FEW043TCU SCT070 22/17 Q1012 NOSIG KNAK 271554Z AUTO 11012KT 6SM HZ CLR 23/20 A3007 RMK AO2 SLP185 T02280200 LEAL 271530Z 10007KT 030V170 9999 SCT015 22/17 Q1014 NOSIG KMKC 271554Z 21011KT 10SM CLR 22/17 A2973 RMK AO2 SLP063 T02220172 KNBC 271556Z 10007KT 10SM CLR 28/16 A3015 RMK AO2 SLP209 T02780156 KLRU 271535Z AUTO 29004KT 10SM CLR 19/M04 A2999 RMK AO2 T01931044 LEAM 271530Z 22014KT CAVOK 22/16 Q1013 KMIV 271554Z AUTO 23006KT 10SM CLR 28/20 A3009 RMK AO2 SLP186 T02830200 KMKE 271552Z 12005KT 10SM BKN016 OVC023 23/19 A2988 RMK AO2 SLP115 OCNL LTG DSNT SE T02280194 KMIW 271553Z AUTO 15010KT 6SM BR OVC009 18/18 A2976 RMK AO2 RAB19E39 CIG 007V013 SLP073 P0000 T01830178 LEAO 271500Z 28012G22KT 240V320 CAVOK 26/05 Q1015 LEBG 271500Z 19011KT 160V230 9999 SCT055 21/08 Q1014 KNBG 271555Z 14009KT 10SM SCT025 BKN150 BKN250 27/21 A3000 RMK AO2 SLP158 T02720206 $ KMKG 271555Z 19007KT 10SM FEW025 SCT150 BKN220 24/17 A2994 RMK AO2 SLP134 CB DSNT SW MOV NE T02440172 KMJQ 271553Z AUTO 19007KT 10SM SCT034 19/13 A2979 RMK AO2 LEAS 271530Z 10004KT 050V120 7000 -RA FEW010 FEW030TCU BKN060 17/15 Q1013 RERA TEMPO SHRA KP28 271556Z AUTO VRB06KT 22/17 A2968 RMK AO1 SLP039 T02220167 KNCA 271556Z AUTO 12007KT 10SM CLR 27/15 A3017 RMK AO2 SLP219 T02670150 KLUA 271555Z AUTO 21004KT 10SM CLR 28/17 A3010 RMK AO2 KMKJ 271555Z AUTO 28005KT 10SM SCT095 28/17 A3021 RMK AO2 T02760166 KMLB 271553Z 06011KT 10SM FEW029 SCT039 BKN080 28/19 A3006 RMK AO2 SLP177 T02780194 VOMD 271530Z 30004KT 4000 HZ FEW020 FEW025CB BKN090 29/24 Q1010 NOSIG EPOK 271530Z VRB02KT 9999 SCT067 BKN090 14/14 Q1017 RMK 143 096 7/4 = LEBL 271530Z 19007KT 150V240 9999 FEW018 20/15 Q1014 NOSIG KMKL 271553Z 16007G18KT 110V190 10SM CLR 25/19 A2997 RMK AO2 SLP145 T02500194 KMLC 271553Z AUTO 12007G17KT 080V140 10SM CLR 22/18 A2968 RMK AO2 PRESRR SLP041 T02170183 KLSV 271458Z AUTO 17003KT 10SM FEW140 21/02 A2989 RMK AO2 SLP102 T02140021 51014 $ KLUD 271555Z AUTO 17014G18KT 10SM SCT010 SCT017 18/17 A2977 RMK AO2 P0001 T01800170 KMKN 271555Z AUTO 16015G23KT 10SM CLR 20/19 A2981 RMK AO2 LTG DSNT NE THRU SE P0013 T01960186 KMLE 271535Z AUTO 12003KT 10SM CLR 21/16 A2975 RMK AO2 T02080156 KMKO 271553Z AUTO 13015KT 10SM CLR 23/19 A2971 RMK AO2 SLP055 T02330189 KMLF 271552Z AUTO 18009KT 10SM CLR 15/05 A3002 RMK AO2 SLP126 T01500050 KMJX 271555Z AUTO 22007KT 190V260 10SM BKN049 32/18 A3007 RMK AO1 KLUF 271558Z AUTO 06002KT 10SM CLR 25/02 A2987 RMK AO2 SLP104 T02480020 $ LECH 271530Z 12011KT 8000 FEW014 19/16 Q1014 NOSIG KMLI 271552Z 15013G20KT 10SM BKN016 23/19 A2980 RMK AO2 RAB31E41 SLP085 P0000 T02330189 LEDA 271530Z VRB02KT 9999 FEW025 26/14 Q1012 UWUU 271530Z VRB01MPS CAVOK 26/14 Q1016 R32R/0///60 NOSIG RMK QFE751/1001 KMKS 271555Z AUTO 09004KT 7SM CLR 27/12 A3015 RMK AO2 KLTS 271458Z AUTO 20017G22KT 10SM FEW024 23/16 A2973 RMK AO2 SLP055 T02250156 52018 $ KMLJ 271555Z AUTO 00000KT 10SM SCT060 26/17 A3014 RMK AO2 VOML 271530Z 01006KT 6000 SCT015 FEW025CB 30/25 Q1010 NOSIG LEBT 271500Z AUTO 11008KT 050V160 9999 // NCD 23/16 Q1013 KLUK 271553Z 18006KT 10SM FEW120 26/20 A3004 RMK AO2 SLP170 T02560200 KMKT 271555Z 15010KT 10SM BKN032 BKN040 18/15 A2979 RMK AO1 KNBT 271556Z AUTO 11008KT 9SM CLR A3018 RMK AO2 SLP226 $ VOMM 271530Z 18008KT 6000 FEW020 FEW025CB 32/27 Q1005 NOSIG KLUM 271555Z AUTO 33003KT 10SM OVC085 18/18 A2982 RMK AO2 T01820180 LDLO 271500Z 18006KT CAVOK 23/14 Q1016 LECO 271530Z 22013KT 190V250 9999 FEW045CB 18/13 Q1013 TEMPO SHRA TS SCT030CB DXXX 271600Z 20013KT 9999 FEW015 30/25 Q1012 NOSIG KMLP 271553Z AUTO VRB04KT 1SM BR VV001 00/00 A2998 RMK AO2 UPB1458E1459SNE1458B1459E30 SLP114 P0000 T00000000 KMKY 271555Z AUTO 08007G15KT 10SM FEW046 30/17 A3001 RMK AO1 EPPO 271530Z 26005KT 200V300 CAVOK 24/08 Q1016 LEBZ 271500Z 21008KT 160V250 9999 SCT048 24/10 Q1015 KMMH 271555Z AUTO 12003KT 10SM CLR 12/02 A3015 RMK AO2 T01210016 KMMI 271555Z AUTO 21006KT 10SM CLR 28/18 A3012 RMK EPPR 271530Z 06006KT 9999 FEW063 BKN150 19/15 Q1017 RMK 191 076 5/2= KLVJ 271553Z AUTO 16021G27KT 10SM SCT021 BKN026 BKN033 29/24 A2980 RMK AO2 PK WND 16028/1457 SLP089 T02940239 KMLS 271553Z AUTO VRB05KT 10SM BKN012 BKN023 OVC036 14/11 A2986 RMK AO2 SLP108 T01440106 KLWA 271556Z AUTO 16007KT 10SM SCT023 SCT060 SCT075 25/19 A2994 RMK AO2 T02490187 KLVK 271553Z 00000KT 10SM CLR 16/10 A2996 RMK AO2 SLP145 T01560100 KMLT 271553Z AUTO VRB05KT 10SM OVC010 12/09 A3016 RMK AO2 SLP221 T01170089 KMMK 271553Z AUTO 17007KT 10SM CLR 26/17 A3008 RMK AO2 SLP183 T02610167 TSNO KLWB 271535Z AUTO 23004KT 10SM CLR 24/15 A3018 RMK AO2 T02380146 EPRA 271530Z VRB04KT 9999 SCT048TCU 22/14 Q1017 LEEC 271200Z 20006KT 140V260 CAVOK 25/09 Q1016 KLWC 271552Z AUTO 19003KT 10SM CLR 19/16 A2975 RMK AO2 SLP069 T01890161 KMLU 271553Z 12004KT 7SM -RA BR BKN022 OVC033 24/23 A2989 RMK AO2 RAB00 SLP120 P0005 T02390228 KMML 271556Z AUTO 21012KT 10SM CLR 21/13 A2977 RMK AO2 SLP078 T02060133 KLVL 271535Z AUTO 19005KT 10SM CLR 27/18 A3014 RMK AO1 T02700182 LECV 271500Z 23010KT 9999 FEW050 21/07 Q1016 KLWD 271553Z AUTO 24003KT 9SM OVC004 19/19 A2974 RMK AO2 CIG 003V008 SLP066 T01940189 KLVM 271553Z AUTO 27018G25KT 10SM OVC100 13/05 A2991 RMK AO2 PK WND 24028/1538 SLP114 T01330050 $ KLVN 271529Z AUTO 00000KT 10SM -RA SCT007 BKN012 OVC045 17/17 A2983 RMK AO2 P0004 VOMY 270700Z 28006KT 9999 SCT012 SCT020 33/19 Q1014 KP53 271556Z AUTO 33004KT 12/11 A2992 RMK AO1 SLP134 T01220106 KMNE 271555Z AUTO 30006KT 10SM BKN010 BKN038 OVC050 23/20 A2991 RMK AO2 LTG DSNT SW T02290200 EPPW 271530Z 26008KT 9999 SCT050 BKN200 23/08 Q1016 RMK 234 036 7/3 = KLUX 271555Z AUTO 23006KT 10SM CLR 25/15 A3017 RMK AO2 KMNH 271556Z AUTO 36016G27KT 7SM RA OVC004 04/03 A2991 RMK AO2 P0001 VOPB 270700Z 25008KT 4000 HZ SCT012 FEW018TCU SCT090 32/26 Q1007 TEMPO -RA KMNI 271555Z AUTO 18004KT 10SM CLR 27/16 A3015 RMK AO2 KLVS 271553Z AUTO VRB05KT 10SM CLR 13/M03 A2993 RMK AO2 SLP063 T01331028 KP58 271551Z AUTO 11008KT 12/12 A2999 RMK AO1 SLP153 T01170117 KP59 271551Z AUTO 00000KT 08/08 A2993 RMK AO1 SLP137 T00830078 KP60 271556Z AUTO 00000KT 04/03 A3006 RMK AO1 SLP157 T00440028 $ KMOB 271556Z 13014KT 10SM FEW030 SCT200 BKN250 28/18 A3004 RMK AO2 SLP169 T02780178 KMMT 271458Z 00000KT 10SM SCT060 27/16 A3016 RMK AO2A SLP214 T02660163 50002 $ UWWW 271530Z 23001MPS CAVOK 27/12 Q1017 R23/CLRD60 NOSIG RMK QFE751/1002 KMMU 271545Z 21007KT 10SM BKN200 29/19 A3006 KNEL 271500Z AUTO VRB03KT 10SM CLR 31/19 A3006 RMK AO2 SLP177 T03060189 58005 KMNM 271556Z AUTO 08006KT 10SM CLR 20/15 A2990 RMK AO2 SLP141 T02000150 KMMV 271553Z AUTO 20005KT 10SM OVC060 13/09 A3022 RMK AO2 SLP234 T01280089 KMOD 271553Z 31007KT 10SM CLR 20/08 A2994 RMK AO2 SLP138 T02000083 KLWM 271554Z 00000KT 10SM CLR 23/14 A3010 RMK AO2 SLP193 T02330144 EPSC 271530Z 02006KT 340V050 9999 SCT030 BKN043 19/12 Q1016 KMNN 271553Z AUTO VRB03KT 10SM CLR 26/16 A3004 RMK AO2 SLP166 T02610161 TSNO KNFE 271456Z AUTO VRB05KT 10SM SCT060 SCT075 30/17 A3016 RMK AO2 SLP215 T03000172 53002 KNFG 271554Z AUTO 06003KT 7SM OVC022 18/12 A2995 RMK AO2 SLP141 T01780122 $ KNDZ 271556Z 13009KT 10SM FEW025 FEW050 SCT160 BKN250 31/18 A3004 RMK AO2 SLP157 T03060178 $ LEGA 271500Z 27013G23KT 9999 FEW050 29/02 Q1016 KP68 271553Z AUTO 17003KT 13/04 A3004 RMK AO1 SLP125 T01280044 KLWS 271556Z 31005KT 10SM SCT065 15/03 A3003 RMK AO2 SLP167 T01500033 KP69 271552Z AUTO 00000KT 13/07 A3004 RMK AO1 SLP166 T01330072 KLWT 271554Z AUTO 03004KT 10SM CLR 16/07 A2988 RMK AO2 SLP099 T01610072 KLXL 271553Z AUTO 13009KT 10SM -DZ SCT024 SCT030 BKN100 19/13 A2982 RMK AO2 KNFL 271556Z 29007KT 10SM FEW100 18/M01 A3003 RMK AO2 SLP139 T01831011 FGSL 271500Z 24007KT 200V270 9999 SCT008 FEW020CB 30/25 Q1012 NOSIG KMNV 271555Z AUTO 28008KT 10SM SCT034 SCT042 BKN048 27/19 A3012 RMK A01 KLWV 271553Z AUTO 20012KT 10SM FEW045 26/21 A2998 RMK AO2 SLP147 T02560206 LEGE 271530Z 20013KT 170V230 CAVOK 22/13 Q1013 KNEW 271553Z 14012KT 10SM FEW030 28/19 A3001 RMK AO2 SLP155 T02780189 KLXN 271555Z AUTO 07006KT 10SM SCT014 OVC025 16/13 A2978 RMK AO2 LTG DSNT E T01560128 EPSN 271530Z 35006KT 9999 BKN090 18/12 Q1017 RMK 181 069 5/5= KMOP 271557Z AUTO 19004KT 10SM SCT029 SCT035 BKN049 26/20 A2996 RMK AO2 T02600195 KLYH 271554Z 24006KT 10SM CLR 27/19 A3014 RMK AO2 SLP195 T02720189 KMNZ 271555Z AUTO 05009KT 360V070 7SM -RA OVC008 18/18 A2987 RMK AO2 LTG DSNT N THRU SE T01750175 EPRZ 271530Z 10006KT 060V130 CAVOK 24/11 Q1016 LDOS 271530Z 16005KT CAVOK 28/12 Q1016 KLXT 271553Z AUTO 19011KT 10SM CLR 22/17 A2975 RMK AO2 SLP067 T02170167 KMOT 271554Z 32007KT 10SM BKN015 OVC022 16/12 A2982 RMK AO2 SLP099 T01610122 KMQB 271555Z AUTO 17012G19KT 10SM OVC011 20/19 A2985 RMK AO2 T02020193 LEHC 271500Z 27001KT 9999 FEW050 27/08 Q1013 LDPL 271530Z 19005KT 140V230 CAVOK 24/11 Q1016 TEMPO 25007KT KLXV 271553Z AUTO 34010G20KT 10SM SCT026 BKN036 OVC045 03/M02 A3002 RMK AO2 SLP081 T00331022 EPTM 271530Z 10002KT 9999 SCT050TCU BKN100 BKN200 24/12 Q1016 RMK 243 047 6/4 KNFW 271552Z 17013KT 10SM -TSRA FEW012 SCT060CB OVC110 19/17 A2979 RMK AO2 PK WND 13029/1519 RAE31B51 TSB52 SLP071 OCNL LTGCCCC S TS S MOV E P0002 T01890172 VISNO N $ KMQE 271554Z AUTO 14006KT 26/15 A3009 RMK AO1 SLP197 T02560150 KMPO 271553Z AUTO 24006KT 10SM FEW042 BKN070 OVC100 23/16 A3011 RMK AO2 SLP184 T02280156 TSNO KMOX 271552Z AUTO 05004KT 10SM SCT090 19/13 A2975 RMK AO2 KNGP 271556Z 16018G26KT 6SM BR SCT015 BKN020 OVC035 29/27 A2974 RMK AO2 PK WND 16029/1535 SLP069 T02890267 $ KLXY 271555Z AUTO 01005KT 10SM -TSRA SCT050 OVC065 18/18 A2987 RMK AO2 LTG DSNT ALQS P0013 T01770175 EPSY 271530Z VRB03KT 9999 -TSRA SCT038 BKN055CB 14/13 Q1018 RETSRA LEGR 271530Z 25014KT 210V290 9999 FEW060 29/06 Q1015 LEGT 271500Z 22011G21KT 180V250 CAVOK 25/07 Q1014 LEIB 271530Z 22007KT 190V260 9999 FEW020 22/16 Q1014 NOSIG KMRB 271553Z 15006KT 10SM CLR 28/19 A3007 RMK AO2 SLP179 T02830194 KNHK 271552Z 13008KT 10SM FEW250 26/19 A3010 RMK AO2 SLP191 T02560194 $ KMRC 271555Z AUTO 17008KT 10SM CLR 27/22 A3003 RMK KNGU 271459Z 21008G15KT 10SM FEW050 SCT300 28/16 A3015 RMK AO2 SLP211 T02780161 50002 KMPV 271551Z AUTO 17007KT 10SM FEW060 24/16 A3007 RMK AO2 SLP178 T02440156 KLYV 271557Z AUTO 21006KT 10SM CLR 17/12 A2979 RMK AO2 KNID 271556Z 00000KT 10SM FEW120 22/04 A2992 RMK AO2 SLP118 T02220044 $ KP92 271553Z AUTO VRB06KT 26/22 A2994 RMK AO1 SLP138 T02610222 KMRF 271556Z AUTO 25018G24KT 10SM CLR 22/M08 A3003 RMK AO2 PK WND 26027/1507 SLP108 T02221078 KMRH 271458Z AUTO 10SM CLR 26/15 A3018 RMK AO2 SLP220 T02560150 51001 TSNO KMPZ 271535Z AUTO 17013G20KT 10SM BKN017 OVC022 24/20 A2978 RMK AO2 T02370202 LDRI 271530Z 28004KT CAVOK 23/13 Q1016 KMQS 271535Z AUTO VRB05KT 10SM CLR 28/19 A3010 RMK AO2 KMRJ 271535Z AUTO 16007KT 10SM OVC021 22/18 A2986 RMK AO2 LDSB 271400Z 18003KT CAVOK 23/15 Q1018 EPWA 271530Z 06009KT 9999 FEW056CB 21/14 Q1016 RETS NOSIG KLZU 271545Z 00000KT 07SM BKN050 25/16 A3016 RMK 7 / N /YA KMRN 271550Z AUTO 00000KT 10SM CLR 26/18 A3020 RMK AO2 T02610184 VORY 271230Z 18006KT 6000 FEW025 SCT200 39/19 Q1001 KNIP 271553Z 09008KT 10SM BKN042 BKN060 28/17 A3011 RMK AO2 SLP190 VCSH N T02830172 KMQY 271556Z 20006KT 10SM CLR 28/18 A3006 RMK AO2 T02770177 SLP184 KLZZ 271535Z AUTO 10008KT 10SM OVC008 18/18 A2983 RMK AO2 LTG DSNT E T01830176 VOTK 271100Z 22004KT 5000 TS FEW020 SCT025 FEW030CB BKN100 30/25 Q1007 LFBA 271530Z AUTO VRB03KT CAVOK 26/15 Q1012 BECMG SCT110CB KOAJ 271556Z AUTO 11006KT 10SM CLR 27/16 A3017 RMK AO2 SLP220 T02720161 $ KOAK 271553Z 17005KT 10SM SCT011 15/11 A2998 RMK AO2 SLP152 T01500106 KMRT 271553Z AUTO 24003KT 10SM CLR 27/17 A3004 RMK AO2 T02650167 KNJK 271556Z 33003KT 10SM CLR 26/09 A2985 RMK AO2 SLP124 T02610089 LFBC 271530Z AUTO 32009KT 290V350 CAVOK 22/16 Q1012 KMSL 271553Z AUTO 18009KT 10SM CLR 28/16 A3005 RMK AO2 SLP169 T02780161 KMTC 271458Z 12007KT 10SM FEW035 BKN230 26/20 A2997 RMK AO2A SLP149 T02610200 53002 LFBD 271530Z AUTO VRB02KT 9999 BKN047 BKN054 26/15 Q1012 TEMPO 4000 SHRA BKN020TCU KNJM 271557Z AUTO 14007KT 10SM CLR 27/15 A3018 RMK AO2 SLP225 T02720150 VOTP 271530Z 36003KT 7000 FEW020 FEW025CB 37/20 Q1006 LFBE 271530Z AUTO 07003KT 360V130 CAVOK 27/14 Q1012 TEMPO 4000 SHRA FEW020CB BKN045TCU KMSN 271553Z 19007KT 10SM BKN048 BKN070 22/17 A2986 RMK AO2 RAB05E16B39E48 SLP110 P0000 T02220167 KOBE 271555Z AUTO 07008KT 035V095 10SM SCT044 28/19 A3004 RMK AO2 LTG DSNT E KMSO 271553Z VRB03KT 10SM FEW046 FEW120 13/07 A2996 RMK AO2 SLP143 T01280072 LFBG 271530Z AUTO 05010KT 9999 ///CB 15/15 Q1013 KMSP 271553Z 13010KT 4SM -RA BR OVC042 18/16 A2983 RMK AO2 SLP100 P0004 T01780156 KMRY 271554Z 00000KT 10SM SCT011 13/09 A2999 RMK AO2 SLP168 T01280089 LDSP 271530Z VRB02KT CAVOK 26/13 Q1016 NOSIG VOTR 271530Z 28009KT 4000 HZ SCT016 FEW025CB BKN080 28/22 Q1008 BECMG 5000 HZ LFAQ 271530Z AUTO 35004KT 9999 ///CB 21/14 Q1014 TEMPO 4000 SHRA LFBH 271530Z AUTO 31007KT CAVOK 20/16 Q1013 TEMPO 3000 TSRA BKN030CB KMTH 271553Z AUTO 04011KT 10SM SCT031 BKN038 BKN085 28/21 A2999 RMK AO2 SLP154 T02830211 LFBI 271530Z AUTO 01005KT 280V050 CAVOK 22/16 Q1013 TEMPO VRB15G25KT 3000 TSRA SCT035CB LEJR 271600Z 26009KT 220V300 9999 FEW037 24/14 Q1017 KMTJ 271553Z AUTO 27007KT 10SM CLR 13/02 A3000 RMK AO2 SLP109 T01280017 KMSS 271553Z AUTO 20014G20KT 10SM CLR 29/18 A2994 RMK AO2 SLP137 T02940183 EPWR 271530Z 15003KT 110V220 CAVOK 23/13 Q1016 VOTV 271530Z 31004KT 3000 HZ SCT012 FEW025CB BKN080 28/25 Q1011 NOSIG LFAT 271530Z AUTO 02010KT 360V060 5000 BR ///CB 21/15 Q1014 TEMPO SHRA LELC 271500Z 13007KT 070V170 CAVOK 24/18 Q1013 NOSIG LFBL 271530Z AUTO VRB03KT CAVOK 23/14 Q1013 TEMPO VRB15G25KT 4000 TSRA SCT030CB KNLC 271556Z 32009KT 10SM CLR 22/07 A2993 RMK AO2 SLP135 RH/39 T02170072 LFBM 271530Z AUTO VRB01KT 9999 FEW044 27/16 Q1011 KMSV 271555Z AUTO 21003KT 10SM FEW060 26/19 A3010 RMK AO1 KMTN 271545Z 13010KT 6SM HZ FEW080 SCT200 28/23 A3008 LFBO 271530Z AUTO 15009KT 120V190 CAVOK 26/11 Q1011 NOSIG KMTO 271553Z AUTO 17009KT 10SM BKN120 22/17 A2994 RMK AO2 SLP135 T02220172 KOCF 271550Z 08007KT 10SM SCT045 BKN075 28/16 A3009 LFBP 271530Z AUTO 05004KT 360V120 CAVOK 25/16 Q1012 TEMPO VRB15G30KT 4000 TSRA BKN020CB KMSY 271553Z 14009KT 10SM FEW028 BKN170 OVC250 28/21 A2999 RMK AO2 SLP160 T02830211 KMTP 271554Z AUTO 19006KT 18/15 A3012 RMK AO1 SLP199 T01830150 KOCH 271555Z AUTO 01010G15KT 10SM FEW029 FEW039 SCT050 20/19 A2984 RMK AO1 LTG DSNT S P0007 KMUI 271458Z 16004KT 10SM SCT050 27/20 A3007 RMK AO2A SLP182 T02720199 50001 $ LFCK 271530Z AUTO 11016KT 080V150 CAVOK 26/09 Q1013 NOSIG LFBT 271530Z AUTO 36004KT 290V100 9999 FEW038 25/16 Q1013 TEMPO VRB15G30KT 4000 TSRA BKN020CB KNKT 271554Z 09008KT 10SM CLR 28/16 A3018 RMK AO2 SLP215 T02830156 LELL 271530Z 10010KT 070V150 CAVOK 23/15 Q1013 LFBU 271530Z AUTO VRB03KT 9999 VCTS ///CB 24/13 Q1013 TEMPO 3000 TSRA LEMD 271530Z 18013KT 9999 FEW070 25/07 Q1014 NOSIG KMTV 271535Z AUTO 25005KT 10SM CLR 26/19 A3016 RMK AO2 T02580186 LELN 271500Z 18012KT 9999 SCT030 19/05 Q1014 KMVE 271552Z AUTO 20009KT 10SM SCT060 SCT075 22/14 A2977 RMK AO2 KMTW 271556Z AUTO 12005KT 10SM CLR 18/15 A2989 RMK AO2 SLP140 T01830150 LELO 271500Z VRB01KT 9999 SCT035 28/10 Q1011 KNKX 271555Z 28003KT 10SM OVC016 18/13 A2995 RMK AO2 SLP136 T01830128 $ KMUO 271458Z AUTO 33019KT 10SM FEW100 13/05 A2999 RMK AO2 PK WND 33027/09 SLP144 T01290054 52016 $ LEMG 271530Z 21006KT 9999 FEW065 30/13 Q1013 NOSIG LFBY 271530Z AUTO VRB03KT 9999 // ////// 26/16 Q1011 LEMH 271530Z 23010KT 9999 FEW020 20/17 Q1014 LFBZ 271530Z AUTO 33007KT 290V020 CAVOK 22/17 Q1012 TEMPO VRB15G30KT 4000 TSRA BKN020CB KMVH 271555Z AUTO 16005KT 10SM CLR 15/08 A2991 RMK AO2 EPZG 271530Z 28004KT 230V330 CAVOK 24/09 Q1016 KOCQ 271535Z AUTO 07006KT 10SM CLR 20/18 A2987 RMK AO1 T01980180 LFCR 271530Z AUTO 16009KT 130V190 CAVOK 24/11 Q1014 NOSIG KMWA 271454Z 13005KT 10SM -RA SCT025 BKN060 OVC120 21/20 A2996 KOEB 271555Z AUTO 17007KT 10SM CLR 23/18 A2999 RMK AO2 T02340182 KMUT 271535Z AUTO 15012G17KT 10SM BKN016 BKN021 OVC100 22/19 A2979 RMK AO2 KMVL 271554Z AUTO 17006KT 10SM FEW090 26/16 A3001 RMK AO2 SLP160 T02610161 KMWC 271545Z 20005KT 7SM HZ SCT015 BKN110 23/18 A2989 KNMM 271556Z 17006KT 10SM CLR 28/18 A3004 RMK AO2 SLP178 T02780183 KOCW 271550Z AUTO 15006KT 10SM CLR 28/17 A3017 RMK AO2 T02750168 KMVN 271555Z AUTO 00000KT 5SM FEW010 SCT048 BKN055 20/17 A2996 RMK AO1 P0002 VOVZ 271500Z 03010KT 4000 TS FEW018 FEW025CB SCT220 33/26 Q1005 TEMPO 3000 RA/-TSRA KODO 271553Z AUTO 30012G18KT 10SM CLR 27/M06 A2986 RMK AO2 SLP060 T02721061 $ LEMO 271600Z 25009KT 200V310 9999 FEW062 26/12 Q1016 NOSIG KMWH 271552Z 24015G21KT 10SM CLR 15/00 A3001 RMK AO2 SLP162 T01500000 KMWK 271550Z AUTO 19006KT 10SM CLR 26/21 A3017 RMK AO2 T02610210 KMWL 271553Z AUTO 15008KT 10SM BKN005 17/16 A2977 RMK AO2 LTG DSNT E-S SLP071 P0003 T01720161 KMWM 271554Z AUTO 00000KT 10SM -DZ SCT017 18/14 A2979 RMK AO2 KMWN 271553Z 25024KT 20SM FEW/// OVC005 12/11 RMK TPS LWR FEW040 HZ DSNT ALQDS KODX 271553Z AUTO 32005KT 10SM FEW070 SCT090 21/12 A2974 RMK AO2 SLP062 T02110122 KMXF 271458Z AUTO 14007KT 10SM FEW021 28/20 A3007 RMK AO2 SLP184 T02810195 50002 KOFF 271458Z AUTO 06006KT 10SM SCT016 20/16 A2975 RMK AO2 SLP074 T02030164 51009 KMWO 271535Z AUTO 21008KT 10SM CLR 27/17 A3005 RMK AO2 T02650167 KOEO 271535Z AUTO 15005KT 10SM RA SCT039 BKN060 OVC075 18/16 A2988 RMK AO2 T01780160 KMVY 271553Z 22009KT 10SM CLR 21/15 A3012 RMK AO2 SLP200 T02060150 KNOG 271556Z AUTO 19018KT 10SM FEW023 BKN030 32/26 A2974 RMK AO2 SLP048 T03220256 $ KNPA 271456Z 11012G20KT 10SM SCT022 BKN160 BKN250 27/21 A3003 RMK SLP169 T02720211 50001 LEPA 271530Z 22008KT 180V250 CAVOK 22/17 Q1014 NOSIG LFGA 271530Z AUTO 05003KT 360V110 CAVOK 27/15 Q1012 PTKK 271453Z VRB05KT 15SM FEW014 BKN120 OVC280 27/24 A2985 RMK SLP111 8/171 T02710243 57017 KOGA 271535Z AUTO 02010KT 10SM SCT022 BKN028 OVC040 14/11 A2981 RMK AO2 T01360110 KOGB 271553Z AUTO 04003KT 10SM FEW042 28/16 A3015 RMK AO2 SLP207 T02780161 KMWT 271553Z AUTO 10004KT 10SM -RA SCT049 BKN080 OVC120 23/19 A2982 RMK AO2 RAB03E15B51 SLP090 P0000 T02280189 KOFK 271556Z AUTO 12005KT 10SM FEW024 20/14 A2975 RMK AO2 SLP066 T02000139 KOGD 271553Z 15006KT 10SM FEW085 16/06 A2997 RMK AO2 SLP114 T01610061 KMYF 271553Z 26007KT 9SM FEW012 OVC017 17/13 A2995 RMK AO2 SLP139 T01720128 KMXO 271535Z AUTO 12010KT 10SM OVC016 21/18 A2979 RMK AO2 KOFP 271554Z AUTO VRB05KT 9SM CLR 28/19 A3012 RMK AO2 SLP195 T02830189 GABG 271500Z 18008KT 9999 FE030 FEW040CB 29/22 Q//// PTKR 271553Z 00000KT 15SM FEW016 SCT290 27/25 A2988 RMK SLP119 T02720250 LFGJ 271530Z AUTO 23004KT 130V270 CAVOK 26/16 Q1013 TEMPO FEW040CB KMYJ 271555Z AUTO 17015G19KT 10SM BKN013 BKN018 OVC095 23/22 A2981 RMK AO2 PWINO KNQA 271550Z 14012KT 10SM SCT030 OVC120 26/22 A2993 LDZA 271530Z VRB03KT CAVOK 29/11 Q1014 NOSIG KMYL 271551Z AUTO 23005KT 10SM BKN049 09/03 A2997 RMK AO2 SLP134 T00890028 LDZD 271530Z 27006KT 230V330 CAVOK 26/14 Q1016 NOSIG KNOW 271535Z AUTO 15004KT 10SM SCT042 OVC048 11/05 A3015 RMK AO2 T01060048 LEPP 271530Z 20004KT 100V270 9999 FEW036 27/09 Q1012 ESCF 271550Z AUTO 35003KT 9999 -SHRA SCT013/// BKN025/// OVC032/// 12/11 Q1018 KMYP 271553Z AUTO 25015KT M1/4SM FZFG OVC002 M02/M03 A3020 RMK AO2 KMZG 271555Z AUTO 15015G24KT 10SM FEW017 28/25 A2979 RMK A01 KMZH 271553Z AUTO 03004KT 5SM -RA SCT050 OVC070 13/12 A2986 RMK AO2 KMYR 271547Z 13010KT 10SM FEW030 27/16 A3018 KNQI 271556Z 17017G26KT 10SM SCT025 BKN031 BKN100 BKN250 31/26 A2972 RMK AO2 PK WND 16026/1554 SLP060 T03060261 $ GABS 271600Z 30006KT 270V330 9999 TS BKN030 FEW033CB 23/23 Q1014 NOSIG KNRB 271552Z 07011KT 10SM SCT040 28/18 A3011 RMK AO2 RAB1454E04 SLP195 P0000 T02780178 KMYV 271553Z AUTO VRB03KT 10SM CLR 20/12 A2994 RMK AO2 SLP142 T02000122 ESDF 271550Z VRB02KT 9999 SCT043 18/09 Q1018 FJDG 271555Z 16003KT 9999 FEW020 SCT250 29/26 A2993 RMK SLP132 T02870259 KMYZ 271530Z AUTO 19005KT 10SM SCT018 OVC085 20/16 A2977 RMK AO2 LERI 271500Z 13010KT 7000 NSC 30/15 Q1012 NOSIG WIBB 271530Z 18011KT 4000 -TSRA SCT015 FEW017CB 24/24 Q1012 LESA 271530Z 24020G30KT 210V280 9999 FEW048 20/05 Q1015 KOJA 271555Z AUTO 22018G26KT 10SM CLR 24/15 A2970 RMK AO2 KOJC 271553Z 19009KT 10SM CLR 20/16 A2975 RMK AO2 SLP066 T02000161 LGAD 271550Z 29006KT CAVOK 25/14 Q1015 KPAE 271553Z 15003KT 10SM SCT021 BKN070 10/06 A3016 RMK AO2 SLP214 T01000056 KNSE 271456Z 10010KT 10SM FEW020 FEW120 SCT250 28/17 A3004 RMK AO2 SLP156 T02780172 58005 $ KNQX 271553Z 10011KT 10SM SCT035 SCT050 31/21 A2998 RMK AO2 SLP152 T03060211 $ KPAH 271553Z 18009G16KT 10SM CLR 25/20 A2995 RMK AO2 SLP138 T02500200 FIMP 271500Z 09008G18KT 8000 -SHRA FEW006 BKN014 BKN050 22/21 Q1021 KMZZ 271535Z AUTO 21009KT 10SM CLR 25/18 A3001 RMK AO2 T02470176 KNSI 271557Z 32010KT 8SM SCT006 BKN009 16/13 A2995 RMK AO2 SLP140 T01560128 $ LERS 271530Z 14005KT 080V210 CAVOK 23/14 Q1014 KNRS 271556Z 27006KT 10SM SCT013 OVC018 18/13 A2996 RMK AO2 SLP144 T01780128 $ FIMR 271500Z 11016KT 9999 BKN018 24/19 Q1021 LERT 271500Z 24010KT 190V280 9999 FEW035 22/15 Q1017 NOSIG LFKB 271530Z 13006KT 100V170 CAVOK 23/16 Q1015 NOSIG KOKB 271552Z AUTO 25006KT 9SM OVC022 17/13 A2994 RMK AO2 SLP138 T01720128 LFJL 271530Z AUTO VRB03KT CAVOK 23/16 Q1014 TEMPO VRB17G30KT 1200 TSRAGS BKN015 SCT025CB LFKC 271530Z 02006KT CAVOK 27/10 Q1013 NOSIG KOKC 271552Z 21009KT 10SM SCT130 BKN180 BKN250 23/16 A2969 RMK AO2 SLP042 T02280161 LGAL 271550Z 35014KT 9999 FEW025TCU 23/12 Q1014 KNTD 271556Z 15009KT 10SM BKN016 18/13 A2997 RMK AO2 SLP150 T01780128 $ KPAM 271458Z AUTO 10007KT 10SM CLR 27/20 A3005 RMK AO2 DZB1358E10 SLP179 P0000 60000 T02720204 58001 $ KPAN 271555Z AUTO VRB06G11KT 10SM CLR 19/M03 A3006 RMK AO2 KPAO 271547Z 18005KT 10SM FEW015 15/11 A2997 LESO 271530Z 33004KT 290V050 9999 FEW040 21/16 Q1012 LFKF 271530Z AUTO 08010KT 050V140 9999 NCD 25/13 Q1013 NOSIG KPBF 271553Z AUTO 14009KT 10SM OVC085 23/21 A2989 RMK AO2 RAB1458E31 SLP119 P0001 T02330211 KPBG 271553Z AUTO 15015G19KT 10SM CLR 28/16 A2995 RMK AO2 SLP141 T02780161 KPBH 271555Z AUTO 00000KT 10SM OVC120 19/15 A2988 RMK AO2 T01910146 LFJR 271530Z AUTO VRB02KT 9999 FEW041 BKN130 23/14 Q1014 TEMPO -TSRA BKN030CB KPBI 271553Z 05012KT 10SM SCT015 BKN024CB BKN100 27/20 A3004 RMK AO2 SLP170 CB NE-E MOV W T02720200 LFKJ 271530Z 19007KT CAVOK 24/17 Q1013 NOSIG WIDD 271530Z 00000KT 9999 FEW014 27/26 Q1014 LEST 271530Z 22009KT 170V250 9999 FEW015 SCT032 FEW045TCU 16/13 Q1014 TEMPO SHRA LFLB 271530Z 35006KT CAVOK 27/15 Q1012 NOSIG KOKK 271555Z AUTO 22012KT 10SM CLR 27/18 A2999 RMK AO1 KNUC 271556Z 21005KT 10SM OVC011 14/11 A2997 RMK SLP146 T01440111 LESU 271530Z 22010KT 9999 FEW065 SCT075 26/11 Q1014 LETL 271530Z AUTO 21016KT 160V250 9999 NCD 26/03 Q1015 LFLC 271530Z AUTO 35008KT 320V030 9999 ///TCU 25/13 Q1012 TEMPO SHRA FEW050CB SCT060TCU LGBL 271550Z 12004KT 9999 FEW030 29/07 Q1014 NOSIG LGAV 271550Z 05009KT 9999 FEW040 26/12 Q1015 NOSIG PTPN 270550Z 07010KT 15SM SCT017 BKN130 OVC300 29/25 A2985 RMK LAST KOKM 271535Z AUTO 09008G18KT 10SM -DZ SCT042 SCT060 SCT100 21/19 A2965 RMK AO2 LTG DSNT S T02130187 KOLE 271535Z AUTO 20006KT 10SM SCT029 23/16 A3008 RMK AO2 LETO 271500Z 24010G20KT 210V280 9999 FEW065 26/09 Q1014 NOSIG KOLF 271553Z AUTO VRB03KT 10SM FEW023 17/10 A2989 RMK AO2 SLP120 T01720100 KOLG 271535Z AUTO 00000KT 10SM BKN080 OVC110 18/14 A2987 RMK AO1 ESGG 271550Z 02011KT 9999 SCT020 13/09 Q1019 KNUI 271553Z AUTO VRB04KT 10SM CLR 27/19 A3010 RMK AO2 SLP192 T02720194 LFKS 271530Z AUTO 12006KT 070V150 CAVOK 23/17 Q1014 KOMA 271552Z 00000KT 10SM SCT020 BKN250 21/16 A2973 RMK AO2 SLP062 T02110156 ESGJ 271550Z 02004KT 9999 FEW004 BKN027 11/09 Q1019 WIEE 271530Z 02005KT 0800 R15/P2000R R33/1700 +RA OVC018 24/24 Q1014 LEVC 271530Z 10008KT 040V140 9999 FEW022 23/16 Q1013 NOSIG LFLL 271530Z 22005KT 190V250 CAVOK 29/10 Q1012 NOSIG LFMC 271530Z AUTO 11010KT 070V140 9999 ////// 27/03 Q1014 KNTU 271556Z 21008KT 10SM SCT060 SCT250 30/17 A3015 RMK AO2 SLP210 T03000167 KPDC 271535Z AUTO 13006KT 10SM SCT023 BKN036 BKN100 22/16 A2981 RMK AO2 T02210158 LEVD 271530Z 27013KT 230V290 CAVOK 20/06 Q1014 LFMD 271530Z AUTO 12005KT 040V180 CAVOK 25/04 Q1015 NOSIG KOLM 271554Z 25008KT 10SM SCT055 12/06 A3017 RMK AO2 SLP215 T01170056 KOKV 271555Z AUTO 14005KT 10SM CLR 28/18 A3009 RMK AO2 KPCM 271555Z AUTO 07008KT 10SM SCT047 SCT065 29/18 A3008 RMK AO2 LFLN 271530Z AUTO VRB02KT CAVOK 26/14 Q1013 TEMPO SHRA FEW050CB BKN060TCU KPBX 271555Z AUTO 00000KT 10SM CLR 27/19 A3012 RMK AO2 T02650192 LFLP 271530Z AUTO 25003KT 150V310 CAVOK 26/11 Q1014 NOSIG LFMH 271530Z 06007KT 030V110 9999 FEW046 28/11 Q1012 NOSIG ESGP 271550Z 03008KT 9999 FEW044 16/08 Q1019 KNUQ 271556Z AUTO VRB03KT 10SM CLR 16/10 A2998 RMK AO2 SLP153 T01610100 KOKZ 271555Z AUTO 14003KT 10SM CLR 28/16 A3014 RMK AO2 T02780157 KOMH 271555Z AUTO 00000KT 10SM CLR 30/19 A3011 RMK AO2 PTSA 262250Z 04012KT 10SM SCT021 SCT130 BKN300 30/24 A2990 LFMI 271530Z AUTO 17015KT CAVOK 23/13 Q1013 NOSIG LFLS 271530Z AUTO 24006KT CAVOK 27/13 Q1013 NOSIG ESGR 271550Z AUTO 34006KT 290V010 9999 SCT013/// BKN030/// OVC042/// 13/08 Q1019 KOLS 271554Z AUTO VRB04KT 10SM CLR 22/M02 A2999 RMK AO2 SLP099 T02171022 KONA 271553Z AUTO 00000KT 10SM SCT014 BKN065 BKN100 21/16 A2982 RMK AO2 KPEA 271235Z AUTO 09004KT 10SM OVC016 17/16 A2978 RMK AO2 T01720156 LFMK 271530Z AUTO 10016KT CAVOK 24/11 Q1012 NOSIG KOMK 271553Z AUTO 35004KT 10SM BKN095 15/M01 A2996 RMK AO2 SLP144 T01501011 KPDK 271553Z 12006KT 10SM SCT060 SCT070 26/17 A3014 RMK AO2 SLP191 T02560167 LFLU 271530Z AUTO 22013KT CAVOK 29/10 Q1011 LFML 271530Z 21010KT CAVOK 25/13 Q1013 NOSIG ESIB 271550Z AUTO 04007KT 010V070 9999 SCT035/// OVC054/// 13/09 Q1020 ESGT 271550Z 03009KT CAVOK 14/09 Q1020 KOLU 271555Z AUTO 08006KT 10SM BKN020 20/13 A2977 RMK AO2 RVRNO KOLV 271550Z 16012G20KT 10SM SCT039 BKN150 OVC250 25/21 A2995 KOMN 271550Z 07010G15KT 10SM BKN033 27/18 A3009 LFLW 271530Z AUTO VRB04KT CAVOK 24/11 Q1014 NOSIG LFMN 271530Z VRB02KT CAVOK 22/12 Q1015 NOSIG PTRO 271550Z 00000KT 15SM SCT016 BKN300 27/26 A2986 KPCW 271554Z AUTO 21008KT 10SM CLR 27/19 A3000 RMK AO2 PWINO T02720188 $ KNUW 271556Z 22007KT 10SM FEW025 BKN030 OVC060 12/08 A3018 RMK AO2 RAE14 SLP220 P0000 T01170078 $ LFLX 271530Z AUTO 02004KT 340V060 9999 ///TCU 24/15 Q1013 TEMPO 28015G30KT 2000 -TSRA BKN009 BKN020CB LFMO 271530Z AUTO 20006KT 160V230 CAVOK 30/12 Q1012 LFLY 271530Z AUTO VRB01KT CAVOK 29/11 Q1012 NOSIG LFMP 271530Z AUTO 09010KT 050V120 CAVOK 22/12 Q1013 BECMG OVC008 KOLY 271535Z AUTO 17012KT 10SM CLR 23/20 A2996 RMK AO2 KPCZ 271555Z AUTO 19003KT 10SM -RA SCT031 BKN041 BKN060 22/20 A2989 RMK AO2 T02170197 KOLZ 271535Z AUTO 15009KT 10SM OVC022 20/18 A2980 RMK AO2 LEVS 271530Z 23009KT 170V290 9999 FEW050 25/06 Q1015 LFOA 271530Z AUTO 11005KT 080V140 9999 SCT038/// BKN044/// OVC060/// ///CB 22/15 Q1013 KOOA 271535Z AUTO 18012KT 10SM BKN023 OVC029 22/19 A2976 RMK AO2 T02210186 LEVT 271530Z 25004KT 160V300 9999 SCT050 26/10 Q1012 LFOB 271530Z AUTO 34008G21KT 300V020 9999 BKN038/// BKN044/// BKN062/// ///CB 21/13 Q1014 TEMPO 4000 SHRA LFMT 271530Z 12007KT CAVOK 23/12 Q1014 NOSIG KPDT 271553Z 26019G25KT 10SM CLR 13/01 A3009 RMK AO2 PK WND 25026/1512 SLP183 T01280006 LFMU 271530Z AUTO 09010KT 060V120 CAVOK 23/11 Q1013 NOSIG LFOC 271530Z AUTO VRB03KT 9999 FEW031 SCT110 23/14 Q1014 LGEL 271550Z 19011KT 9999 FEW030 26/11 Q1014 KONL 271535Z AUTO 00000KT 10SM SCT020 SCT024 OVC034 19/14 A2978 RMK AO2 LTG DSNT N T01900139 LFMV 271530Z AUTO 22013KT 190V250 CAVOK 28/13 Q1013 NOSIG KONM 271535Z AUTO 30012G21KT 10SM CLR 20/M02 A2995 RMK AO2 T01971024 LFOE 271530Z AUTO 22004KT 150V270 9999 FEW043 BKN076 BKN100 21/13 Q1014 ETAD 271558Z AUTO VRB06KT 9999 CLR 16/13 A2996 RMK AO2 LTG DSNT N AND SW-W RAB50 SLP131 P0000 T01630128 LEVX 271530Z 20013KT 130V230 9999 FEW035TCU SCT038 19/12 Q1014 TEMPO SHRA KONO 271553Z AUTO 31017G24KT 10SM CLR 15/01 A3003 RMK AO2 SLP162 T01500011 KPDX 271553Z 28003KT 10SM FEW018 BKN060 13/08 A3022 RMK AO2 SLP231 T01280083 KPEO 271553Z AUTO 20007KT 10SM CLR 28/19 A3002 RMK AO2 SLP159 T02830189 TSNO KNXF 271556Z AUTO 27005KT 6SM HZ OVC020 A2995 RMK AO2 SLPNO $ RCKH 271530Z VRB02KT 9999 FEW025 29/25 Q1012 NOSIG RMK A2990 LFMY 271530Z AUTO 20007KT CAVOK 25/12 Q1013 KONP 271555Z AUTO 00000KT 10SM SCT044 BKN050 12/08 A3027 RMK AO2 LFOH 271530Z AUTO 35007KT 320V020 CAVOK 19/14 Q1014 TEMPO 4000 TSRA BKN040CB KPEQ 271535Z AUTO 28020G25KT 10SM CLR 28/M05 A2987 RMK AO2 T02751055 LEXJ 271530Z 04009KT 350V080 9999 FEW030 19/16 Q1012 LFOJ 271530Z AUTO 33004KT 270V020 CAVOK 23/14 Q1014 KPGA 271553Z AUTO VRB03KT 10SM CLR 18/02 A2996 RMK AO2 SLP100 T01830017 TSNO GAKA 271500Z 28006KT 9999 FEW030 BKN150 39/19 Q1010 LFPB 271530Z AUTO 04005KT 9999 FEW046 BKN054 BKN096 23/14 Q1013 TEMPO VRB15G25KT 1000 TSRAGR SCT020CB LFOK 271530Z AUTO 20006KT 160V250 CAVOK 25/16 Q1014 TEMPO 3000 SHRA BKN040CB KONT 271553Z 23006KT 6SM HZ SCT017 17/11 A2994 RMK AO2 SLP133 SCT V BKN T01720111 LFPC 271530Z AUTO VRB02KT CAVOK 25/13 Q1013 KNYC 271551Z AUTO VRB03KT 6SM HZ CLR 29/17 A3009 RMK AO2 SLP178 T02890172 $ KPGD 271553Z 09010KT 10SM BKN060 29/16 A3004 RMK AO2 SLP173 T02890161 GAKD 271500Z 28008KT 230V320 CAVOK 41/16 Q1011 WIHH 271200Z 15005KT 4000 HZ FEW020 28/24 Q1011 NOSIG KOPF 271253Z 05008KT 10SM SCT030 28/20 A2999 RMK AO2 SLP158 T02780200 PTTP 271551Z 14003KT 15SM FEW019 BKN300 26/23 A2989 RMK SLP120 T02560232 KONX 271555Z AUTO 20005KT 10SM SCT050 SCT060 28/15 A3018 RMK AO2 T02810148 KPEX 271554Z AUTO 15010G14KT 10SM SCT120 20/14 A2980 RMK AO2 T01950141 LFOP 271530Z AUTO 03007KT 9999 FEW043/// SCT056/// BKN082/// ///TCU 21/15 Q1014 TEMPO 4000 TSRA BKN040CB LFPG 271530Z 33004KT 290V030 9999 VCSH FEW043CB SCT110 BKN260 23/13 Q1013 TEMPO -TSRA KNYG 271556Z AUTO 19005KT 8SM CLR 26/22 A3010 RMK AO2 SLP193 T02610217 KNXP 271556Z 29011KT 10SM FEW200 23/02 A2999 RMK AO2 SLP121 T02330017 KONZ 271554Z AUTO 17010KT 10SM CLR 23/19 A2999 RMK AO2 KPEZ 271555Z AUTO 14010G17KT 10SM SCT021 OVC029 30/23 A2973 RMK AO2 LTG DSNT NE T02990231 ETAR 271544Z AUTO 24001KT 9999 -DZ FEW110 22/13 A2994 RMK AO2 RAB1447E05RAB06E10DZB44 LFQA 271530Z AUTO 04006KT 9999 BKN046/// BKN052/// BKN062/// ///CB 22/16 Q1013 LFQB 271530Z AUTO VRB01KT CAVOK 23/17 Q1013 LFOT 271530Z AUTO VRB02KT CAVOK 22/14 Q1014 TEMPO 3000 TSRA SCT030CB KNYL 271457Z AUTO 00000KT 10SM CLR 24/08 A2985 RMK AO2 SLP104 T02440083 51011 KOPL 271535Z AUTO 11015G20KT 10SM CLR 26/23 A2993 RMK AO2 LTG DSNT W T02600229 PWINO LFPM 271530Z AUTO 26006KT 210V310 CAVOK 25/13 Q1013 LFOV 271530Z AUTO 29003KT 190V340 CAVOK 22/14 Q1014 KPHD 271553Z AUTO 21008KT 10SM CLR 28/16 A3005 RMK AO2 SLP169 T02830161 LFPN 271530Z AUTO 32003KT 260V350 9999 FEW048 SCT140 22/14 Q1014 TEMPO 26015G25KT 2500 -TSRA SCT010 BKN040CB ESKM 271520Z AUTO 34006KT 9999 OVC012/// 09/08 Q1022 KOPN 271555Z AUTO 19005KT 10SM SCT060 27/10 A3015 RMK AO2 LFPO 271530Z 30005KT 9999 SCT046TCU BKN130 23/15 Q1013 TEMPO SHRA SCT050CB ESKN 271550Z 34006KT 9999 -SHRA FEW020 SCT038CB 12/10 Q1018 KPHF 271554Z AUTO 21011KT 10SM CLR 27/18 A3014 RMK AO2 SLP205 T02720178 GAKO 271500Z 18008KT CAVOK 33/22 Q//// LFQG 271530Z AUTO 34009KT 310V010 9999 ///CB 24/17 Q1013 LEZG 271530Z 07004KT 9999 FEW050 30/09 Q1010 WIII 271600Z 35003KT 4200 HZ SCT020 27/25 Q1012 NOSIG LGHI 271550Z 36008KT 290V020 9999 FEW020 24/10 Q1013 KPIA 271554Z 18012KT 10SM BKN018 BKN025 OVC039 23/18 A2986 RMK AO2 SLP107 T02280183 LFPT 271530Z AUTO 28003KT 240V320 9999 FEW044 24/14 Q1013 LFRB 271530Z 03007KT 360V060 9999 FEW030 SCT230 18/10 Q1015 NOSIG KORB 271553Z AUTO 00000KT 10SM BKN080 18/12 A2985 RMK AO2 KPIB 271555Z AUTO 17009KT 10SM CLR 26/19 A3005 RMK AO1 GAKT 271500Z 18004KT 9999 TS SCT030 FEW040CB 37/22 Q//// ORAGE SECTEUR SE GAMB 271500Z 02006KT 7000 SCT030 42/16 Q1010 LEZL 271530Z 22010KT 180V260 CAVOK 25/09 Q1015 NOSIG LFRC 271530Z AUTO 03005KT 340V070 6000 BKN018 BKN090 16/13 Q1015 TEMPO 4000 SHRA BKN020CB KPHL 271554Z 24007KT 10SM FEW039 SCT280 28/19 A3007 RMK AO2 SLP181 T02830189 KORC 271535Z AUTO 00000KT 10SM SCT049 18/16 A2978 RMK AO2 LFRD 271530Z AUTO 35006KT 310V020 9999 NCD 17/12 Q1015 TEMPO 3000 TSRA BKN030CB LFPV 271530Z AUTO 27004KT 210V310 CAVOK 23/14 Q1014 KORD 271551Z 18009KT 10SM FEW018 BKN110 BKN140 23/19 A2990 RMK AO2 SLP121 T02330189 KPGV 271605Z AUTO 24005KT 7SM SCT060 28/17 A3018 RMK AO2 KORE 271552Z AUTO 13006KT 10SM CLR 27/16 A3006 RMK AO2 SLP176 T02720156 KPIE 271553Z 01006KT 10SM CLR 28/18 A3005 RMK AO2 SLP176 T02830183 KPHN 271556Z AUTO 20005KT 10SM BKN041 BKN050 27/18 A2998 RMK AO2 KORF 271551Z AUTO 19011KT 10SM CLR 28/16 A3015 RMK AO2 SLP207 T02830161 TSNO RCMQ 271500Z 18009KT 9999 FEW010 BKN120 27/22 Q1013 RMK A2992 LFRG 271530Z AUTO 36005KT 330V040 CAVOK 21/14 Q1014 TEMPO 3000 TSRA BKN020CB KPHP 271555Z AUTO 02006KT 10SM OVC110 17/08 A2984 RMK AO2 SLP097 T01670083 KORG 271555Z AUTO 15011G25KT 10SM BKN022 BKN033 OVC050 27/22 A2986 RMK AO2 LTG DSNT W AND NW T02720222 LFRH 271530Z AUTO 26009KT CAVOK 21/10 Q1014 NOSIG LFQQ 271530Z AUTO 02010KT 9999 VCTS ///CB 22/12 Q1013 TEMPO 3000 SHRA KPIH 271553Z 23012KT 10SM FEW055 15/05 A2998 RMK AO2 SLP129 T01500050 PNO $ KORH 271554Z 12007KT 10SM FEW070 23/16 A3011 RMK AO2 SLP191 T02330156 LFRI 271530Z AUTO VRB02KT CAVOK 22/13 Q1014 LFRJ 271530Z AUTO 02008KT CAVOK 17/10 Q1015 KOSA 271535Z AUTO 15008KT 7SM SCT008 BKN012 21/20 A2991 RMK AO1 P0009 T02050203 LFSB 271530Z 30005KT 230V330 9999 FEW050TCU SCT110 BKN250 27/14 Q1013 NOSIG LFRK 271530Z AUTO 36007KT 330V030 9999 ///CB 17/13 Q1014 TEMPO 3000 TSRA KOQT 271553Z AUTO 10SM BKN049 27/18 A3012 RMK AO2 SLP187 T02720178 KPHT 271555Z AUTO 17009KT 10SM CLR 23/19 A3000 RMK KOQU 271550Z 19010KT 10SM SCT250 21/14 A3009 LFRL 271530Z AUTO 34007KT 320V030 CAVOK 19/10 Q1015 KORL 271553Z 06012KT 10SM FEW046 SCT060 29/16 A3006 RMK AO2 SLP182 T02940161 ESMK 271550Z 13007KT 9999 FEW040 18/09 Q1018 KPIL 271553Z AUTO 17018G32KT 6SM HZ FEW025 BKN035 32/25 A2974 RMK AO2 PK WND 16032/1548 SLP070 T03220250 KOSC 271554Z AUTO 09004KT 10SM CLR 18/14 A2998 RMK AO2 T01830138 ETEB 271558Z AUTO 01007KT 9999 SCT050 SCT080 BKN110 BKN130 22/15 A2996 RMK AO2 SLP145 T02220150 RCNN 271500Z 18005KT 9999 FEW012 SCT200 28/23 Q1012 RMK A2989 LFSD 271530Z AUTO VRB03KT 9999 ///CB 26/16 Q1013 LFRM 271530Z AUTO VRB02KT 9999 FEW045 BKN140 25/11 Q1014 KPIM 271535Z AUTO 18006KT 10SM SCT060 28/17 A3013 RMK AO2 T02810168 LFRN 271530Z AUTO VRB03KT 9999 NCD 21/14 Q1014 TEMPO 3000 TSRA BKN030CB ESND 271450Z AUTO 06007KT 020V080 9999 OVC042/// 14/05 Q1023 LFRO 271530Z AUTO 01007KT 330V050 CAVOK 15/11 Q1016 TEMPO 4000 SHRA SCT020CB KPHX 271551Z 00000KT 10SM CLR 24/01 A2987 RMK AO2 SLP100 T02440011 LGIO 271550Z AUTO /////KT //// // ////// 26/12 Q1016 RE// LFSG 271530Z AUTO 36005KT CAVOK 21/17 Q1014 KNZY 271552Z 28008KT 10SM SCT015 OVC023 17/13 A2995 RMK AO2 SLP140 T01670128 $ LFRQ 271530Z AUTO 33004KT 270V060 CAVOK 20/10 Q1014 TEMPO 4000 SHRA BKN020CB KOSH 271553Z 28007KT 10SM VCTS -RA FEW025 SCT038 OVC060 21/17 A2987 RMK AO2 LTG DSNT NW RAB53 SLP108 P0000 T02060167 ESNG 271550Z 15004KT 100V220 CAVOK 19/M01 Q1025 LGIR 271550Z 32006KT CAVOK 24/17 Q1015 NOSIG LFSI 271530Z AUTO VRB03KT CAVOK 23/15 Q1013 PTYA 272357Z 07007KT 12SM SCT016TCU SCT130 BKN300 30/27 A2992 RMK SHRAB30E35 TCU W SLP132 60002 8/271 T03030274 10303 20265 52008 ESMQ 271550Z 17003KT 9999 FEW041 SCT047 BKN055 16/09 Q1018 KPIR 271553Z AUTO 36007KT 10SM OVC110 17/11 A2981 RMK AO2 SLP089 T01720111 LFRS 271530Z 31006KT CAVOK 21/14 Q1014 NOSIG KORS 271555Z AUTO 20006KT 10SM FEW042 SCT055 12/08 A3011 RMK AO2 LFRT 271530Z AUTO 05006KT 020V080 CAVOK 16/13 Q1015 KPIT 271551Z 23012KT 10SM SCT040 SCT250 27/16 A3007 RMK AO2 SLP179 T02720156 ESMS 271550Z 32008KT 290V350 CAVOK 20/07 Q1017 KPKB 271553Z 21005KT 10SM FEW120 27/18 A3009 RMK AO2 SLP183 T02670183 GANK 271500Z 14004KT 9999 SCT030 43/16 Q//// LFRU 271530Z AUTO 33007KT 300V050 CAVOK 16/11 Q1015 LFSL 271530Z AUTO 10003KT 360V150 CAVOK 25/12 Q1012 NOSIG ESNK 271550Z AUTO 14010KT 9999 SCT055/// OVC074/// 13/03 Q1024 ESMT 271520Z 33004KT 9999 FEW024 SCT030 BKN036 15/10 Q1018 LGKC 271350Z 16005KT CAVOK 25/10 Q1017 LHBC 271445Z 07002KT CAVOK 26/10 Q1016 LFRV 271530Z AUTO VRB02KT 9999 SCT046/// BKN052/// BKN074/// 21/10 Q1014 ESNL 271550Z AUTO 10008KT 9999 NCD 17/00 Q1025 KPKD 271553Z AUTO 08008KT 10SM FEW060 OVC100 18/11 A2981 RMK AO2 SLP093 T01780111 TSNO LFSN 271530Z AUTO 32007KT CAVOK 23/12 Q1014 KQD3 271456Z AUTO 04007KT 8000 HZ CLR 36/21 A2966 RMK AO2 SLP041 T03550206 53001 LGKF 271550Z 33012KT CAVOK 25/15 Q1016 ESOE 271550Z 05009KT 010V070 5000 RA SCT021 BKN035 12/09 Q1019 ESNN 271550Z 03008KT 9999 OVC029 09/05 Q1025 LFSO 271530Z AUTO 34004KT 300V360 CAVOK 21/15 Q1014 ESNO 271550Z 10010KT CAVOK 13/04 Q1024 ESMX 271550Z 34004KT 310V030 9999 BKN039 15/10 Q1018 KQBG 271555Z AUTO 20012G20KT 10SM BKN080 BKN095 28/21 A2999 RMK AO2 SLP152 WND DATA ESTMD T02810213 KOTG 271556Z AUTO 20004KT 10SM OVC085 17/14 A2979 RMK AO2 SLP088 T01720139 KS25 271535Z AUTO 31003KT 10SM OVC065 14/11 A2987 RMK AO2 LFTH 271530Z AUTO 10013KT 8000 NSC 21/12 Q1014 NOSIG LFRZ 271530Z AUTO 20004KT 170V230 9999 NCD 20/14 Q1014 TEMPO -TSRA BKN030CB KOTH 271555Z 04003KT 10SM BKN039 OVC047 14/08 A3025 RMK AO1 ESNQ 271550Z 19006KT 140V230 CAVOK 18/00 Q1024 GANR 271500Z 06004KT 9999 SCT030 41/19 Q1012 LFST 271530Z AUTO 35007KT 320V020 CAVOK 26/13 Q1013 TEMPO 1500 TSRA BECMG FEW040CB ESNS 271550Z 05007KT CAVOK 14/01 Q1026 ESPA 271550Z 15006KT CAVOK 16/01 Q1026 KOSU 271453Z 20007KT 10SM CLR 26/18 A3004 RMK AO2 SLP165 T02560183 50001 ESOK 271550Z 36007KT 9999 FEW021 BKN028 12/08 Q1020 LGKL 271550Z 18006KT 9999 FEW030 24/14 Q1014 KQBL 271556Z AUTO 00000KT 10SM CLR 29/19 A3007 RMK AO2 SLP184 WND DATA ESTMD T02880191 KOTM 271553Z AUTO 18012KT 10SM SCT030 BKN037 OVC080 24/19 A2975 RMK AO2 SLP068 T02390194 ESNU 271550Z 05009KT SCT040 15/03 Q1025 ESNV 271550Z AUTO 10007KT 060V140 9999 NCD 18/01 Q1024 LFSX 271530Z AUTO 31003KT 260V030 CAVOK 26/11 Q1013 ESPE 271550Z AUTO 13006KT 100V180 9999 NCD 18/02 Q1025 LGKO 271550Z 30015KT 9999 FEW025 22/15 Q1012 ESNX 271550Z 11006KT 070V140 CAVOK 17/M00 Q1025 LGKP 271550Z 30019KT CAVOK 22/15 Q1013 LHBP 271530Z 21006KT 170V250 CAVOK 26/11 Q1016 NOSIG ETGG 271520Z 12006KT 9999 FEW030 BKN080 18/10 Q1018 BLU LGKR 271550Z 29010KT CAVOK 27/17 Q1015 NOSIG ESNZ 271550Z 08007KT 040V100 CAVOK 17/03 Q1022 ETHA 271520Z AUTO 01007KT //// // ////// 24/14 Q1015 /// VRMM 271000Z 24003KT 9999 FEW017 FEW018CB OVC110 29/25 Q1012 CB SSW W TEMPO 1000 +SHRA WIMM 271530Z 36007KT 280V350 9000 FEW017CB BKN018 28/25 Q1012 KS39 271600Z AUTO VRB03KT 10SM CLR 09/00 A3013 RMK AO2 ETHB 271520Z 09005KT 9999 SCT040CB BKN090 20/13 Q1015 BLU LHDC 271515Z 36007KT CAVOK 26/10 Q1016 NOSIG KPMD 271553Z AUTO VRB03KT 10SM CLR 21/05 A2996 RMK AO2 SLP125 T02060050 LGLM 271550Z 06006KT 9999 FEW020 23/11 Q1015 LGKV 271550Z 12006KT 9999 FEW025 23/13 Q1015 ETHC 271520Z 14006KT 9999 SCT040 21/11 Q1016 BLU+ KPKV 271555Z AUTO 17019G23KT 7SM SCT021 SCT030 OVC060 30/26 A2976 RMK AO2 T02950258 LFTW 271530Z AUTO 20010KT 160V240 CAVOK 24/12 Q1013 NOSIG KOVE 271553Z AUTO 28004KT 10SM CLR 22/12 A2995 RMK AO2 SLP142 T02170122 KPLN 271554Z AUTO 13006KT 10SM CLR 26/16 A2996 RMK AO2 SLP142 T02560161 KOUN 271435Z AUTO 14010KT 10SM CLR 20/16 A2967 RMK AO2 ETHE 271520Z AUTO 03007KT //// // ////// 19/13 Q1016 /// ESOW 271550Z 01013KT 9999 FEW010 SCT012 BKN015 11/09 Q1019 ETHF 271520Z AUTO 10007KT 9999 // ////// 21/11 Q1015 /// KQDG 271556Z AUTO 30009KT 9999 CLR 14/10 A2982 RMK AO2 SLP100 T01350099 $ LGKZ 271550Z 32008KT 9999 FEW080 25/06 Q1017 ETGQ 270420Z AUTO VRB01KT //// // ////// 14/13 Q1015 /// LGLR 271450Z 04005KT 9999 FEW025 30/06 Q1014 RMK FEW080 BLU KOWA 271555Z AUTO 12005KT 7SM RA BKN027 OVC038 17/16 A2982 RMK AO2 P0004 KPNA 271535Z AUTO 00000KT 10SM SCT047 BKN060 BKN070 08/02 A3005 RMK AO2 KQEB 271355Z AUTO RMK AO2 SLPNO WND DATA ESTMD PNO TSNO $ LGMK 271550Z 01009KT CAVOK 24/11 Q1015 KOWB 271556Z 19010G16KT 10SM FEW040 27/21 A3000 RMK AO2 T02660205 SLP156 KPNC 271553Z AUTO 15009KT 10SM CLR 23/18 A2967 RMK AO2 SLP035 T02280178 TSNO KOVL 271553Z AUTO 17011KT 10SM -RA SCT100 17/13 A2978 RMK AO2 KPLU 271535Z AUTO VRB06G11KT 10SM BKN023 OVC030 11/07 A3017 RMK AO2 ETHL 271548Z 05004KT 9999 VCTS FEW040CB BKN220 24/15 Q1014 BLU+ KOWD 271553Z 12006KT 10SM CLR 27/17 A3007 RMK AO2 SLP183 T02720167 ETIC 271558Z AUTO 03003KT 9999 CLR 24/13 A2994 RMK AO2 SLP134 T02400128 $ KPNE 271554Z AUTO 22008KT 10SM CLR 30/20 A3008 RMK AO2 SLP184 T03000200 TSNO ETHN 271520Z 01004KT 9999 VCTS SCT020CB BKN130 21/17 Q1015 BLU LFVP 271600Z 11012KT 9999 FEW026 08/04 Q1026 NOSIG KPMP 271553Z 06009KT 10SM SCT024 SCT040 28/21 A3001 RMK AO2 SLP163 T02830211 ETIH 271558Z AUTO 22001KT 9999 FEW130 23/13 A2995 RMK AO2 SLP136 KOVS 271553Z AUTO 18008G15KT 10SM BKN040 BKN100 24/17 A2982 RMK AO2 SLP095 T02440167 KQEJ 271550Z AUTO 16001KT 9000 HZ BKN200 16/13 A2982 RMK A02 TSNO ETHS 271520Z 08007KT 9999 SCT035 SCT060 BKN210 20/12 Q1016 BLU+ ESSA 271550Z 07009KT 6000 -DZ SCT005 BKN008 10/10 Q1018 TEMPO SHRA SCT015CB KQFB 271550Z AUTO 01002KT 9999 BKN140 21/12 A2988 RMK A02 TSNO KOXB 271553Z AUTO 19009KT 10SM CLR 22/18 A3012 RMK AO2 SLP201 T02220178 TSNO LGMT 271550Z 32010KT 9999 SCT025 SCT080 22/13 Q1014 KPOB 271458Z AUTO 23004KT 10SM CLR 27/16 A3015 RMK AO2 SLP211 T02700156 57004 KPOC 271547Z 00000KT 10SM FEW017 17/11 A2998 ESSB 271550Z 15004KT 9999 FEW002 SCT007 BKN038CB 12/10 Q1018 KOXC 271450Z 23004KT 8SM FEW070 SCT095 24/17 A3010 ETIK 271558Z AUTO 01004KT 9999 BKN120 21/16 A2996 RMK AO2 SLP140 T02130156 KPMU 271555Z AUTO 16007KT 10SM CLR 25/19 A2998 RMK AO2 T02450193 WIOO 271000Z 13010KT 1000 TSRA FEW008CB BKN009 25/24 Q1010 TEMPO FM1030 5000 KPNM 271554Z AUTO 11005KT 10SM RA SCT014 OVC044 18/16 A2984 RMK AO2 P0002 KPMV 271555Z AUTO 10005KT 10SM OVC016 21/17 A2974 RMK AO2 LTG DSNT W T02100174 ESSD 271550Z 03007KT 9999 SCT015 BKN019 OVC024 10/07 Q1021 KQEN 271550Z AUTO 25007KT 9999 CLR 15/08 A2988 RMK A02 TSNO KPOE 271459Z AUTO 13009KT 10SM FEW065 OVC110 20/19 A2990 RMK AO2 RAE59 KPOF 271553Z AUTO 16010KT 10SM BKN013 OVC019 23/21 A2989 RMK AO2 SLP118 T02330211 KOWP 271555Z AUTO 13015G20KT 10SM CLR 24/18 A2964 RMK AO2 LTG DSNT S T02410183 GASG 271500Z 22004KT 9999 FEW040 SCT250 40/19 Q//// KQEQ 271550Z AUTO 16001KT 4800 HZ CLR 18/15 A2970 RMK A02 TSNO RCSS 271530Z 10005KT 8000 FEW020 SCT040 26/24 Q1012 NOSIG RMK A2989 KQER 271550Z AUTO 16001KT 9000 HZ BKN1100 16/12 A2982 RMK A02 TSNO KOXI 271555Z AUTO 21012KT 10SM CLR 25/13 A2996 RMK AO1 KQES 271550Z AUTO 27007KT 9999 /CLR 15/13 A2987 RMK A02 TSNO KPNS 271553Z 13011KT 10SM CLR 28/18 A3004 RMK AO2 SLP174 T02830178 LGPA 271550Z 33005KT CAVOK 25/11 Q1015 KPPA 271535Z AUTO 30007KT 10SM CLR 18/08 A2979 RMK AO2 T01800082 ESTA 271550Z 02010KT 9999 BKN150 17/09 Q1018 KPNT 271535Z AUTO 17016G21KT 10SM BKN024 BKN095 26/20 A2991 RMK AO2 T02590197 GASK 271500Z 22004KT 9999 FEW030 34/24 Q//// ESSL 271550Z 07006KT 9999 -RA FEW017 SCT024CB OVC037 13/10 Q1018 KQEV 271550Z AUTO 30001KT 9999 CLR 19/13 A2985 RMK A02 TSNO WIPP 271300Z 23001KT 9999 SCT012 26/24 Q1010 NOSIG FKKD 271500Z 24009KT 9999 SCT016 FEW020CB 31/26 Q1010 NOSIG KQEW 271550Z AUTO 29001KT 9999 BKN190 20/12 A2982 RMK A02 TSNO GASN 271500Z 04004KT CAVOK 42/22 Q//// LGNX 271550Z 32009KT 9999 FEW025 23/12 Q1015 RCTP 271530Z 17006KT 130V210 9999 FEW020 28/25 Q1011 NOSIG RMK A2987 KPPF 271552Z AUTO CLR 21/18 A2971 RMK AO2 SLP054 T02110178 PWINO PNO $ KQEY 271550Z AUTO 06002KT 9999 FEW180 FEW220 20/12 A2986 RMK A02 TSNO ESSP 271550Z 02006KT 9999 SHRA SCT021CB 12/09 Q1018 KOXR 271551Z VRB05KT 10SM BKN015 BKN020 18/13 A2996 RMK AO2 SLP146 T01780128 KOZA 271535Z AUTO 33005KT 10SM CLR 27/03 A2987 RMK AO2 ESST 271550Z AUTO 03006KT 340V080 9999 BKN021/// OVC026/// 12/08 Q1022 KPOU 271553Z VRB04KT 10SM BKN120 27/18 A3004 RMK AO2 SLP169 T02720178 ESTL 271550Z AUTO 01005KT 250V070 9999NDV BKN039/// 17/09 Q1018 KQFV 271550Z AUTO 14002KT 1200 /CLR 15/11 A2984 RMK A02 TSNO KPOV 271538Z AUTO 20004KT 10SM SCT031 25/15 A3005 RMK AO2 T02520153 KOXV 271535Z AUTO 13007KT 8SM SCT006 OVC012 19/18 A2973 RMK AO2 ESSV 271550Z 02003KT 9999 FEW020 SCT037 BKN053 11/09 Q1019 ESUD 271550Z AUTO 11006KT 060V160 9999 NCD 18/03 Q1024 FKKN 271500Z 00000KT 9999 TS FEW020 FEW023CB 19/18 Q1016 KQFX 271550Z AUTO 20001KT 3200 HZ BKN050 17/13 A2984 RMK A02 TSNO KPPO 271555Z AUTO 17010KT 10SM SCT110 25/19 A2996 RMK AO2 T02510192 KPOY 271535Z AUTO 13006KT 10SM CLR 13/05 A2992 RMK AO2 KPPQ 271555Z AUTO 16012KT 10SM BKN011 OVC014 21/20 A2984 RMK AO2 P0001 T02120197 LFYR 271530Z AUTO VRB02KT 9999 ///TCU 24/15 Q1013 KPQI 271556Z AUTO 15011KT 10SM OVC008 08/07 A3014 RMK AO2 SLP253 T00830067 FKKR 271500Z 30007KT CAVOK 28/23 Q1009 NOSIG KPRB 271553Z AUTO 34004KT 10SM OVC007 12/09 A2998 RMK AO2 CIG 004V008 SLP151 T01220089 TSNO KPQL 271553Z 15013KT 10SM SCT027 28/21 A3003 RMK AO2 SLP170 T02780206 KPRC 271553Z 00000KT 10SM CLR 18/M02 A3004 RMK AO2 SLP107 T01831017 KQHN 271457Z 26009G12KT 9000 HZ CLR 33/M09 A2974 RMK SLPNO Q1007 DA6323 KPQN 271553Z AUTO 20006KT 10SM -RA SCT048 SCT055 BKN085 18/14 A2979 RMK AO2 KPRG 271535Z AUTO 16007KT 10SM CLR 25/19 A2997 RMK AO2 T02480194 ESUP 271450Z AUTO 00000KT 9999 NCD 18/01 Q1025 LGPZ 271550Z 23013KT CAVOK 22/16 Q1015 KOZR 271458Z AUTO VRB04KT 10SM CLR 27/19 A3007 RMK AO2 SLP182 T02690187 58003 LGSA 271550Z 12004KT CAVOK 26/16 Q1015 KOZS 271555Z AUTO 16008KT 10SM OVC018 23/20 A2982 RMK AO2 VTBD 271530Z 20006KT 160V220 9999 FEW025 32/26 Q1007 NOSIG KQJB 271556Z AUTO 00000KT 8000 HZ FEW170 31/18 A2987 RMK AO2 SLPNO T03130181 ESUT 271550Z AUTO 31006KT 9999 NCD 16/02 Q1024 KRAC 271553Z AUTO 16004KT 10SM BKN018 BKN027 23/18 A2990 RMK AO2 LTG DSNT E AND SE SLP123 T02280178 KPSC 271553Z 19004KT 10SM CLR 14/02 A3008 RMK AO2 SLP185 T01390022 ETND 270920Z 06004KT 3700 BR FEW004 BKN007 14/11 Q1017 GRN KOZW 271555Z AUTO 19005KT 10SM SCT028 SCT035 SCT043 26/19 A2999 RMK AO2 T02600190 KPRN 271556Z AUTO 12007KT 090V160 10SM SCT032 28/18 A3006 RMK AO2 SLP174 T02830183 $ ETMN 271520Z 06008KT 9999 FEW017 18/10 Q1017 BLU+FCST CANCEL KPSF 271554Z AUTO 17008KT 10SM FEW100 26/17 A3006 RMK AO2 SLP152 T02610167 KPRO 271555Z AUTO 08004KT 7SM -DZ SCT005 BKN012 OVC032 18/17 A2977 RMK AO2 P0003 T01750170 LGRP 271550Z 27013KT 9999 FEW018 24/15 Q1010 NOSIG KQHY 271556Z AUTO 11005KT 10SM CLR 27/19 A3007 RMK AO2 SLP184 T02720189 ETNG 271450Z 07006KT 9999 FEW030TCU 23/14 Q1014 TEMPO -SHRA ETNH 271520Z 08004KT 9999 FEW030 18/09 Q1018 BLU+BLU KPRS 271555Z AUTO 26010G16KT 10SM CLR 27/M07 A2993 RMK AO2 T02711069 LIBA 271455Z 10010KT CAVOK 25/08 Q1015 RMK FEW FEW200 VIS MIN 9999 WIND THR29 08014KT BLU VTCC 271530Z 12002KT 9999 FEW040 31/19 Q1008 A2977 NOSIG LGSK 271550Z 03004KT 9999 FEW020 27/10 Q1015 KPSK 271535Z AUTO 00000KT 10SM CLR 27/17 A3019 RMK AO2 T02700167 KPTB 271535Z AUTO 22005KT 10SM CLR 28/18 A3014 RMK AO2 T02810184 KT20 271535Z AUTO 17012G16KT 7SM SCT024 BKN032 OVC045 30/26 A2974 RMK AO2 LTG DSNT NE T02950255 LIBC 271450Z 19008KT 160V220 CAVOK 26/10 Q1017 KRAL 271553Z 00000KT 8SM FEW017 17/11 A2994 RMK AO2 SLP125 T01720111 VTBO 270900Z 17015KT 7000 BKN021 31/26 Q1006 ETNL 271520Z 02005KT 9999 FEW027 BKN050 BKN090 19/12 Q1017 BLU LIBD 271550Z 10009KT 070V150 CAVOK 27/07 Q1016 KRBD 271553Z 15013G20KT 10SM -RA FEW075 OVC100 18/17 A2981 RMK AO2 LTG DSNT S AND NW SLP088 P0002 T01830172 LGSM 271550Z 30007KT 240V340 9999 FEW025 SCT080 24/12 Q1013 KPSM 271458Z VRB04KT 10SM FEW015 SCT140 BKN210 18/13 A3012 RMK AO2A SLP202 T01840126 50000 LHKE 271545Z 12002KT CAVOK 26/11 Q1016 NOSIG RMK BLU KPSN 271555Z AUTO 02003KT 5SM RA SCT015 BKN043 OVC060 18/18 A2989 RMK AO2 P0029 T01880188 VTCH 270300Z 00000KT 9999 SCT028 32/21 Q1008 A2977 LIBF 271450Z 09011KT 060V120 CAVOK 27/09 Q1015 ETNN 271520Z AUTO VRB03KT 9000 // ////// 22/14 Q1014 /// LGSO 271550Z AUTO 05004KT 030V090 //// // ////// 24/12 Q1015 RE// LGRX 271550Z VRB03KT CAVOK 25/17 Q1015 KPRX 271555Z AUTO 14015G23KT 10SM SCT008 BKN015 BKN036 21/16 A2981 RMK AO1 P0001 KPSO 271555Z AUTO 00000KT 10SM CLR 09/00 A3000 RMK AO2 T00941001 LIBG 271450Z 25007KT 190V300 CAVOK 28/10 Q1016 KRAP 271552Z 02010KT 10SM CLR 17/08 A2985 RMK AO2 SLP097 T01670083 KPSP 271553Z 00000KT 10SM FEW100 24/09 A2984 RMK AO2 SLP093 T02390089 $ KRBG 271553Z AUTO 04004KT 10SM FEW024 OVC047 13/06 A3023 RMK AO2 SLP235 T01280061 LGTG 271550Z 34006KT 9999 FEW030 27/04 Q1015 BLU LIBH 271455Z 20007KT CAVOK 25/19 Q1016 RMK FEW FEW200 QUK 2 QUL 1 S VIS MAR 20 KM VIS MIN 9999 VTBS 271530Z 18010KT 9999 FEW025 32/25 Q1008 NOSIG LGSR 271550Z 34006KT CAVOK 24/11 Q1015 VTCL 270900Z VRB04KT 9999 FEW025 37/20 Q1002 A2960 VTBU 271530Z 22010KT 9999 FEW020 31/24 Q1008 A2979 NOSIG LICA 271450Z 08014KT CAVOK 29/09 Q1015 KRCA 271458Z AUTO 02008KT 10SM CLR 15/08 A2985 RMK AO2 SLP101 T01510077 53000 $ KRAS 271535Z AUTO 17014G20KT 5SM BR BKN014 BKN020 OVC028 29/26 A2976 RMK AO2 LTG DSNT N T02880264 LICB 271450Z 23008KT 190V270 CAVOK 33/05 Q1016 KPTK 271553Z 17006KT 10SM SCT033 BKN180 BKN250 27/18 A2998 RMK AO2 SLP143 T02720178 KPUB 271553Z AUTO 29013KT 10SM BKN100 15/08 A2981 RMK AO2 SLP058 T01500078 ETNS 271520Z AUTO 04006KT //// // ////// 18/09 Q1017 /// VTCN 270900Z 14003KT 9999 FEW022TCU SCT100 36/21 Q1001 A2958 ETNT 271520Z 05008KT 9999 SCT019 BKN230 17/13 Q1017 BLU+ LICC 271550Z 06011KT CAVOK 25/07 Q1016 KPUC 271553Z AUTO 30011G16KT 10SM CLR 16/01 A2998 RMK AO2 SLP115 T01610006 KRBL 271554Z AUTO 35015G19KT 10SM CLR 23/05 A2996 RMK AO2 SLP140 T02330050 LICD 271450Z 08013KT CAVOK 22/18 Q1014 KQN2 271556Z AUTO 00000KT 9000 BR BKN170 23/22 A2993 RMK AO2 SHRAB1400E1437 SLPNO T02320219 VTCP 271500Z AUTO 19001KT 4900 // ////// 31/21 Q1005 KRCE 271515Z AUTO 21009G14KT 10SM CLR 24/15 A2971 RMK AO2 KPTN 271506Z AUTO 14004KT 10SM FEW110 26/22 A2997 RMK AO2 SLP150 T02610222 50013 LIBN 271455Z 06006KT CAVOK 30/07 Q1016 RMK FEW FEW200 VIS MIN 9999 WIND THR14 07006KT WIND THR32 05006KT BLU KQN3 271556Z AUTO 00000KT 6000 HZ CLR 41/18 A2980 RMK AO2 SLP079 T04100178 GAYE 271500Z 22004KT CAVOK 42/16 Q//// ETNW 271520Z AUTO 08007KT 9999 // ////// 21/11 Q1016 /// LICF 271455Z 23009KT CAVOK 26/12 Q1015 RMK BKN BKN200 QUK 2 QUL 1 SW VIS MAR 20 KM MON LIB NC VIS MIN 9999 KPSX 271553Z AUTO 15021G31KT 10SM FEW018 SCT034 BKN050 29/25 A2978 RMK AO2 PK WND 15031/1553 SLP085 T02940250 KRBO 271530Z AUTO 18013KT 10SM BKN023 OVC030 30/25 A2974 RMK AO2 T02980253 LIBP 271450Z 07007KT CAVOK 26/13 Q1015 LICG 271455Z /////KT CAVOK 32/20 Q1014 LGSY 271550Z 02002KT CAVOK 23/12 Q1013 BLU KT35 271535Z AUTO 07008KT 7SM +TSRA OVC035 19/18 A2984 RMK AO2 LTG DSNT NE THRU SE P0004 T01850175 KQKR 271556Z AUTO 32003KT 9999 CLR 29/21 A2986 RMK AO2 SLPNO T02870212 VTCT 271500Z 20003KT 9999 BKN030 28/25 Q1007 A2973 LIBR 271545Z 09003KT CAVOK 23/16 Q1017 NOSIG LGTS 271550Z 32010KT 9999 FEW020 26/12 Q1013 NOSIG KPTS 271555Z AUTO 16007KT 10SM CLR 22/20 A2975 RMK AO2 P0001 T02170195 LICJ 271550Z 24013KT CAVOK 23/19 Q1013 KPUJ 271555Z AUTO 00000KT 28/22 A3013 RMK AO2 PWINO KPVB 271555Z AUTO 17008KT 10SM OVC017 21/19 A2984 RMK AO1 T02120185 KPTT 271535Z AUTO 15013G17KT 10SM SCT010 18/15 A2968 RMK AO2 T01840152 LICL 271455Z 19008G18KT CAVOK 23/06 Q1016 RMK BKN BKN200 QUK 1 QUL 0 VIS MAR 20 KM VIS MIN 9999 KPVC 271556Z AUTO 19007KT 10SM CLR 22/16 A3011 RMK AO2 SLP197 T02220156 LIBV 271455Z 17011KT CAVOK 27/09 Q1016 RMK FEW FEW200 VIS MIN 9999 WIND THR32 17011KT WIND THR14 17010KT BLU KPVD 271551Z 16009KT 10SM BKN300 23/15 A3010 RMK AO2 SLP191 T02280150 KRCM 271555Z AUTO 17009KT 10SM CLR 22/17 A2974 RMK AO2 KRDD 271553Z 34009KT 10SM CLR 22/04 A2997 RMK AO2 SLP144 T02170044 KPTV 271556Z AUTO 21005KT 10SM CLR 22/11 A2994 RMK AO2 SLP144 T02220111 ETOU 271558Z AUTO 13006KT 9999 BKN100 BKN170 22/15 A2993 RMK AO2 SLP134 T02220145 GCGM 271500Z 26013G23KT 200V300 9999 FEW030 24/08 Q1018 RMK R09/26011KT 210V300 ARP/26012KT 210V300 GCFV 271530Z 15006KT 120V190 9999 FEW025 BKN045 22/17 Q1018 KPTW 271554Z AUTO VRB04KT 8SM SCT040 BKN049 BKN060 28/19 A3007 RMK AO2 SLP179 T02830194 KPVE 271555Z AUTO 19007KT 10SM CLR 26/21 A3001 RMK KRBW 271555Z AUTO 00000KT 10SM CLR 28/15 A3015 RMK AO2 KPVF 271555Z AUTO 31003KT 10SM CLR 19/07 A3000 RMK AO1 LIBY 271455Z 22003KT CAVOK 22/14 Q1016 RMK SKC QUK 1 QUL 0 VIS MAR 20 KM VIS MAX 20 KM VIS MIN 9999 KPVG 271555Z AUTO 22008KT CLR 29/18 A3017 RMK AO1 KRDG 271554Z AUTO 24007KT 10SM FEW037 29/19 A3005 RMK AO2 SLP176 T02940194 LICR 271450Z 19008KT CAVOK 23/14 Q1017 KRCR 271535Z AUTO 16004KT 10SM CLR 25/19 A2998 RMK AO2 GCHI 271550Z 36011G21KT 320V040 9999 FEW025 22/14 Q1018 LIEA 271550Z VRB04KT CAVOK 24/16 Q1014 KPWA 271553Z 22011KT 10SM CLR 23/14 A2969 RMK AO2 SLP039 T02330144 KPVJ 271555Z AUTO 16005KT 10SM CLR 20/17 A2970 RMK AO2 LTG DSNT SE T02010167 LIEB 271455Z 12004KT CAVOK 22/20 Q1013 RMK OVC SCT200 OVC230 QUK 2 QUL 0 VIS MAR 25 KM MON LIB VIS MIN 9999 LICT 271455Z 15017KT CAVOK 33/03 Q1014 KQMK 271456Z AUTO 23005G14KT 9999 FEW025 27/23 A2998 RMK AO2 SLPNO T02740227 KRDK 271535Z AUTO 05004KT 10SM OVC016 19/16 A2975 RMK AO2 LIEC 271455Z 07016KT CAVOK 22/19 Q1012 RMK BKN SCT100 BKN200 QUK 2 QUL 0 VIS MAR 12 KM VIS MIN 9999 KPWC 271553Z AUTO 09007KT 10SM SCT080 BKN085 BKN110 17/13 A2987 RMK AO2 LIED 271455Z 15010KT CAVOK 26/19 Q1012 RMK BKN BKN200 VIS MIN 9999 WIND THR35 16009KT WIND THR17 16009KT BLU KRCV 271220Z AUTO 25004KT 10SM SCT044 03/01 A2997 RMK AO2 T00310006 KRDM 271556Z 30007KT 260V340 10SM CLR 10/M01 A3012 RMK AO2 SLP198 T01001011 LIEE 271550Z 14010KT CAVOK 22/18 Q1013 KPUW 271553Z AUTO 25019KT 10SM CLR 09/02 A3005 RMK AO2 SLP179 T00940022 FLHN 271400Z 11001KT CAVOK 23/09 Q1022 KRCX 271555Z AUTO 00000KT 10SM BKN110 20/15 A2987 RMK AO2 T02010148 KPWG 271556Z AUTO 08004KT 7SM -RA FEW025 BKN045 OVC050 RMK AO2 SLPNO P0011 FZRANO $ LICZ 271455Z 07013KT CAVOK 27/13 Q1017 RMK BKN BKN200 VIS MIN 9999 WIND THR28 06014KT WIND THR10 07015KT A3004 BLU KRCZ 271550Z AUTO 27004KT 10SM BKN050 26/16 A3017 RMK AO2 T02600160 KRDR 271458Z AUTO VRB02KT 10SM CLR 17/13 A2982 RMK AO2 SLP103 T01660126 52009 ETSA 271520Z AUTO 35005KT 9000 // ////// 24/13 Q1014 /// KPWK 271552Z 18008KT 10SM BKN014 OVC110 23/19 A2991 RMK AO2 SLP124 T02280194 ETSB 271520Z AUTO 01008KT 9999 // ////// 14/11 Q1015 /// KRDU 271551Z 24007G14KT 10SM FEW250 28/17 A3016 RMK AO2 SLPNO T02780167 KPVU 271550Z 16005KT 10SM FEW060 SCT080 15/03 A3001 KPWM 271551Z 06010KT 10SM OVC010 14/11 A3015 RMK AO2 SLP211 T01390111 KRFD 271554Z 17010KT 10SM SCT040 OVC085 25/18 A2989 RMK AO2 SLP117 T02500183 KPVW 271535Z AUTO 27007KT 10SM CLR 21/07 A2980 RMK AO2 T02050074 KPXE 271535Z AUTO 15003KT 10SM CLR 29/14 A3013 RMK AO2 T02850142 LIEO 271550Z 07008KT 040V110 CAVOK 23/15 Q1014 KREO 271552Z AUTO 00000KT 13/ A3004 RMK AO1 SLP153 T0133 $ KT65 271535Z AUTO 17018G24KT 7SM BKN022 31/24 A2973 RMK AO2 T03130238 ETSH 271520Z 33005KT 9999 -RA FEW060 SCT090 BKN110 18/13 Q1016 BLU KRFI 271535Z AUTO 00000KT 5SM VCTSRA BKN070 OVC090 19/19 A2992 RMK AO2 LTG DSNT S THRU W P0008 T01920190 ETSI 271520Z AUTO 31003KT 6000 // ////// 23/14 Q1014 /// LHPA 271545Z 17004KT CAVOK 24/16 Q1015 NOSIG RMK BLU KPWT 271555Z AUTO 00000KT 10SM FEW016 BKN025 OVC031 11/07 A3018 RMK AO1 KT70 271458Z AUTO 29006KT 8SM CLR 27/22 A2971 RMK AO2 SLP047 60000 T02660221 52021 $ ETSL 271520Z AUTO 32004KT 9999 // ////// 23/13 Q1015 /// ETSN 271520Z 31003KT 9999 VCSH FEW032 SCT100 BKN190 22/14 Q1014 BLU LGZA 271550Z 32007KT CAVOK 26/14 Q1015 GCLA 271530Z 09004KT 060V140 9999 FEW035 24/15 Q1018 KRGK 271555Z AUTO 00000KT 10SM RA OVC060 18/16 A2980 RMK AO2 FLKK 271200Z 11007KT 9999 BKN032 SCT100 22/16 Q1023 KPYM 271552Z AUTO 18009KT 10SM CLR 26/16 A3010 RMK AO2 SLP191 T02560161 TSNO KT82 271535Z AUTO 18006KT 10SM SCT024 SCT028 BKN049 26/21 A2980 RMK AO2 T02560209 LHPP 270815Z 22004KT CAVOK 23/15 Q1019 FMCH 271500Z VRB02KT 9999 FEW020 26/20 Q1016 NOSIG KRHI 271553Z AUTO 00000KT 10SM OVC110 21/14 A2990 RMK AO2 SLP121 T02060144 TSNO $ LHPR 271515Z 15007KT CAVOK 24/16 Q1015 RMK BLU AGGH 271500Z 18003KT 35KM FEW015 FEW016CB 24/24 Q1012 KRIC 271554Z 20009KT 10SM SCT300 28/19 A3011 RMK AO2 SLP200 T02780189 KPYX 271535Z AUTO 29006KT 10SM CLR 19/09 A2975 RMK AO2 T01870090 KRHP 271550Z AUTO 00000KT 10SM SCT047 SCT065 SCT090 25/19 A3016 RMK AO2 T02500186 GCLP 271530Z VRB02KT 9999 FEW025 BKN040 22/15 Q1018 NOSIG KQRH 271556Z AUTO 00000KT 9999 CLR 33/25 A2972 RMK AO2 SLP057 T03340254 KPZQ 271555Z AUTO 05004KT 10SM CLR 21/17 A2998 RMK AO2 T02130170 KSAA 271555Z AUTO 30006KT 10SM SCT028 10/03 A3001 RMK AO2 KRIL 271553Z AUTO VRB04KT 10SM CLR 14/03 A2996 RMK AO2 SLP102 T01390028 KSAC 271553Z 12004KT 10SM CLR 18/11 A2995 RMK AO2 SLP141 T01830106 KRHV 271550Z VRB04KT 10SM SKC 16/10 A2999 KSAD 271551Z AUTO 29007KT 10SM CLR 23/M03 A2995 RMK AO2 SLP098 T02281028 FMEE 271530Z AUTO 11018KT 9999 NSC 23/17 Q1020 KSAF 271553Z VRB04KT 10SM CLR 14/00 A2995 RMK AO2 SLP072 T01440000 KQQY 271555Z AUTO 00000KT 4000 +RA VV000 23/23 A3011 RMK AO2 RAB1355 SLP177 P0014 T02310229 $ KU16 271458Z AUTO 22009KT 10SM BKN095 18/03 A2995 RMK AO2 SLP769 T01830033 50005 $ FMCZ 271530Z AUTO 17005KT 9999 NCD 25/20 Q1016 KSBA 271553Z 17007KT 10SM FEW011 16/12 A2996 RMK AO2 SLP145 T01610122 KSBD 271550Z 00000KT 5SM HZ SKC 18/11 A2994 KRKD 271556Z AUTO 09012G18KT 10SM SCT080 12/09 A3017 RMK AO2 RAE22 SLP219 P0000 T01220094 KRIV 271553Z AUTO VRB01KT 10SM SCT011 15/13 A2994 RMK AO2 LHSM 271515Z 14010KT CAVOK 26/14 Q1015 NOSIG ETWM 271520Z AUTO 00000KT 4300 // ////// 17/14 Q1016 /// KSAN 271551Z 28006KT 10SM BKN014 BKN022 17/13 A2996 RMK AO2 SLP146 T01720128 LHSN 271545Z 02002KT CAVOK 26/12 Q1016 NOSIG RMK BLU KRIW 271553Z AUTO VRB05KT 10SM CLR 13/04 A2996 RMK AO2 SLP109 T01330039 FMEP 271530Z AUTO 13017KT 9999 NSC 22/16 Q1020 KSAR 271555Z AUTO 13008KT 10SM -RA BKN006 BKN018 OVC075 20/20 A2993 RMK AO2 P0006 T02000195 KSAT 271551Z 17012KT 10SM SCT022 BKN034 BKN250 29/23 A2975 RMK AO2 SLP053 T02940233 KSAV 271553Z 10006KT 10SM FEW040 28/14 A3014 RMK AO2 SLP205 T02830144 KSBM 271553Z AUTO 13007KT 9SM SCT070 BKN110 20/16 A2988 RMK AO2 SLP118 T02000161 KSCD 271555Z AUTO 14006KT 10SM 29/18 A3009 RMK AO2 T02900178 KRLD 271535Z AUTO 22006KT 10SM CLR 15/02 A3008 RMK AO2 T01520021 LHUD 271515Z 00000KT CAVOK 28/13 Q1016 GBYD 271500Z 34004KT CAVOK 34/13 Q1012 KSBN 271554Z 18008KT 10SM -RA OVC110 22/18 A2996 RMK AO2 RAB33 SLP140 P0000 T02220183 KSAW 271545Z 00000KT 10SM SKC 22/15 A2992 LJCE 271530Z AUTO VRB02KT 9999 NCD 29/16 Q1014 KSBO 271535Z AUTO 12005KT 10SM CLR 27/14 A3014 RMK AO2 KRKP 271553Z AUTO 15016G24KT 5SM HZ SCT014 BKN037 OVC043 29/25 A2975 RMK AO2 SLP075 T02940250 KSBP 271556Z 29006KT 3SM BR OVC008 14/11 A2999 RMK AO2 SLP154 T01390106 KSCH 271450Z 17004KT 10SM BKN100 26/16 A3003 KSAZ 271553Z AUTO 10005KT 10SM SCT110 18/12 A2980 RMK AO2 KRKR 271555Z AUTO 12007KT 110V180 10SM CLR 24/18 A2978 RMK AO2 LTG DSNT S AND SW T02400180 LIMA 271450Z 00000KT 9999 FEW040 26/12 Q1016 KRKS 271554Z AUTO 24006KT 10SM CLR 09/04 A3002 RMK AO2 SLP118 T00940039 KSBS 271556Z AUTO 00000KT 10SM SCT023 BKN028 08/03 A3000 RMK AO1 T00780027 KSDA 271535Z AUTO 09006KT 10SM OVC016 19/17 A2976 RMK AO2 KSDB 271548Z AUTO 35013G18KT 10SM CLR 18/07 A3003 RMK AO2 SLP128 T01780067 KSCK 271555Z 28003KT 9SM CLR 19/09 A2995 RMK AO2 SLP140 T01940094 LIMC 271550Z 17004KT 130V210 CAVOK 27/12 Q1015 NOSIG KU42 271455Z AUTO 15004KT 10SM CLR 14/06 A3000 RMK AO1 T01410060 LIME 271550Z 14003KT 070V210 9999 FEW035 27/13 Q1016 KRME 271553Z 31005KT 10SM FEW041 FEW060 SCT070 28/18 A3002 RMK AO2 SLP159 T02780183 KQVF 262200Z AUTO VRB05KT 10SM FEW024 26/21 A3000 RMK AO2 SLP157 WND DATA ESTMD T02590212 LIMF 271550Z VRB03KT 9999 FEW045 26/13 Q1016 KSDF 271556Z 20006KT 10SM FEW035 SCT250 27/19 A3004 RMK AO2 SLP167 T02720189 LIMG 271450Z 11009KT 080V140 CAVOK 25/04 Q1015 KRMG 271553Z AUTO 10008KT 10SM CLR 28/19 A3010 RMK AO2 SLP183 T02830189 KSBY 271554Z 22008KT 10SM CLR 28/19 A3010 RMK AO2 SLP196 T02830189 KSCR 271550Z AUTO 18008KT 10SM CLR 26/16 A3017 RMK AO2 T02610160 LIMJ 271550Z 24003KT 200V270 CAVOK 23/12 Q1015 KSEA 271553Z 23005KT 10SM BKN018 11/07 A3017 RMK AO2 SLP222 T01110067 FKYS 271500Z 29003KT 200V360 9999 BKN023 32/22 Q1015 NOSIG LIML 271550Z VRB02KT CAVOK 28/12 Q1015 NOSIG KSDL 271553Z 19004KT 10SM CLR 24/00 A2990 RMK AO2 SLP105 T02440000 KRNC 271555Z AUTO 20006KT 10SM SCT038 SCT046 SCT055 28/20 A3009 RMK KSDM 271553Z 28005KT 10SM FEW008 OVC017 16/13 A2995 RMK AO2 SLP139 T01560133 KRND 271548Z AUTO 19011KT 10SM BKN020 OVC027 28/24 A2975 RMK AO2 $ LIMN 271455Z /////KT CAVOK 27/13 Q1015 RMK FEW FEW200 VIS MIN 9999 BLU KRMN 271535Z AUTO 16003KT 10SM CLR 28/19 A3013 RMK AO2 T02790189 KSEE 271347Z 00000KT 9SM OVC020 16/12 A2996 LIMP 271450Z 03005KT 360V060 CAVOK 28/15 Q1015 KSEG 271553Z AUTO VRB06KT 10SM FEW041 29/19 A3005 RMK AO2 SLP173 T02890189 KRNH 271535Z AUTO 18004KT 10SM RA BKN009 BKN014 BKN019 18/16 A2985 RMK AO2 T01750161 LIMS 271455Z 06004KT 9999 FEW080 27/21 Q1014 KROA 271554Z VRB03KT 10SM FEW070 29/16 A3014 RMK AO2 SLP195 T02890161 KSFB 271553Z 08011G21KT 10SM FEW065 29/17 A3007 RMK AO2 SLP180 T02940167 LIMU 271455Z 01013KT CAVOK 25/06 Q1016 RMK SCT SCT200 QUK 2 QUL 1 E VIS MAR 35 KM VIS MIN 9999 KROC 271554Z 28010KT 10SM SCT033 SCT050 BKN085 BKN250 27/20 A2999 RMK AO2 SLP156 T02720200 KRNM 271553Z 02003KT 9SM OVC011 14/11 A2996 RMK AO2 SLP137 T01440111 KSEM 271555Z AUTO 17010KT 10SM FEW047 30/17 A3005 RMK AO2 VTPH 270900Z 25006KT 210V310 9999 SCT030 35/21 Q1003 KSFF 271553Z 22010KT 10SM BKN037 BKN080 10/04 A3001 RMK AO2 SLP159 T01000039 KRNO 271555Z 10004KT 10SM FEW050 16/03 A3007 RMK AO2 SLP142 T01560033 LIMY 270755Z 31003KT 9999 FEW026 18/15 Q1018 RMK BKN SCT080 VAL FOSCHIA VIS MIN 9999 KSDY 271556Z AUTO 04005KT 10SM CLR 16/11 A2987 RMK AO2 SLP119 T01560111 KRMY 271553Z AUTO 19006KT 10SM CLR 25/18 A2997 RMK AO2 T02520182 KRNP 271555Z AUTO 15004KT 10SM CLR 26/20 A2998 RMK AO2 T02620195 KSEP 271555Z AUTO 17011G14KT 17/16 A2981 RMK AO2 T01730156 KROG 271558Z 18011KT 10SM 22/18 A2981 RMK AO2 SLP084 T02220183 $ LIMZ 271450Z VRB02KT 9999 BKN070 26/13 Q1016 LIPA 271455Z 19004KT 9000 SCT050 27/18 Q1015 RMK SCT VIS MIN 8000NE WIND THR05 18006KT WIND THR23 18004KT A3000 BLU GCRR 271530Z 17006KT 9999 FEW035 SCT045 23/17 Q1018 KU68 271555Z AUTO 00000KT 10SM CLR 13/07 A2992 RMK AO2 VTPM 270900Z 26013KT 9999 -RA SCT025 BKN030 OVC100 28/22 Q1005 LIPB 271550Z 16010KT 9999 FEW090 29/12 Q1013 KRNT 271553Z 18006KT 10SM OVC022 11/06 A3016 RMK AO2 SLP219 T01110061 KSET 271554Z AUTO 16016G20KT 10SM OVC011 22/21 A2985 RMK AO2 RAE17 SLP104 P0001 T02170206 LIPC 271455Z 08008KT CAVOK 22/18 Q1015 VTPO 270900Z 21009KT 9999 FEW020CB SCT022 38/24 Q1000 KSFM 271555Z AUTO 02007KT 10SM SCT016 17/10 A3014 RMK AO1 KRNV 271555Z AUTO 18014KT 10SM SCT028 SCT110 26/23 A2995 RMK AO2 LTG DSNT SW T02550229 KRPD 271535Z AUTO 00000KT 10SM OVC090 18/15 A2986 RMK AO2 T01830149 VTPP 270900Z 27003KT 9999 SCT023 38/18 Q1001 LIPE 271550Z 10008KT 070V130 CAVOK 26/14 Q1015 LIPF 271455Z 00000KT CAVOK 27/16 Q1016 KSGF 271552Z 18008KT 10SM SCT019 SCT026 OVC040 23/19 A2981 RMK AO2 SLP082 T02280189 KSFO 271556Z 08006KT 10SM FEW009 16/13 A2997 RMK AO2 SLP149 T01560133 $ FNBG 271500Z 32009KT 9999 FEW015 26/22 Q1013 LIPH 271545Z 17006KT CAVOK 26/17 Q1016 KSGH 271556Z AUTO 22007KT 10SM CLR 27/18 A3005 RMK AO2 T02720177 SLP169 KSFQ 271535Z AUTO 21009KT 160V230 10SM CLR 27/17 A3016 RMK AO2 T02720171 KRPH 271535Z AUTO 14007KT 10SM CLR 18/17 A2974 RMK AO2 T01830171 KSEZ 271535Z AUTO 18003KT 10SM CLR 17/M01 A3004 RMK AO2 LIPI 271455Z 18005KT 9999 FEW040 26/16 Q1015 RMK SCT VIS MIN 9999 WIND THR06 20004KT WIND THR24 17003KT BLU KROS 271557Z AUTO 12004KT 10SM -RA SCT026 OVC034 17/15 A2986 RMK AO2 P0008 T01660150 KSGJ 271558Z 04007KT 10SM -RA SCT032 BKN047 OVC055 25/20 A3012 RMK AO2 RAB39 SLP197 P0000 T02500200 KRPJ 271555Z AUTO 18016G19KT 10SM SCT031 SCT037 SCT090 26/19 A2988 RMK AO2 T02590194 LIPK 271550Z 07008KT CAVOK 25/15 Q1015 FNCA 271500Z 22007KT 9999 FEW020 SCT025 28/24 Q1012 EVLA 271550Z AUTO 26004KT 9999 FEW003/// SCT084/// BKN140/// 17/10 Q1019 KRQB 271555Z AUTO 15007KT 10SM SCT018 SCT024 25/20 A2994 RMK AO2 T02510202 LIQC 271455Z ///00KT CAVOK 25/09 Q1016 RMK SCT SCT070 QUK 1 QUL 0 VIS MAR 20 KM VIS MIN 9999 LIPL 271455Z /////KT 9999 FEW050 29/12 Q1015 RMK FEW VIS MIN 9999 WIND THR31 16004KT BLU KSHD 271535Z AUTO 15003KT 10SM CLR 27/19 A3014 RMK AO2 T02670190 KROW 271551Z 29009G14KT 10SM CLR 24/M04 A2986 RMK AO2 SLP051 T02441039 KRQE 271553Z AUTO 27008KT 10SM CLR 16/M01 A3003 RMK AO2 SLP081 T01611011 TSNO KQZF 271455Z AUTO 15004KT 5SM HZ FEW006 32/19 A2873 RMK AO2 LTG DSNT SW SLP730 WND DATA ESTMD T03150189 55018 LIPO 271450Z 18004KT CAVOK 28/14 Q1015 KROX 271555Z AUTO 00000KT 10SM CLR 18/14 A2982 RMK AO2 KSFY 271535Z AUTO 17012G17KT 10SM OVC022 23/19 A2983 RMK AO2 T02310189 LIPQ 271550Z 19006KT 9999 FEW060 25/11 Q1015 KSFZ 271555Z AUTO 14004KT 9SM FEW060 A3009 RMK AO1 VTSB 271500Z AUTO 22002KT 2000 NCD 27/24 Q1011 LIPR 271545Z 09010KT CAVOK 22/18 Q1015 KSGR 271553Z 17022G30KT 10SM SCT022 BKN028 OVC055 28/23 A2977 RMK AO2 PK WND 16030/1549 SLP082 T02830233 VTSC 270900Z 11006KT 080V140 5000 TSRA FEW018CB SCT020 BKN030 25/25 Q1008 A2978 RWY20 INFO J LIPS 271455Z 17007KT 9999 FEW030 27/13 Q1015 RMK FEW VIS MIN 9999 WIND THR26 14005KT WIND THR08 14004KT BLU LIRA 271550Z 21005KT 170V260 CAVOK 28/06 Q1015 KSGS 271553Z AUTO 00000KT 10SM -RA OVC048 18/16 A2983 RMK AO2 P0002 T01750156 GCTS 271530Z 23014KT 9999 SCT040 24/16 Q1018 NOSIG KSGT 271555Z AUTO 17017KT 10SM FEW015 FEW042 BKN050 23/19 A2990 RMK AO1 LTG DSNT E P0008 VTSE 270900Z 27010KT 240V310 9999 FEW038 BKN100 33/25 Q1005 A2968 LIPU 271350Z 13006KT 080V200 9999 FEW050 26/14 Q1015 KSGU 271555Z 00000KT 10SM CLR 18/02 A2998 RMK AO1 KSHL 271535Z AUTO 20004KT 10SM OVC060 18/14 A2977 RMK AO2 VTSF 271500Z VRB01KT 9999 FEW018 26/24 Q1010 A2984 LIQN 271450Z 19004KT CAVOK 27/13 Q1016 LIRE 271455Z 19006KT CAVOK 25/13 Q1015 RMK SCT SCT200 VIS MIN 9999 WIND THR13 20004KT WIND THR31 21004KT BLU VTSG 271500Z 00000KT 9999 FEW020 BKN300 25/24 Q1011 A2988 KSHN 271553Z AUTO 25013G18KT 10SM CLR 13/06 A3013 RMK AO2 SLP206 T01280056 VTSH 270300Z 26006KT 8000 FEW018 SCT040 29/25 Q1010 A2983 NOSIG KRPX 271535Z AUTO 00000KT 10SM 14/08 A2982 LIPX 271550Z 16003KT 060V220 9999 FEW060 28/15 Q1015 LIRF 271550Z 25006KT 190V290 CAVOK 26/13 Q1015 NOSIG KRQO 271555Z AUTO 21016KT 10SM CLR 25/13 A2969 RMK AO2 LTG DSNT SE KSIF 271550Z AUTO 23004KT 10SM CLR 28/20 A3013 RMK AO2 T02810199 LIRG 271455Z /////KT CAVOK 29/10 Q1015 LIPY 271450Z 11008KT 050V160 CAVOK 27/09 Q1015 WMBA 271500Z 10001KT 9999 SCT035 SCT150 27/26 Q1012 LIRH 271455Z 17004KT CAVOK 30/08 Q1015 LIPZ 271550Z 15009KT CAVOK 24/15 Q1016 NOSIG VTSK 270900Z 04005KT 9999 FEW030 BKN100 OVC300 32/24 Q1007 A2976 LIRI 271450Z 29005KT CAVOK 27/08 Q1016 KSHR 271553Z AUTO VRB03KT 10SM FEW027 16/08 A2989 RMK AO2 SLP110 T01560078 FMMI 271600Z 00000KT 9999 FEW017 14/11 Q1026 NOSIG VTSM 271500Z 27008KT 9999 FEW020CB 30/25 Q1011 A2986 LIRK 271455Z AUTO 30006KT 260V360 //// 17/11 Q1025 KSIK 271555Z AUTO 16007KT 10SM SCT024 SCT029 BKN038 24/21 A2993 RMK AO2 PWINO LIRL 271455Z 21007KT CAVOK 29/11 Q1015 KSJC 271553Z 11006KT 10SM FEW010 16/10 A2997 RMK AO2 SLP148 T01560100 KRRL 271600Z AUTO 14005KT 10SM -RA SCT055 SCT065 OVC090 20/17 A2990 RMK AO2 T01970166 LIRM 271455Z 26005KT CAVOK 28/15 Q1015 KTAD 271554Z AUTO 25014G23KT 10SM BKN070 OVC085 09/06 A2987 RMK AO2 PK WND 27028/1534 RAE33 SLP076 P0001 T00890056 KSHV 271556Z 30008KT 10SM FEW013 SCT055 OVC120 23/21 A2989 RMK AO2 RAB29E46 SLP119 P0000 T02330206 LIQW 270955Z 16006KT CAVOK 25/12 Q1016 VTSP 271530Z 24010KT 9999 FEW020 SCT100 BKN300 29/24 Q1012 A2990 NOSIG LIRN 271550Z 19004KT 150V210 CAVOK 29/07 Q1015 NOSIG VTSR 270900Z 24011KT 9999 BKN025 31/26 Q1007 A2974 LIRP 271545Z 28005KT CAVOK 26/10 Q1015 NOSIG VTSS 271530Z 22003KT 9999 -RA FEW018CB SCT028 BKN100 26/25 Q1011 A2988 NOSIG LIRQ 271550Z 25007KT 210V300 CAVOK 28/15 Q1014 VTST 270900Z 25013KT 9999 FEW020 BKN300 32/24 Q1006 RWY26 INFO L WMAU 271500Z 20005KT 9999 FEW008 BKN140 BKN260 28/27 Q//// QFF1011 LIRS 271455Z 22010KT CAVOK 26/08 Q1015 KSKA 271458Z AUTO 20011KT 10SM BKN075 07/03 A2997 RMK AO2 SLP151 T00720033 51012 LIRT 270255Z 26006KT CAVOK 17/01 Q1019 RMK FEW FEW060 MON INVIS VAL INVIS VIS MIN 9999 VTUD 271500Z 22004KT 170V260 9999 FEW020CB BKN035 28/25 Q1007 KRRT 271554Z AUTO 10007KT 10SM CLR 17/14 A2984 RMK AO2 LIRU 271450Z 24007KT CAVOK 30/04 Q1015 FMMT 271500Z 22012KT 9999 FEW017 BKN033 24/20 Q1019 TEMPO 4000 RA KRSL 271553Z AUTO 14011KT 10SM OVC012 17/16 A2971 RMK AO2 SLP055 T01720156 LIRV 271455Z 21008KT CAVOK 26/05 Q1016 FMNM 271500Z VRB02KT 9999 FEW023 25/20 Q1016 NOSIG KTAN 271552Z AUTO 12009KT 10SM CLR 28/17 A3007 RMK AO2 SLP183 T02830167 TSNO KSJN 271554Z AUTO 33009KT 10SM CLR 17/M02 A3002 RMK AO2 SLP097 T01671017 TSNO KRSN 271535Z AUTO 00000KT 10SM -RA SCT006 SCT021 BKN034 23/22 A2993 RMK AO2 LTG DSNT SW P0001 T02270215 FMNN 271500Z 21002KT 9999 FEW020 25/21 Q1016 LIRX 271455Z 18008KT CAVOK 21/09 Q1015 RMK BKN FEW080 BKN200 VIS MIN 9999 VIS MAR 20 KM KSKF 271543Z AUTO 16009KT 9SM FEW021 SCT032 29/24 A2973 RMK AO2 $ VTUI 271530Z AUTO 14003KT 100V180 9999 FEW051/// BKN190/// 27/25 Q1008 A2978 KSIY 271553Z AUTO 33005KT 10SM CLR 12/03 A3016 RMK AO2 SLP215 T01220033 TSNO LIRZ 271450Z 22006KT CAVOK 30/11 Q1015 VTUK 271500Z VRB02KT 9999 SCT030 28/24 Q1007 NOSIG KSJS 271535Z AUTO 20003KT 10SM CLR 27/19 A3011 RMK AO2 T02710192 VTUL 270900Z 03005KT 340V080 9999 FEW030CB SCT033 35/24 Q1002 KSJT 271551Z 23006KT 10SM CLR 26/18 A2980 RMK AO2 SLP072 T02560178 KRST 271554Z 04009KT 10SM FEW011 BKN023 OVC060 18/16 A2982 RMK AO2 SLP096 T01830161 KSLB 271555Z AUTO 14005KT 10SM FEW014 19/16 A2978 RMK AO2 KTCC 271553Z AUTO 18003KT 10SM CLR 17/03 A2984 RMK AO2 SLP062 T01720033 KSLC 271554Z VRB04KT 10SM FEW075 SCT150 SCT240 18/04 A2997 RMK AO2 SLP112 CB DSNT SE AND SW TCU DSNT S T01780044 VTUO 270800Z VRB06KT 6000 FEW018CB BKN020 30/26 Q1005 A2970 INFO I RWY 22 KRSV 271555Z AUTO 18009KT 10SM SCT041 SCT050 SCT090 25/20 A2997 RMK AO2 T02450199 KRSW 271553Z 10010KT 10SM SCT050 BKN060 30/16 A3001 RMK AO2 SLP160 T03000161 KRTN 271553Z AUTO 00000KT 10SM SCT070 SCT085 10/03 A2991 RMK AO2 RAB05E17 SLP078 P0000 T01000028 KRUE 271053Z AUTO 10006KT 10SM CLR 21/20 A2978 RMK AO2 SLP076 T02110200 KSLE 271556Z 00000KT 10SM FEW020 OVC050 12/07 A3022 RMK AO2 SLP233 T01220067 KTBN 271553Z AUTO 16008KT 10SM BKN015 OVC021 23/19 A2981 RMK AO2 KSJX 271555Z AUTO 27004KT 10SM CLR 24/17 A2995 RMK AO2 T02370170 VVCR 271530Z 31003KT 9999 -RA FEW015 BKN050 28/26 Q1010 NOSIG GCXO 271530Z VRB01KT 9999 FEW020 SCT030 BKN043 18/13 Q1020 NOSIG KSLG 271555Z AUTO 18010G14KT 10SM BKN120 21/15 A2979 RMK AO1 KRUG 271535Z AUTO 32005KT 10SM BKN014 OVC021 14/12 A2982 RMK AO2 KSLH 271555Z AUTO 06006KT 10SM CLR 16/14 A2996 RMK AO2 T01680147 KTAZ 271535Z AUTO 15014KT 10SM -DZ SCT011 SCT065 BKN090 21/19 A2991 RMK AO2 T02060190 VVCT 271400Z 15003KT 8000 -RA FEW013 BKN040 25/25 Q1010 NOSIG KSLI 271458Z 19003KT 10SM OVC019 17/13 A2995 RMK AO2A SLP145 T01730127 50003 KTBR 271535Z AUTO 14005KT 10SM CLR 28/15 A3014 RMK AO2 T02830153 VTUU 271500Z 14004KT 8000 -RA SCT023 26/25 Q1009 A2980 TEMPO 9000 -RA KRTS 271555Z AUTO 32003KT 10SM CLR 14/00 A3008 RMK AO2 LJLJ 271530Z 26010KT 200V290 9999 FEW050 SCT250 27/12 Q1015 NOSIG VTUV 271400Z 09004KT 6000 FSCT22 BKN100 27/25 Q1007 A2973 INFO O RWY 36 KSLK 271551Z AUTO 23011G17KT 10SM FEW041 27/14 A3001 RMK AO2 SLP155 T02720144 LJMB 271530Z 18010KT CAVOK 28/13 Q1014 VTUW 271530Z AUTO 15007KT 9999 FEW007/// SCT041/// BKN047/// 26/25 Q1009 A2980 VVDN 271530Z 23004KT 8000 FEW015 SCT060 29/26 Q1008 NOSIG KTCL 271553Z VRB05KT 9SM CLR 28/18 A3004 RMK AO2 SLP171 T02780183 LIVD 271455Z 27003KT 9999 FEW040 23/13 Q1018 RMK BKN BKN200 VIS MIN 9999 KTCM 271553Z AUTO 23010KT 10SM BKN024 12/06 A3016 RMK AO2 BKN V SCT CHINO RWY34 $ LIVE 271455Z /////KT 9999 SCT025 17/10 Q1018 RMK SCT VIS MIN 9999 KSLN 271553Z 11008KT 10SM FEW023 OVC060 21/16 A2973 RMK AO2 SLP059 T02060156 KSME 271535Z AUTO 16005KT 10SM CLR 25/18 A3011 RMK AO2 KTDF 271550Z AUTO 24005KT 10SM CLR 26/16 A3017 RMK AO2 KSMF 271553Z 00000KT 10SM CLR 19/11 A2994 RMK AO2 SLP138 T01890106 KSKX 271555Z AUTO 00000KT 10SM CLR 09/M01 A2998 RMK AO1 KSLO 271555Z AUTO 15004KT 4SM +RA SCT050 BKN065 OVC085 20/19 A2996 RMK AO2 P0003 T02020190 KTBX 271555Z AUTO 17006KT CLR 08/03 A3008 RMK AO2 PWINO KRUQ 271550Z AUTO 26005KT 10SM CLR 26/16 A3015 RMK AO2 T02640158 KSLR 271555Z AUTO 17009KT 7SM RA SCT006 SCT041 OVC110 20/20 A2988 RMK AO2 LTG DSNT S AND SW P0006 T02030198 KTCS 271553Z AUTO 32010G19KT 10SM CLR 20/M03 A2996 RMK AO2 SLP079 T02001028 TSNO KSNA 271553Z 21005KT 10SM FEW015 OVC018 17/12 A2996 RMK AO2 SLP144 T01670122 KTEB 271551Z 19008KT 9SM CLR 29/17 A3004 RMK AO2 SLP172 T02890167 $ EVRA 271550Z 03007KT 360V070 CAVOK 20/08 Q1020 NOSIG KRUT 271556Z AUTO 21012KT 10SM FEW055 BKN070 29/17 A3002 RMK AO2 SLP171 T02940167 KSNC 271555Z AUTO 16008KT 140V200 10SM FEW036 FEW048 SCT085 26/18 A3009 RMK AO2 LIVM 270955Z 09006KT CAVOK 23/19 Q1016 RMK SCT SCT200 QUK 1 QUL 0 VIS MAR 10 KM VIS MIN 9999 LKCV 271500Z 06007KT 020V100 CAVOK 24/13 Q1015 NOSIG RMK BLU BLU KSMN 271555Z AUTO 00000KT 10SM FEW035 FEW075 BKN095 12/04 A2991 RMK AO1 LIVO 271455Z 21004KT CAVOK 25/14 Q1016 RMK BKN SCT070 BKN200 VIS MIN 9999 KSMO 271551Z 00000KT 10SM OVC016 16/12 A2996 RMK AO2 SLP145 T01610122 KRWF 271553Z AUTO 17012KT 10SM -RA OVC100 19/14 A2978 RMK AO2 RAB27 SLP080 P0000 T01890144 LIVP 271455Z 23015G25KT 9999 FEW015TCU 15/08 Q1022 RMK SCT MON LIB VAL S FOSCHIA SKC SUP VIS MIN 9999 KSMP 271534Z AUTO VRB06KT 10SM SCT008 OVC020 02/M01 A3007 RMK AO2 T00171006 $ KSNH 271555Z AUTO 21012KT 10SM CLR 27/18 A3002 RMK A01 KSMQ 271553Z AUTO VRB04KT 7SM CLR 29/20 A3004 RMK AO2 SLP169 T02940200 LIVR 271455Z 10010KT 9999 SCT015 13/05 Q1023 RMK BKN MON CLD SCT VIS MIN 9999 KRWI 271553Z AUTO VRB04KT 10SM CLR 28/18 A3016 RMK AO2 SLP210 T02830178 KTDR 271556Z AUTO 09009KT 10SM FEW037 29/19 A3005 RMK AO2 SLP179 T02880187 TSNO $ KRVS 271553Z 13013G17KT 10SM FEW110 24/18 A2966 RMK AO2 SLP046 T02390183 KSMS 271555Z AUTO VRB04KT 10SM CLR 28/17 A3016 RMK AO2 KSOA 271535Z AUTO VRB05KT 10SM CLR 27/10 A2987 RMK AO2 LIVT 271455Z 00000KT CAVOK 24/16 Q1016 RMK SCT SCT090 QUK 1 QUL 0 VIS MAR 20 KM VIS MIN 9999 KSNK 271555Z AUTO 24008KT 10SM 22/06 A2980 RMK AO2 LTG DSNT E AND SE T02230064 KRWL 271553Z AUTO 26003KT 10SM FEW032 11/02 A3000 RMK AO2 SLP110 T01060017 PWINO KSNL 271535Z AUTO 20010G15KT 10SM CLR 21/17 A2967 RMK AO2 LTG DSNT SE T02050174 FNHU 271500Z 10008KT CAVOK 23/02 Q1025 FMSD 271500Z ///08KT 9999 FEW016 21/17 Q1022 KRXE 271553Z AUTO 20013G19KT 10SM CLR 14/04 A2994 RMK AO2 SLP113 T01390044 KSMX 271551Z 33005KT 6SM HZ OVC010 13/11 A2999 RMK AO2 SLP157 T01330106 KTDZ 271553Z AUTO 23010KT 10SM CLR 27/17 A3001 RMK AO2 SLP156 T02670167 KSPA 271555Z AUTO 22004KT 10SM CLR 26/13 A3016 RMK AO2 KSNS 271553Z 11006KT 9SM OVC013 13/08 A2999 RMK AO2 SLP163 T01280083 KSNT 271551Z AUTO 06003KT 07/02 A3000 RMK AO1 SLP105 P0001 T00670022 KSPB 271553Z AUTO 19003KT 10SM SCT040 OVC060 12/09 A3020 RMK AO2 RAB10E35 SLP227 P0000 T01220089 KSPD 271556Z AUTO 28018G27KT 12/04 A2978 RMK AO1 PK WND 27027/1552 SLP051 T01170039 KRWV 271530Z AUTO 35009G15KT 2SM +RA SCT001 BKN006 OVC018 18/18 A2985 RMK AO2 VSBY 1 1/2V3 KTEW 271553Z AUTO 19005KT 10SM SCT031 SCT042 26/18 A2998 RMK AO2 T02640182 KSPF 271535Z AUTO 34010KT 10SM BKN035 14/07 A2989 RMK AO2 KTEX 271555Z AUTO 13003KT 10SM SCT011 SCT032 SCT075 05/02 A3010 RMK AO2 T00540017 KSNY 271553Z AUTO 03011KT 10SM SCT009 SCT060 11/09 A2985 RMK AO2 RAE33 SLP086 P0002 T01110094 KSPG 271553Z 08006KT 10SM CLR 28/18 A3004 RMK AO2 SLP172 T02780178 KSOP 271556Z AUTO VRB05KT 10SM OVC050 28/17 A3017 RMK AO2 SLP228 T02780172 KTFP 271535Z AUTO 16018G28KT 7SM SCT013 SCT020 BKN034 21/18 A2974 RMK AO2 LTG DSNT NE T02130178 KSPI 271552Z 16013G21KT 10SM -RA BKN013 BKN020 OVC045 22/19 A2987 RMK AO2 RAB05E28B47 SLP112 P0000 T02220194 KTGI 271537Z AUTO 18013G17KT 10SM CLR 24/20 A3012 RMK AO1 KTHA 271555Z AUTO 18008KT 10SM CLR 27/17 A3010 RMK KSPL 271535Z AUTO 17014G18KT 29/26 A2977 RMK AO1 KRYN 271545Z 00000KT 10SM CLR 22/M02 A2996 KSOW 271555Z AUTO 27006G15KT 10SM CLR 14/M03 A3008 RMK AO2 KSQE 271555Z AUTO 14009G20KT 110V180 10SM CLR 27/21 A2995 RMK A01 KSQI 271556Z AUTO 17012G18KT 140V210 10SM CLR 26/18 A2985 RMK AO2 SLP118 T02560183 KSPR 271555Z AUTO 15018KT 9SM FEW028 FEW033 27/22 A2995 RMK A01 KSPS 271552Z AUTO 18017G25KT 10SM CLR 21/16 A2971 RMK AO2 SLP051 T02110161 MBGT 271200Z 13010KT 9999 SCT015 BKN050 27/21 Q1014 FNMA 271400Z 12004KT 9000 NSC 29/22 Q1017 EVVA 271550Z AUTO 36005KT 330V030 CAVOK 14/06 Q1020 KSRB 271555Z AUTO 21009KT 10SM FEW038 SCT047 SCT055 28/19 A3009 RMK KRYT 271353Z AUTO VRB04KT 10SM CLR 26/18 A3009 RMK AO2 SLP175 T02560178 $ KSQL 271547Z 00000KT 10SM FEW010 14/10 A2998 KSRC 271556Z AUTO 18012KT 10SM OVC015 24/22 A2989 RMK AO2 SLP125 T02390222 KRZL 271555Z AUTO 21012KT 10SM CLR 25/20 A2995 RMK AO2 FNKU 271500Z 15015KT CAVOK 22/11 Q1023 KRYV 271555Z AUTO 24005KT 10SM OVC025 23/18 A2987 RMK AO2 T02300182 KSPW 271553Z AUTO 23006KT 10SM BKN017 BKN021 OVC110 19/15 A2977 RMK AO2 RAE07 SLP077 P0000 T01890150 KRYW 271555Z AUTO 05011G15KT 1 3/4SM -RA OVC002 19/18 A2983 RMK AO2 LTG DSNT NE AND E P0001 T01880181 KRZN 271535Z AUTO 22004KT 10SM SCT055 SCT070 OVC080 18/16 A2985 RMK AO2 P0001 T01750155 KTIF 271535Z AUTO 03006KT 10SM OVC034 15/12 A2984 RMK AO2 T01500117 KRYY 271547Z VRB04 10SM BKN050 26/17 A3010 WMKA 271500Z 04001KT 9999 FEW028 BKN260 28/26 Q1011 LJPZ 271530Z VRB02KT CAVOK 24/15 Q1016 WMKB 271500Z 04001KT 6000 FEW025 SCT140 BKN280 28/26 Q1011 NOSIG KRZR 271555Z AUTO 20008KT 10SM CLR 28/19 A3010 RMK A01 WMKC 271500Z 15003KT 5000 -RA FEW010 SCT020 BKN180 25/24 Q1012 WMKD 271500Z 35002KT 9999 FEW024 SCT160 BKN280 26/25 Q1012 NOSIG KTIK 271458Z AUTO 19008KT 10SM FEW170 21/16 A2968 RMK AO2 SLP046 T02050161 55009 $ KRZT 271556Z AUTO 21004KT 10SM CLR 26/16 A3005 RMK AO2 WMKE 271100Z 18010KT 9999 -RA FEW010 FEW017CB SCT020 BKN200 24/24 Q1009 KSSC 271458Z AUTO 20003KT 10SM CLR 26/17 A3013 RMK AO2 SLP202 60000 T02590168 58000 $ GEML 271530Z 28012KT 250V330 9999 FEW025 25/07 Q1015 KTHV 271553Z AUTO 00000KT 10SM BKN041 28/19 A3007 RMK AO2 SLP181 T02780189 FNLU 271600Z 24009KT CAVOK 27/21 Q1011 KW13 271555Z AUTO 28004KT 10SM CLR 27/18 A3014 RMK AO1 T02680175 KSSF 271553Z 16011KT 9SM SCT022 OVC033 29/23 A2972 RMK AO2 SLP053 T02940233 FNMO 271500Z 24013KT CAVOK 25/21 Q1013 WMKI 271500Z 02003KT 9999 FEW030 SCT140 BKN260 27/24 Q1012 RETS KTIP 271535Z AUTO 18015KT 10SM SCT120 25/19 A2994 RMK AO2 T02540192 WMKJ 271500Z 00000KT 9999 FEW023 BKN280 28/26 Q1012 KSRQ 271553Z AUTO 08010KT 10SM FEW047 SCT065 30/14 A3003 RMK AO2 SLP167 T03000144 WMKK 271530Z 04002KT 9999 TS FEW017CB SCT140 BKN280 28/25 Q1011 TEMPO 4000 TSRA KSSI 271553Z AUTO 06008KT 10SM CLR 27/18 A3013 RMK AO2 SLP203 T02670183 KSRR 271535Z AUTO 31012G22KT 10SM 14/M04 A3002 RMK AO2 WMKL 271500Z 00000KT 9999 FEW017CB SCT140 BKN270 28/26 Q1011 WMKM 271500Z 06003KT 9999 FEW017CB SCT140 BKN280 29/25 Q1011 LKKB 271500Z 07004KT 010V120 9999 SCT032 BKN100 22/13 Q1015 NOSIG WMKN 271500Z 00000KT 9999 -RA FEW017CB SCT022 BKN150 25/24 Q1012 KSTC 271553Z 13009KT 10SM -RA FEW055 OVC100 18/16 A2981 RMK AO2 SLP101 P0002 T01780156 KTKC 271554Z AUTO 22008KT 10SM -RA SCT030 BKN044 OVC090 19/14 A2979 RMK AO2 T01920144 KW22 271535Z AUTO RMK AO2 PWINO WMKP 271530Z 00000KT 7000 FEW025 SCT140 BKN270 27/25 Q1011 NOSIG KTIW 271553Z VRB05KT 10SM SCT032 12/06 A3016 RMK AO2 SLP214 T01170061 KSTE 271535Z AUTO 10004KT 10SM OVC090 19/16 A2989 RMK AO2 T01900160 KUBE 271535Z AUTO 36004KT 10SM OVC075 17/15 A2985 RMK AO2 KTIX 271547Z 06016KT 7SM SCT034 BKN047 27/19 A3007 KUAO 271553Z 19006KT 10SM SCT033 BKN045 BKN060 11/09 A3023 RMK AO2 RAE08 SLP235 P0001 T01060089 KSTF 271555Z AUTO 00000KT 10SM CLR 25/21 A3002 RMK AO2 LLBG 271550Z 25010KT 9999 SCT030 23/16 Q1011 NOSIG KTKI 271553Z 16011KT 10SM -RA BKN005 BKN080 OVC110 20/19 A2984 RMK AO2 SLP101 P0004 T02000194 KSTJ 271553Z AUTO 24007KT 7SM FEW011 FEW100 19/17 A2974 RMK AO2 SLP067 T01940167 KSUA 271547Z 06012KT 7SM VCTS BKN025 BKN050 30/21 A3005 KSTK 271550Z AUTO 03013G17KT 10SM SCT010 BKN027 OVC047 12/11 A2982 RMK AO2 P0001 KW29 271550Z AUTO 16010KT 7SM CLR 27/20 A3008 RMK AO2 KSTL 271551Z 16016G22KT 10SM BKN010 BKN070 OVC100 22/19 A2987 RMK AO2 RAE24 SLP105 P0003 T02220194 KW31 271555Z AUTO 18005KT 10SM CLR 27/20 A3012 RMK AO1 T02680198 KSTP 271553Z 12008KT 8SM -RA OVC050 17/16 A2984 RMK AO2 SLP100 P0002 T01720156 KTLH 271553Z 10011G15KT 10SM BKN039 BKN250 29/17 A3007 RMK AO2 SLP181 T02940167 VVNB 271530Z 14005KT 110V200 9999 SCT012 26/25 Q1005 NOSIG KSTS 271553Z 00000KT 7SM CLR 15/09 A2996 RMK AO2 SLP139 T01500094 KTMA 271530Z AUTO 15005KT 10SM CLR 26/16 A3011 RMK AO2 T02620155 KTMB 271553Z 09008G17KT 10SM SCT038 SCT055 30/20 A2999 RMK AO2 SLP155 T03000200 LKKU 271400Z 18006KT 130V220 CAVOK 25/14 Q1015 KSVC 271555Z AUTO 32015G21KT 10SM 18/M04 A3004 RMK AO2 KTKV 271555Z AUTO 10004KT 10SM OVC110 20/14 A2989 RMK AO2 T02010144 LKKV 271530Z VRB05KT 9999 FEW040 21/11 Q1016 KSUN 271547Z 30006KT 10SM SCT080 12/04 A2997 KTME 271555Z AUTO 17017G22KT SCT019 BKN024 BKN040 29/25 A2977 RMK AO2 KW43 271535Z AUTO 24005KT 10SM OVC060 13/07 A2990 RMK AO2 KTKX 271555Z AUTO 17013KT 7SM FEW015 25/22 A2990 RMK AO2 KUDG 271556Z AUTO 00000KT 10SM SCT060 26/17 A3017 RMK AO2 SLP219 T02610167 KUCP 271556Z AUTO 21008KT 10SM BKN034 BKN042 26/18 A3007 RMK AO2 SLP187 T02610178 KSVH 271550Z AUTO 20003KT 10SM CLR 26/19 A3015 RMK AO2 T02550189 KSUS 271554Z 17007G16KT 130V200 10SM BKN011 BKN080 OVC110 22/21 A2985 RMK AO2 RAE1455 SLP099 T02220206 LKNA 271500Z 15005KT 110V200 9999 FEW039 BKN110 22/14 Q1016 NOSIG RMK BLU BLU KSUT 271550Z AUTO 13007KT 10SM CLR 26/16 A3017 RMK AO2 T02630159 KTMK 271555Z AUTO 12003KT 10SM BKN060 12/10 A3024 RMK AO2 KTNB 271535Z AUTO 14005KT 10SM CLR 24/15 A3023 RMK AO2 T02420146 KSUU 271458Z AUTO 25007KT 10SM CLR 17/11 A2993 RMK AO2 SLP142 T01650110 52013 $ KSVN 271458Z AUTO 11009KT 10SM CLR 27/17 A3011 RMK AO2 SLP199 T02700172 50004 $ KSUW 271535Z AUTO 00000KT 10SM OVC004 08/08 A2990 RMK AO2 T00800078 KSUX 271552Z 00000KT 10SM BKN019 OVC028 19/15 A2976 RMK AO2 SLP073 T01940150 KSWF 271545Z VRB04KT 10SM BKN120 26/20 A3007 KUCY 271555Z AUTO 16010KT 10SM CLR 24/22 A2994 RMK VVPB 271530Z VRB01KT 9999 FEW017 SCT150 31/27 Q1007 NOSIG KTOA 271547Z VRB06KT 10SM BKN017 BKN025 18/14 A2997 FNSA 271500Z 12006KT CAVOK 28/09 Q1018 KTOB 271554Z AUTO 10005KT 10SM SCT018 SCT022 BKN048 18/16 A2982 RMK AO2 LKMT 271530Z 34003KT 9999 FEW050TCU 24/12 Q1016 TEMPO SHRA FEW030CB KTOC 271535Z AUTO 23005KT 10SM SCT030 BKN110 24/18 A3017 RMK AO2 T02370179 KW63 271555Z AUTO 16003KT 10SM CLR 27/18 A3013 RMK AO1 KSWO 271553Z 19005KT 10SM CLR 23/18 A2967 RMK AO2 SLP033 T02280183 KTOI 271553Z AUTO 12009KT 10SM CLR 29/18 A3009 RMK AO2 SLP183 T02890178 TSNO KTPA 271553Z 11006KT 10SM BKN047TCU BKN070 28/16 A3006 RMK AO2 SLP178 TCU ALQDS T02830156 KUES 271545Z 18007KT 5SM HZ BKN014 22/19 A2990 LLET 271450Z 34010KT CAVOK 31/08 Q1009 KTOL 271552Z 19004KT 10SM CLR 26/17 A2999 RMK AO2 SLP152 T02610167 KTNU 271535Z AUTO 14008G14KT 120V190 7SM OVC005 19/19 A2975 RMK AO2 PWINO LKPD 271500Z 05003KT 360V080 CAVOK 23/10 Q1015 NOSIG RMK BLU BLU KSWW 271535Z AUTO 21009KT 10SM CLR 24/13 A2981 RMK AO2 LTG DSNT E T02360133 VVPQ 271530Z VRB01KT 9000 -RA SCT015 FEW017CB 28/27 Q1011 NOSIG CB/E/SE KSYF 271555Z AUTO 04011KT 10SM SCT011 SCT016 BKN022 14/11 A2976 RMK AO2 T01430105 KTPF 271555Z AUTO 09005KT 10SM SCT046 30/18 A3006 RMK AO2 FNSO 271500Z 18005KT CAVOK ///// Q1013 KTOP 271553Z 20006KT 10SM FEW110 19/16 A2974 RMK AO2 SLP068 T01940156 KW75 271535Z AUTO 19003KT 10SM CLR 28/21 A3012 RMK AO1 T02750205 KTPH 271556Z AUTO 28012KT 10SM CLR 17/01 A3006 RMK AO2 SLP126 T01720011 KTOR 271553Z AUTO 36009KT 10SM CLR 14/05 A2988 RMK AO2 SLP094 T01440050 TSNO KSYI 271555Z AUTO 17011KT 10SM CLR 29/18 A3008 RMK LLHA 271550Z 25008KT 220V280 9999 FEW030 SCT050 23/16 Q1010 KSXS 271556Z AUTO 11008G13KT 10SM CLR 28/16 A3008 RMK AO2 SLP184 T02840157 KW78 271535Z AUTO 18004KT 10SM CLR 27/20 A3013 RMK AO1 T02720197 KSXT 271556Z AUTO 35005KT 4SM BR OVC002 04/03 A3016 RMK AO2 SLP217 T00440033 FNUB 271500Z 10012KT CAVOK 23/01 Q1026 KTPL 271551Z AUTO 05010KT 10SM -RA BKN007 OVC034 18/17 A2984 RMK AO2 RAB1452 SLP113 P0002 T01830172 KW81 271555Z AUTO 17003KT 10SM CLR 28/20 A3012 RMK AO1 T02780203 FNSU 271500Z 22004KT 9999 FEW013 28/// Q1015 KSYM 271550Z AUTO VRB05KT 10SM CLR 27/19 A3010 RMK AO2 KTQE 271554Z AUTO VRB03KT 10SM BKN029 21/14 A2974 RMK AO2 SLP061 T02110139 KSYN 271556Z AUTO 10003KT 10SM -RA OVC034 18/16 A2981 RMK AO2 P0001 T01800155 KUGN 271555Z 18012KT 10SM -RA BKN012 BKN110 23/20 A2989 RMK AO2 LTG DSNT NE RAB44 SLP113 P0000 T02330200 FNUG 271400Z 21008KT 9999 FEW024 31/18 Q1014 WMSA 271500Z 05001KT 8000 FEW017CB BKN280 28/26 Q1011 KTQH 271555Z AUTO 15010G15KT 10SM CLR 23/18 A2976 RMK AO2 KSYR 271554Z 36004KT 10SM SCT036TCU BKN070 BKN200 28/19 A2999 RMK AO2 SLP148 TCU E AND SE-S T02830194 LKPR 271530Z VRB05KT CAVOK 22/14 Q1015 NOSIG LLIB 271350Z 25009KT 200V310 9999 FEW030 25/09 Q1010 KSZL 271458Z AUTO 18013G20KT 10SM CLR 24/21 A2974 RMK AO2 SLP068 T02350207 50008 $ MBPV 271600Z 00000KT 9999 SCT015 26/24 Q1015 KW96 271555Z AUTO 17004KT 10SM CLR 27/19 A3011 RMK AO1 T02730194 KTRI 271553Z 20003KT 10SM FEW020 SCT100 27/17 A3014 RMK AO2 SLP182 T02720172 MDAB 262200Z 04004KT 9999 SCT018 BKN070 26/25 Q1013 KSZT 271555Z AUTO 23004KT 10SM OVC022 08/07 A2999 RMK AO2 KTRK 271545Z 00000KT 7SM SCT000 04/04 A3013 RMK NOSPECI FG SCT000 KW99 271535Z AUTO 00000KT 10SM CLR 29/19 A3010 RMK AO2 T02890185 KTRL 271553Z AUTO 17010KT 10SM -RA BKN110 19/18 A2987 RMK AO2 SLP109 P0004 T01940183 TSNO KUIL 271553Z AUTO 27008KT 10SM SCT024 BKN033 BKN050 11/07 A3016 RMK AO2 SLP214 T01110067 KTRM 271552Z AUTO 00000KT 10SM CLR 26/10 A2982 RMK AO2 SLP100 T02560100 KVAD 271458Z AUTO 10009KT 050V130 10SM FEW037 27/16 A3009 RMK AO2 SLP190 T02690157 50002 $ KUIN 271554Z AUTO 17011G22KT 10SM BKN011 22/19 A2979 RMK AO2 SLP083 T02220194 KVAF 271555Z AUTO 17025KT 5SM HZ CLR 28/24 A2984 RMK A01 KTTA 271550Z AUTO 21005KT 10SM CLR 27/17 A3015 RMK AO2 T02670171 LKTB 271530Z 12006KT CAVOK 25/15 Q1015 NOSIG KTTD 271553Z 00000KT 10SM FEW023 SCT037 OVC070 13/08 A3021 RMK AO2 SLP231 T01280083 KUKF 271550Z AUTO 00000KT 10SM CLR 26/18 A3020 RMK AO2 KTTF 271553Z AUTO 23005KT 10SM CLR 26/18 A2999 RMK AO2 T02610183 KTSP 271555Z AUTO 32006KT 9SM CLR 17/08 A3004 RMK AO2 KVBG 271553Z AUTO 33011KT 3SM BR OVC004 12/11 A2998 RMK AO2 MDBH 262300Z 13012KT 9999 FEW020CB FEW022 BKN100 28/24 Q1013 CB/NW FOOG 271500Z /////KT 9999 SCT010 28/25 Q1013 VVTS 271530Z VRB02KT 9999 FEW015 BKN040 26/26 Q1011 NOSIG KUKI 271556Z AUTO VRB03KT 10SM CLR 16/08 A2999 RMK AO2 SLP149 T01610078 KVCB 271553Z AUTO 34007KT 10SM CLR 21/12 A2996 RMK AO2 SLP144 T02060122 FOOL 271500Z 18004KT 140V230 9999 FEW011 FEW020TCU BKN026 28/24 Q1012 NOSIG KTTN 271553Z 19009KT 10SM CLR 29/19 A3006 RMK AO2 SLP170 T02890189 FOON 271500Z /////KT 8000 SCT016 29/24 Q1013 KVAY 271554Z AUTO 23007KT 10SM CLR 29/19 A3006 RMK AO2 SLP179 T02890189 TSNO KVBS 271555Z AUTO 19014G23KT 150V210 10SM OVC055 27/25 A2986 RMK A01 KTTS 271458Z AUTO 07011KT 10SM BKN033 28/19 A3005 RMK AO2 SLP180 T02780190 52009 KVBT 271555Z AUTO 18008G18KT 10SM CLR 22/17 A2981 RMK AO1 KUKT 271555Z AUTO 22007KT 10SM FEW039 29/19 A3007 RMK AO1 KTVC 271553Z 04005KT 10SM FEW050 OVC180 25/17 A2991 RMK AO2 SLP125 T02500172 KTUL 271553Z 13019G24KT 10SM FEW020 BKN200 OVC250 23/19 A2965 RMK AO2 SLP031 T02330189 KULM 271554Z AUTO 16007KT 10SM -RA CLR 18/16 A2978 RMK AO2 P0002 KVBW 271555Z AUTO 13004KT 10SM CLR 27/20 A3012 RMK AO2 T02690197 KVDF 271555Z AUTO 07008KT 10SM SCT045 SCT055 SCT070 30/17 A3006 RMK AO2 KTVF 271555Z AUTO 00000KT 10SM BKN110 18/12 A2983 RMK AO1 KTUP 271553Z 15010KT 10SM CLR 27/18 A3001 RMK AO2 SLP158 T02670183 RJAA 271538Z 32003KT 3000 R34L/P1800N R34R/0300V1200D BCFG BR FEW001 14/13 Q1010 RMK 1ST001 A2982 FG ON RWY34R AND RWY16L KTVI 271555Z AUTO 15003KT 10SM SCT040 27/16 A3010 RMK AO2 KVDI 271535Z AUTO 11003KT 10SM CLR 27/15 A3013 RMK AO2 KTUS 271553Z 21003KT 10SM CLR 22/M03 A2997 RMK AO2 SLP108 T02221028 KVCT 271551Z 16023G29KT 7SM SCT021 BKN028 OVC055 29/24 A2976 RMK AO2 PK WND 16029/1550 SLP074 T02940244 KTVK 271535Z AUTO 15007KT 10SM BKN016 BKN023 22/19 A2976 RMK AO2 KTVL 271553Z AUTO 08003KT 10SM CLR 12/04 A3011 RMK AO2 SLP158 T01170044 KVCV 271555Z AUTO 00000KT 10SM CLR 19/03 A2998 RMK AO2 RJAF 270700Z 33009KT 9999 FEW060 SCT/// 22/10 Q1010 LKVO 271400Z 11004KT 060V180 CAVOK 23/12 Q1016 KTWF 271553Z 25014KT 10SM FEW110 13/02 A3000 RMK AO2 SLP129 T01330022 MDCY 262300Z 04006KT 9999 SCT018 BKN070 27/24 Q1014 RJAH 271542Z VRB02KT 4000 BR MIFG FEW001 13/12 Q1009 RMK 2ST001 A2981 VIS SE-SW 2500M RJAI 270539Z 04005G15KT 9999 -SHRA FEW007 BKN010 BKN030 18/14 Q1009 RMK 2ST007 5ST010 7CU030 A2980 KTVR 271553Z AUTO 18012G19KT 10SM FEW027 BKN034 28/21 A2995 RMK AO2 SLP146 T02780211 KUNI 271535Z AUTO 22006KT 10SM CLR 27/19 A3007 RMK AO2 T02650188 RJAK 270441Z 06010KT 7000 FEW008 BKN010 BKN040 18/16 Q1009 RMK 1ST008 5ST010 7SC040 A2981 RJBB 271530Z 04009KT 9999 FEW035 BKN140 BKN/// 21/15 Q1009 NOSIG KX60 271555Z AUTO 06008KT 10SM FEW038 29/17 A3008 RMK AO1 TSNO RJBD 271000Z 33009KT 9999 FEW040 BKN/// 25/16 Q1007 KVEL 271553Z AUTO 18005KT 10SM CLR 16/04 A2998 RMK AO2 SLP108 T01560039 $ RJBE 271200Z 02007KT CAVOK 24/14 Q1009 KTWM 271553Z AUTO 23003KT 10SM -DZ SCT004 BKN090 13/11 A2989 RMK AO2 SABE 271539Z 14010KT 1800 -DZ BR OVC010 13/12 Q1028 KUNO 271553Z AUTO 17011G16KT 10SM BKN012 BKN018 OVC030 23/19 A2986 RMK AO2 SLP100 T02330194 KTVY 271555Z AUTO 33004KT 10SM BKN110 17/04 A2998 RMK AO2 SAAR 271500Z 14007KT 9000 SCT015 OVC020 12/09 Q1027 RJCA 270123Z 26011KT 9999 BKN030 BKN060 18/08 Q1004 RMK 5CU030 7CU060 A2965 KVER 271555Z AUTO 15015G21KT 10SM OVC020 25/22 A2976 RMK AO2 T02500221 RJAT 270735Z 04006KT 4000 -RA BR FEW000 SCT008 BKN010 16/16 Q1011 RMK 2ST000 4ST008 6ST010 A2986 RJCB 271100Z 06003KT 010V110 9999 FEW030 14/M00 Q1005 KVES 271535Z AUTO 21004KT 10SM CLR 26/17 A3003 RMK AO2 RJCC 271530Z 15005KT 9999 FEW040 07/05 Q1007 EYKA 271550Z 06004KT 340V100 CAVOK 22/11 Q1018 KTXK 271553Z 21011KT 10SM BKN041 OVC049 23/19 A2990 RMK AO2 SLP122 T02330194 KUNU 271535Z AUTO 26009KT 10SM -RA SCT015 BKN032 OVC090 20/18 A2990 RMK AO2 T01990175 SACE 271130Z 18006KT 2000 DZBR BKN008 OVC010 18/08 Q1028 RJAW 271500Z 24014KT 9999 FEW010 SCT100 26/24 Q1009 RMK 2CU010 3AC100 A2982 KUNV 271553Z 12004KT 10SM SCT032 27/19 A3008 RJCH 271100Z 28010KT 9999 FEW030 15/01 Q1008 RJCK 271100Z VRB01KT 9999 FEW040 18/03 Q1004 RJBT 270900Z 04004KT 010V070 9999 FEW010 SCT/// 21/15 Q1010 RJDC 271200Z 36005KT 310V030 CAVOK 23/13 Q1009 RJCM 271100Z VRB02KT 9999 FEW050 13/06 Q1004 RJCN 270900Z 06006KT 9999 FEW050 17/13 Q1002 RJCO 270210Z 33018KT 9999 FEW010 SCT050 19/08 Q1005 RMK 1ST010 3CU050 A2970 SADF 271500Z 09007KT 9000 -DZ SCT007 OVC010 13/11 Q1028 SACO 271500Z 18003KT 4000 -DZ BR BKN004 OVC015 11/09 Q1030 KUOX 271555Z AUTO 18011KT 10SM CLR 24/18 A3001 RMK AO2 KTYQ 271535Z AUTO 17007KT 10SM CLR 25/18 A3000 RMK AO2 T02490181 KTYR 271553Z 13004KT 8SM VCTS -RA FEW080 BKN100 OVC120 20/18 A2990 RMK AO2 LTG DSNT SE-SW SLP120 P0007 T02000183 FQCH 271500Z 18008KT 9999 SCT015 20/14 Q1024 RJCT 270435Z 30013G26KT 9999 FEW040 25/08 Q1001 RMK 2CU040 A2956 RJEB 270700Z 29013KT 9999 FEW050 22/02 Q1001 KTYS 271553Z 27005KT 10SM FEW042 SCT250 28/18 A3011 RMK AO2 SLP184 T02780183 FQBR 271500Z /////KT 9999 FEW020 FEW030CB SCT035 23/19 Q1019 RMK CB TO E/S/W RJEC 271100Z 30004KT 9999 FEW040 12/03 Q1007 KVGT 271553Z 30004KT 10SM CLR 24/01 A2990 RMK AO2 SLP120 T02440011 RJCW 270900Z 25015KT 9999 FEW040 14/05 Q1003 KVIH 271553Z AUTO 16016G21KT 10SM SCT015 BKN037 BKN044 23/20 A2982 RMK AO2 SLP087 T02330200 KTZR 271550Z 21006KT 10SM SKC 26/19 A3005 RJDT 271100Z VRB01KT 6000 NSC 20/16 Q1011 MDJB 262300Z 00000KT 9999 FEW016CB SCT018 BKN300 26/22 Q1013 CB W/NW RJFE 270939Z 34007KT 5000 SHRA BR FEW035 BKN040 20/17 Q1010 RMK 2CU035 6CU040 A2985 LLSD 271550Z 25012KT 9999 FEW023 SCT035 23/17 Q1011 RJFF 271530Z VRB02KT 6000 -RA FEW035 BKN045 BKN060 21/18 Q1009 KUSE 271555Z AUTO 25005KT 10SM 26/26 A3000 RMK AO2 RJFG 270900Z 26006KT 230V300 9999 FEW060 SCT090 BKN120 22/19 Q1010 KVJI 271555Z AUTO 00000KT 10SM BKN100 27/16 A3017 RMK AO2 T02730161 RJFK 271200Z 25006KT 6000 -RA FEW040 SCT050 BKN100 19/17 Q1012 KUTA 271555Z AUTO 15013KT 10SM BKN020 OVC027 23/21 A2995 RMK AO2 TSNO KVIS 271556Z AUTO 00000KT 10SM CLR 21/12 A2993 RMK AO2 SLP141 T02060122 KY19 271555Z AUTO 01010KT 10SM FEW014 16/11 A2984 RMK AO2 RJFM 271200Z 22003KT 9999 FEW025 BKN060 BKN090 25/19 Q1009 KWAL 271554Z 19014KT 10SM CLR 26/19 A3013 RMK AO2 SLP201 T02560194 RJFO 271300Z VRB01KT 8000 NSC 23/17 Q1009 KY23 271535Z AUTO 04003KT 10SM OVC100 18/15 A2985 RMK AO2 T01760151 RJGG 271530Z 17011KT 9999 FEW010 BKN/// 20/17 Q1010 NOSIG SAEZ 271500Z 14008KT 1200 R11/1200N -DZ BR BKN006 OVC016 13/12 Q1029 RJFR 271500Z 22003KT 8000 -RA FEW030 BKN050 BKN070 22/19 Q1009 RJFS 271500Z 28003KT 5000 -RA BR FEW035 SCT045 BKN050 21/18 Q1009 RJFT 271200Z 20006KT 7000 -RA FEW040 BKN050 22/17 Q1011 RJFU 271200Z 23008KT 5000 -RA BR FEW030 SCT040 BKN070 21/19 Q1010 EYPA 271550Z 04005KT CAVOK 17/12 Q1019 KVLD 271553Z 09009KT 10SM SCT060 27/15 A3010 RMK AO2 SLP199 T02720150 RJFY 271202Z 28007KT 9999 -RA FEW008 OVC040 20/18 Q1011 RMK 1ST008 8SC040 A2986 KVKS 271555Z AUTO 18009G19KT 10SM SCT025 BKN032 BKN043 28/22 A2995 RMK A01 KUTS 271553Z AUTO VRB04KT 3SM -RA BR BKN007 OVC011 19/18 A2983 RMK AO2 LTG DSNT ALQDS TSE05 CIG 004V010 PRESFR SLP097 P0021 T01940183 KUVA 271555Z AUTO 04003KT 10SM SCT024 27/21 A2977 RMK AO2 T02710214 KVLL 271555Z AUTO 23004KT 10SM SCT035 SCT065 28/18 A3000 RMK AO2 T02810175 GGOV 271500Z 24010KT 9999 FEW014 33/21 Q1012 NOSIG KVKY 271555Z AUTO 14010G18KT 110V200 10SM CLR 28/20 A3001 RMK A01 KWDG 271550Z 27004KT 10SM BKN150 25/17 A2966 SBAA 271530Z 07006KT 9999 BKN025 34/22 Q1015 MDLR 270300Z 00000KT 9999 ST016 BKN300 25/22 Q1015 KY50 271556Z AUTO 09008KT 10SM FEW060 SCT095 21/18 A2987 RMK AO2 LTG DSNT SE RAE39 SLP134 P0006 T02110178 KY49 271555Z AUTO 08006KT 10SM SCT075 OVC100 17/12 A2983 RMK AO2 T01670124 LMML 271545Z 16015KT CAVOK 24/16 Q1016 NOSIG KUUU 271553Z AUTO 18008KT 10SM CLR 20/16 A3011 RMK AO2 SLP195 T02000156 KY51 271555Z AUTO 15012KT 10SM SCT022 BKN060 22/17 A2983 RMK AO1 T02170166 SBAF 271500Z 23008KT 8000 FEW020 25/18 Q1020 RJKA 271000Z 34003KT 9999 FEW020 BKN/// 26/23 Q1010 KWDR 271535Z AUTO 00000KT 10SM OVC050 25/17 A3018 RMK AO1 KVOA 271555Z AUTO 11019KT 10SM CLR 30/21 A3000 RMK A01 EYSA 271550Z 10007KT 070V130 9999 FEW045 20/10 Q1020 BLU NOSIG SBAN 271500Z 35003KT 9999 SCT030 27/12 Q1023 SBBE 271600Z 11005KT 9999 SCT027 31/24 Q1012 KY63 271555Z AUTO 03007KT 010V070 10SM OVC065 19/12 A2978 RMK AO2 T01900117 SBBG 262145Z 16004KT 9999 BKN009 12/12 Q1021 FQIN 271300Z 00000KT 9999 BKN020 BKN025 20/18 Q1022 SBBH 271500Z 21003KT 9999 SCT035 25/11 Q1021 SBBI 271500Z 10002KT 9000 FEW008 BKN010 OVC070 16/14 Q1023 SBAR 271600Z 17007KT 9999 SCT020 28/22 Q1015 SBCA 271400Z 30006KT 9999 SCT004 BKN007 BKN020 17/15 Q1022 SBAT 271400Z 05006KT CAVOK 34/22 Q1016 SBCB 271500Z 07005KT 9999 FEW020 30/16 Q1020 SBCC 271400Z 08009KT 9999 SCT035 29/21 Q1018 KVOK 271458Z 12009KT 10SM BKN070 BKN130 20/20 A2985 RMK AO2A SLP109 60002 55012 KY70 271557Z AUTO 15005KT 10SM SCT026 SCT031 26/19 A2995 RMK AO2 T02640188 KVPC 271553Z AUTO 12005KT 10SM SCT080 26/18 A3013 RMK AO2 SLP189 T02610178 MDPC 271000Z 00000KT 9999 FEW018 BKN070 26/24 Q1013 KUXL 271555Z AUTO 13018G26KT 10SM SCT026 28/23 A2987 RMK AO2 LTG DSNT NW T02790228 PWINO SBAX 271500Z 16003KT 9999 FEW020 25/13 Q1023 SBCF 271600Z 32003KT 9999 BKN035 23/10 Q1021 KUYF 271555Z AUTO 24004G16KT 10SM CLR 28/18 A3004 RMK AO2 SBCG 271600Z 09009KT 9999 SCT030 21/18 Q1019 SBCH 271400Z 13004KT 5000 1200NE BCFG BR FEW003 SCT010 BKN090 17/16 Q1021 SBBQ 271500Z 08003KT 9999 BKN025 21/14 Q1025 KVNY 271551Z 00000KT 10SM SCT011 16/12 A2996 RMK AO2 SLP139 T01610117 SBCI 271500Z 10003KT 9999 FEW025 36/22 Q1014 SBBR 271600Z 01004KT 9999 FEW040 27/03 Q1021 SBCJ 271600Z 09006KT 3000 -RA BR SCT006 OVC080 20/19 Q1018 KUZA 271554Z AUTO 22009KT 10SM CLR 27/16 A3017 RMK AO2 SLP204 T02670156 SBBU 271500Z 10003KT 8000 NSC 25/20 Q1021 SBCM 271500Z 15005KT 9999 BKN025 17/14 Q1022 FPST 271400Z 16018KT 9999 FEW020 BKN040 28/24 Q1013 NOSIG SBBV 271600Z 20004KT 9999 BKN030 FEW035TCU BKN070 30/22 Q1012 SBBW 271500Z 21008KT 9999 FEW025 31/17 Q1018 FQLC 271600Z 27002KT 9999 SCT015 17/14 Q1024 SAME 271500Z 00000KT 4000 BR OVC004 08/08 Q1027 SBCO 271500Z 22004KT 9999 OVC018 16/11 Q1023 SBCP 271500Z 34006KT 9999 SCT020 29/17 Q1018 MDPP 270600Z 00000KT 9999 SCT018 BKN070 25/23 Q1013 SBCR 271600Z 30006KT 9999 BKN009 BKN100 21/19 Q1018 KVPS 271555Z 15009KT 10SM FEW040 SCT220 28/19 A3004 RMK AO2A SLP178 T02790188 $ SBCT 271600Z 08004KT 9999 BKN009 OVC030 16/14 Q1023 SANC 270925Z 18004KT 1000 RADZ OVC005 11/10 Q1024 KVRB 271553Z 05014KT 10SM FEW022 SCT070 BKN080 28/20 A3005 RMK AO2 SLP174 T02830200 FQMA 271600Z 12003KT 9999 BKN025 21/17 Q1024 NOSIG SAMM 271225Z 36008KT 1000 FG OVC015 04/04 Q1026 SBDN 271500Z 13005KT 9999 -RA SCT008 BKN046 OVC080 18/17 Q1020 SBCX 271530Z 18002KT 0400 FG VV001 13/13 Q1023 RJNG 271528Z VRB03KT 9999 -SHRA FEW015 BKN020 21/18 Q1010 RMK 1CU015 6CU020 A2983 SBCY 271600Z 18008KT 9999 SCT020 30/18 Q1016 SBEG 271600Z 10012KT 9999 FEW020 31/23 Q1013 KWHP 271453Z 00000KT 10SM SKC 14/10 A2998 SBCZ 271500Z 09002KT 9999 FEW015 BKN100 28/24 Q1015 KVQQ 271550Z 09010KT 10SM BKN030 27/18 A3010 KVPZ 271556Z AUTO 20013G18KT 10SM CLR 25/18 A2996 RMK AO2 SLP139 T02500178 RJOA 271200Z 32003KT 9999 FEW030 BKN170 BKN/// 22/13 Q1010 SBEK 271500Z 04004KT 9999 SCT020 31/26 Q1015 RJNK 271500Z 17003KT 8000 SCT180 BKN/// 18/15 Q1010 RJOB 271200Z VRB02KT CAVOK 21/13 Q1010 EYVI 271550Z 08006KT 050V120 CAVOK 22/09 Q1018 NOSIG SAOC 271500Z 09005KT 6000 BR OVC008 11/08 Q1028 RJOC 271100Z 09008KT 9999 FEW050 BKN180 21/16 Q1010 KVQT 271555Z AUTO 16021KT 10SM SCT026 BKN034 29/22 A2994 RMK A01 RJOE 270325Z 30014KT 9999 FEW020 SCT140 26/13 Q1007 RMK 1CU020 4AC140 A2974 MDSD 271515Z 8000 VCSH FEW010CB BKN012 OVC070 26/25 Q1014 RERA CB/SE/S/SW RJOF 271218Z 34005KT 9999 -RA FEW030 SCT080 BKN100 23/14 Q1009 RMK 1CU030 4AC080 7AS100 A2981 KVSF 271554Z AUTO VRB04KT 10SM CLR 24/14 A3006 RMK AO2 SLP177 T02440144 TSNO KWJF 271556Z 00000KT 10SM CLR 22/06 A2995 RMK AO2 SLP129 T02220056 RJOH 271500Z VRB01KT 6000 FEW150 BKN180 BKN/// 19/16 Q1009 RJOI 271555Z 00000KT 8000 BR FEW030 SCT080 OVC120 23/18 A2979 RMK SLP088 T02280183 SBFI 271600Z 19002KT 9999 FEW005 BKN009 BKN027 19/17 Q1019 SBES 271500Z 16009KT 9999 FEW027 SCT034 25/17 Q1019 RJNS 271200Z VRB02KT 9999 -RA FEW000 BKN035 18/18 Q1010 RJOK 271100Z 24002KT 9999 FEW015 SCT150 BKN/// 23/19 Q1009 RJNT 271200Z 35004KT CAVOK 19/14 Q1011 KVTA 271554Z AUTO 21009KT 10SM CLR 28/17 A3005 RMK AO2 SLP168 T02780167 SANT 271500Z 00000KT 3000 -DZBR SCT008 OVC018 11/10 Q1027 SBFL 271500Z 00000KT 9999 FEW016 BKN090 19/16 Q1021 RJOM 271200Z 14003KT 6000 FEW030 BKN140 22/15 Q1009 SBFN 271600Z 17009KT 9999 FEW019 SCT023 29/24 Q1014 RJNW 271000Z 32003KT 8000 FEW020 BKN/// 17/16 Q1011 LOAN 271500Z 18006KT 12KM -SHRA VCTS FEW030CU FEW035CB SCT040SC BKN060SC RERAGS RMK TS E/BKN RJOO 271100Z 33010KT 310V020 CAVOK 23/11 Q1009 RJOP 262049Z 01011KT 9999 FEW004 SCT008 BKN110 20/20 Q1008 RMK 1ST004 4ST008 7AC110 A2977 RJNY 271233Z VRB02KT 9999 FEW020 SCT030 BKN040 19/16 Q1010 RMK 1CU020 3CU030 6SC040 A2983 RJOR 271200Z 19003KT 6000 NSC 19/17 Q1010 FQNP 271600Z /////KT 9999 SCT020 BKN100 24/15 Q1019 RJOS 270025Z 36011KT 9999 FEW015 SCT030 BKN060 23/18 Q1010 RMK 1CU015 4CU030 5SC060 A2983 SBFS 271400Z /////KT 9999 FEW020 ///// Q//// KVTI 271555Z AUTO 15008KT 10SM OVC016 22/17 A2978 RMK AO2 T02160171 RJOT 271200Z 14006KT CAVOK 20/16 Q1010 VYMD 271330Z 16008KT 6000 FEW025 33/21 Q1001 MDST 271000Z 00000KT 9999 FEW017CB SCT019 BKN070 23/23 Q1013 CB/NW SBGL 271600Z 15009KT 9999 SCT027 24/16 Q1019 SBGM 271400Z 12009KT CAVOK 30/23 Q1016 LOAV 271500Z 18002KT 9000 TSRA SCT040CU FEW040CB BKN300CI 21/17 RMK TS SE/BKN RJOW 271000Z 33003KT 290V360 3500 BR FEW010 SCT140 BKN/// 20/20 Q1010 KWLD 271554Z AUTO 10009KT 10SM FEW011 22/18 A2969 RMK AO2 SLP042 T02170183 KVTN 271552Z AUTO 33005KT 10SM -RA FEW032 OVC075 14/12 A2984 RMK AO2 SLP101 P0001 T01390122 SBGO 271500Z 03004KT 9999 FEW035 28/11 Q1020 RJOY 271000Z 35009KT CAVOK 26/08 Q1008 SBFZ 271600Z 09012KT 9999 FEW030 30/22 Q1013 KVTP 271553Z AUTO 1/4SM -SN OVC001 01/00 A3001 RMK AO2 KXBP 271555Z AUTO 17009KT 10SM CLR 18/17 A2978 RMK AO2 LTG DSNT E THRU S T01800171 SBGR 271500Z 06006KT 4500 BR OVC008 17/16 Q1023 KVUJ 271550Z AUTO 20003KT 10SM CLR 27/17 A3020 RMK AO2 T02700166 SBIC 271400Z 09005KT 9999 FEW020 30/26 Q1015 SARC 271500Z 18008KT 9999 SCT012 SCT100 18/13 Q1022 KWMC 271556Z AUTO 31008KT 10SM CLR 15/M01 A3003 RMK AO2 SLP143 T01501006 SBGW 271514Z VRB03KT 5000 HZ SCT014 21/15 Q1022 SARE 271500Z 18009KT 120V240 9999 BKN020 BKN100 18/14 Q1022 SARF 271500Z 18010KT 9999 OVC012 18/16 Q1021 KVUO 271553Z AUTO 00000KT 10SM OVC060 12/07 A3022 RMK AO2 SLP232 T01220067 SBIH 271400Z 03003KT 8000 -RA FEW008 SCT010 FEW020TCU 26/25 Q1015 KVVG 271535Z AUTO 8SM 27/18 A2999 RMK A01 SARI 271500Z 18003KT 9999 SCT009 BKN015 OVC100 20/18 Q1021 RJSA 271200Z 23005KT 9999 FEW040 09/07 Q1010 SASA 271500Z 36004KT 5000 -DZ SCT006 BKN013 OVC100 10/09 Q1026 SBHT 271500Z 12002KT 9999 FEW015 BKN080 27/24 Q1014 RKJB 271500Z AUTO 20003KT 1700 NCD 19/19 Q1011 SBIL 271400Z 10009KT CAVOK 27/17 Q1018 SARL 271500Z 14013KT 9999 BKN012 OVC100 14/11 Q1023 RJSC 271000Z 02008KT 9999 FEW040 SCT/// 18/12 Q1010 FQQL 271600Z 16007KT 9999 SCT020 SCT100 24/18 Q1019 SBJF 271500Z 21008KT 9999 SCT012 BKN015 22/17 Q1023 RJSF 271100Z 36005KT CAVOK 16/13 Q1010 SBIP 271400Z 02009KT 9999 SCT025 24/17 Q1020 SARP 271500Z 14007KT 9999 FEW025 SCT040 OVC060 19/15 Q1020 REDZ RJSH 270519Z 32008KT 260V010 9999 FEW040 BKN200 25/14 Q1006 RMK 2CU040 A2971 RJSI 271000Z VRB02KT 9999 FEW030 SCT/// 18/10 Q1009 SCBA 271500Z 11014KT 9999 SCT030 BKN080 03/M01 Q1025 SASJ 271500Z 18006KT 2000 DZ BR SCT005 OVC040 11/10 Q1026 RKJK 271558Z AUTO VRB06KT 10SM SCT070 SCT180 19/13 A2984 RMK AO2 SLP109 T01900125 $ RJSK 271200Z 08003KT 8000 FEW001 SCT/// 15/12 Q1010 RJTC 270234Z 07008KT 040V100 9999 -SHRA FEW010 SCT025 BKN050 21/15 Q1008 RMK 1ST010 3SC025 5SC050 A2979 HAAB 271400Z 15002KT 9999 BKN024 SCT080 21/12 Q1027 RJTE 270503Z 07015G25KT 9999 FEW006 BKN045 19/14 Q1007 RMK 1ST006 7SC045 A2976 RJSN 271200Z 03004KT 9000 NSC 18/16 Q1010 KVVV 271554Z AUTO 30003KT 10SM -RA SCT017 SCT060 19/13 A2976 RMK AO2 RJSO 270148Z 29010KT 230V350 9999 FEW020 BKN035 BKN200 19/14 Q1006 RMK 2CU020 5CU035 A2973 RJTF 270800Z 05005KT 320V100 9999 FEW015 BKN100 20/16 Q1009 SBKG 271400Z 13006KT 080V200 9999 BKN025 26/20 Q1018 SBJP 271500Z 15008KT 120V210 9999 BKN030 BKN070 28/21 Q1015 SCAP 271500Z /////KT 9999 BKN036 10/02 Q1030 SBIZ 271400Z 13003KT 9999 BKN020 SCT080 31/25 Q1015 SBJR 271500Z 20004KT 9999 FEW025 26/19 Q1020 RJSR 271000Z 30003KT 8000 FEW010 SCT/// 16/16 Q1010 SCAR 271500Z 03004KT 9999 OVC021 18/12 Q1016 SCAS 271500Z 00000KT CAVOK 08/02 Q1024 RJSS 271200Z VRB01KT 9999 FEW030 BKN/// 17/15 Q1009 SBLB 271400Z 25006KT 9999 FEW010 SCT030 BKN080 23/18 Q1019 W///S2 RJTK 270505Z 07012KT 8000 -SHRA FEW008 BKN015 BKN050 18/15 Q1008 RMK 1ST008 5CU015 7SC050 A2979 SCAT 271500Z 33005KT 300V360 7000 SCT015 OVC100 15/11 Q1017 SCCC 271500Z 12004KT 9999 FEW020 OVC033 04/M00 Q1028 RJTL 271502Z VRB02KT 5000 BR FEW015 15/14 Q1010 RMK 1CU015 A2983 SBJU 271400Z 14007KT 9999 FEW020 32/19 Q1019 SBJV 271420Z 10003KT 4000 -RA BR FEW007 BKN020 OVC030 17/16 Q1022 KVWU 271555Z AUTO 11004KT 10SM CLR 23/13 A2982 RMK AO2 SBLE 271500Z 19004KT 9999 SCT040 30/17 Q1020 RJTO 270800Z 05015KT 9999 FEW010 BKN070 BKN130 19/16 Q1008 SCCF 271500Z 26004KT CAVOK 18/M11 Q1026 RJSY 271200Z VRB02KT 4500 BR FEW005 SCT/// 16/14 Q1010 SBKP 271500Z 18003KT 8000 NSC 22/15 Q1021 SCCH 271500Z 06003KT 0800 FG OVC002 10/09 Q1017 RJTR 270228Z AUTO 06009G18KT 020V090 4SM BR SCT009 OVC043 19/18 A2978 RMK AO2 $ SCCI 271500Z 25003KT 9999 SCT015 M00/M02 Q1023 NOSIG SBMA 271500Z 36003KT 9999 BKN023 FEW025TCU BKN100 34/25 Q1015 SCDA 271500Z 23005KT 9999 BKN028 18/11 Q1016 RJTT 271530Z 04005KT 9999 FEW015 SCT/// 18/16 Q1010 NOSIG RJTU 270730Z 14007KT 9999 FEW020 SCT130 20/15 Q1009 RMK 1CU020 3AC130 A2982 SAVC 271500Z 36009KT 9999 FEW008 SCT030 07/02 Q1032 SBMD 271500Z 20003KT 9999 BKN020 ///// Q1015 SBME 271500Z 17007KT 9999 FEW030 28/18 Q1019 SBLO 271600Z 36004KT 9999 FEW020 20/15 Q1021 SBLP 271400Z 28003KT CAVOK 31/15 Q1019 SBMG 271500Z 30006KT 9999 SCT018 SCT040 21/16 Q1020 RJTY 271458Z AUTO 00000KT 6SM BR CLR 15/14 A2988 RMK AO2 SLP119 T01510137 402320150 57007 SBLS 271500Z 14004KT 9999 SCT030 24/13 Q1021 SBMK 271400Z VRB05KT 9999 FEW030 26/12 Q1021 KVYS 271530Z AUTO 18016KT 10SM OVC023 24/18 A2989 RMK AO2 T02400184 KWRB 271458Z AUTO 12005KT 10SM CLR 25/17 A3012 RMK AO2 SLP200 T02530174 58001 FQTT 271400Z 14008KT 110V200 9999 SCT020 30/15 Q1018 SAWE 271500Z 34007KT 9999 BR SCT010 BKN018 05/05 Q1026 SBMN 271600Z 13006KT 9999 SCT020 30/24 Q1013 SBNF 271500Z 23004KT 9999 -RA FEW007 SCT030 18/18 Q1021 SBMO 271600Z 29008KT 9999 SCT020 29/22 Q1015 SAWG 271500Z 36007KT CAVOK 05/M01 Q1023 SCCY 271200Z 00000KT 9999 SCT020 OVC025 04/M00 Q1025 SBMQ 271600Z 16006KT 9999 SCT027 34/25 Q1012 SAWH 271500Z 00000KT CAVOK 10/M04 Q1021 LOIH 271500Z 36003KT 35KM FEW050TCU BKN300CI 26/15 Q1014 RMK TCU W BKN KXIH 271555Z AUTO 17020G36KT 9SM BKN050 BKN060 29/24 A2980 RMK A01 SBMS 271400Z 18007KT 9999 FEW030 35/17 Q1014 KWRI 271458Z 19006KT 10SM CLR 29/20 A3004 RMK AO2A SLP171 T02850204 57006 $ SCFA 271500Z 24004KT 9999 FEW020 BKN200 16/10 Q1015 NOSIG SAVT 271030Z 09004KT 1500 BR NSC 01/01 Q1034 SBMT 271400Z 07006KT 4000 HZ BKN010 18/13 Q1023 SCEL 271500Z 25003KT 230V290 4000 HZ BKN160 13/08 Q1017 BECMG 5000 HZ KWRL 271553Z AUTO 25004KT 10SM CLR 14/08 A2991 RMK AO2 SLP114 T01390078 SBMY 271500Z 33004KT 9999 SCT016 SCT100 32/26 Q1015 SBOI 271600Z 36004KT 9999 BKN007 BKN015 27/// Q1014 SBPA 271600Z 17003KT 160V240 9999 OVC017 15/11 Q1023 SBPB 271500Z 04008KT 9999 FEW020 FEW025TCU 34/25 Q1013 SBNT 271600Z 11010KT 9999 SCT030 29/21 Q1013 SBPC 271500Z 34003KT 9999 FEW020 24/14 Q1024 RKPC 271500Z 01001KT 2000 -RA BR FEW008 BKN025 OVC080 17/15 Q1011 NOSIG SCFM 271500Z 06006KT 9999 SCT015 03/01 Q1024 SCGE 271500Z 23003KT 6000 NSC 06/06 Q1018 SBPF 262000Z 00000KT 9999 FEW045 SCT070 OVC100 17/11 Q1019 RKNY 271500Z AUTO 24003KT 3000 NCD 19/12 Q1007 SBPJ 271500Z VRB06KT 9999 FEW040 33/18 Q1016 SAZB 262045Z 14014KT 5000 BR SCT003 OVC008 10/10 Q1031 SBPK 271600Z 29003KT 3000 BR OVC006 17/16 Q1021 LPBJ 271500Z 26016KT 9999 SCT030 BKN045 22/12 Q1015 RKPK 271540Z 20001KT 9000 NSC 21/15 Q1010 NOSIG SCFT 271500Z VRB04KT 9999 SCT046 08/02 Q1024 MGCB 271500Z 00000KT 9999 FEW018 BKN200 24/19 QFE869.8 KWST 271553Z AUTO 13006KT 10SM CLR 19/14 A3011 RMK AO2 SLP197 T01940139 SBPL 271500Z 12006KT 9999 SCT040 29/17 Q1018 SBPP 271500Z 18004KT 9999 SCT015 SCT070 20/15 Q1021 SBPR 271400Z 03004KT 9999 SCT025 23/14 Q1022 LPAZ 271530Z 31016KT 9999 FEW021 19/12 Q1015 SBPS 271600Z 15006KT 080V220 9999 SCT030 26/17 Q1017 SBRB 271600Z 13004KT 9999 SCT020 30/22 Q1015 SCIC 271500Z 18003KT 130V240 5000 HZ OVC020 13/09 Q1017 SBPV 271600Z 17007KT 9999 BKN030 32/26 Q1013 KXLL 271555Z AUTO 24004KT 10SM CLR 28/20 A3007 RMK AO2 SAZM 271500Z 16011KT 9999 BKN015 SCT100 12/08 Q1032 SCIE 271500Z 12003KT CAVOK 14/10 Q1017 SAZN 271500Z 09008KT 5000 REDZBR SCT006 OVC007 07/06 Q1029 SBRF 271600Z 15014KT 9999 FEW025 29/23 Q1014 SCGZ 271500Z 09011KT CAVOK 06/02 Q1022 SCHR 271500Z 00000KT 9999 FEW005 BKN030 03/01 Q1023 SAZR 270930Z 11006KT 0800 FG OVC003 09/09 Q1029 SAZS 271500Z 14005KT 9000 -RA FEW014 SCT025 OVC032 05/02 Q1026 KWVI 271553Z AUTO 00000KT 10SM OVC010 12/09 A3000 RMK AO2 SLP159 T01220094 SBRJ 271500Z 09003KT 9999 FEW025 26/19 Q1019 LPCS 271530Z 18012KT 160V220 9999 FEW009 SCT016 18/15 Q1015 KXNA 271553Z 18012KT 10SM -RA BKN110 22/19 A2980 RMK AO2 RAB47 SLP078 P0000 T02170194 SBSC 271500Z 21006KT 9999 FEW020 25/17 Q1019 FSIA 271500Z 13006KT 9999 SCT016 28/23 Q1012 NOSIG SBQV 271500Z 10008KT 9999 FEW030 23/11 Q1022 KWVL 271556Z AUTO VRB05KT 10SM OVC011 13/11 A3014 RMK AO2 SLP243 T01330106 KWWD 271555Z AUTO 16006KT 10SM CLR A3010 RMK AO1 RKSG 271538Z 26006KT 1 1/2SM R32/4000FT BR BKN160 18/18 A2983 RMK AO2A SBSG 271600Z 18008KT 150V250 9999 SCT042 30/20 Q1013 SCIP 271500Z 17006KT 120V200 9999 BKN020 BKN250 19/14 Q1017 NOSIG SBRP 271500Z VRB04KT CAVOK 26/15 Q1020 SCIR 271500Z 00000KT 9999 FEW030 18/16 Q1019 RKSI 271530Z 25006KT 200V290 3500 BR FEW040 SCT120 BKN180 15/12 Q1010 NOSIG SBTA 271500Z 05003KT 330V120 5000 HZ BKN015 20/16 Q1022 SBSJ 271600Z 34002KT 4000 BR BKN013 BKN020 19/15 Q1022 KXMR 271458Z AUTO 08009G15KT 10SM CLR 28/18 A3005 RMK AO2 DZB1358E02 SLP179 P0000 60000 T02760184 51009 CHINO RWY31 $ SBTC 271400Z 21010KT 9999 FEW020 28/19 Q1019 SBSL 271600Z 16005KT 9999 SCT017 FEW020TCU SCT100 31/22 Q1013 RKSM 271400Z 06001KT 9000 HZ BKN200 20/14 A2983 RMK CIG200 SLP100 8/008 9/007 SBSM 271515Z 11008KT 5000 BR OVC006 14/13 Q1022 SBSN 271500Z 08010KT 9999 SCT017 BKN100 29/25 Q1014 SBTE 271500Z 12005KT 9999 FEW030 SCT100 32/20 Q1014 SBTF 271500Z 07001KT 9999 SCT016 32/25 Q1014 SCJO 271500Z 00000KT 7000 VCFG NSC 06/06 Q1020 RKSO 271458Z 23003KT 5SM HZ BKN170 19/13 A2980 RMK AO2A SLP094 T01920126 402710144 57007 $ SBSP 271600Z 10005KT 8000 BKN017 19/14 Q1023 SBSR 271500Z 12002KT CAVOK 27/14 Q1021 SBUA 271400Z 12001KT 9999 FEW020 SCT080 29/24 Q1013 RKSS 271500Z 33003KT 6000 FEW030 SCT120 BKN180 18/13 Q1010 NOSIG KWWR 271535Z AUTO 27011KT 10SM 18/10 A2976 RMK AO2 SBTK 271400Z 14004KT 9999 FEW015 29/24 Q1016 MGES 271500Z 00000KT CAVOK 25/19 QFE908.8 FEW090 OVC200 SBST 271425Z 31002KT 8000 BKN009 BKN013 20/20 Q1021 HBBA 270800Z 09006KT 9999 FEW010 BKN100 25/21 Q1018 LPFL 271530Z 35008KT 290V030 9999 FEW020 BKN036 16/10 Q1018 SBSV 271600Z 20012KT 9999 SCT017 FEW020TCU SCT070 28/20 Q1016 RKTN 271500Z 01001KT CAVOK 22/14 Q1009 NOSIG SBUF 271400Z 18006KT 9999 SCT019 SCT080 29/18 Q1019 SBUG 271600Z 18006KT 9999 BKN014 BKN087 15/12 Q1023 LPFR 271530Z 23008KT 190V250 9999 FEW018 22/16 Q1016 SBTT 270100Z 07001KT CAVOK 25/23 Q1013 SBTU 271500Z 09003KT 9999 FEW025 SCT080 33/22 Q1016 SBUL 271400Z 04006KT CAVOK 24/13 Q1023 RKTU 271500Z 26003KT 8000 NSC 19/13 Q1009 NOSIG VYYY 271530Z 08003KT 6000 R21/2000N BKN018 FEW020CB OVC100 27/ 26 Q1007 SBVH 271500Z 13006KT 9999 SCT020 29/21 Q1019 SBUR 271500Z 08005KT 9999 SCT035 27/11 Q1021 SCMK 271500Z 05006KT CAVOK 13/09 Q1019 KWYS 271555Z AUTO 03003KT 10SM FEW049 07/04 A3000 RMK AO2 MGGT 271600Z 36006KT 8000 SCT020 SCT090 24/15 Q1024 A3024 HZ KXPY 271555Z AUTO 13013G18KT 10SM SCT022 SCT029 BKN036 27/22 A2998 RMK A01 YABA 271600Z AUTO 36015KT 9999 // NCD 13/06 Q1011 LPHR 271530Z 28012KT 250V330 9999 FEW025 19/10 Q1016 SBVT 271500Z 14009KT 9999 FEW020 26/15 Q1019 KXSA 271555Z AUTO 21006KT 10SM CLR 29/19 A3012 RMK AO2 T02940186 MGHT 271500Z 00000KT 8000 OVC200 20/15 QFE818.1 HZ WSAP 271500Z 16002KT 9999 FEW018 BKN300 30/26 Q1012 KYIP 271553Z 10SM CLR 29/18 A3000 RMK AO2 SLP150 T02940178 SCNT 271500Z 00000KT 0100 FG OVC001 M04/M05 Q1022 SCON 271500Z 04005KT CAVOK 13/08 Q1020 MHAM 271500Z 34004KT 9999 FEW028 BKN080 29/26 LPLA 271500Z /////KT 9999 SCT020 BKN035 19/14 Q1016 MHCA 271500Z 10002KT 9999 SCT028 SCT070 28/23 HZ LQBK 271530Z 09005KT CAVOK 29/11 Q1015 NOSIG KYKM 271553Z 32010KT 10SM CLR 15/M01 A3008 RMK AO2 SLP183 T01501011 KYKN 271555Z AUTO 10004KT 10SM BKN016 18/14 A2975 RMK AO1 SCPQ 271500Z 33003KT CAVOK 11/06 Q1019 MHCH 271500Z 00000KT 9999 FEW004 SCT080 27/25 BR SBYS 271500Z 10002KT CAVOK 25/15 Q1021 LPMA 271530Z 21021KT 9999 FEW016TCU 21/14 Q1015 SCRD 271500Z 18008KT CAVOK 13/10 Q1017 SCRG 271500Z 22003KT 1000 FG SCT100 10/09 Q1017 SCQP 271500Z 34003KT CAVOK 12/07 Q1018 KXVG 271539Z AUTO 00000KT 10SM -RA SCT040 SCT050 OVC080 16/12 A2984 RMK AO2 FSPP 271500Z 20010KT //// //// 28/23 Q1013 SCRM 271400Z 29016KT 4000 BR OVC004 M02/M03 Q1011 MGMM 271500Z 03006KT CAVOK 31/24 Q1012 A2988 FEW070 SCSE 271500Z VRB03KT CAVOK 15/12 Q1016 LOWG 271550Z 11006KT 080V140 9999 FEW070 SCT180 BKN300 26/14 Q1014 NOSIG KYNG 271551Z 21010KT 170V240 10SM FEW039 BKN200 26/17 A3005 RMK AO2 SLP167 T02610172 LOWI 271550Z 33004KT 240V030 9999 VCTS SCT080 FEW080CB BKN300 26/12 Q1012 BECMG NSW SCTB 271500Z 00000KT 5000 HZ BKN100 SCT200 14/06 Q1018 MGMT 271500Z 00000KT CAVOK 33/24 QFE1008.9 OVC200 LOWK 271550Z 21007KT 160V260 9999 FEW060 SCT160 BKN300 26/10 Q1014 NOSIG SEAM 271500Z 00000KT 9999 FEW040 18/12 Q1030 LOWL 271550Z VRB02KT 9999 FEW060 BKN300 27/14 Q1013 NOSIG SCTE 271500Z VRB01KT CAVOK 11/06 Q1020 NOSIG SCSN 271500Z 11004KT 4000 HZ BKN007 14/11 Q1018 SECA 271500Z 36003KT 9999 FEW040 26/15 Q1018 LOWS 271550Z 34010KT 9999 FEW050 FEW060TCU BKN300 26/13 Q1013 NOSIG MGPB 271500Z 36004KT 7000 FEW020 30/25 Q1012 A2988 HZ FEW200 LPPD 271530Z 29014KT 9999 FEW022 16/12 Q1014 SCTN 271500Z VRB01KT CAVOK 14/04 Q1019 LOWW 271550Z 15009KT 9999 FEW055 FEW055CB BKN120 22/14 Q1014 NOSIG LOWZ 271500Z 05008KT 40KM SCT080CU BKN300CI 28/09 Q1013 RMK BKN LOXT 271450Z 07007KT 50KM FEW050CU SCT100AC BKN250CI 25/17 Q1014 RMK BKN SCVD 271519Z 00000KT 7000 BKN001 OVC004 06/06 Q1019 SECO 271500Z 27004KT 9999 SCT026 SCT100 27/24 Q1015 LOXZ 271550Z 06008KT 30KM FEW070CU FEW070TCU BKN140AC 24/13 Q1015 NOSIG RMK TCU AROUND OF AD/BKN LPPR 271530Z 23012KT 200V270 9999 FEW025 FEW030TCU 20/15 Q1014 LPPS 271530Z 28011KT 9999 FEW015 21/14 Q1015 SECU 271500Z 30002KT 9999 FEW040 17/10 Q1028 LPPT 271530Z 21017KT 9999 FEW018 SCT028 19/14 Q1015 SCVM 271600Z 00000KT 5000 2000N BR BKN006 BKN070 13/11 Q1017 YBAF 271530Z AUTO 21005KT 9999 // NCD 13/05 Q1011 MGQZ 271500Z 00000KT 8000 FEW090 OVC200 17/12 QFE773.3 HZ YBAS 271530Z AUTO 15006KT 9999 // SCT105 BKN125 15/03 Q1020 MGSJ 271500Z 00000KT 7000 BKN070 28/25 Q1011 A2985 HZ MGRT 271500Z 00000KT 9999 SCT018 SCT080 BKN090 25/24 Q1014 A2994 VOL. STA. MARIA Y SANTIAGUITO EN ACTIVIDAD YBBN 271530Z 21005KT CAVOK 15/04 Q1011 FM1530 MOD/SEV TURB BLW 5000FT LRBC 271530Z 30005KT 9999 FEW044CB SCT065 19/17 Q1017 YBCG 271530Z AUTO 13004KT 9999 // NCD 10/05 Q1010 YBCK 271600Z AUTO 24003KT //// // ////// 13/12 Q1016 LRAR 271530Z VRB02KT 9999 BKN047 27/14 Q1016 YAMB 271600Z AUTO 27008KT 9999 // NCD 13/03 Q1011 MHLC 271600Z 32006KT 9999 FEW026 31/25 Q1011 A2986 NOSIG LRBM 271530Z 27007KT 240V310 9999 FEW038CB 25/11 Q1016 MHLE 271500Z 00000KT 9999 FEW022 BKN200 22/15 LRBO 271600Z 02010KT 9999 SCT030 BKN090 22/12 Q1016 BLU BLU YBCS 271530Z 00000KT CAVOK 22/22 Q1013 NOSIG SEGS 271500Z 13008KT 9999 BKN016 27/21 Q1014 RMK A2996 LRBS 271530Z 04004KT 010V070 CAVOK 22/14 Q1016 R07/19//95 NOSIG YBCV 271600Z AUTO 00000KT 9999 // NCD 12/07 Q1015 LRCK 271530Z 09004KT 060V120 9999 FEW048 19/15 Q1014 R36/29//95 NOSIG SEGU 271500Z 28003KT 240V320 9999 FEW030 BKN090 28/19 Q1011 NOSIG RMK A2987 MGTU 271500Z 00000KT 9999 SCT020 OVC80 25/24 LRCL 271530Z 35005KT 9999 FEW058 FEW060TCU 25/07 Q1017 MHLM 271600Z 23004KT 9999 SCT028 BKN250 33/25 Q1011 A2986 NOSIG YANG 271600Z AUTO 04005KT 9999 // BKN057 OVC071 OVC090 22/09 Q1018 YBDV 271600Z AUTO 23008KT //// // ////// 14/09 Q1018 LRCT 271600Z 12004KT 9999 SCT040 22/12 Q1017 BLU BLU SEJD 271500Z 01003KT 9999 SCT020 SCT100 26/25 Q1017 RMK A3005 LRCV 271530Z 14006KT 050V160 CAVOK 23/12 Q1016 LQMO 271530Z 15008KT 9999 FEW050 27/15 Q1015 ROAH 271530Z 19005KT 9999 FEW010 27/25 Q1012 BGBW 271550Z 22013KT 9999 FEW046 08/M09 Q1004 YBGD 271530Z AUTO 32006KT 9999 // OVC070 23/17 Q1018 SFAL 271550Z 00000KT 0400 FG VV/// 02/02 Q1033 GMAD 271530Z 26013KT CAVOK 26/09 Q1015 NOSIG MHNO 271500Z 00000KT 9999 FEW040 SCT250 26/20 Q1016 HZ GMAG 271500Z 30012KT CAVOK 28/06 Q1014 NOSIG FTTA 271500Z 00000KT 9999 SCT040 FEW050CB 38/19 Q1010 FTTC 271500Z 36006KT 9999 FEW040 SCT150 41/00 Q1009 FTTD 271500Z 18008KT 9999 TS SCT040TCU FEW050CB SCT140 SCT250 33/20 Q1010 YBHI 271530Z AUTO 29013KT 9999 // NCD 08/07 Q1011 KZPH 271555Z AUTO 06006KT 10SM BKN045 BKN060 28/16 A3007 RMK AO2 T02750155 MGZA 271500Z 00000KT CAVOK 30/23 QFE987.0 OVC200 SEMC 271500Z 11003KT 9999 SCT023 SCT100 24/19 Q1020 FTTJ 271500Z 22010KT 8000 TS FEW040 FEW040CB 35/23 Q1009 NOSIG YBHM 271600Z AUTO 29013KT 9999 // BKN096 25/23 Q1012 MHPL 271500Z 00000KT 9999 SCT028TCU BKN090 30/25 Q1011 TCU ALL HZ GMAT 271500Z 36014KT 9999 SCT020 24/12 Q1017 NOSIG YARG 271530Z AUTO 25004KT 9999 // NCD 27/12 Q1013 LRIA 271530Z 32006KT 9999 FEW050CB 21/15 Q1016 BGGH 271550Z 03006KT 350V070 9999 SCT030 06/M04 Q1011 SELT 271500Z 16004KT 9999 FEW030 15/10 Q1031 RODN 271558Z AUTO 18003KT 10SM CLR 26/26 A2988 RMK AO2 SLP123 T02600260 FVBU 271500Z 12006KT 9999 FEW030 15/11 Q1027 NOSIG FTTY 270900Z 04014KT 6000 SKC 38/17 Q1016 YCBA 271600Z AUTO 26007KT 9999 // SCT026 BKN039 OVC045 09/08 Q1011 YCBB 271600Z AUTO 34009KT //// // ////// 07/05 Q1011 SEMT 271500Z 17006KT 9999 SCT020 28/23 Q1011 RMK A2988 WSSL 271500Z 11002KT 9999 FEW018 BKN350 30/25 Q1012 RMK 1430Z Q1012 LQSA 271530Z 31003KT 230V010 9999 FEW050 28/07 Q1017 NOSIG SENL 271500Z 23005KT 9999 BKN016 26/23 Q1016 YBKE 271600Z AUTO 32008KT //// // ////// 12/07 Q1011 MHSC 271458Z VRB03KT 9999 FEW050 SCT120 BKN200 26/23 A2998 RMK AO2A SLP110 T02590230 52012 RVRNO $ MHRO 271600Z 09010KT 9999 FEW020 31/23 Q1011 A2986 NOSIG YCAR 271600Z AUTO 18010KT 9999 // NCD 19/15 Q1018 YCAS 271600Z AUTO 31006KT //// // ////// 11/04 Q1011 WSSS 271530Z 17004KT 140V240 9999 FEW020 BKN300 30/25 Q1012 NOSIG FVCZ 271200Z 00000KT 9999 SCT020 BKN100 21/15 Q1027 FVFA 271500Z 11008KT CAVOK 22/07 Q1022 NOSIG MHTE 271500Z 04004KT 9999 FEW028 30/25 Q1009 HZ YCBP 271600Z AUTO 22008KT //// // ////// 11/09 Q1019 MHTG 271600Z 36004KT 9999 SCT024TCI BKN080 26/21 Q1018 A3006 NOSIG GMFF 271500Z 31015KT CAVOK 28/13 Q1017 NOSIG YBMA 271600Z AUTO 17010KT 9999 // NCD 19/10 Q1017 YBKT 271600Z AUTO 00000KT //// // ////// 23/23 Q1012 MHSR 271500Z 06002KT 9999 SCT025 BKN250 26/18 HZ YBLN 271600Z AUTO 34017KT //// // ////// 16/14 Q1011 GMFK 271500Z 22019G30KT 9999 SCT030 BKN200 35/M04 Q1018 NOSIG GMFM 271500Z 34010KT CAVOK 27/12 Q1017 NOSIG BGJN 271550Z 22011KT 9999 BKN015 01/M03 Q1009 GMFO 271500Z 35016KT 9999 FEW030 SCT230 29/15 Q1015 NOSIG YBNA 271600Z AUTO 28004KT 9999 // NCD 11/05 Q1010 YBLT 271530Z AUTO 13009KT 9999 // BKN041 BKN120 07/06 Q1007 MHTR 271500Z 35003KT 9999 FEW026 30/24 HZ YBMK 271600Z AUTO 18007KT 9999 // NCD 22/20 Q1012 SERB 271500Z 09005KT 9999 SCT040 16/10 Q1031 FVHA 271500Z 22005KT 9999 FEW040 BKN080 16/09 Q1026 NOSIG YCEE 271600Z AUTO 27015KT //// // ////// 10/08 Q1013 SEQM 271500Z VRB02KT 9999 FEW030 22/08 Q1026 NOSIG RMK A3031 YCDO 271600Z AUTO 27016KT //// // ////// 10/08 Q1008 BGKK 271550Z 06017KT 9999 FEW022 02/M04 Q1001 YCCY 271600Z AUTO 16009KT //// // ////// 20/13 Q1016 ROIG 271100Z 20004KT 9999 FEW015 28/27 Q1011 LQTZ 271530Z 10005KT 080V140 9999 FEW050 27/10 Q1016 SESA 271500Z 21006KT CAVOK 24/20 Q1012 YCDU 271600Z AUTO 21014KT 9999 // SCT040 BKN048 BKN057 13/10 Q1018 YCEM 271600Z AUTO 00000KT //// // ////// 03/02 Q1008 SESD 271500Z 18003KT 5000 BR FEW006 BKN013 BKN100 23/22 Q1013 GLRB 271600Z 22013KT 9999 BKN018 FEW025 CB 30/25 Q1012 RMK CB-NE/E SERO 271500Z 05005KT 9999 OVC016 25/24 Q1011 SESG 271400Z 12006KT 9999 FEW035 36/04 Q1011 YBNS 271530Z AUTO 31009KT 9999 // NCD 05/04 Q1007 YBOK 271530Z AUTO 30006KT 9999 // NCD 07/06 Q1013 YCFL 271600Z AUTO 34003KT //// // ////// 23/23 Q1013 SESM 271500Z 29005KT 2000 -RA SCT003 OVC030 20/20 Q1020 A3014 YAYE 271530Z AUTO 18005KT 9999 // NCD 09/04 Q1021 LROD 271530Z 34006KT 280V020 CAVOK 26/09 Q1016 YCFS 271600Z AUTO 00000KT 9999 // NCD 06/04 Q1009 SGAS 271600Z 21006KT 9999 BKN012 OVC070 18/16 Q1019 SEST 271500Z 14013KT 9999 FEW016 27/22 Q1011 RMK A2985 HEBA 271500Z 30012KT CAVOK 24/16 Q1014 NOSIG FVKB 271200Z 23001KT 9999 FEW040 BKN100 25/13 Q1021 YBPN 271530Z AUTO 32003KT 9999 // BKN098 22/22 Q1012 LSGC 271550Z VRB03KT 9999 FEW045 SCT070 21/10 Q1016 SETN 271500Z 22006KT 9999 BKN016 BKN080 26/24 Q1011 A2986 LROP 271530Z 10003KT 060V130 CAVOK 22/15 Q1016 NOSIG LSGG 271550Z 21008KT 9999 FEW045 BKN120 27/10 Q1013 NOSIG YCHK 271600Z AUTO 05010KT 9999 // NCD 22/09 Q1017 YAYT 271350Z 32006KT CAVOK 39/M03 Q1008 HEAR 271500Z 33009KT 9999 SCT030 25/14 Q1012 NOSIG SETU 271500Z 15010KT 9999 BKN030 15/11 Q1033 HECA 271600Z 32015KT 9999 SCT025 28/09 Q1013 NOSIG HEAT 271500Z 02015KT CAVOK 29/09 Q1012 NOSIG HEAX 271500Z 30011KT CAVOK 24/15 Q1013 NOSIG MHYR 271500Z 27004KT 9999 SCT025TCU 27/20 TCU ALL HZ YBRK 271600Z AUTO 00000KT 9999 // BKN105 20/12 Q1012 YBRL 271600Z AUTO 00000KT //// // ////// 22/18 Q1012 LSGS 271550Z 24012KT 9999 BKN100 26/11 Q1012 YBRM 271600Z AUTO 19006KT 9999 // BKN089 26/22 Q1014 GMMB 271500Z 32011KT 280V360 8000 FEW016 SCT200 26/13 Q1018 NOSIG YCIN 271600Z AUTO 13007KT //// // NCD 26/15 Q1013 FWCL 271500Z 24005KT 9999 FEW028 22/15 Q1022 NOSIG GMMC 271500Z 32012KT CAVOK 23/15 Q1016 NOSIG YBSG 271530Z AUTO 00000KT //// // SCT035 BKN099 BKN125 23/22 Q1013 GMMD 271500Z 28005KT 9999 FEW030BKN230 28/11 Q1017 NOSIG GMME 271530Z 33011KT 300V360 8000 FEW020 22/14 Q1017 NOSIG GMMH 271500Z 01015KT CAVOK 22/17 Q1018 NOSIG GMMI 271500Z 31005KT 8000 NSC 24/09 Q1016 NOSIG LRSB 271530Z 31005KT 9999 FEW050 23/09 Q1017 LTAC 271520Z 36019KT 9999 -TSRA SCT025CB BKN030 15/08 Q1011 BECMG TL1620 VRB02KT NSW SGEN 271600Z 23005KT 9999 BKN020 OVC080 19/16 Q1019 KZZV 271553Z AUTO 21008KT 10SM CLR 28/18 A3006 RMK AO2 SLP170 T02780183 GMML 271500Z 33011KT CAVOK 25/13 Q1018 NOSIG YBRY 271530Z AUTO 08005KT 9999 // BKN073 OVC110 22/10 Q1018 YBTH 271600Z AUTO 36008KT 9999 // SCT043 OVC065 03/03 Q1009 ROMY 271100Z 21005KT 9999 FEW013 FEW020CB 28/26 Q1011 LTAF 271520Z 20003KT 180V320 9999 -TSRA SCT020CB BKN030 20/15 Q1007 BECMG TL1550 NSW GMMN 271530Z 34015KT 9999 FEW016 SCT200 25/13 Q1017 NOSIG LTAG 271520Z 32011KT 9999 -SHRA FEW025CB BKN030 20/12 Q1008 BECMG TL1550 18010KT TEMPO TL1600 -TSRA LTAH 271328Z 30010KT 270V330 8000 -RA FEW020TCU BKN035 12/09 Q1013 RMK RWY13 30011G22KT LTAI 271520Z 13006KT 090V180 9999 FEW020CB BKN030 23/14 Q1009 TEMPO -TSRA RMK RWY18C 14007KT 100V160 RWY36R 11007KT RWY18L 13007KT 100V180 SGES 271600Z 03005KT 340V070 9999 BKN010 BKN027 20/18 Q1019 YBSU 271530Z AUTO 24008KT 9999 // NCD 16/07 Q1010 YBTL 271600Z AUTO 20006KT 9999 // NCD 24/23 Q1011 LTAJ 271520Z 23014KT 9999 SCT040 23/05 Q1007 NOSIG LTBA 271520Z 32015KT 9999 SCT030 19/12 Q1014 NOSIG YBUD 271530Z AUTO 28004KT 9999 // OVC090 19/18 Q1011 LRTC 271530Z AUTO 02008KT 9999 FEW025/// 21/15 Q1015 LTAL 271150Z 15002KT 9999 FEW007 BKN025 BKN070 12/10 Q1013 RESHRA LRSM 271530Z 31004KT 260V350 CAVOK 26/12 Q1016 LTBD 271450Z 29010KT 9999 SCT035 BKN100 24/11 Q1013 FVMV 271200Z 20006KT 9999 BKN028 17/10 Q1026 LTAN 271450Z 34013KT 9999 SCT040 18/02 Q1011 NOSIG LTBF 271450Z 30012KT 9999 SCT035 BKN100 17/12 Q1015 NOSIG GMMW 271500Z 02007KT 320V070 CAVOK 26/09 Q1015 NOSIG LTBG 271201Z 30010KT 9999 -SHRA FEW030CB SCT035 BKN100 18/13 Q1013 TEMPO -TSRA RMK RWY18 31009KT LTAP 271520Z 02008KT 9999 FEW033TCU SCT040 BKN090 17/11 Q1011 NOSIG GMMX 271530Z 29009KT 260V340 9999 FEW026 BKN200 29/12 Q1016 NOSIG BGSF 271550Z AUTO 25010KT 9999NDV - FEW043/// BKN060/// 04/M05 Q1010 LTBH 271450Z 01010KT 310V050 9999 SCT035 BKN100 23/13 Q1015 LTAR 271450Z 13006KT 090V170 9999 FEW030CB BKN035 10/09 Q1013 RESHRA GMMZ 271500Z 21011KT 8000 BKN040 34/M03 Q1017 NOSIG LTAS 271430Z 35009KT 9999 FEW025TCU SCT035 BKN090 18/13 Q1013 RMK RWY18 34008KT 320V020 LTBJ 271520Z 34017KT 9999 SCT035 SCT100 23/11 Q1013 NOSIG LTCA 271450Z 16009KT 120V200 9000 -TSRA FEW020CB SCT030 BKN080 13/12 Q1013 TEMPO -TSRA LTAT 271520Z 36010KT 9999 FEW030CB BKN035 17/12 Q1010 RETSRA TEMPO -TSRA LTCB 271528Z 23005KT 7000 -TSRA FEW015 SCT025CB BKN033 17/16 Q1012 RETSRA RMK RWY10 VRB03KT LTAU 271520Z VRB02KT 9999 FEW027CB BKN035 13/07 Q1013 NOSIG LTCC 271520Z 10014KT 9999 FEW030CB SCT040 BKN100 23/10 Q1006 NOSIG LRSV 271530Z 21005KT 150V260 9999 FEW040CB 17/15 Q1017 LRTM 271530Z 07008KT 9999 SCT033 FEW044CB 22/13 Q1017 LTCD 271536Z 00000KT 6000 SHRA VCTS FEW025CB BKN036 BKN100 12/11 Q1016 TEMPO -TSRA RMK RWY29 22002KT YDBY 271600Z AUTO 19006KT //// // ////// 26/16 Q1013 LTCE 271520Z 08013KT 9999 -SHRA BKN020 BKN070 10/06 Q1018 TEMPO TL1600 -TSRA RMK RWY08R 06013KT RWY26R 08016KT RWY08L 07011KT LTAW 271450Z 03005KT 9999 BKN035 18/11 Q1011 BIBD 271600Z 20015G28KT 9000 RA BR SCT020 OVC025 10/// Q1004 LTBO 271350Z 30011KT 280V340 9999 SCT035 BKN090 15/09 Q1014 LTCF 271450Z 20011KT 9999 FEW020CB BKN030 13/05 Q1019 LTCG 271520Z 29006KT 270V330 9999 BKN013 BKN028 17/16 Q1011 NOSIG LTAY 271538Z 26006KT 9999 BKN030 BKN100 13/12 Q1014 RESHRA RMK RWY06 29005KT LTAZ 271532Z 10013KT 070V160 8000 TSRA FEW020CB BKN030 12/07 Q1012 RMK RWY29 01014G24KT 300V050 LTBQ 271450Z 27008KT 230V290 8000 -SHRA FEW020CB BKN030 BKN080 16/14 Q1014 TEMPO -TSRA LTBR 271520Z 27006KT 9999 SCT030 BKN090 16/13 Q1014 NOSIG LRTR 271530Z VRB01KT CAVOK 27/12 Q1016 LTCI 271450Z 07009KT 040V100 9999 SCT035 BKN070 12/09 Q1018 RESHRA NOSIG LSMA 271550Z AUTO VRB03KT 2600NDV SHRA FEW023 SCT030 OVC082 21/17 Q1014 RMK LTBS 271520Z 33017KT 9999 SCT030 27/06 Q1009 NOSIG LTCJ 271520Z 06011KT 9999 FEW025CB SCT040 BKN100 19/13 Q1009 RETSRA LTDA 271450Z 23018KT 9999 TS SCT025CB SCT030 24/12 Q1007 YCMM 271600Z AUTO 24010KT //// // ////// 12/11 Q1013 LTBT 271240Z 35010KT 320V030 9999 SCT030 BKN090 22/11 Q1013 RESHRA RMK RWY14 35012KT 330V030 LTCK 271415Z 15004KT 090V200 9999 FEW025CB BKN035 BKN070 14/10 Q1016 RESHRA RMK RWY11 16006KT 120V180 BIAR 271500Z 19026G36KT CAVOK 12/04 Q1010 LTBU 271520Z 33011KT 9999 SCT035 18/14 Q1014 LTCL 271450Z 07008KT 040V110 9999 FEW025CB BKN040 23/10 Q1009 LSMD 271550Z AUTO VRB02KT 9999NDV BKN088 BKN100 26/12 Q1013 RMK LTCM 271150Z 36006KT 9999 -SHRA BKN023 BKN080 18/14 Q1012 LSME 271550Z AUTO 34005KT 300V020 9999NDV FEW082 SCT094 26/13 Q1013 RMK BGTL 271558Z AUTO 27003KT 9999 FEW027 OVC039 00/M05 A2991 RMK AO2 UPB15E28 SLP114 P0000 T10051053 FZRANO LTCN 271450Z 29018KT 9999 SCT035 23/12 Q1006 HEGN 271500Z 36025KT 6000 NSC 31/12 Q1008 NOSIG LTCO 271250Z 36004KT 330V060 9999 FEW030TCU SCT035 BKN070 12/07 Q1019 RESHRA LTBY 271450Z 29013KT 8000 FEW025CB BKN033 14/08 Q1014 LTCP 271250Z 36007KT 330V030 9999 FEW033CB SCT035 BKN180 21/14 Q1008 RETSRA LRTZ 271600Z 08006KT 9999 FEW030 SCT200 18/13 Q1015 BLU BLU LTBZ 270850Z 32013KT 9999 SCT035 BKN090 14/09 Q1014 YCMT 271600Z AUTO 00000KT //// // ////// 19/09 Q1014 YCNK 271600Z AUTO 32007KT //// // ////// 11/06 Q1008 LTCR 271450Z 07010KT 040V100 9999 FEW030CB BKN035 27/08 Q1005 LTCS 271520Z 04011KT 9999 -TSRA FEW020CB BKN035 17/13 Q1009 RETS YCNM 271600Z AUTO 02006KT //// // ////// 08/07 Q1011 LTCT 271150Z 19016KT 9999 SCT035 BKN070 23/05 Q1015 YCOE 271600Z AUTO 00000KT //// // ////// 22/21 Q1014 LTCU 271450Z 06023KT 9999 FEW027CB SCT035 BKN100 16/10 Q1012 RETSRA LTCV 271450Z 08020G36KT 050V140 6000 -TSRA FEW025CB BKN035 23/10 Q1007 RETS LSMM 271550Z AUTO VRB03KT 9999NDV FEW140 25/14 Q1014 RMK YBWP 271600Z AUTO 10004KT 9999 // SCT032 OVC100 24/23 Q1013 LTCW 271350Z VRB02KT 9999 SCT035 18/06 Q1019 LSMP 271550Z 31004KT 260V340 CAVOK 26/14 Q1013 RMK BLU RORS 271000Z 21004KT 9999 FEW010 29/26 Q1010 LTFA 270712Z 34010KT 320V020 9999 FEW033 SCT050 23/13 Q1013 RMK RWY17 34009KT 300V020 LSMS 271450Z 25012KT 9999 SCT100 28/11 Q1012 YCOM 271530Z AUTO 00000KT 9999 // NCD M04/M06 Q1006 YBWW 271600Z AUTO 21006KT 9999 // NCD 09/05 Q1013 LTFC 271520Z 27013KT 9999 -TSRA FEW025CB BKN030 14/09 Q1013 RETS YBWX 271600Z AUTO 22010KT //// // ////// 24/20 Q1015 LTFD 271450Z 10006KT 060V130 9999 SCT035 BKN100 22/13 Q1014 YCNY 271600Z AUTO 20005KT //// // ////// 23/14 Q1014 LTFE 271520Z 33013KT 9999 SCT035 23/10 Q1012 NOSIG LTFG 271450Z 23007KT 200V260 9999 FEW035 25/12 Q1008 LTFH 271450Z 29008KT 9999 SCT015 BKN030 BKN090 18/16 Q1012 NOSIG BIEG 271500Z 20016KT CAVOK 14/04 Q1011 LTFJ 271520Z 20005KT 170V230 9999 SCT005 FEW020CB BKN030TCU 16/15 Q1013 RESHRA NOSIG RPLB 271500Z 17004KT 9999 FEW018CB FEW020 SCT080 28/25 Q1011 RMK A2985 DSTNT OCNL LTNG E GMTA 271500Z 34008KT CAVOK 25/09 Q1016 NOSIG RPLC 271600Z 34004KT 9999 FEW020 BKN300 27/25 Q1013 NOSIG RMK A2992 LTFK 271250Z VRB07KT 9999 SCT022 BKN090 22/15 Q1015 RESHRA ROTM 271458Z VRB06KT 9999 BKN015 27/26 A2992 RMK SLP119 T02710260 403010224 51003 RPLI 271500Z 11002KT 9999 FEW019 BKN100 26/25 Q1012 NOSIG RMK A2988 FWKI 271400Z 09003KT 9999 FEW038 23/09 Q1021 NOSIG RPLL 271500Z VRB02KT 9999 FEW023 SCT300 28/25 Q1012 RERA NOSIG RMK A2988 RPMD 271500Z 00000KT 9999 SCT016 SCT090 BKN290 27/25 Q1013 A2991 GMTN 271500Z 11010KT 090V150 9999 FEW053 25/12 Q1015 NOSIG HEMA 271400Z 36012KT CAVOK 28/16 Q1008 NOSIG GMTT 271530Z 30009KT 260V350 9999 SCT016 23/14 Q1017 NOSIG HEMM 271500Z 33013KT CAVOK 23/18 Q1015 NOSIG BIHN 271500Z 22014KT 9999 BR FEW008 BKN012 OVC030 10/// Q1016 HELX 271500Z 33006KT CAVOK 34/12 Q1008 NOSIG RPMZ 271500Z 00000KT 9999 FEW017 SCT100 27/24 Q1014 RMK A2994 NCAI 270400Z AUTO 14005KT //// ///// 23/17 Q1016 FVWN 271500Z 15002KT CAVOK 22/09 Q1023 MKJP 271500Z 21006KT 9999 FEW022 SCT035 29/22 Q1013 MKJS 271500Z 09011KT 9999 FEW022 29/24 Q1013 YCUN 271600Z AUTO 00000KT //// // ////// 09/08 Q1016 BIIS 271500Z 19007G19KT 9999 RA BKN030 OVC040 11/05 Q1003 RMK ARNARNES 180 16G21 LUBL 271530Z AUTO 35007KT 9999 ///150 20/13 Q1016 LUBM 270830Z VRB02KT 9999 FEW026 20/15 Q1016 R25/190055 YDLQ 271600Z AUTO 36003KT //// // ////// 10/10 Q1005 YCWA 271600Z AUTO 10003KT 9999 // OVC064 21/12 Q1019 GOGG 271500Z 26004KT 9999 FEW020 36/21 Q1013 BIKF 271530Z 16023KT 6000 -RA BR FEW008 BKN011 OVC014 08/07 Q1008 GOGK 271200Z 12002KT CAVOK 35/24 Q1014 HEPS 271500Z 30015KT CAVOK 23/17 Q1012 NOSIG GOGS 271500Z 26006KT 180V360 28/17 Q1014 YCWR 271600Z AUTO 02003KT //// // ////// 07/07 Q1008 HESC 271500Z 32010KT CAVOK 22/00 Q1018 NOSIG HESG 271500Z 35010KT CAVOK 31/02 Q1009 NOSIG HESH 271500Z 01016KT CAVOK 31/07 Q1007 NOSIG YDPO 271530Z AUTO 21001KT 9999 // NCD 05/04 Q1007 HESN 271500Z 30011KT CAVOK 36/00 Q1009 NOSIG LSZA 271550Z 21003KT 160V250 9999 FEW070 27/12 Q1016 NOSIG LSZB 271550Z VRB02KT 9999 FEW080TCU 27/14 Q1013 NOSIG RPVD 271500Z 00000KT 9999 FEW014CB SCT015 BKN080 29/27 Q1012 RMK A2988 LSZC 271550Z AUTO 29004KT 9999 TSRA OVC090 SCT///CB 21/18 Q1013 LSZG 271550Z 25007KT 9999 FEW052 26/13 Q1013 NOSIG LSZH 271550Z 36003KT 330V040 CAVOK 27/12 Q1013 NOSIG HETR 271500Z 30028KT 8000 NSC 28/15 Q1008 LSZL 271550Z AUTO 27003KT 9999NDV NCD 26/15 Q1015 RMK RPVM 271500Z 09004KT 9999 FEW018CB SCT300 30/24 Q1013 RMK A2991 DSTNT OCNL LTNG WNW RPVP 271200Z 18004KT 9999 FEW019 29/26 Q1012 RMK A2988 LSZR 271550Z 30004KT 260V330 CAVOK 25/12 Q1013 NOSIG RMK L MMAA 271547Z 00000KT 7SM SCT300 30/25 A2982 RMK 8/002 HZY LSZS 271550Z 22012KT 9999 SCT050 SCT095 17/08 Q1021 FXMM 271500Z 27004KT 9999 FEW040 15/03 Q1030 NOSIG YELD 271600Z AUTO 09004KT //// // ////// 24/23 Q1012 CAHR 271500Z AUTO 06002KT 08/06 RMK AO1 2PAST HR 5003 SLP244 P0001 T00810059 50002 BIRK 271500Z 17020KT 9999 -RA BKN016 OVC021 09/06 Q1009 GOOD 271200Z 36004KT CAVOK 32/21 Q1015 MMAN 271540Z 34011KT 15SM SKC 34/10 A2980 RMK SC N YFBS 271600Z AUTO 36009KT //// // ////// 10/09 Q1007 GOOG 271200Z 32004KT CAVOK 34/18 Q//// MMAS 271542Z 18004KT 8SM SKC 23/08 A3023 RMK HZY ISOL AC MMCB 271350Z 00000KT 8SM SKC 25/13 A3008 RMK HZY LUKK 271530Z 34010KT 9999 SCT032 22/15 Q1015 R08/CLRD// NOSIG GOOK 271200Z 08002KT CAVOK 35/21 Q1015 FYGB 271500Z AUTO 11005KT //// // ////// 22/M01 Q1028 YFDF 271600Z AUTO 03006KT 9999 // NCD 21/09 Q1017 MMCE 271542Z 12012KT 7SM SKC 32/22 A2985 CBBC 271558Z AUTO 15005KT 9SM -RA BKN010 BKN027 OVC037 09/08 A3007 RMK SLP185 FYGF 271500Z AUTO 13009KT //// // ////// 23/M02 Q1027 YEML 271600Z AUTO 24009KT 9999 // SCT084 20/10 Q1014 MMBT 271540Z 09015KT 4SM HZ BKN025 30/20 A2989 RMK 8/100 MMCL 271545Z 13004KT 10SM SCT100 30/18 A2986 RMK 8/030 MMCM 271541Z 10009KT 7SM SCT020 30/24 A2990 RMK 8/500 MMCN 271543Z 00000KT 10SM SKC 27/01 A2983 RMK FU NW MMCP 271540Z 12010G20KT 7SM FEW025 32/23 A2984 RMK 8/100 GOOY 271600Z 35015KT CAVOK 24/19 Q1014 NOSIG MMCS 271545Z 24008KT 10SM SKC 23/03 A2992 MMCT 271541Z 12010KT 8SM BKN020 33/21 A2989 RMK 8/400 MSGTX MMMD MMCU 271540Z 19007KT 10SM SKC 22/M03 A3004 MMCV 271540Z 15011G21KT 7SM BKN090 30/22 A2976 RMK 8/030 HZY MMDO 271545Z 17003KT 14SM SKC 24/03 A3018 RMK HZY ISOL CU MMCZ 271542Z 14010KT 8SM BKN015 29/23 A2992 RMK 8/500 CI FZAA 271500Z 36010KT 5000 HR SCT022 30/23 Q1012 NOSIG BIVM 271548Z 16018G28KT 120V210 9000 -DZ SCT008 OVC015 08/07 Q1013 MMEP 271553Z 00000KT 12SM SKC 28/20 A3003 GOSM 271200Z 28002KT CAVOK 34/17 Q1015 GOSP 271200Z 28002KT 9999 RA 30/19 Q1015 GOSS 271500Z 34014KT 300V360 CAVOK 26/20 Q1014 GOTK 271200Z 32004KT 9999 FEW016 BKN230 34/21 Q1014 MMGL 271550Z 31004KT 5SM SKC 26/11 A3014 RMK HZY MMGM 271543Z 00000KT 10SM SKC 27/07 A2980 RMK HZY MMIA 271545Z 00000KT 8SM SCT200 28/16 A3000 RMK 8/001 YERN 271600Z AUTO 17005KT //// // ////// 10/03 Q1021 GOTT 271500Z VRB06KT CAVOK ///// Q1010 FYKT 271500Z 03008KT CAVOK 25/M04 Q1025 MMHO 271544Z 00000KT 10SM SKC 26/07 A2988 RMK HZY NCRG 271500Z 16002KT 9999 FEW025 19/17 Q1017 FYML 271500Z AUTO 10006KT //// // ////// 26/M03 Q1026 YESP 271600Z AUTO 02013KT 9999 // NCD 10/07 Q1018 MMIO 271540Z 18006KT 10SM SKC 29/15 A3009 YGBI 271600Z AUTO 32001KT //// // ////// 26/24 Q1012 FYLZ 271500Z AUTO 21007KT //// // ////// 26/07 Q1017 FYOA 271300Z 09008KT CAVOK 29/M01 Q1021 YFLI 271530Z AUTO 19012KT 9999 // SCT017 SCT026 OVC033 11/09 Q1006 MNBL 271500Z 34004KT 9999 BKN016 29/26 Q1011 YGDH 271600Z AUTO 00000KT //// // ////// 04/04 Q1012 FYOO 271500Z AUTO 10005KT //// // ////// 26/M00 Q1022 MNCH 271500Z 31008KT 9999 FEW025TCU SCT090 28/26 Q1011 TCU/NW MMMA 271543Z 17015KT 7SM BKN017 31/25 A2976 RMK 8/200 HZY ISOL CI MMLM 271541Z 00000KT 10SM SKC 26/14 A2985 RMK HZY MMMD 271547Z 15012KT 7SM SCT020 33/22 A2988 RMK 8/100 CI MMLO 271556Z 20008KT 7SM SKC 24/13 A3026 RMK HZY FYOW 271500Z AUTO 11004KT //// // ////// 24/M02 Q1023 MMLP 271547Z 34006KT 10SM SKC 24/12 A2989 RMK HZY YGEL 271600Z AUTO 01008KT 9999 // NCD 13/12 Q1017 MMLT 271541Z 00000KT 8SM SKC 26/17 A2984 MMML 271540Z 14003KT 10SM SKC 25/10 A2985 FZIC 270900Z 27004KT 9999 BKN020 31/25 Q1015 NOSIG MMMM 271543Z 14002KT 5SM SCT230 23/14 A3022 RMK 8/008 HZY MMMT 271549Z 36010KT 10SM FEW010 32/26 A2978 RMK 8/100 HZ FU MMNL 271541Z 34004KT 12SM SKC 30/22 A2975 RMK DSNT AC-SW YGFN 271530Z AUTO 05005KT 360V070 9999 // NCD 11/03 Q1010 MMMV 271540Z 22007KT 6SM SKC 33/05 A2982 SKBG 271500Z 36003KT 9999 FEW015 BKN240 25/19 A3000 MMMX 271543Z 12003KT 4SM SCT200 21/10 A3030 NOSIG RMK 8/002 HZY CU FRMG ARND MMMY 271544Z 28016KT 15SM SKC 35/12 A2975 RMK CU/N FRMG SKAR 271500Z 00000KT 9999 SCT022 SCT120 22/19 A3012 MMMZ 271544Z 19004KT 15SM FEW015 30/21 A2985 RMK 8/100 ISOL AC MMPA 271545Z 18004KT 4SM SCT025 BKN090 32/25 A2984 RMK 8/130 HZY MMPB 271550Z 15004KT 7SM SKC 22/10 A3029 RMK HZY SKCC 271500Z 17017KT 9999 SCT022 SCT090 30/20 A2991 FYRU 271500Z AUTO 13008KT //// // ////// 24/M00 Q1025 MMPE 271453Z 00000KT 10SM SKC 21/10 A2986 SKBO 271500Z 18006KT 9999 BKN023 18/09 A3035 SKCG 271500Z 24006KT 9999 FEW020 BKN080 31/25 A2982 MMPG 271540Z 30008KT 8SM SKC 30/17 A2976 RMK HZY SKBQ 271500Z 14006KT 9999 FEW015 BKN200 31/26 A2983 SKCL 271500Z 08003KT 6000 FEW010 SCT030 25/21 A3004 RMK HZ MMPN 271541Z 00000KT 5SM FEW280 25/13 A3015 RMK 8/001 FU HZ CU W MMOX 271545Z 12005KT 6SM FEW025 24/13 A3019 RMK 8/100 HZY/CI MMPQ 271552Z 09010KT 5SM SKC 31/24 A2980 RMK HZY MSGTX MMMD MMPR 271544Z 19003KT 15SM SKC 29/22 A2985 MMPS 271540Z 18008KT 7SM FEW070 SCT220 29/24 A2992 RMK 8/032 HZY YHBA 271600Z AUTO 22007KT 9999 // BKN099 20/13 Q1011 SKEJ 271500Z 00000KT 9999 SCT010 28/24 A2984 YFRT 271600Z AUTO 36004KT //// // ////// 07/07 Q1021 MMQT 271545Z 30003KT 7SM SCT250 22/13 A3026 RMK 8/001 HZY SC BKPR 271600Z 02005KT 9999 FEW040 24/08 Q1018 NOSIG FYWB 271500Z AUTO 24010KT //// // ////// 31/M00 Q1017 MMSD 271545Z 00000KT 15SM SKC 27/19 A2988 RMK ISOL SC FYWE 271500Z 07004KT CAVOK 23/M05 Q1027 MNJG 262300Z 36004KT 9999 SCT020 30/16 Q1009 YGLA 271600Z AUTO 25005KT 9999 // SCT099 22/11 Q1011 YGLB 271530Z AUTO 30013KT //// // ////// 05/03 Q1007 FYWH 271500Z 11005KT CAVOK 21/M03 Q1028 NOSIG TAPA 271500Z 10012KT 9999 FEW019 30/23 Q1015 NOSIG GQNI 271200Z 00000KT 7000 NSC 40/17 Q1014 MMSL 271543Z 13008KT 10SM SKC 25/19 A2994 RMK SC S CU NE AC MMTC 271450Z 08008KT 10SM FEW040 SCT110 26/15 A3000 RMK SLP050 50013 977 8/140 YHAY 271530Z AUTO 31004KT //// // ////// 08/08 Q1006 MMRX 271540Z 17010G20KT 6SM FEW150 30/21 A2973 RMK 8/030 HZY FU BLDU GQNN 271600Z 32014KT 290V350 7000 NSC 25/17 Q1013 NOSIG YGLI 271600Z AUTO 25006KT 9999 // NCD 02/01 Q1013 MMTG 271548Z 10008KT 6SM SCT040TCU BKN250 30/19 A2990 RMK 8/201 FU HZ TCU 3 QUAD MMSP 271554Z 15004KT 8SM SKC 22/13 A3018 RMK HZY AC MMTJ 271546Z 28006KT 5SM OVC015 16/12 A2997 RMK 8/6// HZH GQPA 271500Z 14010KT 8000 BKN030 44/12 Q1014 MNJU 271500Z 07006KT 9999 SCT020 SCT300 32/25 Q1012 MMTM 271547Z 12005KT 5SM SCT020 BKN070 30/25 A2979 RMK 8/130 HZY YFTZ 271600Z AUTO 22005KT //// // ////// 22/15 Q1014 FYWW 271500Z 08004KT CAVOK 22/M05 Q1027 MMTO 271545Z 35004KT 2SM HZ FEW200 20/13 A3039 RMK 8/001 MMTP 271540Z 00000KT 8SM OVC100 26/25 A2982 RMK 8/09/ HZY YGLS 271600Z AUTO 10008KT //// // ////// 12/04 Q1020 SKIB 271500Z 16008KT 9999 SCT027 27/21 A3010 MMVA 271540Z 00000KT 7SM SCT012 31/24 A2985 RMK 8/100 HZY FZQA 270600Z 13008KT CAVOK 15/12 Q1023 NOSIG MMUN 271544Z 12010KT 7SM SCT015 BKN250 31/23 A2992 RMK 8/104 K04V 271556Z AUTO 13006KT 10SM SCT035 SCT046 07/03 A2998 RMK AO2 K06D 271535Z AUTO 03004KT 10SM BKN014 OVC018 14/14 A2983 RMK AO2 K04W 271554Z AUTO 11004KT 5SM RA SCT047 OVC055 16/16 A2987 RMK AO2 P0006 MNMG 271500Z 09010KT 9999 SCT023 31/22 Q1010 A2983 2AC070 2CI300 NOSIG GQPP 271500Z 32017KT 8000 NSC 22/17 Q1016 NOSIG K05U 271555Z AUTO 00000KT 10SM CLR 14/05 A3007 RMK A01 SKIP 271500Z 12005KT 9999 BKN020 15/10 A3045 GQPZ 271500Z 02006KT CAVOK 37/10 Q1015 MMVR 271541Z 15009KT 6SM SCT012 31/26 A2982 RMK 8/200 HZY SLAL 271500Z 36012KT 9999 BKN015 11/05 Q1030 K08D 271555Z AUTO 35008KT 10SM SCT016 BKN022 OVC070 15/15 A2986 RMK AO2 LWOH 271600Z 15004KT 9999 FEW040 22/06 Q1018 SLCA 271500Z 00000KT 9999 OVC025 14/10 Q1026 SLCB 271600Z 00000KT 9999 FEW030 21/01 Q1025 SKLC 271500Z 21005KT 9999 BKN015 BKN120 29/26 A2988 LXGB 271550Z 28010KT CAVOK 23/12 Q1016 NOSIG MNPC 271500Z 00000KT 6000 VCRA BKN016TCU SCT100 29/25 Q1010 TCURA/S NFFN 271600Z 07004KT 9999 FEW030 SCT120 22/21 Q1015 NOSIG YHID 271600Z AUTO 11007KT 9999 // NCD 27/25 Q1012 SKMD 271400Z 00000KT 9999 SCT020 BKN200 23/16 A3016 MMZC 271545Z 31005KT 8SM FEW100 23/07 A3026 RMK 8/030 HZY SLCO 271500Z 12006KT 9999 FEW020 30/23 Q1015 SLCP 271500Z 19010KT 9999 SCT025 22/18 Q1021 MMZH 271545Z 22007KT 6SM SCT250 31/23 A2982 RMK 8/002 HZY SKLT 271500Z 00000KT 9999 BKN020 30/25 A2994 MMZO 271440Z 00000KT 7SM SCT018 SCT250 27/24 A2982 RMK SLP/// 5//// 9// 8/505 HZY SKMR 271500Z 17009KT 9999 VCSH SCT015 BKN080 24/23 A2988 RMK VCSH SE/S K11R 271555Z AUTO 02006KT 10SM -TSRA OVC009 21/20 RMK AO2 LTG DSNT NW THRU NE T02080201 FZWA 271000Z 16014KT CAVOK 31/13 Q1017 NOSIG YGTE 271600Z AUTO 00000KT 9999 // NCD 23/22 Q1012 YGTH 271530Z AUTO 29007KT 9999 -RA SCT011 BKN017 BKN040 09/09 Q1006 RERA K12N 271554Z AUTO VRB06KT 28/19 A3006 RMK AO1 SLP170 T02830189 SKMZ 271500Z 28006KT 9999 SCT120 20/14 A3033 YHLC 271600Z AUTO 16003KT //// // ////// 23/12 Q1016 MNRS 271500Z 09006KT 9999 FEW018CB BKN250 30/24 Q1010 CB/E/SE/S SLET 271500Z 18018KT 9999 OVC070 19/13 Q1021 TBPB 271500Z 09017KT 9999 FEW014CB SCT016 BKN300 30/25 Q1015 NOSIG SKPC 271500Z 02004KT 4000 -RA BKN013 25/24 A2986 RMK/AD OPR IMC LWSK 271600Z 34005KT 290V360 CAVOK 28/09 Q1016 NOSIG YGTN 271600Z AUTO 19003KT 9999 // NCD 21/20 Q1014 SKNV 271500Z 20005KT 9999 FEW023 30/20 A2991 SKPE 271500Z 26004KT 9999 FEW020 24/18 A3009 LYBE 271530Z VRB02KT CAVOK 26/14 Q1016 NOSIG MPBO 271600Z 26002KT 9999 SCT016 OVC080 ///// Q1013 SKPS 271500Z 01007KT 9999 FEW028 21/15 A3018 YHML 271530Z AUTO 13008KT 9999 // SCT073 SCT089 OVC110 08/07 Q1008 MPDA 271500Z 36006KT(E) 9999 SCT013 SCT150 Q1010 LYBT 271530Z 22003KT 150V290 CAVOK 27/14 Q1016 NOSIG SKPV 271500Z VRB02KT 9999 BKN017 SCT200 30/27 A//// SKRG 271500Z 00000KT 9999 SCT017 SCT200 19/16 A3031 SKRH 271500Z 11009KT 9999 FEW020 BKN300 31/24 A2982 K14Y 270625Z AUTO 00000KT 10SM CLR 14/12 A2984 RMK AO2 SKSA 271600Z 03003KT 8000 BKN050 31/25 A2995 RMK HZ NFNA 271600Z 00000KT 9999 SCT020 22/22 Q1016 SLJE 271500Z 00000KT 9999 BKN017 21/12 Q1023 K18A 271535Z AUTO 00000KT 10SM CLR 25/19 A3017 RMK AO2 T02520192 SKSM 271500Z 33008KT 9999 FEW020 BKN200 31/25 A2979 YHOO 271600Z AUTO 19005KT //// // ////// 24/10 Q1014 SLJO 271500Z 16012KT 9999 NSC 27/22 Q1017 SKSP 271500Z 06006KT 9999 FEW020 SCT200 30/26 A2985 YHOT 271600Z AUTO 23001KT 8000 // ////// M04/M05 Q1006 SKUC 271500Z VRB02KT 9999 SCT015 28/25 A2996 SLJV 261900Z 34004KT 9999 BKN020 28/21 Q1014 TDCF 271500Z 23003KT 9999 FEW024 32/22 Q1013 SKUI 271500Z 00000KT 3000 BR BKN007 OVC070 26/25 A2986 RMK AD OPR IMC NGFU 271500Z 00000KT 9999 VCSH FEW019CB OVC310 28/24 Q1010 K0E0 271535Z AUTO 29011G20KT 10SM CLR 16/M02 A2998 RMK AO2 T01561025 K21D 271553Z AUTO 00000KT 5SM RA BKN044 BKN050 OVC060 17/16 A2984 RMK AO2 P0008 SLMG 271500Z 16008KT 9999 NSC 27/21 Q1017 SLLP 271600Z 28013KT 9999 FEW016 12/M08 Q1037 YJAB 271600Z AUTO 21004KT //// // ////// 26/23 Q1012 K20U 271535Z AUTO 32006KT 10SM SCT013 15/13 A2989 RMK AO2 K20V 271556Z AUTO 36006KT 10SM SCT065 BKN080 11/M01 A2999 RMK AO2 K0F2 271535Z AUTO 17012G19KT 10SM BKN011 18/17 A2973 RMK AO2 LTG DSNT SE T01830165 SKVP 271500Z 25003KT 9999 FEW020 BKN100 32/21 A2988 K0CO 271556Z AUTO 01012G29KT 340V050 OVC002 M05/M10 A3009 RMK AO2 PWINO YHSM 271600Z AUTO 21007KT 9999 -SHRA ////// 10/09 Q1007 SKVV 271500Z 00000KT 6000 -DZ SCT015 BKN080 24/23 A3000 K22N 271555Z AUTO 00000KT 10SM SCT110 27/17 A3006 RMK AO2 HKEL 271500Z 05007KT 9999 FEW023CB SCT024 22/12 Q1025 YHUG 271600Z AUTO 08003KT //// // ////// 19/11 Q1016 NFTF 271600Z 07004KT 9999 -SHRA SCT008 BKN016 OVC110 23/23 Q101 7 SLOR 271500Z 34007KT 9999 FEW017 10/M04 Q1037 K24J 271555Z AUTO 08005KT FEW050 29/15 A3011 RMK AO1 NFTL 271200Z 09010KT 9999 RA SCT008 BKN016 OVC100 25/24 Q1017 SLPO 271500Z 27006KT 9999 NSC 12/M04 Q1035 SLRA 262200Z 00000KT 9999 FEW017 30/24 Q1013 SLPS 271500Z 20004 KT 9999 OVC010 20/18 Q1019 SLRB 271500Z 00000KT 9999 OVC010 18/16 Q1024 NFTV 271600Z 07010KT 9999 SCT008 BKN016 26/25 Q1016 LYKV 271530Z VRB02KT 9999 SCT050 28/10 Q1016 NOSIG MPMG 271600Z 14006KT 9000 FEW016CB FEW018TCU SCT100 29/25 Q1011 NOSIG K0J4 271458Z AUTO 10005KT 10SM CLR 27/19 A3007 RMK AO2 SLP178 T02670189 58004 $ SLRI 271500Z 16010KT 9999 NSC 30/22 Q1016 K1A5 271550Z AUTO 15005KT 100V190 SCT029 24/17 A3018 RMK AO2 T02390171 PWINO SLSA 271500Z 14008KT 9999 SCT080 26/18 Q1017 K1A6 271555Z AUTO 17007KT 10SM CLR 27/19 A3012 RMK AO2 T02660190 K1A9 271555Z AUTO 12007KT 10SM CLR 29/19 A3006 RMK AO2 T02920193 SLRQ 271500Z 12004KT 8000 -RA BKN016 OVC070 21/20 Q1019 SLSI 271500Z 18008KT 9999 SCT020 20/16 Q1020 LYNI 271530Z 32008KT 280V340 9999 FEW040 25/11 Q1017 NOSIG SLRY 271400Z 14006KT 8000 TSVCSH SCT008 BKN016 FEW025CB OVC070 21/19 Q1019 SMJP 271600Z 11004KT 9999 -SHRA FEW020CB BKN030 32/24 Q1013 TEMPO 5000 SHRA SLTI 262200Z 00000KT 9999 SCT020 26/24 Q1020 SLTJ 271500Z 15008KT 5000 VCSH SCT010 BKN020 OVC070 10/06 Q1025 MPPA 271600Z 14004KT 9999 SCT025 28/23 Q1011 K28J 271535Z AUTO 07010KT 040V140 10SM FEW042 28/22 A3010 RMK AO2 TSNO HKJK 271500Z 09009KT 9999 SCT022 19/15 Q1023 LYPG 271530Z 20004KT 170V240 9999 FEW040 28/12 Q1015 NOSIG SLTR 271500Z 15012KT 9999 FEW020 SCT080 BKN200 23/15 Q1019 HKKI 271500Z 00000KT 9999 FEW024CB BKN280 25/17 Q1017 RETS ZBAA 271530Z 21003MPS 170V240 CAVOK 22/07 Q1008 NOSIG LZIB 271530Z 13008KT CAVOK 25/15 Q1015 NOSIG SLVM 271500Z 18005KT 9999 FEW023 OVC070 17/11 Q1025 K1F0 271530Z AUTO 00000KT 10SM CLR 18/16 A2971 RMK AO2 LTG DSNT SE SLVR 271600Z 17015KT 9999 FEW015 BKN023 OVC070 19/13 Q1021 HKML 271300Z 18014KT 9999 FEW023 29/20 Q1014 HKMO 271500Z 18008KT 9999 FEW024 28/25 Q1016 NOSIG GUCY 271400Z 21010KT 9999 SCT015 31/23 Q1013 NOSIG SLYA 271500Z 21006KT 9999 FEW023 OVC070 14/11 Q1025 YJLC 271600Z AUTO 18006KT //// // ////// 20/11 Q1016 NGTA 270600Z VRB02KT 9999 FEW020 30/25 Q1010 TDPD 271500Z 11010KT 9999 BKN019 30/24 Q1016 MPSM 271600Z 14008KT 9999 SCT018TCU BKN080 29/26 Q1011 K1H2 271555Z AUTO 15006KT 10SM CLR 22/21 A2997 RMK AO2 T02200206 CERM 271500Z AUTO 16005KT 08/06 RMK AO1 8011 SLP207 T00790055 50047 K0R0 271555Z AUTO 18012KT 10SM FEW024 27/20 A3005 RMK AO2 K33V 271556Z AUTO 32008G16KT 10SM SCT026 10/01 A3002 RMK AO2 HKNW 271500Z 09008KT 9999 BKN020 BKN200 19/15 Q1022 MPTO 271600Z 15005KT 9000 SCT018TCU SCT100 30/25 Q1010 NOSIG K0R4 271555Z AUTO 17012G16KT 10SM CLR 25/22 A2997 RMK AO2 LTG DSNT W T02520220 NGTT 271600Z 08006KT 9999 SCT017CB 28/24 Q1010 RMK CB3 EMBDD K1J0 271258Z AUTO 10007KT 10SM CLR 23/18 A3009 RMK AO2 SLP145 T02280183 $ YIVO 271600Z AUTO 31008KT //// // ////// 09/08 Q1008 LYTV 271530Z VRB02KT 9999 FEW027 26/16 Q1016 NOSIG LZKZ 271530Z 28006KT CAVOK 21/15 Q1016 NOSIG K0S9 271555Z AUTO 16005KT 10SM FEW020 FEW036 OVC055 12/08 A3016 RMK AO2 K1K1 271555Z AUTO 15010G14KT 10SM OVC013 20/17 A2971 RMK AO2 T01960170 LYUZ 271530Z 08006KT 030V110 9999 FEW020 21/11 Q1019 LYVR 271530Z 04003KT 360V080 9999 FEW030 27/13 Q1016 NOSIG K1II 271555Z AUTO 16006KT 7SM CLR 26/18 A3001 RMK AO2 K1L0 271555Z AUTO 14010KT 10SM SCT033 SCT044 29/21 A2999 RMK AO2 LTG DSNT W T02880208 GVAC 271600Z 06014KT 9999 SCT015 BKN100 25/17 Q1017 NOSIG K36U 271535Z AUTO 29005KT 10SM SCT060 BKN085 08/03 A3004 RMK AO2 SOCA 271530Z AUTO 14004KT 100V170 9999 -RA FEW010/// BKN035/// BKN050/// ///TCU 25/25 Q1014 GVBA 271600Z 05016KT 9999 BKN015 BKN200 25/17 Q1018 NOSIG K2C8 271555Z AUTO 16005KT 10SM FEW020 SCT026 18/13 A2981 RMK AO2 K40B 271520Z AUTO 16007G16KT 120V190 13/12 A3005 RMK AO1 SLP182 T01290115 58011 ZBHH 271500Z 13002MPS 060V210 CAVOK 16/01 Q1011 NOSIG K1M4 271556Z AUTO 18013G18KT 10SM CLR 28/17 A3007 RMK AO2 SLP187 T02780172 K0V4 271535Z AUTO 16008KT 120V180 10SM CLR 28/21 A3011 RMK AO1 T02820209 K2D5 271555Z AUTO RMK AO2 PWINO PNO TSNO K40J 271555Z AUTO 08005KT 10SM SCT041 BKN047 BKN060 28/17 A3008 RMK AO2 T02780171 YKII 271600Z AUTO 18005KT 9999 // NCD 08/05 Q1009 LZPP 271530Z 15007KT 120V180 9999 FEW042 25/13 Q1015 HLLM 270755Z 11003KT 7000 SCT100 SCT200 31/14 Q1015 AYGN 270400Z 14008KT 9999 FEW020 31/26 Q1011 K0VG 271535Z AUTO 00000KT 10SM CLR 26/18 A3016 RMK AO2 YLBD 271530Z AUTO 22003KT 9999 // NCD 25/21 Q1013 K42J 271555Z AUTO 07004KT 10SM FEW035 FEW044 28/15 A3010 RMK AO1 TSNO K1P1 271555Z AUTO 10005KT 10SM CLR 21/13 A3009 RMK AO2 T02110127 TFFF 271530Z AUTO 09015KT 9999 FEW024 BKN033 BKN043 30/24 Q1014 NOSIG K2G4 271550Z AUTO 21006KT 10SM SCT038 23/14 A3018 RMK AO1 K2DP 271556Z AUTO 19010KT 10SM CLR 26/17 A3018 RMK AO2 SLPNO T02590165 $ K2G9 271555Z AUTO 31008KT 10SM SCT035 25/15 A3014 RMK AO2 LZSL 271530Z 22005KT 9999 FEW060 SCT095 25/12 Q1016 TFFR 271530Z AUTO 11013KT 090V170 9999 BKN030 BKN037 BKN046 31/22 Q1014 NOSIG MRLB 271600Z 18006KT 9999 SCT030 BKN200 31/22 A2983 NOSIG K2I0 271555Z AUTO 19008KT 10SM CLR 27/19 A3000 RMK AO2 T02710188 YLEC 271600Z AUTO 24017KT //// // ////// 11/06 Q1015 K1R7 271555Z AUTO 18009KT 020V020 10SM FEW018 FEW023 SCT047 A3001 RMK AO2 LTG DSNT W LZTT 271530Z 15006KT 9999 SCT050 19/08 Q1018 NOSIG MRLM 271600Z 12004KT CAVOK 29/24 A2983 YKMP 271600Z AUTO 30007KT //// // ////// 11/02 Q1008 SMZO 271600Z 07012KT 9999 VCSH FEW020CB BKN030 32/24 Q1013 NOSIG K46D 271555Z AUTO 04005KT 10SM BKN015 BKN021 OVC038 17/12 A2985 RMK AO2 K1S5 271555Z AUTO 25009G15KT 10SM CLR 12/03 A3007 RMK AO2 T01220026 K2J9 271535Z AUTO 11007KT FEW039 27/17 A3009 RMK AO1 YLEO 271600Z AUTO 05006KT 9999 // NCD 14/04 Q1018 YKNT 271600Z AUTO 15013KT //// // ////// 16/04 Q1017 MROC 271600Z 20005KT CAVOK 28/18 A2998 NOSIG GWAC 270900Z 04013KT 9999 BKN015 SCT100 23/18 Q1017 NOSIG K46U 271540Z AUTO 00000KT 10SM CLR 11/05 A3002 RMK A01 K49A 271555Z AUTO 17005KT 10SM CLR A3018 RMK AO2 YKOW 271530Z AUTO 00000KT //// // ////// 24/23 Q1013 K3D2 271555Z AUTO 14006KT 10SM CLR 19/15 A2990 RMK AO2 T01900148 YLHI 271600Z AUTO 25031KT 9999 // SCT039 BKN060 OVC074 20/11 Q1003 K1V4 271554Z AUTO 24/13 A3002 RMK AO1 SLP156 T02440133 K1V6 271555Z AUTO 32008G14KT 10SM SCT070 BKN085 13/05 A2985 RMK AO2 SPCL 271500Z /////KT 9999 SCT020 29/23 Q1016 RMK BIRD HAZARD RWY 02/20 PP000 K3AU 271555Z AUTO 11011G16KT 10SM OVC011 19/17 A2971 RMK AO2 YLHR 271530Z AUTO 00000KT //// // ////// 23/23 Q1013 LZZI 271530Z 25007KT 9999 FEW060CB FEW063 SCT100 23/13 Q1015 YKSC 271600Z AUTO 22007KT 9999 // SCT059 10/09 Q1010 AYNZ 270600Z 09016KT 9999 SCT030 FEW035CB SCT280 31/22 Q1008 RMKS MRPV 271500Z 25002KT 9999 FEW030 BKN200 25/18 A3000 NOSIG YMBA 271600Z AUTO 00000KT //// // ////// 19/18 Q1015 ZBSJ 271500Z 18001MPS CAVOK 16/11 Q1010 NOSIG YLIS 271600Z AUTO 33009KT 9999 // NCD 12/05 Q1010 OAHR 271555Z 01009KT 9000 NSC 27/12 Q1014 RMK SKC VIS MIN 9000 BLU YMBD 271600Z AUTO 27010KT 9999 // NCD 11/07 Q1009 YKRY 271530Z AUTO 27003KT //// // ////// 10/07 Q1013 ZBTJ 271530Z 26003MPS CAVOK 22/07 Q1009 NOSIG AYPY 271500Z 00000KT 9999 FEW280 26/25 Q1011 OAKB 271550Z 33006KT CAVOK 24/01 Q1014 NOSIG RMK BLU BLU YMAV 271600Z AUTO 25005KT 9999 // OVC064 10/08 Q1008 YLLE 271500Z AUTO 28008KT 9999 // NCD 14/07 Q1016 YMAY 271530Z AUTO 13004KT 9999 // SCT038 BKN051 BKN075 05/05 Q1007 GVNP 271600Z 04016KT 9999 SCT019 BKN200 26/17 Q1017 NOSIG OBBI 271500Z 32005KT CAVOK 33/09 Q1006 NOSIG K54J 271555Z AUTO 12004KT 10SM CLR 28/17 A3006 RMK AO2 T02820165 SPGM 271500Z /////KT 8000 SCT020 OVC070 24/22 Q1019 RMK BIRD HAZARD RWY19 PP000 YMCO 271600Z AUTO 26010KT //// // ////// 10/06 Q1005 NIUE 271600Z 00000KT 9999 FEW018 18/18 Q1017 RMKS YMDG 271600Z AUTO 03006KT //// // SCT048 SCT058 BKN076 04/04 Q1010 MTCH 261700Z 01008KT 9000 SCT025CB BKN060 28/23 Q1015 A2998 RMK CB ALLQDS SPHI 271500Z 17015KT 9999 BKN013 22/18 Q1014 RMK PP000 SPHO 271500Z VRB03KT 9999 FEW035 17/05 Q1032 RMK PP000 MSLP 271550Z 08004KT 040V110 9999 FEW018 27/25 Q1011 A2986 YMEK 271600Z AUTO 04005KT 9999 // NCD 15/07 Q1017 K4A6 271555Z AUTO 20005KT 10SM CLR 28/18 A3009 RMK AO2 K4A7 271555Z AUTO 20005KT 10SM BKN055 BKN090 28/17 A3015 RMK AO2 T02750167 K3J7 271535Z AUTO 12004KT 10SM SCT070 26/16 A3013 RMK AO2 SPJC 271600Z 30003KT 9999 OVC010 19/16 Q1015 NOSIG RMK PP000 YMEN 271530Z AUTO 00000KT 9999 // OVC059 08/07 Q1008 K1YT 271458Z AUTO 29011KT 10SM CLR 11/00 A3006 RMK AO2 SLPNO T01071004 52014 $ K4A9 271535Z AUTO 20005KT 10SM SCT034 SCT041 27/16 A3009 RMK AO2 K57C 271555Z AUTO 22004KT 10SM OVC013 22/19 A2989 RMK AO2 T02230192 SPHY 271500Z /////KT 9999 SCT040 13/03 Q1037 RMK BIRD HAZARD RWY 03/21 PP000 K3K3 271535Z AUTO 28012KT 10SM SCT029 17/09 A2972 RMK AO2 YMER 271530Z AUTO 27009KT 9999 // OVC064 OVC082 11/05 Q1005 YMES 271530Z AUTO 31008KT 9999 // NCD 05/04 Q1008 SPJI 271500Z /////KT 9999 FEW040 28/23 Q1025 RMK PP000 YMGB 271600Z AUTO 00000KT //// // ////// 25/23 Q1012 OAMS 271550Z 21006KT 9999 FEW100 32/04 Q1009 BLU+ BLU+ YMGD 271600Z AUTO 16003KT 9999 // NCD 25/23 Q1012 SPJL 271500Z 01010KT CAVOK 12/M09 Q1039 RMK PP000 AYVN 270600Z 09007KT 9999 FEW018CB FEW020 SCT300 32/24 Q1010 RMKS SPJR 271530Z VRB02KT 9999 SCT027 20/12 Q1030 YMHB 271530Z 31007KT CAVOK 07/05 Q1007 ZBYN 271530Z 11002MPS CAVOK 12/08 Q1012 NOSIG AYWK 270300Z 09005KT 9999 FEW020CB SCT020 31/25 Q1011 RMK YMIA 271550Z AUTO 27009KT 6000 // SCT008 BKN011 BKN014 09/09 Q1007 K2V5 271555Z AUTO 03010G15KT 10SM SCT015 BKN020 OVC030 15/11 A2978 RMK AO2 YLRE 271600Z AUTO 22006KT 9999 // BKN090 16/09 Q1017 SPME 271500Z 14003KT 080V210 9999 SCT040 BKN090 26/21 Q1011 RMK BIRD HAZARD RWY 32/14 PP000 SPLO 271500Z 16005KT 9999 OVC030 20/14 Q1014 RMK PP000 GVSV 271500Z 06022G32KT 9999 SCT020 SCT100 BKN200 26/17 Q1017 NOSIG K4BM 271556Z AUTO 03005KT 10SM SCT016 BKN022 OVC033 00/M02 A3007 RMK AO2 K3LF 271555Z AUTO 15015G21KT 10SM -DZ BKN009 OVC012 20/18 A2989 RMK AO2 P0002 T02000183 K2W6 271554Z AUTO 27006KT 10SM CLR 27/19 A3012 RMK AO1 YMHU 271600Z AUTO 04001KT 9999 // NCD 25/22 Q1012 K3N8 271535Z AUTO 06004KT 10SM CLR 21/14 A2980 RMK AO2 T02100141 YMIN 271600Z AUTO 19006KT //// // ////// 09/08 Q1011 SPMS 271500Z 23003KT CAVOK 28/22 Q1017 RMK BIRD HAZARD RWY 09/27 PP000 YNAR 271600Z AUTO 32009KT //// // ////// 10/10 Q1006 YLST 271530Z AUTO 05006KT 9999 // SCT093 14/06 Q1017 YLTN 271600Z AUTO 06012KT //// // ////// 13/05 Q1019 DAAD 271500Z 24012KT 8000 FEW030 43/// Q1010 YNBR 271600Z AUTO 07008KT 9999 // BKN050 09/05 Q1012 DAAE 271500Z 12008KT 6000 FEW013 SCT090 23/20 Q1015 YMMB 271530Z AUTO 00000KT 9999 // SCT062 07/06 Q1008 DAAG 271530Z 34007KT 300V020 CAVOK 25/17 Q1016 MSSS 271550Z 11002KT 9999 FEW027 27/23 Q1015 A2998 DAAJ 271500Z 07005KT CAVOK 37/// Q1020 MUCC 271450Z 08007KT 030V110 9999 FEW025 29/19 Q1015 DABB 271530Z 05012KT 8000 FEW026 BKN100 22/19 Q1013 DABC 271530Z 23013G23KT 9999 SCT030 SCT200 40/03 Q1014 MUCF 271452Z 08008KT 050V130 9999 FEW020 30/20 Q1014 K2WX 271556Z AUTO 34008KT 17/07 A2978 RMK AO1 SLP078 T01720072 DAAP 271500Z 23015KT 5000 FEW040CB SCT046 40/16 Q1015 YMLT 271530Z AUTO 19006KT 9999 // SCT086 05/04 Q1007 YMML 271530Z 35004KT 9999 FEW040 BKN056 07/06 Q1008 NOSIG K4I7 271555Z AUTO 19006KT 161V221 10SM SCT035 25/20 A3000 RMK AO2 K3R7 271535Z AUTO 15013G20KT 10SM BKN021 BKN030 28/22 A2991 RMK AO2 LTG DSNT NW YMNE 271600Z AUTO 36006KT 9999 // SCT062 BKN080 17/07 Q1018 MUCL 271451Z 09011KT 040V120 9999 FEW020 29/19 Q1014 DAAS 271500Z 18012KT 8000 SCT030 35/01 Q1017 DAAT 271530Z 13008KT 070V240 7000 BKN050 35/03 Q1023 MUCM 271450Z 09005KT 020V170 9000 FEW020 28/20 Q1015 YMNG 271600Z AUTO 20005KT 9999 // SCT035 OVC046 08/06 Q1007 DAAV 271500Z 32008KT 7000 FEW026 SCT090 BKN200 23/18 Q1014 TGPY 271500Z 12012KT 9999 SCT018 30/26 Q1014 NOSIG DAAY 271500Z 24020KT 2500 DRSA SCT030 37/05 Q1020 K5A6 271555Z AUTO 17008KT 10SM SCT060 SCT100 BKN120 23/21 A3001 RMK AO2 LTG DSNT SW T02310210 AZUH 271050Z 33006KT 9999 SCT040 BKN180 27/06 Q1013 SPQT 271500Z 21005KT 9999 BKN020 BKN100 27/24 Q1014 NOSIG RMK BIRD HAZARD PP000 K65S 271550Z AUTO 20005KT 10SM BKN050 09/05 A2995 RMK AO2 SPQU 271500Z 25008KT 200V290 CAVOK 20/M12 Q1027 NOSIG RMK PP000 YNEN 271530Z AUTO 14005KT 9999 // SCT032 28/22 Q1013 DABS 271530Z 24010KT 7000 FEW040 39/// Q1017 MUCU 271451Z 14011KT 9000 VCSH SCT016TCU SCT070 27/22 Q1015 DABT 271500Z 20019KT 3000 DRDU FEW023CB SCT026TCU 39/// Q1017 YMOG 271600Z AUTO 00000KT //// // ////// 15/13 Q1017 K3T5 271535Z AUTO 07004KT 5SM BR 26/24 A2975 RMK AO2 LTG DSNT N AND NE P0003 T02560244 K66R 271535Z AUTO 16011G22KT 7SM SCT018 SCT025 BKN050 29/25 A2975 RMK AO2 LTG DSNT N AND NE T02880250 SPRU 271500Z 12008KT 8000 OVC013 20/17 Q1014 RMK BR PP000 K5C1 271555Z AUTO 19009KT 150V210 10SM BKN020 BKN026 OVC033 26/21 A2979 RMK AO1 SPSO 271500Z 32005KT 5000 BR SCT004 OVC007 18/17 Q1014 RMK BIRD HAZARD RWY 22/04 PP000 YMOR 271530Z AUTO 06005KT 9999 // NCD 07/06 Q1013 DAEF 271500Z 00000KT 8000 SCT040 43/// Q1014 SPST 271500Z 00000KT 9999 FEW020 27/22 Q1016 RMK BIRD HAZARD RWY 17/35 PP000 SPTN 271500Z /////KT 9999 OVC027 16/11 Q1017 RMK PP000 DAEN 271500Z 04008KT 6000 NSC 44/07 Q1013 YMRB 271530Z AUTO 05003KT 9999 // NCD 18/11 Q1015 YNGU 271600Z AUTO 00000KT //// // ////// 24/19 Q1012 YNHL 271600Z AUTO 23008KT //// // ////// 09/08 Q1007 DAFH 271500Z 27012KT CAVOK 40/// Q1017 MUHA 271455Z 09007KT 060V140 9000 SCT030 30/17 Q1015 SPTU 271500Z 17003KT 9999 BKN009 27/24 Q1016 RMK BIRD HAZARD RWY 01/19 PP000 K4M9 271555Z AUTO 17013KT 10SM 24/24 A2989 RMK AO2 MUGM 271556Z 16005KT 9999 FEW026 SCT040 BKN120 30/22 A2997 RMK SLP149 T03020219 MTPP 271500Z VRB02KT 8000 FEW014 SCT022 BKN050 27/23 Q1013 A2993 MUHG 271450Z 18008KT 130V220 9000 FEW025 28/20 Q1014 K4O4 271555Z AUTO 15010KT 10SM SCT015 SCT021 22/18 A2984 RMK AO2 YMRY 271600Z AUTO 27004KT 9999 // NCD 05/01 Q1005 YMTG 271530Z AUTO 14008KT 9999 // OVC042 09/08 Q1009 YMTI 271600Z AUTO 01002KT //// // ////// 25/25 Q1012 K4MR 271458Z AUTO 27012G18KT 10SM CLR 18/M03 A2987 RMK AO2 SLP064 T01751032 52007 $ K5H4 271535Z AUTO 32004KT 10SM 15/13 A2985 RMK AO2 P0033 PWINO PNO SPZA 271530Z 28005KT CAVOK 24/15 Q1016 SPYL 271500Z 16017KT CAVOK 25/18 Q1012 RMK BIRD HAZARD RWY 17/35 PP000 DBBB 271500Z 22012KT 9999 SCT013 30/26 Q1011 NOSIG K6A1 271555Z AUTO 14007KT 10SM 30/17 A3013 RMK AO2 T02960166 SPZO 271530Z 31006KT 240V010 9999 FEW050 15/01 Q1034 K6A2 271555Z AUTO 15007KT 10SM BKN055 OVC070 27/16 A3015 RMK AO2 UAAA 271530Z 35006MPS 9999 -SHRA BKN050CB OVC100 15/10 Q1015 R88/1///60 TEMPO 31015MPS 3000 TSRA K6B0 271535Z AUTO 19007KT 10SM CLR 28/16 A2999 RMK AO2 T02820163 UAAH 271100Z 20003MPS 150V260 9999 FEW043 SCT100 26/03 Q1010 R23/0///60 NOSIG RMK QFE719/0959 YMYB 271600Z AUTO 23006KT 9999 // NCD 20/11 Q1011 UACC 271530Z 34003MPS 280V010 9999 FEW046CB BKN100 17/10 Q1015 R04/1/0065 NOSIG RMK QFE730/0973 K4V0 271555Z AUTO 00000KT 10SM CLR 12/05 A2999 RMK AO2 T01240050 DAOB 271500Z 30011KT CAVOK 31/13 Q1017 TJBQ 271550Z 02004KT 10SM SCT036 SCT043 28/22 A2998 DAOF 271500Z 25005KT 9999 FEW046 BKN200 37/// Q1015 YNRC 271600Z AUTO 16007KT //// // ////// 07/07 Q1008 UACK 271400Z 34003MPS 9999 BKN053CB 24/09 Q1015 R02/010070 NOSIG RMK QFE737/0983 DAOI 271500Z 32010KT CAVOK 32/16 Q1014 K79J 271456Z AUTO VRB05KT 10SM CLR 29/20 A3006 RMK AO2 SLP175 T02890200 58004 UADD 271530Z 13004MPS 9999 NSC 17/10 Q1012 R13/290056 NOSIG RMK QFE702/0936 K5M9 271535Z AUTO 17005KT 10SM CLR 23/20 A2998 RMK AO2 T02340201 DAOL 271500Z 36012KT CAVOK 29/11 Q1015 UACP 271130Z 02002MPS CAVOK 27/09 Q1014 R05/0/0060 NOSIG RMK QFE749/0998 DAON 271530Z 34012KT 320V020 CAVOK 27/12 Q1015 DAOO 271530Z 35014KT 9999 FEW033 BKN233 26/13 Q1014 YPAD 271530Z 26013KT 9999 FEW032 13/10 Q1010 INTER 1530/1630 5000 SHRA BKN010 DAOR 271500Z 26014G28KT 210V310 8000 SCT033 BKN100 36/M06 Q1018 K82C 271555Z AUTO 11005KT 10SM OVC110 23/18 A2984 RMK AO2 P0001 T02250183 YPAG 271600Z AUTO 31008KT 9999 // SCT033 OVC040 OVC071 10/08 Q1015 DAOV 271500Z 04010KT CAVOK 31/12 Q1015 DAOY 271400Z 27016KT 8000 BLDU SCT030 34/01 Q1021 YNSM 271600Z AUTO 03005KT //// // ////// 03/01 Q1017 OEAB 271500Z 21011KT 9999 FEW020 25/14 Q1024 NOSIG MUSC 271450Z 07007KT 020V120 9000 SCT020 29/20 Q1015 OEAH 271500Z 17004KT CAVOK 39/00 Q1006 NOSIG YPCC 271600Z AUTO 13017KT 9999 // SCT017 BKN032 OVC054 28/24 Q1013 OEBA 271500Z 25010KT CAVOK 29/12 Q1019 NOSIG YOLD 271600Z AUTO 26008KT 9999 // NCD 11/07 Q1017 YNTN 271600Z AUTO 00000KT 9999 // NCD 24/24 Q1012 YPBO 271530Z AUTO 07005KT 9999 // SCT075 21/19 Q1017 K82V 271555Z AUTO 01015G20KT 10SM SCT030 SCT100 12/07 A2990 RMK AO2 OEAO 271500Z 24020KT CAVOK 35/M02 Q1009 OEBH 271500Z 27011KT CAVOK 35/09 Q1013 NOSIG OEAR 271500Z 27004KT CAVOK 38/11 Q1008 MWCB 271600Z 12009KT 9999 FEW018TCU 31/24 Q1013 K6I2 271545Z AUTO 19010KT 10SM CLR 27/19 A3008 RMK AO2 YPEA 271600Z AUTO 01005KT 9999 // NCD 12/08 Q1015 YPED 271530Z AUTO 25012KT 9999 // SCT018 12/09 Q1010 K5R8 271555Z AUTO 11005KT 10SM SCT008 SCT026 SCT030 22/22 A2988 RMK AO2 LTG DSNT W AND NW P0001 T02180218 YOLW 271600Z AUTO 24007KT //// // ////// 21/15 Q1016 YPDN 271530Z 24005KT CAVOK 27/24 Q1012 DAUA 271500Z 34008KT 8000 SCT046 SCT250 45/// Q1013 DAUB 271500Z 18006KT 7000 NSC 44/13 Q1010 TJIG 271447Z 14005KT 10SM SCT025 OVC060 29/22 A2999 DATM 271200Z 06014KT 4000 HZ NSC 43/// Q1014 OEDF 271500Z 05009KT CAVOK 36/05 Q1005 NOSIG DAUE 271500Z 07012KT CAVOK 42/03 Q1015 UAII 271530Z VRB01MPS 9999 SCT050CB BKN100 22/13 Q1010 R10/0///70 NOSIG RMK QFE722/0963 MWCR 271600Z 12007KT 9999 FEW018 32/23 Q1012 NOSIG DAUG 271500Z 26014KT 9999 FEW046 42/// Q1014 DAUH 271530Z 18005KT 8000 NSC 45/18 Q1012 YOOD 271600Z AUTO 27001KT //// // ////// 11/06 Q1019 DAUI 271500Z 08008KT 8000 NSC 45/// Q1012 YNWN 271530Z AUTO 08006KT 9999 // BKN069 OVC090 22/08 Q1018 OEDM 271500Z 24014KT 9999 FEW040 38/M02 Q1010 DAUK 271500Z 21014KT 8000 NSC 45/05 Q1012 DAUL 271500Z 27020KT 8000 FEW033 41/00 Q1015 DAUO 271500Z 24005KT 5000 NSC 45/10 Q1011 MUVR 271450Z 11006KT 060V170 9999 FEW019 30/17 Q1015 OEDR 271500Z 03009KT CAVOK 36/02 Q1004 NOSIG UBBB 271530Z 17008KT CAVOK 24/17 Q1010 R88/CLRD// NOSIG YOOM 271600Z AUTO 26007KT //// // BKN066 13/06 Q1017 K5T9 271555Z AUTO 32011KT 280V350 10SM CLR 30/18 A2976 RMK A01 DAUT 271500Z 30010KT 9999 BKN046 45/05 Q1014 DAUU 271500Z 20006KT 4000 HZ FEW046 46/// Q1011 ZGGG 271530Z 14005G10MPS 110V180 5000 -RA SCT008 OVC023 26/25 Q1005 NOSIG UBBG 271530Z 21007KT 9999 FEW050CB BKN083 27/12 Q1010 R30/CLRD// NOSIG K6L4 271555Z AUTO 22003KT 10SM OVC070 27/18 A3013 RMK AO2 ZGHA 271500Z 36005MPS 3500 BR BKN006 OVC040 18/16 Q1010 NOSIG DAUZ 271500Z 15004KT CAVOK 41/03 Q1016 UAKK 271530Z 20001MPS 9999 SCT048 BKN130 15/12 Q1015 R05/1///65 NOSIG RMK QFE714/0952 TIST 271553Z 12011KT 10SM SCT030 31/25 A2998 RMK AO2 SLP151 T03060250 UBBL 271500Z 15008KT 9999 NSC 23/19 Q1011 R15/CLRD// RMK MT OP UBBN 271530Z 23008KT 9999 SCT050CB BKN100 19/11 Q1015 R14R/CLRD// NOSIG RMK MT OP QFE687 TISX 271553Z 13010KT 10SM SCT020 31/24 A2999 RMK AO2 SLP152 T03060239 K5SM 271555Z AUTO 00000KT 10SM SCT019 SCT024 03/M01 A3014 RMK AO2 TSNO UBBQ 271500Z 00000KT 9999 BKN150 25/19 Q1011 R34/CLRD// NOSIG RMK MT OP YPGV 271600Z AUTO 00000KT 9999 // NCD 24/23 Q1012 YORG 271530Z AUTO 32010KT 9999 // SCT018 SCT038 BKN053 05/04 Q1009 OEGN 271500Z 27012KT 8000 FEW030 SCT100 35/26 Q1007 NOSIG K7BM 271555Z AUTO 24011G14KT 10SM SCT044 SCT050 08/M04 A3002 RMK AO2 UBBY 271500Z VRB03KT 9999 FEW050CB SCT080 24/16 Q1014 R33/////// NOSIG RMK MT OP OEGS 271500Z 23013KT 5000 DU SKC 39/08 Q1007 OEGT 271500Z 27020KT CAVOK 27/04 Q1009 NOSIG OEHL 271500Z 30012KT CAVOK 33/03 Q1011 NOSIG UBEE 271500Z 22005KT 9999 SCT033 BKN080 29/15 Q1009 R30/CLRD// NOSIG YPKA 271530Z AUTO 22005KT 9999 // NCD 24/24 Q1015 YPKG 271600Z AUTO 02006KT 9999 // SCT120 11/01 Q1018 TJMZ 271550Z 16007KT 10SM SCT040 BKN060 30/22 A2995 TJNR 271553Z AUTO 16012KT 10SM FEW024 29/23 A2999 RMK AO2 SLP156 T02940233 YPJT 271600Z AUTO 02009KT 9999 // NCD 13/09 Q1015 YPLC 271600Z AUTO 23012KT 9999 // SCT034 SCT042 12/10 Q1013 ZHCC 271500Z VRB01MPS 5000 BR SCT010 OVC040 15/14 Q1012 NOSIG ZGKL 271500Z 09003MPS 040V110 9999 SCT043 25/22 Q1006 NOSIG UAOO 271500Z 01003MPS CAVOK 29/01 Q1011 NOSIG RMK QFE746/0995 OEJN 271500Z 27008KT CAVOK 35/15 Q1006 NOSIG YPKS 271600Z AUTO 01007KT //// // ////// 09/08 Q1008 YPKT 271600Z AUTO 18002KT //// // ////// 24/22 Q1012 YPKU 271530Z AUTO 00000KT 9999 // NCD 23/20 Q1012 OEKJ 271500Z 16012KT 8000 SKC 42/02 Q1010 OEKK 271500Z 25015KT 4000 BLDU SKC 37/10 Q1005 NOSIG YPLM 271530Z AUTO 21013KT 9999 // NCD 21/17 Q1016 OEKM 271500Z 24008KT 6000 SKC 26/14 Q1023 NOSIG K6R3 271555Z AUTO 00000KT 7SM -VCTSRA OVC011 24/23 A2981 RMK AO2 LTG DSNT W THRU N T02350228 TJPS 270850Z 05005KT 10SM FEW030 26/22 A2991 K6R6 271553Z AUTO 29011G16KT 31/M03 A2983 RMK AO1 SLP065 T03061033 OEMA 271500Z 27014KT CAVOK 37/M14 Q1011 NOSIG K8A0 271555Z AUTO 20009KT 10SM SCT038 SCT046 27/21 A3010 RMK AO2 K96D 271535Z AUTO 00000KT 10SM CLR 17/17 A2981 RMK AO2 YPMQ 271600Z AUTO 21005KT 9999 // NCD 12/02 Q1008 SUAA 271500Z 12012KT 9000 BKN008 OVC015 14/13 Q1028 YPOD 271530Z AUTO 15008KT 9999 // BKN067 10/07 Q1009 OEMK 271500Z 24005KT CAVOK 39/16 Q1007 ZGNN 271500Z 17003MPS CAVOK 28/25 Q1005 NOSIG SUAG 271300Z 11012KT 9999 OVC010 13/11 Q1023 OENG 271500Z 09008KT 7000 FEW030 35/02 Q1014 NOSIG UARR 271530Z 15001MPS CAVOK 27/18 Q1017 R04/CLRD70 NOSIG RMK QFE759/1012 TJSJ 271556Z 15007KT 10SM FEW034 SCT065 BKN100 30/22 A2996 RMK AO2 SLP145 SHRA DSNT NE T03000222 $ UASK 271530Z 30004MPS 9999 FEW033CB FEW083 16/09 Q1009 R30/090060 NOSIG RMK QFE731/0975 YPPD 271600Z AUTO 20005KT 9999 // NCD 22/20 Q1015 YPPF 271530Z AUTO 25009KT 9999 // NCD 11/09 Q1010 UATE 271530Z 32002MPS CAVOK 23/10 Q1013 R30/0///70 NOSIG RMK QFE758/1011 K7L2 271535Z AUTO 02007KT CLR 17/13 RMK AO2 PWINO PNO TSNO YPPH 271530Z 03006KT CAVOK 13/09 Q1015 INTER 1730/1830 4000 SHRA BKN010 UATG 271530Z 10003MPS 080V180 CAVOK 29/07 Q1013 R14/CLRD70 NOSIG RMK QFE762/1016 UASP 271530Z 03004MPS CAVOK 15/02 Q1013 R03/0///70 NOSIG RMK QFE749/0999 SUCA 271500Z 12012KT 7000 OVC008 13/12 Q1026 UASS 271300Z 06006MPS CAVOK 25/06 Q1010 R08/0///60 NOSIG RMK QFE737/0982 OEPA 271500Z 24018KT 3000 DRDU SKC 41/13 Q1004 NOSIG ZGOW 271500Z 17003MPS 9999 FEW017 SCT050 28/25 Q1010 NOSIG ZHHH 271500Z 36002MPS 310V020 9999 BKN009 18/17 Q1010 NOSIG K8D3 271556Z AUTO 06009KT 24/11 A2975 RMK AO1 SLP059 T02390111 UATT 271530Z 35004MPS 9999 FEW050CB SCT110 27/12 Q1016 R31/CLRD70 NOSIG RMK QFE742/0990 K7N0 271556Z AUTO VRB06KT 10SM FEW029 28/20 A3001 RMK AO2 SLP162 T02780200 $ CMGB 271545Z AUTO 23004KT 26/16 RMK AO1 SLP144 T02580164 58003 CMFM 271500Z AUTO 09002KT 12/12 RMK AO1 4PAST HR 8014 SLP165 P0025 T01200118 50068 UAUU 271530Z 34002MPS CAVOK 21/09 Q1016 R33/CLRD70 NOSIG RMK QFE746/0995 OERF 271500Z 26010KT CAVOK 39/M05 Q1003 SUDU 271500Z 15008KT 9999 BKN013 14/11 Q1026 OERK 271500Z 19008KT 6000 NSC 39/02 Q1010 NOSIG OESH 271500Z 10006KT CAVOK 40/M02 Q1009 NOSIG OERR 271500Z 26019KT CAVOK 36/12 Q1005 NOSIG OETB 271500Z 21017KT 6000 SKC 32/M02 Q1009 NOSIG OESK 271500Z 32011KT CAVOK 33/01 Q1007 NOSIG YPTN 271600Z AUTO 00000KT 9999 // NCD 21/17 Q1012 UCFM 271530Z 10004MPS 9999 BKN066CB OVC160 17/11 Q1013 R26/CLRD70 NOSIG UCFO 271530Z 15003MPS 9999 SCT043CB BKN110 22/09 Q1013 R12/CLRD70 TEMPO VRB12MPS TSRA BKN015CB OETF 271500Z 24016KT CAVOK 30/07 Q1018 NOSIG ZGSZ 271500Z 20010MPS 9999 -SHRA SCT017 FEW020TCU BKN030 28/26 Q1006 NOSIG OERY 271429Z 21010KT 9000 NCD 40/02 Q1009 TKPK 271500Z 07012KT 9999 SCT019 30/24 Q1015 TKPN 271500Z 10010KT 9999 BKN020 30/23 Q1015 OETR 271500Z 27014KT CAVOK 26/03 Q1009 K9A5 271555Z AUTO 00000KT SCT033 SCT039 SCT080 29/17 A3011 RMK AO2 T02870166 SVAC 271500Z 00000KT 9999 BKN013 27/22 Q1016 YREN 271600Z AUTO 26009KT //// // ////// 10/08 Q1009 OEWD 271500Z 22004KT 6000 SKC 39/16 Q1008 NOSIG YPWR 271600Z AUTO 27007KT 9999 // NCD 08/07 Q1017 OEWJ 271400Z 31013KT CAVOK 30/22 Q1007 NOSIG SVBC 271500Z /////KT 9999 OVC013 28/24 Q1013 YPXM 271530Z AUTO 13009KT 9999 // BKN011 OVC016 26/24 Q1015 SVBI 271500Z /////KT 9999 SCT020 SCT080 28/// Q1015 SVBM 271500Z 11008KT 9999 BKN016 25/19 Q1017 MYGF 271600Z 04004KT 9999 BKN018 BKN180 26/23 A2999 RMK TCU SE CB NW-N NE-E TSB41 NE SVBS 271200Z 16003KT 9999 BKN013 26/19 Q1016 K9D7 271535Z AUTO 32004KT 10SM BKN024 17/12 A2984 RMK AO2 OEYN 271500Z 23010KT CAVOK 33/16 Q1006 NOSIG K7W4 271555Z AUTO 00000KT 10SM CLR 28/21 A3010 RMK AO1 T02790209 SVCR 271400Z 10010KT 9999 OVC016 26/23 Q1010 K7W6 271545Z AUTO 16008KT 10SM CLR 25/17 A3018 RMK AO2 T02510172 SULS 271500Z 12013KT 9999 FEW013 BKN033 15/11 Q1027 HTDA 271500Z 14008KT 9999 SCT025 28/22 Q1016 NOSIG SVCU 271500Z 29006KT CAVOK 32/23 Q1006 SUMU 271600Z 11010KT 9999 SCT008 BKN014 15/12 Q1027 TEMPO RADZ YSBK 271600Z AUTO 35005KT 9999 // NCD 09/03 Q1007 YSCB 271600Z AUTO 05004KT 020V090 9999 // NCD 03/01 Q1007 TLPC 271500Z 10010KT 9999 SCT024 BKN300 31/25 Q1014 NOSIG SVGD 271500Z 05002KT 9999 BKN017 31/21 Q//// HSOB 271400Z 35008KT CAVOK 39/02 Q1010 HSNN 271400Z 08004KT 9999 FEW050 38/09 Q1010 SVGI 271400Z /////KT 9999 SCT010 29/22 Q1011 YRMD 271600Z AUTO 14008KT //// // ////// 19/13 Q1016 TLPL 271500Z 08016KT 9999 SCT023 30/26 Q1014 TEMPO SHRA YSCN 271600Z AUTO 25003KT 9999 // NCD 10/03 Q1007 YSCO 271600Z AUTO 05005KT //// // ////// 09/04 Q1010 YSCR 271600Z AUTO 29004KT //// // ////// 07/05 Q1017 SVGU 271300Z 00000KT 9999 BKN017 23/18 Q1014 HSPN 271400Z 04009KT CAVOK 36/09 Q1006 MZBZ 271500Z 14005KT 9999 FEW023 31/24 A2991 Q1013 NOSIG YSDU 271530Z AUTO 01003KT 9999 // SCT022 SCT035 OVC054 08/06 Q1010 HRYR 271500Z 11005KT 9999 FEW023CB SCT025 25/14 Q1019 NOSIG SVJC 271400Z 08015KT 9999 SCT016 XX/XX Q1010 HTGW 270800Z 08015KT 9999 FEW036 24.1/12 Q1024.2 YROM 271530Z AUTO 28006KT 9999 // BKN050 12/09 Q1014 YSGE 271600Z AUTO 00000KT //// // ////// 09/08 Q1013 SUSO 271500Z 17007KT 7000 OVC006 11/10 Q1025 MYNN 271600Z 02005KT 9999 FEW015CB SCT018TCU 31/23 A2998 RMK TCU SE--W CB/N K9L2 271556Z AUTO 17005KT 10SM CLR 21/06 A2994 RMK AO2 SLP124 T02060056 $ TNCA 271500Z 11015G25KT 080V140 9999 SCT018 30/24 Q1011 A2987 NOSIG HTIR 270700Z 00000KT 9999 FEW019 20/13 Q1026 TNCB 271455Z 10015KT 080V150 9999 SCT015 30/24 Q1012 HSSJ 270900Z 18003KT 9999 FEW040 33/18 Q1015 TNCC 271500Z 12017KT 9999 -RA FEW018 29/24 Q1012 NOSIG TNCE 271455Z AUTO 11011KT 070V160 //// // ///////// 30/24 Q1015 RE// SVLF 271300Z 00000KT 9999 BKN040 XX/XX Q1012 DFFD 271500Z VRB02KT 8000 FEW020 39/22 Q1011 NOSIG YSHK 271600Z AUTO 19008KT //// // ////// 17/13 Q1018 ZJHK 271500Z 17002MPS 7000 -RA SCT046 26/25 Q1008 NOSIG SVMC 271500Z /////KT 9999 BKN013 29/26 Q1012 HTKJ 271500Z 03007KT 9999 SCT028 25/16 Q 1017 NOSIG HSSS 271530Z 33010KT CAVOK 38/M08 Q1009 NOSIG SVMD 271500Z 20002KT 9999 FEW030 26/18 Q1020 TNCM 271500Z 13014KT 9999 FEW016 29/25 Q1015 A2999 NOSIG RMK SHWRS-NW K8W2 271535Z AUTO 00000KT 10SM CLR 28/19 A3008 RMK AO1 T02760194 SVMG 271600Z /////KT 9999 FEW010 32/22 Q1013 NOSIG SVMI 271500Z 27006KT 9999 FEW016 BKN100 29/23 Q1012 NOSIG YSHW 271530Z AUTO 26005KT 9999 // NCD 10/03 Q1007 SVMN 271300Z 18003KT 9999 FEW013 SCT100 26/// Q1011 UEEE 271530Z 30002MPS CAVOK 11/07 Q1005 R23L/09//60 NOSIG RMK QFE745 OIAA 271530Z 18006KT CAVOK 37/07 Q1004 K9MN 271555Z AUTO 02004KT 10SM BKN011 OVC050 18/16 A2983 RMK AO1 T01780160 YTAR 271600Z AUTO 00000KT //// // ////// 07/05 Q1019 YRTI 271600Z AUTO 33022KT //// // ////// 18/12 Q1014 OIAG 271400Z 24014KT CAVOK 41/08 Q1004 OIAH 271500Z 28010KT CAVOK 33/M05 Q1009 SVPA 271500Z /////KT 9999 BKN013 29/24 Q1013 OIAI 271400Z 00000KT CAVOK 40/04 Q1005 OIBA 271500Z 27008KT CAVOK 30/24 Q1002 OIBB 271500Z 30006KT CAVOK 30/20 Q1004 A2966 DGAA 271500Z 18010KT 9999 FEW024 29/24 Q1012 NOSIG OIAM 271500Z 20014KT CAVOK 36/20 Q1004 HTMW 271500Z 30005KT 9999 FEW029 FEW030CB 27/17 Q1016 NOSIG HUEN 271500Z 18003KT 9000 FEW022 FEW024CB 25/20 Q1017 OIBJ 271500Z 30006KT CAVOK 37/00 Q1009 OIBK 271500Z 30014KT CAVOK 29/23 Q1002 SVPM 262000Z 00000KT 9999 SCT050 XX/XX Q1012 OIBL 271500Z 25008KT CAVOK 33/22 Q1003 OICC 271530Z 20004KT 9999 FEW040 26/00 Q1014 A2995 OIAW 271528Z 23006KT CAVOK 38/15 Q1003 YSMH 271600Z AUTO 00000KT 9999 // NCD 19/12 Q1012 YSMI 271600Z AUTO 19007KT //// // ////// 03/02 Q1008 OIBP 2705255Z 31004KT CAVOK 32/19 Q1004 A2965 OIBQ 271500Z 25008KT CAVOK 31/20 Q1004 OICI 271500Z 17004KT CAVOK 30/M05 Q1014 A2995 OICJ 271350Z 23008KT CAVOK 28/M03 Q1017 OIBS 271500Z 27012KT CAVOK 30/23 Q1003 OICK 271450Z 21004KT CAVOK 32/M08 Q1013 YTEE 271530Z AUTO 19009KT 9999 // OVC086 17/07 Q1017 KMG 271600Z AUTO 16005KT 9999 // NCD 06/04 Q1007 OIBV 271400Z 29018KT CAVOK 31/18 Q1002 YSNF 271530Z AUTO 31017G30KT 9999 // BKN013 BKN021 OVC074 22/19 Q1007 YTEF 271600Z AUTO 12007KT //// // ////// 20/09 Q1017 SVSA 271500Z 20007KT 9999 SCT020 SCT300 29/18 Q1013 OICS 271451Z 19010KT 9999 FEW040 28/M03 Q1014 YTEM 271530Z AUTO 35004KT //// // ////// 09/08 Q1008 CPBT 271500Z AUTO 23007KT 12/06 RMK AO1 T01240063 UDSG 271530Z 17006MPS 9000 SCT050CB BKN100 16/04 Q1017 R02/CLRD70 NOSIG YSOL 271600Z AUTO 33003KT 9999 // SCT054 BKN063 OVC086 21/17 Q1018 YSNW 271530Z AUTO 29015KT 9999 // NCD 11/03 Q1006 SVSP 271500Z 00000KT 6000 +HZ BKN025 XX/XX Q1016 SVSR 261700Z /////KT 7000 -DZ OVC013 24/XX Q1015 CPEH 271500Z AUTO 21007KT 15/08 RMK AO1 T01450075 YTGM 271600Z AUTO 28008KT //// // ////// 13/06 Q1015 OIFK 271400Z 00000KT CAVOK 35/10 Q1011 OIFM 271530Z 04004KT 9999 FEW040 29/M10 Q1015 A2997 SVSZ 262100Z 00000KT 8000 HZ BKN040 XX/XX Q1006 OIGG 271530Z VRB02KT CAVOK 24/20 Q1009 YTIB 271600Z AUTO 25013KT //// // ////// 13/05 Q1014 SVVA 271500Z 09005KT 9999 -DZ BKN016 28/25 Q1016 OIFS 271500Z 22008KT CAVOK 25/M09 Q1020 CPFI 271500Z AUTO 22007KT 14/07 RMK AO1 T01350074 OIGK 271351Z 07008KT 9999 FEW035TCU 22/09 Q1017 K9V9 271535Z AUTO 28007KT 10SM -RA OVC070 16/15 A2981 RMK AO2 P0003 T01550153 SVVG 271300Z 23003KT 9999 SCT017 28/15 Q1010 YSRI 271530Z AUTO 35005KT 9999 // NCD 11/04 Q1007 DFOO 271500Z 04004KT 9999 FEW020 37/22 Q1014 OIHH 271451Z 21006KT CAVOK 26/M02 Q1017 SVVL 271200Z 20004KT 9999 SCT030 SCT300 24/19 Q1015 YSRN 271530Z AUTO 02005KT 9999 // SCT026 SCT037 SCT050 05/04 Q1009 OIHM 271400Z 15010KT CAVOK 26/00 Q1017 OIIE 271500Z 13004KT 9999 FEW040 34/M07 Q1010 OIII 271530Z 05004KT CAVOK 31/M03 Q1013 A2992 OIIK 271500Z 12004KT 9999 FEW040TCU 29/05 Q1013 PAAD 271555Z AUTO 06007KT 9SM SCT006 OVC011 00/00 A3039 RMK AO2 PWINO PNO YSTH 271600Z AUTO 27003KT //// // OVC056 09/09 Q1006 OIIP 271500Z 12012KT CAVOK 30/00 Q1012 OJAI 271600Z 25018KT 7000 SCT030 20/09 Q1013 NOSIG OIIS 271400Z 21008KT 9999 FEW035 33/M04 Q1012 PABA 271556Z AUTO 11010KT 10SM -RA OVC007 01/M01 A3038 RMK AO2 UPE29RAB29 SLP285 P0000 T00061006 FZRANO OIKB 271530Z 20008KT 6000 NSC 31/25 Q1002 A2959 PAAK 271556Z 00000KT 10SM OVC021 06/02 A2988 RMK AO1 OJAM 271600Z 27010KT 6000 SCT030 19/08 Q1012 NOSIG YSSY 271530Z 30008KT CAVOK 12/02 Q1007 FM1530 MOD TURB BLW 5000FT ZJSY 271500Z 00000MPS 9999 SCT013 BKN016 29/27 Q1008 NOSIG PABE 271553Z 05009KT 10SM BKN200 09/07 A3011 RMK AO2 SLP197 T00940072 OJAQ 271500Z 33015KT CAVOK 31/13 Q1008 PAAQ 271553Z 00000KT 10SM CLR 12/05 A3008 RMK AO2 SLP187 T01170050 PABI 271553Z 00000KT 10SM BKN048 OVC070 09/04 A3025 RMK AO2 SLP254 T00890044 CPIR 271500Z AUTO 21007KT 12/07 RMK AO1 T01150073 OIKK 271500Z 07016KT 9999 SCT045 29/M10 Q1016 A3002 PABL 271556Z AUTO 00000KT M1/4SM 02/01 A3030 RMK AO1 YSTW 271600Z AUTO 00000KT 9999 // SCT056 06/03 Q1012 PACD 271553Z 15011KT 10SM OVC100 07/06 A2999 RMK AO2 SLP156 T00720056 OIKO 271350Z 19004KT CAVOK 34/21 Q1004 OIKQ 271500Z 24014KT 7000 NSC 29/24 Q1003 PABR 271553Z 11013KT 6SM BR OVC005 M01/M02 A3035 RMK AO2 DZE30 SLP278 P0000 T10061017 HTZA 271500Z 13011KT 9999 FEW020 28/22 Q1015 NOSIG OIMB 271500Z 35012KT CAVOK 30/M09 Q1015 PABT 271553Z 00000KT 10SM FEW031 10/04 A3022 RMK AO2 SLP243 T01000044 OIMC 271400Z 36006KT CAVOK 35/08 Q1011 YTMO 271600Z AUTO 16008KT //// // ////// 16/09 Q1018 OIMD 271400Z 36004KT CAVOK 34/M02 Q1008 PABV 271556Z AUTO 30004KT 10SM CLR 11/07 A3010 RMK AO2 SLP201 T01110067 PACM 271556Z AUTO 08003KT 10SM CLR 06/06 A3023 RMK AO2 SLP234 T00610056 YTNG 271600Z AUTO 27004KT 9999 // SCT115 17/13 Q1013 PADE 271553Z AUTO 34003KT 1/2SM FG VV002 05/03 A3031 RMK AO2 SLP262 T00500033 TSNO YSWG 271530Z AUTO 08009KT 9999 // BKN028 BKN037 BKN047 08/06 Q1007 YSWH 271600Z AUTO 26006KT 9999 -RA BKN071 OVC081 09/08 Q1006 PADG 271525Z 22005KT 1/2SM FG VV000 02/02 A3032 UDYZ 271530Z 17002MPS 9999 FEW040 21/07 Q1015 R09/0///70 NOSIG YTNK 271600Z AUTO 10013KT 9999 // NCD 21/10 Q1016 OINB 271400Z 27004KT CAVOK 25/18 Q1009 PADK 271556Z AUTO 21007KT 10SM OVC022 06/M01 A2990 RMK AO1 PAEC 271446Z 36012KT 30SM FEW080 08/04 A3012 RMK NOSPECI PADL 271456Z AUTO 02012KT 10SM CLR 12/06 A3007 RMK AO2 SLP187 T01220056 57004 PADM 271556Z AUTO 07011KT 10SM CLR 12/06 A3020 RMK AO2 TSNO T01220061 SLP216 $ PAED 271558Z AUTO 00000KT 10SM CLR 12/05 A3008 RMK AO2 SLP182 T01220050 $ OIMM 271530Z 10006KT CAVOK 25/08 Q1016 A3001 PACV 271553Z 00000KT 10SM FEW150 11/08 A3009 RMK AO2 SLP189 T01110083 OIMN 271500Z 00000KT CAVOK 26/10 Q1016 OINE 271500Z 00000KT CAVOK 34/15 Q1008 UERP 271500Z 04002MPS CAVOK 02/M03 Q1013 NOSIG RMK QFE716 OING 271500Z 27012KT CAVOK 25/19 Q1011 PAEG 271553Z AUTO 00000KT CLR 08/01 A3022 RMK AO2 SLP237 T00780006 TSNO $ UERR 271500Z VRB01MPS 9999 -SHRA BKN025CB 05/04 Q1009 R25/290350 NOSIG RMK QFE725 OIMQ 271400Z 22006KT 9999 FEW035TCU 33/04 Q1012 PADQ 271553Z 00000KT 10SM FEW006 09/07 A3008 RMK AO2 SLP185 T00890072 PAEH 271455Z 15010KT 20SM FEW200 16/06 A3006 RMK AO2A SLP178 5//// BWC LOW PACZ 271555Z VRB01KT 10SM SCT200 11/03 A3017 RMK AO2A SLP218 BWC LOW PAEI 271543Z VRB01KT 10SM FEW035 OVC048 09/06 A3023 RMK AO2A NSFA 271500Z 00000KT 9999 FEW024 SCT160 BKN280 24/23 Q1014 PAFA 271553Z 00000KT 10SM SCT040 OVC055 10/07 A3023 RMK AO2 SLP241 T01000072 PAFB 271558Z AUTO 09005KT 10SM OVC060 09/07 A3024 RMK AO2 SLP244 T00900067 OINK 271400Z 25008KT CAVOK 35/17 Q1006 PAEL 271445Z 00000KT 12SM FEW012 BKN030 09/08 A3005 RMK NOSPECI PADU 271556Z 04006KT 10SM SCT006 OVC013 08/06 A3001 RMK AO2 SLP164 MH T00800060 $ PAEM 271556Z AUTO 04009KT 10SM CLR 06/04 A3023 RMK AO2 SLP298 T00560044 OINN 271500Z 00000KT 9999 FEW090 23/20 Q1009 PAEN 271553Z 04006KT 10SM CLR 13/06 A3010 RMK AO2 SLP193 T01280056 PAFE 271556Z 24003KT 10SM FEW025 SCT032 10/06 A3002 RMK AO1 OINR 271500Z 09004KT 5000 BR FEW027 23/20 Q1009 PAGA 271458Z AUTO 35003KT 10SM CLR 06/04 A3028 RMK AO2 SLP261 T00610044 56002 PAFM 271556Z AUTO 29003KT 10SM CLR 08/06 A3034 RMK AO1 OINZ 271500Z 30008KT 9999 SCT100 25/18 Q1010 PAGH 271557Z AUTO 28008KT 10SM CLR 09/07 A3029 RMK AO2 SLP287 T00890072 PAFR 271554Z AUTO 00000KT 10SM CLR 12/06 A3009 RMK AO1 SYCJ 271545Z 06008KT 9999 TS FEW016CB BKN017 29/26 Q1013 CB-W-N NOSIG PAFS 271556Z AUTO 00000KT 10SM -RA CLR 09/04 A3022 RMK AO2 TSNO T00940044 P0000 SLP242 $ PAGK 271553Z AUTO 01008KT 10SM CLR 11/01 A3014 RMK AO2 SLP208 T01110006 TSNO PAGL 271556Z AUTO 31008KT 10SM SCT001 03/01 A3029 RMK AO1 PAHC 271556Z AUTO 03004KT 10SM CLR 11/06 A3018 RMK AO2 PWINO TSNO T01050061 SLP223 $ YTRE 271530Z AUTO 28009KT 9999 // NCD 14/03 Q1008 PAGM 271445Z AUTO 8SM OVC004 03/M16 A3030 RMK VIA PHONE PAGN 271556Z AUTO VRB03KT 10SM CLR 10/08 A3002 RMK AO2 SLP155 T01000078 PAGS 271556Z AUTO 00000KT 10SM FEW110 09/08 A3005 RMK AO2 SLP176 T00940078 PAHL 271556Z AUTO 00000KT 10SM CLR 08/05 A3027 RMK AO1 PAHN 271554Z AUTO 29008KT 10SM SCT095 13/04 A3004 RMK AO2 SLP175 T01330044 TSNO PAHO 271453Z 09005KT 10SM CLR 10/07 A3008 RMK AO2 SLP187 T01000067 56006 PAGY 271553Z AUTO 00000KT 10SM BKN100 14/05 A3004 RMK AO2 SLP174 T01390050 TSNO PAIG 271556Z AUTO 35006KT 10SM CLR 09/07 A3007 RMK AO2 SLP192 T00890067 $ PAII 271556Z AUTO 10008KT 10SM CLR 09/06 A3004 RMK AO2 SLP176 T00940056 OISA 271355Z 18006KT CAVOK 30/M22 Q1018 NTAA 271530Z AUTO 09005KT 9999 NCD 24/21 Q1013 PAIK 271501Z AUTO 02003KT 10SM CLR 06/06 A3035 RMK AO2 SLP318 6//// T00610056 53001 PNO $ PAIL 271553Z 02007KT 10SM CLR 12/06 A3009 RMK AO2 SLP190 T01220056 PAJC 271556Z AUTO 03006KT 10SM OVC010 08/06 A3005 RMK AO2 SLP178 T00780061 PAIM 271550Z 35008KT 10SM FEW027 09/05 A3023 RMK AO2A SLP242 BWCLOW PAIN 271556Z AUTO 00000KT 10SM 06/04 A3022 RMK AO1 OISF 271500Z 21006KT CAVOK 32/M07 Q1010 PAHX 271556Z AUTO 02008KT 10SM CLR 09/07 A3021 RMK AO2 SLP232 T00890067 YTTI 271600Z AUTO 25009KT //// // ////// 29/25 Q1013 YTST 271530Z AUTO 25005KT 9999 // NCD 27/24 Q1013 OISL 271500Z 27008KT CAVOK 36/M01 Q1007 PAJN 271553Z VRB03KT 10SM SCT014 SCT032 BKN090 11/07 A3002 RMK AO2 SLP165 T01060067 PAIW 271458Z AUTO 20005KT 9SM OVC006 03/02 A3032 RMK AO2 SLP269 T00280017 55002 DIAD 271400Z 24008KT 9999 SCT013 BKN100 31/25 Q1013 NOSIG PAKF 271501Z AUTO 00000KT 10SM BKN026 06/04 A3002 RMK AO2 SLP261 T00610044 56014 $ CPRO 271500Z AUTO 18010KT 15/08 RMK AO1 T01500077 PAKI 271556Z AUTO 02008KT 10SM CLR 10/08 A3008 RMK AO2 SLP186 T01000083 ZLLL 271500Z 31001MPS CAVOK 12/09 Q1015 NOSIG OISS 271530Z 27008KT CAVOK 30/M17 Q1015 A2998 PAKK 271556Z AUTO 00000KT 10SM CLR 06/M02 A3025 RMK AO1 OKBK 271600Z 12010KT CAVOK 35/07 Q1005 NOSIG OITL 271500Z 07021KT 9999 FEW010 FEW035TCU 19/09 Q1014 OITM 271500Z 23004KT 9999 SCT030 27/04 Q1013 SYGO 271500Z 05004KT 9999 FEWW018CB SCT019 BKN300 30/26 Q1013 CB S-WNW PAKN 271554Z 02004KT 10SM FEW200 09/06 A3002 RMK AO2 SLP167 T00890056 OITP 271400Z 11008KT CAVOK 30/17 Q1007 OISY 271500Z 00000KT CAVOK 28/M02 Q1019 PAKP 271556Z AUTO 05009KT 10SM OVC026 04/01 A3023 RMK AO1 PALG 271556Z AUTO 00000KT 10SM CLR 13/07 A3015 RMK AO2 TSNO T01270066 SLP212 $ PALH 271553Z AUTO 01003KT 10SM 13/04 A3010 RMK AO2 SLP192 T01280044 TSNO $ PAJZ 271556Z AUTO 01006KT 7SM CLR 12/06 A3014 RMK AO2 SLP210 T01170056 $ YTWB 271600Z AUTO 25010KT 9999 // NCD 08/05 Q1014 CPRY 271500Z AUTO 25007KT 14/07 RMK AO1 T01400066 OITR 271530Z 28008KT 9999 SCT035CB SCT040 23/05 Q1013 DIAP 271530Z 24009KT 200V270 9999 SCT012 FEW020CB 29/25 Q1012 TEMPO TS PALJ 271457Z 00000KT 40SM FEW200 07/05 A3009 RMK FIRST EST PASS OPEN NOSPECI OITT 271530Z 35012KT 8000 SCT035 22/04 Q1015 A2999 PAKT 271553Z 35006KT 10SM -RA FEW013 SCT038 OVC051 10/08 A3000 RMK AO2 SLP159 HARBOR WIND 31006KT P0005 T01000083 PAMB 271556Z AUTO 06008KT 10SM CLR 12/07 A3006 RMK AO2 SLP185 T01220072 $ PAKU 271545Z 09011KT 7SM R06/P6000FT OVC008 M01/M02 A3039 OITU 271351Z 33010KT 9999 FEW035CB BKN040 16/04 Q1017 PAMC 271553Z 00000KT 10SM CLR 08/04 A3023 RMK AO2 SLP240 T00830044 DIBK 271400Z 18004KT 9999 BKN013 28/24 Q1016 NOSIG CPST 271500Z AUTO 34008KT 09/08 RMK AO1 T00860082 PAKV 271553Z AUTO 00000KT 10SM CLR 08/05 A3029 RMK AO2 SLP260 T00830050 TSNO PNO $ PAMD 271556Z AUTO 00000KT 10SM CLR 13/09 A3006 RMK AO1 PAKW 271553Z AUTO VRB04KT 10SM OVC020 10/07 A2999 RMK AO2 SLP157 T01000067 TSNO CPSV 271500Z AUTO 16015KT 14/09 RMK AO1 PK WND 16020/1459 T01420094 PALP 271553Z 10014KT 10SM OVC010 00/M02 A3040 OITZ 271500Z 23008KT 9999 SCT035 26/01 Q1014 PAMH 271556Z AUTO 00000KT 10SM CLR 09/04 A3023 RMK AO1 PANA 271556Z AUTO CLR 11/07 A3009 RMK AO2 SLP188 T01060067 $ PAMK 271556Z AUTO 08008KT 10SM OVC007 M02/M09 A3025 RMK AO2 TSNO T10221088 SLP246 $ PANC 271553Z 00000KT 10SM FEW200 13/04 A3009 RMK AO2 SLP189 T01280044 PALU 271555Z AUTO 10003KT 10SM OVC003 01/01 A3034 RMK AO2 SLP272 T00060007 PAMM 271556Z AUTO 00000KT 10SM SCT026 BKN037 OVC050 11/08 A3002 RMK AO1 DIBU 271400Z VRB02KT 9999 BKN013 SCT100 29/24 Q1015 NOSIG PAMO 271556Z AUTO 00000KT 10SM CLR 11/06 A3021 RMK AO2 TSNO T01050055 SLP114 $ PAMR 271553Z 33003KT 10SM CLR 13/04 A3009 RMK AO2 SLP189 T01280044 PANI 271556Z AUTO 00000KT 10SM CLR 10/06 A3015 RMK AO1 UHBB 271500Z VRB01MPS 9999 SCT033CB 07/05 Q1002 R36/090060 NOSIG RMK QFE734/0979 DIDK 271400Z ///// 9999 SCT015 BKN100 32/26 Q1013 NOSIG DIDL 271400Z ///// 9999 BKN015 30/25 Q1014 NOSIG PANN 271553Z AUTO 00000KT 10SM OVC042 10/06 A3021 RMK AO2 SLP237 T01000056 TSNO PAMY 271556Z AUTO 28003KT 3SM CLR 05/02 A3014 RMK AO1 PAOH 271556Z AUTO 27004KT 10SM CLR 11/07 A3004 RMK AO2 SLP172 T01110067 PANT 271553Z 00000KT 9SM -RA OVC029 11/08 A3000 RMK AO2 RAB38 SLP159 P0000 T01110083 PAPB 271553Z AUTO 09008KT 10SM OVC024 07/06 A3003 RMK AO2 SLP158 T00720061 TSNO PAOM 271553Z 00000KT 10SM FEW017 SCT220 BKN280 03/02 A3026 RMK AO2 SLP247 T00280017 PANV 271556Z AUTO 03007KT 10SM CLR 10/04 A3019 RMK AO1 PANW 271556Z AUTO 02008KT 10SM CLR 09/05 A3009 RMK AO2 SLP204 T00940050 UGKO 271530Z 12007KT 9999 SCT049 20/16 Q1011 R25/09//70 NOSIG PAOO 271556Z AUTO 31008KT 10SM CLR 15/06 A3012 RMK AO2 SLP210 T01500061 PAPG 271556Z 00000KT 10SM FEW011 SCT027 BKN037 09/06 A2998 RMK AO1 PAPH 271556Z AUTO 21003KT 10SM CLR 08/06 A3005 RMK AO2 SLP180 T00780061 PAOR 271553Z AUTO 33005KT 10SM CLR 09/04 A3018 RMK AO2 SLP231 T00940039 TSNO OIZB 271500Z 36006KT CAVOK 35/08 Q1005 PAOT 271553Z 02008KT 10SM FEW027 SCT120 05/03 A3031 RMK AO2 SLP265 T00500033 DIGA 271400Z 20006KT 9999 BKN013 31/25 Q1015 NOSIG PAOU 271501Z AUTO 25004KT 10SM 07/06 A3003 RMK AO2 SLP167 T00720061 56014 $ PAPM 271556Z AUTO 04011KT 10SM 09/08 A3004 RMK AO2 SLP175 T00890078 CPXL 271500Z AUTO 15010KT 15/10 RMK AO1 PK WND 15019/1419 T01470098 PAPN 271556Z AUTO 15003KT 10SM CLR 08/07 A3002 RMK AO2 SLP167 T00830067 OIZH 271530Z 02006KT 8000 NSC 32/01 Q1014 A2994 PAQH 271556Z AUTO 02007KT 10SM CLR 09/07 A3005 RMK AO2 SLP178 T00940072 OIZI 271500Z 27006KT CAVOK 41/03 Q1004 OIZJ 271500Z 29010KT 7000 NSC 33/23 Q1001 PAPT 271455Z 26004KT 25SM FEW100 02/01 A3012 RMK NO SPECI FIRST PARC 271556Z 07004KT 10SM 07/M01 A3018 RMK AO1 OIYY 271530Z 34002KT CAVOK 34/M10 Q1012 PASA 271556Z AUTO 00000KT 10SM OVC006 03/01 A3027 RMK AO1 PAQT 271553Z AUTO 08011KT 10SM OVC004 00/M01 A3039 RMK AO2 SLP293 T00001006 TSNO PASC 271553Z 07009KT 2SM BR OVC008 M01/M02 A3039 RMK AO2 SNB41E52 CIG 007V011 SLP290 P0000 T10061017 PASD 271550Z 01003KT 10SM FEW014 SCT035 BKN080 08/04 A3001 RMK WEA YWCA 271600Z AUTO 31010KT //// // ////// 10/08 Q1011 PASH 271556Z AUTO 05005KT 5SM OVC008 02/01 A3036 RMK AO1 PNO PASI 271553Z 00000KT 10SM SCT026 SCT090 11/06 A3002 RMK AO2 SLP165 T01060061 YWBL 271600Z AUTO 15004KT 9999 // BKN023 BKN110 07/06 Q1009 OLBA 271500Z 23011KT 9999 SCT026 SCT080 23/16 Q1011 NOSIG PATA 271552Z 31009KT 10SM FEW020 BKN033 BKN130 12/04 A3025 RMK AO2 SLP245 T01220044 PARS 271556Z AUTO 00000KT 10SM CLR 10/07 A3016 RMK AO2 SLP219 T01000067 $ PASK 271556Z AUTO 06005KT 1/2SM OVC001 05/05 A3032 RMK AO1 PATC 271555Z AUTO 00000KT 5SM BR OVC002 02/02 A3030 RMK AO2 SLP265 T00150017 PASL 271556Z AUTO 00000KT 10SM CLR 12/05 A3021 RMK AO1 PASM 271556Z 05006KT 10SM CLR 08/04 A3018 RMK AO1 PATE 271554Z AUTO 07005KT 2 1/2SM BR OVC003 02/02 A3030 RMK AO2 FZRANO PASN 271553Z 09007KT 5SM BR BKN003 OVC023 06/05 A3004 RMK AO2 SLP173 T00610050 PASO 271553Z AUTO 00000KT 10SM CLR 08/07 A3008 RMK AO2 SLP184 T00830067 TSNO YWBR 271600Z AUTO 12008KT //// // ////// 14/03 Q1020 PATG 271356Z AUTO 36007KT 9SM CLR 08/07 A3007 RMK AO2 SLP183 T00830067 PARY 271556Z AUTO 00000KT 10SM CLR 10/04 A3025 RMK AO2 TSNO T01000044 SLP251 $ MSV 271600Z AUTO 26013KT 9999 // NCD 06/03 Q1006 PATK 271553Z AUTO VRB04KT 10SM CLR 13/03 A3010 RMK AO2 SLP196 T01280028 TSNO PATL 271555Z AUTO VRB03KT 10SM CLR 09/05 A3025 RMK AO2 SLP244 T00880051 $ PASV 271555Z AUTO 13001KT 10SM CLR 08/05 A3010 RMK AO2 SLP191 T00820048 MUI 271600Z AUTO 34014KT 9999 // SCT042 06/04 Q1011 PASW 271452Z 00000KT 30SM SCT150 08/06 A3012 RMK FIRST NOSPECI PATO 271553Z AUTO 00000KT 10SM CLR 08/04 A3010 RMK AO2 SLP192 T00780044 TSNO PASX 271556Z AUTO 07003KT 10SM CLR 11/04 A3008 RMK AO1 UHHH 271530Z 27004MPS CAVOK 08/05 Q1002 R23L/CLRD60 NOSIG RMK QFE745/0993 PASY 271556Z 27013G18KT 9SM BKN008 OVC013 06/03 A2975 RMK AO2 SLP073 WND DATA ESTMD T00560030 $ PATQ 271556Z AUTO 10005KT 1/2SM FG OVC006 03/03 A3033 RMK AO2 TSNO T00330033 RAB01E23 P0000 SLP276 $ PAVA 270656Z AUTO 02010KT 10SM A3025 RMK AO2 SLPNO FZRANO PNO $ NSTU 271551Z 14010KT 10SM FEW018 BKN040 OVC100 26/25 A2994 RMK SLP141 T02630249 PAVC 271556Z AUTO 06005KT 10SM OVC007 07/06 A3002 RMK AO2 SLP172 T00720056 PAVD 271556Z 27003KT 10SM FEW120 11/04 A3009 RMK AO1 1547Z WEA PAUN 271556Z AUTO 06006KT 10SM CLR 06/03 A3025 RMK AO1 DIKO 271400Z 22004KT 9999 SCT013 SCT100 30/23 Q1015 NOSIG UIAA 271500Z 22003MPS 9999 -SHRA BKN033CB 08/06 Q1001 R29/CLRD70 NOSIG RMK QFE693 UGSB 271530Z 02009KT 9999 FEW033 19/16 Q1012 R13/CLRD70 NOSIG PAUT 271555Z AUTO 08009KT 10SM SCT003 OVC012 06/06 A2999 RMK AO2 T00600060 PAVL 271452Z AUTO 00000KT 3SM BR BKN007 OVC014 01/01 A3034 RMK SLP275 T00110011 52002 TSNO VIA AUTODIAL PAWD 271553Z AUTO 35008KT 10SM CLR 13/04 A3007 RMK AO2 SLP183 T01330044 TSNO PAWG 271556Z 25003KT 10SM SCT009 BKN021 OVC042 09/06 A3001 RMK AO1 WEA PAWI 271553Z AUTO 28005KT 9SM OVC032 03/02 A3031 RMK AO2 SLP266 T00280017 TSNO UIBB 271530Z 32002MPS 9999 NSC 04/M05 Q1015 R30/CLRD60 NOSIG RMK QFE718/0958 UGTB 271530Z 12005KT 9999 SCT050CB 25/13 Q1014 R13R/CLRD80 NOSIG PAWM 271458Z AUTO 01005KT 10SM CLR 04/03 A3027 RMK AO2 SLP262 T00390028 56005 PAWN 271556Z AUTO 00000KT 10SM OVC025 04/02 A3034 RMK AO1 DIMN 271400Z VRB02KT 9999 BKN013 29/23 Q1015 NOSIG YWHA 271530Z AUTO 31009KT 9999 // NCD 10/08 Q1013 PAYA 271553Z 00000KT 10SM VCFG FEW001 SCT100 12/08 A3007 RMK AO2 SLP181 T01170078 PAWS 271556Z AUTO 06006KT 10SM CLR 14/03 A3008 RMK AO1 ZLXY 271500Z VRB01MPS 6000 OVC070 14/14 Q1014 NOSIG DIOD 271400Z 04004KT CAVOK 28/22 Q1016 NOSIG UHMA 270600Z 11009MPS 4000 BR OVC005 03/03 Q1018 R88/19//60 NOSIG RMK QFE759/1012 YWGT 271530Z AUTO 19004KT 9999 // OVC035 OVC041 05/05 Q1007 YVRD 271600Z AUTO 00000KT //// // ////// 22/14 Q1012 UHMD 270400Z 18003MPS 8000 VCFG SCT006 OVC014 03/01 Q1023 RMK QBB200 QBB430 MT OBSC QFE767/1022 PAZK 271556Z AUTO 12003KT 10SM CLR 08/M01 A3014 RMK AO1 UHMM 271500Z 05001MPS 9999 NSC 06/02 Q1011 RMK QFE744 YWIS 271600Z AUTO 21004KT //// // ////// 21/13 Q1012 OMAA 271500Z 30009KT CAVOK 31/20 Q1005 A2967 NOSIG OMAD 271500Z 34005KT 320V020 CAVOK 32/21 Q1005 A2968 NOSIG ZMUB 271600Z 35008MPS 320V020 9999 FEW033 SCT100 04/M01 Q1009 NOSIG RMK QFE650.5 73 NT OMAL 271500Z 32011KT CAVOK 34/09 Q1006 A2973 NOSIG YWLG 271530Z AUTO 34005KT 9999 // NCD 07/05 Q1012 TQPF 271600Z 11014KT 9999 BKN020 BKN270 31/24 Q1015 YWLM 271600Z AUTO 30014KT 9999 // NCD 12/05 Q1008 DITB 271400Z 20002KT 9999 SCT013 BKN100 28/25 Q1014 NOSIG UHPP 271500Z 04002MPS 360V060 9999 NSC 02/M04 Q1007 R34R/CLRD70 NOSIG RMK QFE752/1002 EBBE 271536Z 01008KT 9999 FEW070 SCT095 BKN110 21/14 Q1014 BLU FCST CANCEL DISP 271400Z 20008KT 9999 SCT013 SCT100 28/25 Q1014 NOSIG OMDB 271500Z 26008KT CAVOK 32/20 Q1004 NOSIG DISS 271400Z ///// 9999 SCT015CB BKN260 29/25 Q1014 NOSIG EBBL 271525Z AUTO 02007KT 9999 FEW031/// SCT038/// 22/14 Q1014 BLU FCST CANCEL EBAW 271550Z 04008KT 010V070 9999 FEW033 21/13 Q1014 NOSIG UIII 271530Z 28006MPS 9999 FEW050CB 03/01 Q1016 R30/290150 NOSIG RMK QFE717/0957 EBCI 271550Z 07006KT 050V110 9999 -RA FEW025CB 19/13 Q1014 TEMPO 3000 TSRA EBBR 271550Z 04010KT 9999 FEW038TCU SCT040 22/13 Q1014 TEMPO 3000 SHRA TSRA CTCK 271500Z AUTO 20006KT 27/19 RMK AO1 SLP126 T02730186 58008 VAAH 271530Z 23013KT 4000 FU FEW020 33/25 Q1005 NOSIG YWOL 271600Z AUTO 26012KT 9999 // NCD 11/05 Q1006 VABB 271530Z 25010KT 4000 HZ SCT020 31/25 Q1009 NOSIG KA08 271535Z AUTO 17008KT 10SM CLR 28/19 A3004 RMK AO2 T02830185 OMDW 271500Z 28008KT CAVOK 31/22 Q1005 NOSIG EBCV 271547Z AUTO 03008KT 9999 FEW041/// 23/13 Q1013 BLU UHSS 271500Z 16002MPS 9999 -SHRA SCT050CB 08/07 Q1000 RMK QFE748/0998 OMFJ 271500Z 10004KT 070V150 8000 NSC 31/26 Q1004 A2965 VAAU 271400Z 28006KT 6000 FEW020 36/23 Q1008 EBDT 271525Z AUTO 02009KT 9999 FEW034/// 22/14 Q1014 BLU VABO 271500Z 20015G26KT 6000 NSC 33/23 Q1005 VABP 271530Z 28012KT 6000 NSC 36/16 Q1006 NOSIG EBFN 271525Z 03014KT 7000 FEW100 BKN250 19/13 Q1015 WHT FCST CANCEL EBFS 271525Z 01007KT 9999 FEW032CB SCT110 20/13 Q1014 BLU BLU DIYO 271400Z 18004KT 9999 BKN013 SCT100 31/24 Q1013 NOSIG YWUD 271600Z AUTO 27010KT //// // ////// 09/07 Q1016 YWTN 271600Z AUTO 20005KT //// // ////// 18/07 Q1017 UHWW 271530Z 07003MPS 9999 NSC 11/07 Q1005 R07R/0///70 NOSIG RMK QFE753 TRPG 271600Z 12014KT 9999 SCT012 BKN260 28/24 Q1015 VAID 271500Z 27010KT 6000 FEW020 34/17 Q1008 NOSIG EBLB 271525Z AUTO 11003KT 9999 OVC057/// 15/11 Q1015 BLU EBLG 271550Z 14011KT 110V190 9999 -SHRA SCT032CB 18/12 Q1014 TEMPO 2500 TSRA YWWL 271600Z AUTO 33002KT //// // ////// 10/10 Q1007 VAJB 271500Z 00000KT 6000 SCT025 SCT030 FEW035CB BKN100 30/21 Q1004 VAJJ 270930Z 30014KT 260V330 0000 FEW020 34/27 Q1009 NOSIG UKBB 271530Z 04003MPS 020V080 9000 -SHRA SCT032CB BKN040 19/16 Q1015 R88/290060 TEMPO VRB12G18MPS 1400 TSRAGR SQ YWYM 271600Z AUTO 25004KT //// // ////// 28/18 Q1011 CTNK 271500Z AUTO 21002KT 23/15 RMK AO1 SLP138 T02280149 58001 UKDD 271530Z 29003MPS 200V020 9999 VCTS SCT033CB BKN100 20/16 Q1012 R26/210370 TEMPO -TSRA BKN015CB UKDE 271530Z 17003MPS 150V210 9999 SCT033 BKN100 23/12 Q1012 R20/210370 TEMPO VRB08G13MPS 2100 -TSRAGR BKN007 BKN013CB YWYY 271530Z AUTO 30007KT 9999 // NCD 06/03 Q1007 TTCP 271500Z 12011KT 9999 VCSH BKN016 29/25 Q1014 NOSIG RMK SHWRS TO E UIUU 271530Z 24005MPS 200V260 9999 BKN026CB 05/00 Q1011 R26/190095 NOSIG RMK QFE714/0952 EBOS 271550Z 03014KT 8000 NSC 18/12 Q1015 NOSIG UKDR 271548Z 01005MPS 330V050 9999 OVC030CB BKN200 24/14 Q1012 R36/290157 TEMPO -TSRA BKN020CB OMRK 271500Z 27005KT CAVOK 31/20 Q1004 A2966 NVSC 270900Z 00000KT 9999 FEW020 27/25 Q1014 RMK HZ CTRA 271500Z AUTO 17002KT 18/12 RMK AO1 SLP087 T01780115 53002 VANP 271500Z 31007KT 5000 HZ NSC 39/14 Q1004 NOSIG OMSJ 271500Z 26008KT CAVOK 32/21 Q1004 EDAC 271550Z 02006KT 9000 BKN080 17/13 Q1017 EDAH 271450Z 03008KT 350V050 9999 SCT045 16/08 Q1018 EDBC 271550Z 09005KT CAVOK 19/12 Q1016 UKHH 271530Z VRB01MPS 9999 SCT030CB BKN100 22/16 Q1012 R07/0///67 NOSIG VAPR 270500Z 250010KT 6000 SCT015 SCT020 FEW025TCU 33/26 Q1007 PFCL 271556Z AUTO 04010KT 10SM CLR 11/07 A3006 RMK AO2 SLP181 T01060067 PWINO YYNG 271600Z AUTO 00000KT //// // ////// 06/06 Q1007 ULAA 271530Z 07006MPS 9999 FEW020 16/03 Q1025 R08/CLRD70 NOSIG RMK QFE768/1024 EDDB 271550Z 20003KT 170V280 9999 FEW033 SCT080 BKN120 19/12 Q1016 NOSIG EDDC 271550Z 22012KT 8000 -TSRA SCT034CB BKN054 15/13 Q1017 BECMG NSW EDDE 271550Z 08007KT 040V120 8000 FEW026 SCT070 BKN100 16/12 Q1017 NOSIG EDDF 271550Z 13006KT 010V180 9999 FEW035 FEW038CB BKN100 BKN250 23/14 Q1013 NOSIG EDDG 271550Z 35007KT 310V050 9999 FEW025 FEW035CB BKN120 20/13 Q1015 NOSIG EDDH 271550Z AUTO 05008KT 020V090 //// R05/P2000N R33/P2000N ///////// 18/13 Q1017 NOSIG KAAA 271555Z AUTO 17015G21KT 10SM -RA SCT017 BKN023 BKN031 23/20 A2989 RMK AO2 T02250195 KC09 271555Z AUTO 19011KT 10SM SCT030 BKN080 OVC110 26/18 A2989 RMK AO2 T02580178 PFEL 271458Z AUTO 35004KT 10SM 07/04 A3028 RMK AO2 SLP261 T00670039 56004 $ NVVV 261900Z 06003KT 9999 FEW020 SCT300 18/18 Q1015 RMK FG EDDK 271550Z 06005KT 320V100 9999 FEW040 BKN080 22/13 Q1014 NOSIG EDDL 271550Z 08007KT 050V130 9999 FEW038TCU 22/13 Q1014 NOSIG EDDM 271550Z VRB02KT CAVOK 25/15 Q1014 NOSIG EDDN 271550Z VRB05KT 9999 FEW040TCU FEW041CB SCT150 24/14 Q1014 NOSIG KAAF 271553Z AUTO 13014G20KT 10SM FEW022 27/22 A3006 RMK AO2 SLP179 T02670217 VCBI 271440Z VRB04KT 7000 TSRA FEW010 BKN015 SCT018CB 25/23 Q1012 NOSIG RMK N NE E SE S SW.W.NW EDDP 271550Z 07003KT 9999 -RA NSC 17/13 Q1016 NOSIG UKKK 271556Z 09005MPS 070V130 4500 -TSRA SCT025CB BKN040 16/14 Q1016 RESHRA R08/290256 TEMPO VRB10G17MPS 1400 TSRAGR BKN020CB VASU 270100Z 22006KT 6000 FEW020 SCT025 29/25 Q1007 EDDR 271550Z 18004KT 150V210 9999 FEW035 BKN100 21/12 Q1014 NOSIG VAUD 271500Z 32005KT 5000 HZ FEW030 35/19 Q1007 NOSIG EDDS 271550Z VRB04KT 9999 FEW038CB 23/16 Q1014 NOSIG UKKM 271530Z 30005MPS 9999 FEW033CB 24/15 Q1015 R33/CLRD70 TEMPO VRB12G17MPS 1500 TSRAGR SCT008 BKN020CB EDDT 271550Z VRB03KT 9999 SCT048 BKN120 20/08 Q1016 NOSIG ZPPP 271500Z 22006MPS CAVOK 19/14 Q1017 NOSIG EDDV 271550Z 09005KT 030V140 9999 SCT048 21/12 Q1015 NOSIG KABE 271551Z 26006KT 10SM FEW038 29/18 A3005 RMK AO2 SLP173 T02890183 EDFE 271550Z 15002KT 9999 FEW035 BKN250 21/17 Q1014 EDDW 271550Z 05007KT 340V090 9999 FEW040 BKN120 20/11 Q1016 NOSIG KAAO 271554Z AUTO 14010KT 10SM BKN013 OVC018 21/18 A2970 RMK AO2 SLP048 T02060178 UKLI 271530Z 06003MPS 360V090 9999 FEW033CB BKN040 BKN200 24/11 Q1017 R28/090070 NOSIG KABH 271556Z AUTO 01023G29KT FEW035 A2983 RMK AO2 PK WND 36036/1510 RAE55UPB11E25 SLPNO P0000 $ KABI 271552Z 18014KT 10SM BKN014 OVC020 23/19 A2978 RMK AO2 SLP064 T02280194 EDFH 271550Z 02011KT 9999 -RA VCTS SCT029 SCT035TCU 15/10 Q1015 UKLL 271530Z 08003MPS 350V120 9999 SCT040 BKN100 23/11 Q1017 R13/CLRD80 TEMPO TSRAGR BKN020CB KAAT 271555Z AUTO VRB03KT 10SM CLR 10/02 A3011 RMK AO2 SLP173 T01000022 KACB 271555Z AUTO 00000KT 10SM CLR 27/15 A2994 RMK AO2 T02700145 KC29 271535Z AUTO 17009KT 10SM SCT038 SCT055 BKN090 24/16 A2987 RMK AO1 T02420164 UKLN 271500Z 09002MPS 060V130 CAVOK 23/11 Q1017 R33/09//70 NOSIG EDFM 271550Z VRB02KT 9999 FEW040CB SCT140 24/13 Q1013 KC35 271555Z AUTO 18006KT 10SM CLR 24/18 A2985 RMK AO2 T02360180 UKLR 271500Z 35006MPS 320V030 9999 SCT033CB BKN100 24/11 Q1016 NOSIG KABQ 271552Z VRB03KT 10SM FEW070 FEW300 16/M02 A2997 RMK AO2 SLP089 T01611017 KABR 271553Z AUTO 01007KT 10SM CLR 20/13 A2978 RMK AO2 SLP081 T02000128 KACJ 271555Z AUTO 15007KT 10SM SCT060 27/12 A3013 RMK AO2 UKLU 271530Z 22002MPS 150V260 9999 FEW033 BKN200 26/09 Q1016 R10/090070 NOSIG KACK 271553Z 22010KT 10SM CLR 19/14 A3013 RMK AO2 SLP204 T01890144 KADC 271552Z AUTO 09007KT 10SM SCT100 18/12 A2979 RMK AO2 KADF 271556Z AUTO VRB04KT 8SM -RA CLR 23/23 A2987 RMK AO2 T02330227 RAB40 P0000 PRESRR SLP127 KABY 271553Z 08007KT 050V140 10SM CLR 28/15 A3011 RMK AO2 SLP195 T02830150 KADG 271553Z AUTO 20008KT 10SM CLR 26/17 A3000 RMK AO2 SLP156 T02610167 KACP 271535Z AUTO 00000KT 10SM CLR 22/21 A2992 RMK AO2 LTG DSNT W AND NW P0001 T02190208 KACQ 271555Z AUTO 13009KT 7SM -RA SCT009 BKN040 OVC050 17/15 A2981 RMK AO2 P0003 KADH 271555Z AUTO 17009KT 10SM CLR 20/17 A2972 RMK AO2 LTG DSNT S EDHI 271550Z 05007KT 030V110 9999 SCT025 19/15 Q1017 EDGS 271550Z VRB03KT 9999 SCT032 BKN048 17/13 Q1015 KACT 271551Z 08010KT 7SM -RA BKN050 OVC065 18/17 A2984 RMK AO2 LTG DSNT N AND NE RAE1456B08 TSB10E25 SLP099 P0010 T01830172 EDHK 271550Z 05006KT 010V080 CAVOK 16/10 Q1018 EDHL 271550Z 08006KT 030V120 9999 FEW022 17/12 Q1018 KACV 271553Z AUTO 29006KT 9SM CLR 12/09 A3013 RMK AO2 SLP209 T01220094 KADM 271455Z 17003KT 10SM SKC 19/18 A2969 UKOH 271500Z 26006MPS 9999 FEW040 BKN200 21/15 Q1014 R21/CLRD95 NOSIG KACY 271554Z VRB05KT 10SM CLR 29/19 A3008 RMK AO2 SLP186 T02940194 KAEG 271547Z 29011G16KT 10SM FEW040 SCT120 16/M01 A2998 KAEJ 271555Z AUTO 34016G22KT 10SM CLR 11/M02 A2994 RMK AO2 T01131018 KADS 271552Z AUTO 10013G22 10SM RA BKN008 BKN033 OVC070 20/20 A2981 DNAA 271500Z VRB02KT 9999 TS BKN010 FEW019CB 28/24 Q1013 NOSIG RMK CB?NE-SE? EDJA 271550Z VRB02KT CAVOK 25/11 Q1014 KAEL 271553Z AUTO 12003KT 10SM -RA BKN007 OVC041 17/17 A2980 RMK AO2 P0001 KADU 271555Z AUTO 07006KT 10SM 20/17 A2975 RMK AO2 UKON 271500Z 23004MPS 190V270 9999 VCTS SCT033CB BKN100 21/16 Q1013 NOSIG UKOO 271530Z 20002MPS 9999 FEW036CB BKN060 20/16 Q1014 R16/090060 TEMPO VRB10G18MPS 0500 +TSRAGR SQ KADW 271458Z AUTO VRB04KT 10SM CLR 28/19 A3009 RMK AO2 SLP194 T02770194 53001 CWAE 271500Z 18004KT 15SM SCT013 BKN040 BKN070 07/05 A3004 RMK SC4CU2AC1 WND ESTD SLP181 KAFF 271558Z AUTO 34027G38KT 10SM FEW042 SCT180 SCT210 11/02 A2985 RMK AO2 PK WND 31040/35 SLP076 CWAF 271500Z AUTO 14013KT 09/08 RMK AO1 T00930084 50022 KAFJ 271555Z AUTO 26008KT 10SM FEW043 27/18 A3009 RMK AO1 CWBA 271500Z AUTO 30003KT 23/16 RMK AO1 T02330158 CWAJ 272300Z AUTO 13005KT 19/16 RMK AO1 SLP126 T01860163 56013 KAFK 271555Z AUTO 13004KT 10SM BKN017 BKN085 20/17 A2977 RMK AO2 LTG DSNT W T01960167 KAGC 271553Z 23009KT 10SM FEW039 27/17 A3007 RMK AO2 SLP178 T02670167 TTPP 271500Z 07007KT 9999 BKN020 31/23 Q1013 NOSIG KAFN 271552Z AUTO 00000KT 10SM CLR 25/15 A3009 RMK AO2 SLP190 T02500150 CWBE 271500Z AUTO 26006KT 16/15 RMK AO1 SLP155 T01610152 53005 KAEX 271553Z 15012KT 9SM OVC100 23/22 A2989 RMK AO2 RAE47 SLP123 P0007 T02330222 KAFO 271555Z AUTO 00000KT 10SM CLR 08/04 A3002 RMK AO2 KAFP 271550Z AUTO 22005KT 10SM BKN050 28/15 A3016 RMK AO2 T02760151 KC75 271535Z AUTO 19015G19KT 10SM SCT023 SCT030 SCT085 23/18 A2986 RMK AO2 T02330175 CWAQ 271500Z AUTO 33003KT 14/11 RMK AO1 SLP119 T01370108 58002 CWAR 271500Z AUTO 05013KT 07/ RMK AO1 PK WND 06020/1416 SLP251 T0065 51006 PFKT 271504Z AUTO 08003KT 10SM OVC004 03/02 A3033 RMK AO2 CWCA 271500Z 35003KT 250V030 15SM FEW020 FEW070 SCT200 08/M03 A3022 RMK CU1AC1CI1 SLP236 CWBK 271500Z AUTO 31005KT 08/06 RMK AO1 SLP247 T00760063 53004 PFKW 271556Z AUTO 04007KT 10SM CLR 11/07 A3009 RMK AO2 SLP190 T01110067 KAFW 271553Z 18007G27KT 130V260 10SM -RA SCT010 SCT080 BKN100 OVC200 19/17 A2979 RMK AO2 PK WND 14032/1535 TSE28 PRESRR SLP078 CB DSNT E-S MOV E P0003 T01890172 CWCF 271500Z AUTO 06009G16KT 08/05 RMK AO1 SLP137 T00810050 53010 CWBO 271500Z AUTO 16010KT 16/09 RMK AO1 SLP088 T01560086 51007 CWCI 271500Z AUTO 12009KT 08/08 RMK AO1 SLP136 T00790078 KAGS 271553Z 14008KT 10SM CLR 27/16 A3014 RMK AO2 SLP203 T02720161 KAIA 271553Z AUTO 07006KT 4SM RA BR FEW031 BKN046 OVC055 11/10 A2987 RMK AO2 SLP099 P0014 T01060100 $ CWBS 271500Z AUTO 07007KT 15/13 RMK AO1 T01540134 CWDA 271500Z AUTO 13006KT 07/01 RMK AO1 SLP262 T00730007 58014 CWCJ 271500Z AUTO 25002KT 10/09 RMK AO1 SOG 02 3013 SLP144 T00970093 EDMA 271550Z 33006KT CAVOK 23/13 Q1014 KAIB 271555Z AUTO 00000KT 10SM BKN120 13/01 A3003 RMK AO2 CWBT 271500Z AUTO 12007KT 08/04 RMK AO1 SLP251 T00810035 58011 KAID 271549Z 17010KT 10SM CLR 26/19 A3003 CWDC 271500Z AUTO 11004KT 05/02 RMK AO1 5000 SLP196 T00540022 50009 CWBU 271500Z AUTO 06014KT 09/05 RMK AO1 PK WND 06019/1449 SLP169 T00850052 51016 CWBV 271500Z AUTO 07007KT 08/ RMK AO1 SLP246 T0077 53004 KAHN 271551Z 00000KT 10SM SCT055 26/16 A3016 RMK AO2 SLP206 T02560156 EDLN 271550Z VRB05KT CAVOK 22/14 Q1014 CWCO 271500Z AUTO 02003KT 17/15 RMK AO1 SLP146 T01730146 53008 KAIG 271535Z AUTO 13006KT 10SM OVC100 20/15 A2991 RMK AO2 T02000149 CWBY 271500Z AUTO 16009KT 08/03 RMK AO1 SLP241 T00830026 56016 EDLP 271550Z 05003KT 360V090 CAVOK 21/11 Q1015 KAHQ 271555Z AUTO 14004KT 10SM SCT020 21/16 A2975 RMK AO2 T02090157 CWBZ 271500Z AUTO 22006KT 28/18 RMK AO1 SLP138 T02830176 58007 UMBB 271330Z 00000MPS 9000 TS BKN032CB SCT100 21/14 Q1018 R11/CLRD// NOSIG KD07 271556Z AUTO 36012KT 18/07 A2982 RMK AO1 SLP097 T01830067 OOMS 271450Z 05004KT 9000 NSC 32/25 Q1003 NOSIG CWDJ 271500Z AUTO 12006KT 18/10 RMK AO1 SLP123 T01800097 50004 KAIK 271555Z AUTO 00000KT 10SM BKN065 BKN090 25/16 A3019 RMK AO2 KBAB 271558Z AUTO VRB03KT 10SM CLR 20/12 A2992 RMK AO2 SLP134 T02030116 $ CWCT 271500Z AUTO 14011KT 13/10 RMK AO1 SLP102 T01280100 51005 CWDK 271500Z AUTO 05004KT 12/09 RMK AO1 SLP102 T01170086 51011 CWEB 271500Z AUTO 32018KT 11/07 RMK AO1 PK WND 32021/1448 SLP207 T01090074 52005 KBAC 271555Z AUTO 05005KT 10SM FEW015 17/17 A2984 RMK AO2 KBAD 271458Z AUTO 30009KT 10SM FEW016 22/21 A2989 RMK AO2 PRESRR SLP123 60020 T02200209 53013 CWDM 271500Z AUTO 12007KT 05/M01 RMK AO1 SLP270 T00541011 55015 EDLV 271550Z 03006KT 310V110 CAVOK 20/14 Q1015 PFNO 271458Z AUTO 04005KT 7SM SCT001 06/05 A3033 RMK AO2 SLP273 T00560050 55001 CWEE 271500Z AUTO 12/12 RMK AO1 SLP095 T01160116 56026 KBAF 271553Z 17008KT 10SM FEW090 27/16 A3005 RMK AO2 SLP174 T02670161 EDLW 271550Z 07005KT 030V110 9999 FEW033 20/11 Q1015 KAIO 271555Z AUTO 08005KT 10SM OVC018 19/16 A2976 RMK AO2 CWEF 271500Z AUTO 14013KT 06/05 RMK AO1 PK WND 12018/1401 SLP248 T00620046 55004 CWDO 271500Z AUTO 04007KT 05/M01 RMK AO1 SLP276 T00471008 58001 EDMO 271550Z 35006KT CAVOK 23/12 Q1014 KAJG 271555Z AUTO 19012KT 10SM SCT050 25/20 A2997 RMK AO2 T02470196 CWEH 271500Z AUTO 14010KT 13/09 RMK AO1 SLP124 T01290093 50002 CWDQ 271500Z AUTO 17005KT 16/13 RMK AO1 SLP135 T01630132 58019 EEEI 271450Z 06009KT 010V080 19/09 Q1021 NOSIG KBAK 271547Z 19008KT 10SM SCT150 25/19 A3002 KBBB 271541Z AUTO 15004KT 10SM SCT060 BKN075 21/14 A2976 RMK AO2 KAIT 271553Z AUTO 09004KT 7SM UP BKN043 OVC065 17/13 A2984 RMK AO2 P0002 CWDT 271500Z AUTO 11008KT 09/08 RMK AO1 SLP131 T00910075 58035 CWEK 271500Z AUTO 18004KT 10/08 RMK AO1 4PAST HR M SLP161 P0002 T00970084 CWEL 271500Z AUTO 27006KT 12/08 RMK AO1 SLP192 T01180078 51009 NWWW 271530Z AUTO VRB02KT CAVOK 18/16 Q1014 NOSIG CWDV 271500Z AUTO 24004KT 21/11 RMK AO1 SLP119 T02070114 53005 CWFD 271554Z AUTO ///// OVC019 M06/ A2968 RMK VSBY VRBL 1.0V9.+ KBAN 271552Z AUTO 00000KT 10SM CLR 09/00 A3010 RMK AO2 SLP130 T00940000 $ KAJO 271556Z AUTO 10SM FEW021 18/12 A2995 RMK AO2 SLP150 T01830122 $ KBBF 271555Z AUTO 18024G30KT 6SM HZ SCT016 BKN022 BKN030 28/24 A2978 RMK A01 KBBG 271545Z 16005KT 10SM FEW020 SCT027 BKN037 22/20 A2983 ULLI 271530Z 06003MPS 9999 OVC021 15/12 Q1023 R28R/090060 NOSIG CWFF 271500Z AUTO 07011G16KT 12/08 RMK AO1 PK WND 06017/1427 SLP155 T01230077 53012 CWEP 271500Z AUTO 19008KT 08/06 RMK AO1 SLP245 T00830055 53003 KAKH 271554Z AUTO 20005KT 10SM CLR 27/14 A3016 RMK AO2 SLP205 T02670144 TSNO CWDZ 271500Z AUTO 21004KT 13/09 RMK AO1 T01280087 CWEQ 271500Z AUTO 06012G17KT 09/07 RMK AO1 PK WND 06017/1459 SLP158 T00930067 51017 KAJR 271555Z AUTO 12003KT 10SM OVC100 20/20 A3019 RMK AO2 T02010195 CWER 271500Z AUTO 04011KT RMK AO1 CWFJ 271500Z AUTO 24005KT 15/03 RMK AO1 T01470026 KALB 271551Z 18007KT 10SM BKN100 BKN130 OVC260 27/17 A3003 RMK AO2 SLP166 BINOVC T02670167 KBCB 271600Z AUTO 00000KT 10SM BKN070 26/17 A3021 RMK AO2 T02620174 TSNO CWGB 271500Z AUTO 27011KT 12/07 RMK AO1 SLP189 T01170074 51007 CWEU 271500Z 26003KT 220V320 15SM BKN035 M03/M07 A3003 RMK SC7 SLP171 CWGD 271500Z AUTO 31003KT 18/16 RMK AO1 SLP147 T01810156 51009 KBCE 271553Z AUTO 34003KT 10SM CLR 12/01 A3009 RMK AO2 SLP107 T01170006 CWEW 271500Z AUTO 06001KT 20/15 RMK AO1 SLP154 T01950146 58008 KAKO 271553Z AUTO 02021G27KT 10SM BKN007 BKN011 OVC017 11/09 A2981 RMK AO2 PK WND 02027/1545 CIG 004V009 SLP076 T01060089 KBAX 271553Z AUTO 10003KT 10SM SCT028 BKN041 26/19 A2998 RMK AO2 T02570187 KBBP 271555Z AUTO 22005KT 10SM CLR 28/16 A3016 RMK AO2 EDOP 271550Z 02005KT 340V060 9999 FEW027 19/13 Q1017 KBAZ 271551Z 18012G18KT 9SM SCT020 BKN026 OVC036 29/23 A2974 RMK AO2 SLP062 T02890233 EDNY 271550Z VRB03KT CAVOK 25/15 Q1013 KAJZ 271555Z AUTO 00000KT 10SM CLR 15/04 A2998 RMK AO2 T01520038 KAKQ 271554Z AUTO 21006KT 10SM CLR 28/17 A3014 RMK AO2 SLP204 T02830167 TSNO CWFQ 271500Z AUTO 20005KT 26/16 RMK AO1 SLP150 T02640156 58002 CWEZ 271500Z AUTO 21011KT 12/08 RMK AO1 SLP196 T01150077 51008 KALI 271553Z AUTO 20013G19KT 10SM OVC025 31/24 A2972 RMK AO2 RAB31E41 SLP062 P0000 T03110239 KAKR 271554Z AUTO 10SM CLR 26/18 A3004 RMK AO2 SLP164 T02610178 KAMA 271553Z 30012KT 10SM CLR 18/06 A2981 RMK AO2 SLP052 T01830056 ULMM 271530Z 28003MPS CAVOK 18/M02 Q1026 R31/090070 NOSIG RMK QFE762 KD39 271553Z AUTO 12011KT 10SM OVC029 20/14 A2979 RMK AO2 T01960144 KALK 271556Z AUTO VRB05KT 10SM CLR 19/M04 A3005 RMK AO2 SLP098 T01941044 KBCK 271555Z AUTO 10003KT 10SM BKN090 22/16 A2982 RMK AO2 T02200156 CWGL 271500Z AUTO 21007KT 19/16 RMK AO1 SLP147 T01870155 53003 KALM 271555Z AUTO 34006KT 10SM CLR 20/M04 A2995 RMK AO2 CWGM 271500Z AUTO 22010G15KT 11/03 RMK AO1 T01110026 KBDE 271553Z AUTO 10005KT 10SM CLR 18/13 A2983 RMK AO2 SLP104 T01830128 TSNO KBBW 271553Z AUTO 33009KT 10SM BKN085 19/13 A2975 RMK AO2 SLP060 T01890133 KALN 271550Z 14013G17KT 10SM -DZ OVC008 20/20 A2988 KALO 271554Z 14007KT 10SM OVC019 20/16 A2977 RMK AO2 SLP076 T02000161 DNGO 271400Z 21020KT 3500 SCT014 FEW020CB 28/20 Q1012 KAMG 271553Z AUTO 13007G15KT 10SM FEW048 27/16 A3012 RMK AO2 SLP195 T02720156 KBDG 271555Z AUTO 00000KT 10SM CLR 14/01 A3007 RMK AO1 T01390010 KBDH 271555Z AUTO 15011KT 10SM CLR 21/14 A2979 RMK AO2 NZAA 271530Z AUTO 03011KT 010V070 9999 -RA FEW021/// 17/15 Q1003 TEMPO 6000 RA OOSA 271450Z 19006KT CAVOK 30/28 Q1007 NOSIG CWHI 271400Z AUTO 33010KT 10/10 RMK AO1 T01040098 CWGR 271500Z AUTO 09011KT 06/06 RMK AO1 PK WND 09017/1406 SLP240 T00620062 56006 ZSAM 271500Z 18003MPS 9999 BKN010 BKN017 28/26 Q1010 NOSIG KALS 271552Z AUTO VRB03KT 10SM SCT016 08/03 A2997 RMK AO2 SLP103 T00780028 KBEA 271555Z AUTO 18013G22KT 10SM BKN022 OVC028 30/26 A2974 RMK AO2 LTG DSNT NE T03020257 KD50 271535Z AUTO 35003KT 10SM FEW039 SCT050 BKN070 14/14 A2989 RMK AO2 KANB 271553Z AUTO 21006KT 10SM FEW037 FEW048 28/17 A3009 RMK AO2 SLP180 T02830172 DNIB 271100Z 13008KT 8000 SCT013 39/25 Q1015 CWGT 271500Z AUTO 31011KT 12/05 RMK AO1 SLP192 T01210052 53009 KBDL 271551Z 19011G18KT 140V220 10SM FEW080 BKN140 BKN180 29/17 A3005 RMK AO2 SLP174 T02940172 CWHL 271500Z AUTO 19009KT 09/ RMK AO1 2PAST HR 7006 SLP167 P0005 T0088 50028 KAND 271556Z AUTO VRB05KT 10SM CLR 26/16 A3016 RMK AO2 SLP205 T02610156 KBED 271556Z VRB04KT 10SM SCT150 26/16 A3007 RMK AO2 SLP193 T02560156 CWID 271500Z AUTO 05003KT 11/03 RMK AO1 SLP168 T01100031 EDQM 271550Z 01009KT 340V040 9999 FEW030 19/12 Q1016 CWHM 271500Z AUTO 05002KT 21/12 RMK AO1 T02050115 KALW 271553Z 20014G20KT 10SM OVC055 11/02 A3010 RMK AO2 SLP192 T01110017 KANE 271550Z 13012G19KT 4SM -RA SCT020 OVC045 18/17 A2984 KAMN 271550Z AUTO 00000KT 7SM SCT021 SCT047 25/20 A2997 RMK AO2 T02450201 KBDN 271555Z AUTO 00000KT 10SM CLR 09/M01 A3012 RMK AO2 CWGW 271500Z AUTO 19003KT 09/07 RMK AO1 SOG 00 3001 SLP111 T00910067 CWHN 271500Z AUTO 13007KT 100V170 9SM CLR 17/10 A2986 RMK SLP119 KALX 271555Z AUTO 16003KT 10SM CLR 27/22 A3011 RMK AO2 T02670218 PNO CWHO 271500Z AUTO 00002KT 02/M02 RMK AO1 SLP219 T00221018 56023 CWGX 271500Z AUTO 04013KT 01/M01 RMK AO1 PK WND 03020/1420 SLP233 T00051011 53010 KD55 271555Z AUTO 32005KT 10SM OVC013 16/13 A2981 RMK AO2 PFSH 271550Z AUTO 02008KT 3SM BR OVC001 06/05 A3027 RMK AO2 CWIG 271500Z AUTO 04008KT RMK AO1 CWGY 271500Z AUTO 13015KT 18/08 RMK AO1 PK WND 13020/1443 SLP109 T01770080 51006 KBEH 271553Z AUTO 15009KT 10SM FEW060 FEW080 26/19 A2993 RMK AO2 SLP132 T02560189 CWGZ 271500Z VRB02KT 15SM BKN050 M04/M07 A2995 RMK SC6 SLP150 ULPB 271500Z AUTO 01004MPS 340V040 9999 // NCD 10/08 Q1024 RMK QFE764/1018 CWHQ 271500Z AUTO 08007KT 13/13 RMK AO1 T01330131 KBDR 271552Z 08006KT 10SM CLR 23/17 A3008 RMK AO2 SLP185 T02280167 KD57 271555Z AUTO RMK AO2 PNO PWINO TSNO CWII 271500Z AUTO 05010KT 15/13 RMK AO1 T01500133 KANJ 271555Z AUTO 12005KT 10SM FEW007 19/16 A2996 RMK AO2 SLP142 T01940161 OPKC 271555Z 23012KT 7000 BKN020 30/24 Q1005 NOSIG CWIJ 271500Z AUTO 30003KT 06/M01 RMK AO1 SOG 26 3001 SLP221 T00611014 KD60 271535Z AUTO 04008KT 10SM BKN017 BKN029 OVC060 15/15 A2990 RMK AO2 KANK 271555Z AUTO 00000KT 10SM CLR 10/02 A3002 RMK AO1 T01010015 CWJB 271500Z AUTO 06005KT 12/12 RMK AO1 0PAST HR M P0016 T01240118 50040 CWIK 271500Z AUTO 06007KT 16/12 RMK AO1 SLP124 T01550120 51009 EDSB 271550Z 02005KT 350V050 CAVOK 25/13 Q1013 KBDU 270804Z AUTO 00000KT 10SM SCT060 OVC110 08/07 A2987 RMK AO2 LTG DSNT S UKWW 271530Z 03003MPS 9999 SCT033 BKN100 22/11 Q1015 R31/0///70 NOSIG DNIL 271400Z 27006KT 9999 SCT011 32/24 Q1013 ULOO 271530Z 31003MPS 280V350 P5000 FEW033 19/09 Q1021 R01/090070 RMK QFE762 CWIL 271500Z AUTO 01004KT M06/ A3026 RMK SLP257 KBFD 271553Z AUTO 20007G15KT 170V270 10SM SCT040 26/15 A3009 RMK AO2 SLP172 T02560150 DNIM 270800Z 29006KT 8000 BKN010 27/25 Q1015 UMGG 271530Z 02004MPS 9000 -SHRA BKN033CB BKN100 22/14 Q1017 R10/290050 NOSIG CWJD 271500Z AUTO 06009G16KT 05/03 RMK AO1 PK WND 04018/1412 SLP176 T00510032 51011 CWHV 271500Z AUTO 15006KT 21/15 RMK AO1 8011 SLP158 T02130148 50010 KAMW 271553Z AUTO 03003KT 4SM -RA BR BKN006 BKN025 OVC030 18/17 A2976 RMK AO2 SLP073 P0007 T01780167 NZAP 271500Z 04011KT 30KM BKN035 12/11 Q1005 RMK ALT VATSIM USE ONLY KBFF 271553Z AUTO 01006KT 10SM FEW042 BKN065 OVC080 14/07 A2987 RMK AO2 SLP089 T01440067 CXAF 271500Z AUTO 32002KT 11/10 RMK AO1 9PAST HR M P0004 T01130102 TUPJ 271600Z 13009KT 9000 VCSH SCT018 SCT070 BKN220 29/24 Q1015 RMK A3000 CXAG 271500Z AUTO 10008KT 14/12 RMK AO1 T01390119 50026 CWIP 271500Z AUTO 11009G15KT 08/ RMK AO1 PK WND 12018/1431 T0084 KANQ 271635Z AUTO 18005KT 10SM 23/19 A3000 RMK KAOH 271553Z AUTO 20006KT 10SM FEW120 26/17 A3002 RMK AO2 SLP157 T02560167 CWJH 271500Z AUTO 06005KT 04/01 RMK AO1 SLP218 T00430009 53002 KBFI 271553Z 18004KT 10SM BKN017 BKN070 12/07 A3017 RMK AO2 SLP214 T01170072 OPLA 271600Z 28006KT 6000 FEW100 36/16 Q1000/A29.53 NOSIG CWJI 271500Z AUTO 33004KT 15/09 RMK AO1 SLP132 T01520087 51003 KAPA 271553Z 01016G26KT 10SM BKN036 OVC044 09/05 A2990 RMK AO2 PK WND 34026/1500 RAB41E50 SLP106 P0000 T00940050 PHBK 271556Z AUTO 10004KT 10SM FEW070 OVC110 25/19 A3004 RMK AO2 SLP175 T02500194 EEKA 271350Z 13013KT 9999 FEW043 19/05 Q1021 CXBA 271500Z AUTO 16013KT 18/08 RMK AO1 PK WND 17022/1455 T01750079 CXAJ 271500Z AUTO 13003KT 12/11 RMK AO1 T01230108 CWIS 271500Z AUTO 23005KT 11/10 RMK AO1 SLP178 T01070104 55006 CXAK 271500Z AUTO 16008KT 12/10 RMK AO1 T01180098 KAPC 271554Z 00000KT 10SM SCT010 SCT014 15/12 A2998 RMK AO2 SLP142 T01500117 KBFL 271554Z 16004KT 10SM CLR 23/08 A2993 RMK AO2 SLP129 T02280078 KBFM 271553Z 14012KT 10SM FEW025 29/20 A3004 RMK AO2 SLP172 T02890200 KBGD 271551Z AUTO VRB04KT 10SM CLR 19/07 A2978 RMK AO2 SLP049 T01940072 CWKD 271500Z AUTO 12014KT 06/06 RMK AO1 8PAST HR M20 8026 SLP132 P0003 T00550058 50011 KANW 271555Z AUTO 33007KT 330V030 10SM OVC050 15/12 A2983 RMK AO2 LTG DSNT SE P0001 T01500123 KBGE 271535Z AUTO 12006KT 10SM CLR 27/17 A3008 RMK AO2 CWIW 271500Z AUTO 11005KT 18/11 RMK AO1 SLP130 T01810111 51009 EEKE 271550Z AUTO 12010KT 9999NDV NCD 17/09 Q1021 KAOO 271553Z AUTO 18007KT 10SM CLR 26/18 A3010 RMK AO2 SLP184 T02610178 KAPF 271553Z 08009KT 10SM FEW050 FEW060 30/17 A3000 RMK AO2 SLP158 T03000172 KBGF 271555Z AUTO 22009KT 10SM FEW044 28/15 A3009 RMK DNJO 270700Z 27014KT 9999 SCT007 22/21 Q1019 NOSIG KAPG 271454Z 21010KT 7SM SCT200 28/20 A3008 CWIX 271500Z AUTO 11012KT 13/11 RMK AO1 18 8028 SLP117 T01280112 CWJO 271500Z AUTO 10008G17KT 12/11 RMK AO1 PK WND 10018/1442 SLP134 T01200109 58034 NZCH 271530Z AUTO 11012KT 6000 RA BKN008/// BKN018/// OVC046/// 10/10 Q0996 TEMPO 4000 RADZ BKN006 NZCI 271500Z 36004KT 40KM BKN085 15/10 Q1003 RMK ALT NZNR VATSIM USE ONLY CWIY 271500Z AUTO 13010KT 07/06 RMK AO1 SLP214 T00680062 58011 CWKG 271500Z AUTO 15003KT 16/10 RMK AO1 SLP235 T01600101 55004 CWIZ 271500Z AUTO 22007KT 27/16 RMK AO1 T02690158 CWKH 271500Z AUTO 09/04 RMK AO1 SLP188 T00870035 51010 CXBI 271500Z AUTO 30003KT 24/17 RMK AO1 SLP147 T02390169 53002 CWJR 271500Z AUTO 18008KT 10/06 RMK AO1 SLP142 T01020055 51017 CXCA 271500Z AUTO 19006KT 12/10 RMK AO1 SLP130 T01170098 53015 KBHB 271556Z AUTO VRB06KT 5SM -RA BR FEW011 BKN060 OVC095 09/08 A3020 RMK AO2 SLP230 P0005 T00890078 NZCM 271155Z 05004KT 9999 FEW180 M21/M25 A2895 RMK SLP808 CWLB 271500Z AUTO 12003KT 14/12 RMK AO1 0004 SLP097 T01440115 50019 CXAT 271500Z AUTO 30005KT M04/M07 RMK AO1 SOG 03 SLP144 T10371068 CXBK 271500Z AUTO 07002KT 15/10 RMK AO1 SLP117 T01480102 51006 CWJT 271500Z AUTO 24004KT 23/16 RMK AO1 SLP135 T02270160 58008 KBHC 271535Z AUTO 11006KT 10SM CLR 28/15 A3012 RMK AO2 PNO EDTL 271550Z 36010KT 330V030 CAVOK 25/13 Q1013 CWJU 271500Z AUTO 26011KT 09/08 RMK AO1 SLP178 T00860079 CWLC 271500Z AUTO 11005KT 09/08 RMK AO1 T00910079 KBGM 271553Z 23011KT 10SM BKN038 BKN049 27/17 A3007 RMK AO2 SLP169 T02670172 CXCD 271500Z AUTO 09003KT 09/06 RMK AO1 T00910060 KBFW 271554Z AUTO 00000KT 10SM SCT100 18/12 A2988 RMK AO2 CWJV 271500Z AUTO 32001KT 08/07 RMK AO1 2PAST HR 2009 SLP147 P0001 T00750071 50007 CWKM 271500Z AUTO 09011KT M00/ A3037 RMK SLP290 KAPN 271554Z AUTO VRB04KT 10SM CLR 25/16 A2997 RMK AO2 SLP147 T02500161 DNKN 271500Z 26010KT 9999 FEW018 38/20 Q1010 NOSIG CWLE 271500Z AUTO 12003KT 16/08 RMK AO1 SLP128 T01590083 51007 CWJW 271500Z AUTO 03003KT 06/04 RMK AO1 0002 SLP119 T00610042 50002 VCRI 271510Z 26006KT 9999 FEW017 BKN080 26/21 Q1011 NOSIG CWKO 271500Z AUTO 11004KT 14/09 RMK AO1 0001 SLP134 T01420090 50002 CXBO 271500Z AUTO 07006KT RMK AO1 9PAST HR M P0011 50029 CWJX 271500Z AUTO 16012KT 17/08 RMK AO1 PK WND 16017/1415 SLP107 T01660080 50003 UMII 270835Z 01003MPS 7000 SCT006 SCT020 14/13 Q1019 NOSIG RMK QBB200 UNAA 271530Z 03002MPS CAVOK 09/01 Q1016 R02/090065 NOSIG RMK QFE739 CWKP 271500Z AUTO ///// M06/ A3027 RMK SLP287 CXCH 271500Z AUTO 12/06 RMK AO1 T01150063 KBGR 271553Z 15007KT 10SM OVC010 14/10 A3019 RMK AO2 SLP221 T01390100 CXBR 271500Z AUTO 22013KT 14/04 RMK AO1 PK WND 22019/1436 T01370037 CWLI 271500Z AUTO 07011G16KT M03/ A3036 RMK SLP296 KARA 271553Z 15017G21KT 10SM FEW022 SCT032 BKN048 27/22 A2995 RMK AO2 SLP142 T02720217 $ KBHK 271551Z AUTO 30008KT 10SM SCT026 SCT033 16/09 A2987 RMK AO2 SLP108 T01610094 KARB 271553Z 16007KT 10SM CLR 26/19 A2999 RMK AO2 SLP151 T02610189 CXDB 271500Z AUTO 22008KT 11/05 RMK AO1 T01060051 CXCK 271500Z AUTO 33008KT 08/01 RMK AO1 SLP229 T00780005 50002 NZDN 271500Z 24003KT 0400 FG BKN002 00/00 Q0999 RMK ALT VATSIM USE ONLY KBHM 271553Z 14009G15KT 10SM FEW050 BKN250 29/17 A3009 RMK AO2 SLP181 T02940167 KBID 271556Z AUTO 20013KT 10SM CLR 18/15 A3012 RMK AO2 SLP202 T01830150 CWLM 271500Z AUTO 24008KT 11/08 RMK AO1 SLP203 T01100080 51008 KBIE 271555Z AUTO 00000KT 10SM BKN016 OVC024 19/16 A2977 RMK AO2 LTG DSNT W AND NW T01890155 CXDE 262100Z AUTO 31012G17KT 11/04 RMK AO1 PK WND 31017/2059 SLP181 T01070036 51013 CXBW 271400Z AUTO 20005KT 11/08 RMK AO1 T01140076 CWME 271500Z AUTO 18007KT 09/07 RMK AO1 4PAST HR M SLP185 P0002 T00880072 KBIF 271458Z AUTO 27010KT 10SM CLR 21/M06 A2995 RMK AO2 SLP082 T02121057 52009 CWKW 271500Z AUTO ///// A3006 EDVE 271550Z 08005KT 050V130 9999 FEW039 BKN061 BKN100 21/12 Q1016 KAQO 271535Z AUTO 11010G16KT 10SM OVC008 21/19 A2984 RMK AO2 LTG DSNT N AND NE CWKX 271500Z AUTO 00000KT 04/03 RMK AO1 SOG 00 1003 SLP174 T00400027 KAQP 271555Z AUTO 11005KT 10SM SCT055 SCT085 21/14 A2975 RMK AO2 KARG 271555Z AUTO 17016KT 10SM CLR 24/21 A2988 RMK AO1 KD95 271552Z AUTO 00000KT 10SM SCT033 SCT043 26/15 A2999 RMK AO2 T02610153 OPNH 271600Z 18010KT 5000M HZ NSC 35/19 Q1000 RH40/ KAPY 271535Z AUTO 17007KT 10SM CLR 31/23 A2972 RMK AO2 T03100232 CWLP 271500Z AUTO 26014KT 10/07 RMK AO1 SLP199 T00960068 57002 CXCP 271500Z AUTO 35005KT 11/08 RMK AO1 T01080084 EDTY 271550Z 34006KT CAVOK 22/14 Q1014 KBIH 271556Z AUTO 29003KT 10SM CLR 19/01 A3002 RMK AO2 SLP128 T01940011 TSNO UNBB 271530Z 04002MPS CAVOK 16/04 Q1013 R06/CLRD66 NOSIG RMK QFE737 KAQR 271555Z AUTO 18008KT 10SM CLR 21/15 A2976 RMK AO2 CXDI 271500Z AUTO 22007KT 25/16 RMK AO1 SLP149 T02460163 53001 KBIJ 271555Z AUTO 00000KT 10SM CLR 28/17 A3009 RMK AO2 OPMT 271555Z 00000KT 1500 DIS SCT120 34/20 Q998 NOSIG VEBD 270430Z 04006KT 6000 SCT020 SCT100 BKN250 25/23 Q1005 NOSIG CXCS 271500Z AUTO 16009KT 14/09 RMK AO1 T01420089 CXEA 271500Z AUTO 04001KT 17/15 RMK AO1 SLP105 T01650150 53007 CWMJ 271500Z AUTO 17008KT 23/17 RMK AO1 SLP127 T02310172 58008 CWLS 271500Z AUTO 28002KT 24/18 RMK AO1 SLP153 T02410183 53003 CWNB 271500Z AUTO RMK AO1 EDVK 271550Z 09009KT 9999 SCT048TCU 20/11 Q1015 CXDK 271500Z AUTO 11006KT 07/01 RMK AO1 SLP209 T00650011 KBJC 271447Z 36008KT 50SM SCT070 BKN150 12/05 A2989 KBIL 271553Z 17003KT 10SM FEW065 FEW100 15/07 A2989 RMK AO2 SLP110 TCU DSNT SW-NW T01500072 KE11 271535Z AUTO 29007KT 10SM CLR 24/M01 A2987 RMK AO2 T02361011 CWNC 271500Z AUTO 20002KT 18/14 RMK AO1 SLP140 T01770140 52002 CXEC 271500Z AUTO 05001KT 12/10 RMK AO1 SLP090 T01180101 51002 KASD 271553Z AUTO 15005KT 10SM FEW037 28/20 A3001 RMK AO2 SLP161 T02780200 KCAD 271555Z AUTO 14006KT 10SM SCT034 SCT048 25/18 A2996 RMK AO2 T02580180 KAQV 271556Z AUTO 17008G15KT 130V200 10SM BKN007 OVC090 22/21 A2987 RMK AO2 RAE27 CIG 005V011 SLP112 P0000 T02220211 $ KARM 271555Z AUTO 15017G25KT 10SM SCT018 SCT065 30/25 A2977 RMK AO2 LTG DSNT N T02950248 CWND 272017Z M01/M01 RMK 8009 T10141012 CWMM 271500Z AUTO 14003KT 11/08 RMK AO1 SLP197 T01060084 51008 DNMM 271500Z 17004KT 9999 SCT014 32/26 Q1014 NOSIG KAQW 271552Z AUTO 34003KT 10SM FEW110 29/16 A3003 RMK AO2 SLP164 T02890156 KASE 271553Z 00000KT 10SM FEW023 08/02 A3001 RMK AO2 SLP096 T00780022 KCAE 271556Z 00000KT 10SM FEW060 29/17 A3014 RMK AO2 SLP203 T02890167 DNMN 271100Z 18006KT 9999 BKN011 32/25 Q1011 CWNE 271500Z AUTO 05009KT 06/04 RMK AO1 SLP245 T00580043 58007 KAQX 271555Z AUTO 15006KT 10SM CLR 27/16 A3014 RMK AO2 KASG 271548Z 20009G15KT 10SM BKN018 BKN024 OVC031 22/19 A2984 VEBI 270800Z 00000KT 4000 BR FEW008 SCT018 BKN090 22/20 Q1010 NOSIG CWLX 271500Z AUTO 32008KT M07/ A2993 RMK SLP154 KCAG 271553Z AUTO 28005KT 10SM FEW023 12/05 A3000 RMK AO2 SLP119 T01170050 CXDP 271500Z AUTO 33002KT 11/10 RMK AO1 T01080102 CXEG 271500Z AUTO 10/10 RMK AO1 T01030103 CWLY 271500Z AUTO 19012G19KT 9SM BKN050 OVC060 09/05 A3001 RMK SLP168 KE16 271555Z AUTO 13006KT 9SM OVC008 12/12 A3001 RMK AO2 KASH 271556Z 16004KT 10SM CLR 23/14 A3009 RMK AO2 SLP199 T02280144 UMKK 271530Z 02003MPS 9999 TS BKN021CB 15/13 Q1018 R24/29//55 NOSIG RMK QFE762/1017 CWNH 271500Z AUTO 15007KT 13/11 RMK AO1 8026 SLP162 T01270113 50008 CWMQ 271500Z AUTO 17010G15KT 16/09 RMK AO1 SLP113 T01580088 58001 VEAT 271400Z 00000KT 5000 BR FEW020 SCT100 27/24 Q1002 NOSIG ZSHC 271530Z 08002MPS 1800 BR SCT003 BKN007 BKN020 22/21 Q1009 NOSIG KARR 271552Z 17012G17KT 10SM BKN110 26/19 A2990 RMK AO2 SLP120 T02610194 KBJI 271552Z AUTO 13011KT 10SM BKN065 BKN075 19/12 A2984 RMK AO2 T01940121 PFWS 271556Z AUTO 04005KT 10SM CLR 09/06 A3007 RMK AO2 SLP187 T00890061 VECC 271530Z 13006KT 3200 HZ SCT020 FEW030CB BKN100 31/28 Q1002 TEMPO TL1730 2000 TSRA KBIS 271552Z 01005KT 10SM SCT021 17/12 A2983 RMK AO2 SLP100 T01720117 KASJ 271550Z AUTO 18004KT 10SM CLR 27/17 A3016 RMK AO2 T02700171 KBJJ 271556Z AUTO 23009KT 190V250 10SM CLR 26/17 A3006 RMK AO2 SLP169 T02560172 KCAK 271551Z 20007KT 170V230 10SM FEW030 BKN250 26/17 A3005 RMK AO2 SLP168 T02560172 KBKB 271554Z AUTO VRB05KT 10SM SCT110 23/19 A2987 RMK AO2 RAE18 SLP141 P0000 T02280194 $ KART 271556Z AUTO 26011KT 7SM FEW060 26/19 A2999 RMK AO2 SLP149 T02610189 PNO $ VEBN 271500Z 06004KT 3500 HZ SCT100 32/20 Q1000 CWNK 271500Z AUTO 33004KT 15/14 RMK AO1 T01500136 50002 CWMT 271500Z AUTO 03004KT 13/M03 RMK AO1 SLP187 T01281032 51004 CWOB 271500Z AUTO 24010KT M03/ A2997 RMK SLP191 KASL 271535Z AUTO 00000KT 4SM SCT035 BKN042 OVC060 21/19 A2992 RMK AO1 P0004 T02110192 CWNL 271500Z AUTO 30002KT 12/11 RMK AO1 SLP147 T01230114 CWOC 271500Z AUTO 09006KT 07/04 RMK AO1 SLP239 T00740040 58012 KBIV 271553Z AUTO 18007KT 10SM CLR 26/19 A2994 RMK AO2 SLP136 T02610194 KBKD 271535Z AUTO 15005KT 10SM CLR 21/19 A2976 RMK AO2 LTG DSNT E AND SE T02060185 KARV 271535Z AUTO 00000KT 10SM OVC110 21/16 A2991 RMK AO2 T02080155 CWOD 271500Z AUTO 13011KT 11/11 RMK AO1 6031 PK WND 15019/1404 SLP099 T01130111 50047 CWNM 271500Z AUTO 29007KT 10/07 RMK AO1 SLP139 T00980073 52012 ZSFZ 271500Z 21005MPS 9999 SCT024 27/25 Q1010 NOSIG KBKE 271553Z AUTO 33013KT 10SM FEW036 10/01 A3006 RMK AO2 SLP176 T01000006 TSNO KARW 271555Z AUTO 14006KT 10SM CLR 27/14 A3014 RMK AO2 KCBE 271555Z AUTO 17004KT 10SM CLR 28/20 A3011 RMK AO1 KASN 271555Z AUTO 22004KT 10SM BKN044 A3009 RMK AO2 CWOE 271500Z AUTO 12009KT 12/09 RMK AO1 SLP117 T01230094 50003 CXDW 271500Z AUTO 15/14 RMK AO1 T01530142 50003 KCAO 271555Z AUTO 29017G26KT 10SM BKN055 BKN080 BKN110 13/04 A2986 RMK AO2 PK WND 30034/1532 SLP070 T01330039 KCBF 271555Z AUTO 00000KT 10SM 20/16 A2974 RMK AO2 KBIX 271458Z AUTO 16010G17KT 10SM SCT170 28/19 A3000 RMK AO2 SLP162 T02840190 53003 KBKF 271458Z 03012KT 10SM BKN040 OVC070 09/08 A2989 RMK AO2A SLP094 T00940078 52013 KCBG 271556Z AUTO 12007G14KT 10SM RA SCT020 OVC040 17/13 A2984 RMK AO2 VEBS 271530Z 04014KT 4000 TS SCT018 FEW030CB SCT100 30/28 Q1005 TEMPO 1500 TSRA CWNP 271500Z AUTO 11003KT 09/08 RMK AO1 0PAST HR 2007 SLP132 P0004 T00880083 50016 CWMZ 271500Z AUTO 29007KT 11/11 RMK AO1 SLP150 T01130107 CWNQ 271500Z AUTO 08006KT 18/14 RMK AO1 SLP143 T01780137 58009 KCAR 271554Z AUTO 15012KT 10SM OVC008 09/07 A3012 RMK AO2 CIG 006V011 SLP205 T00890067 KCCA 271555Z AUTO 18005KT 110V240 10SM FEW021 SCT032 BKN050 25/21 A2986 RMK AO2 P0001 KCBK 271535Z AUTO 03009KT 10SM BKN008 OVC013 13/13 A2975 RMK AO2 KAST 271555Z AUTO 29007KT 10SM -RA OVC050 12/07 A3020 RMK AO2 RAB43 SLP226 P0000 T01220072 CXET 271500Z AUTO 35005KT 24/17 RMK AO1 SLP147 T02390173 53001 KBKL 271553Z 30006KT 10SM CLR 23/18 A3000 RMK AO2 SLP156 T02280178 KATL 271552Z 12008KT 10SM FEW035 BKN055 BKN070 26/17 A3014 RMK AO2 SLP196 T02560167 EFET 271550Z AUTO 22008KT 180V240 CAVOK 18/01 Q1025 VECO 270600Z 14003KT 2500 HZ BKN025 25/22 Q1006 KCBM 271458Z AUTO 18011KT 10SM FEW160 26/21 A3000 RMK AO2 SLP160 T02580207 55001 $ KCAV 271555Z AUTO 13005KT 3SM -RA FEW011 BKN020 OVC025 17/17 A2979 RMK AO2 P0015 CXFM 271500Z AUTO 13009KT 14/10 RMK AO1 T01440098 CWPD 271500Z AUTO 19007KT 12/12 RMK AO1 0PAST HR 8015 SLP135 P0008 T01200119 50020 UMMG 271500Z 00000MPS 9999 FEW033 BKN200 23/09 Q1017 NOSIG KBKN 271555Z AUTO 12010KT 10SM CLR 24/19 A2969 RMK AO2 KASW 271555Z AUTO 17005KT 10SM CLR 23/18 A2999 RMK AO2 VEDG 271030Z 18008KT 4700 HZ FEW025 FEW030CB SCT100 35/22 Q0999 BECMG 3000 -TSRA CWPE 271500Z AUTO 08007KT 07/05 RMK AO1 SLP242 T00670054 55001 KBLF 271552Z AUTO 10SM CLR 25/14 A3021 RMK AO2 SLP194 T02500144 KASX 271553Z AUTO 01004KT 10SM SCT004 BKN110 15/13 A2989 RMK AO2 SLP125 T01500133 PNO $ KAUG 271553Z AUTO 04004KT 10SM OVC010 13/11 A3016 RMK AO2 SLP214 T01330111 CWPF 271545Z AUTO 24012KT 11/07 RMK AO1 PK WND 25017/1522 T01120072 KATP 271555Z AUTO 13020KT 10SM CLR 27/20 A2996 RMK A01 PHHI 271558Z AUTO 00000KT 10SM CLR 20/19 A3006 RMK AO2 SLP171 T01990191 $ KBLH 271552Z AUTO 00000KT 10SM CLR 26/08 A2985 RMK AO2 SLP101 T02610083 KAUH 271555Z AUTO 15007KT 10SM -RA SCT021 BKN037 OVC090 18/16 A2980 RMK AO2 LTG DSNT SE THRU W P0002 T01750158 NZGS 271500Z 31002KT 10KM SHRA BKN037 12/10 Q1006 RMK ALT VATSIM USE ONLY CWNZ 271500Z AUTO 02001KT 11/10 RMK AO1 SLP142 T01140099 51011 CXGH 271500Z AUTO 01011KT 12/11 RMK AO1 T01190114 KBLI 271553Z 16009KT 10SM FEW010 SCT029 OVC060 11/09 A3012 RMK AO2 SLP208 T01060089 OPPS 271600Z 23010KT 4000 VCTS FEW030TCU SCT040 BKN100 33/16 Q1001 NZHK 271500Z 09025G38KT 8000 SHRA BKN010 09/07 Q0989 RMK ALT VATSIM USE ONLY CXFR 271500Z AUTO 28005KT 09/07 RMK AO1 T00870071 ULWC 271530Z 31003MPS 9999 SCT026CB 22/14 Q1018 R03/010060 NOSIG RMK QFE753/1005 KATS 271555Z AUTO 30015KT 10SM CLR 25/M03 A2987 RMK AO2 KCDA 271555Z AUTO 14010KT 10SM CLR 23/15 A3007 RMK AO2 T02310147 KBKS 271555Z AUTO 17017G22KT 10SM SCT025 32/24 A2972 RMK AO1 T03170237 KE38 271535Z AUTO 27013G19KT 10SM CLR 23/M09 A3004 RMK AO2 T02331086 PFYU 271556Z 00000KT 10SM BKN041 09/06 A3023 RMK AO1 WX; -SHRA CXHA 271500Z AUTO 23007KT 23/17 RMK AO1 SLP144 T02270169 53002 UMMM 271430Z 06002MPS 9999 SCT040 BKN200 24/10 Q1018 NOSIG RMK QFE743 EFHA 271550Z AUTO 07005KT 9999 OVC014 12/09 Q1024 KATT 271551Z AUTO 04008KT 6SM -RA BR OVC007 19/18 A2982 RMK AO2 RAE20B45 CIG 005V010 SLP089 P0001 T01890178 UNEE 271530Z 06002MPS CAVOK 14/M02 Q1014 R05/CLRD60 NOSIG RMK QFE738 CWPK 271500Z AUTO 22003KT 16/14 RMK AO1 SLP123 T01580144 56007 KCDC 271553Z AUTO 29004KT 10SM CLR 13/02 A3004 RMK AO2 SLP126 T01330022 KAVC 271556Z AUTO 20005KT 10SM CLR 27/18 A3019 RMK AO2 T02670183 KBMC 271535Z AUTO 00000KT 10SM 15/06 A2999 RMK AO1 T01450063 NZHN 271500Z 00000KT 15KM VCSH BKN018 13/13 Q1005 RMK ALT NZTG VATSIM USE ONLY KBKV 271553Z 05008KT 10SM FEW047 SCT075 28/16 A3007 RMK AO2 SLP181 T02780161 KCDD 271547Z AUTO 00000KT 10SM CLR 17/14 A2988 RMK AO2 KAUM 271555Z AUTO 06006KT 10SM SCT025 OVC042 17/15 A2980 RMK AO2 KBLM 271556Z AUTO 16007KT 10SM CLR 31/20 A3008 RMK AO2 SLP186 T03060200 CXHD 271500Z AUTO 13011KT 12/11 RMK AO1 4PAST HR M P0005 T01220112 50014 KBKW 271551Z AUTO 32005KT 10SM BKN045 BKN055 25/14 A3018 RMK AO2 SLP187 T02500139 TSNO KAUN 271555Z AUTO 23003KT 10SM CLR 20/11 A2998 RMK AO1 KATW 271545Z 07005KT 10SM BKN040 OVC110 23/14 A2985 EDXW 271550Z 34014KT CAVOK 16/07 Q1018 KAUO 271556Z AUTO 14009KT 10SM CLR A3012 RMK AO2 SLPNO FZRANO $ KBKX 271556Z AUTO 19009KT 10SM -RA BKN013 BKN022 17/14 A2979 RMK AO2 SLP097 P0001 T01670144 KCCO 271535Z AUTO 13005KT 10SM CLR 26/20 A3013 RMK AO2 T02630195 DNPO 271000Z 28006KT 9999 BKN010 FEW020CB 30/26 Q1014 NOSIG CXHF 271500Z AUTO 23/16 RMK AO1 T02280157 CWPO 271500Z AUTO 35007KT 15/13 RMK AO1 SLP101 T01520130 50004 KBMG 271553Z 17009KT 10SM FEW110 27/18 A3000 RMK AO2 SLP151 T02670183 EFHF 271550Z 16005KT 090V190 CAVOK 19/06 Q1022 KATY 271553Z AUTO 06011G19KT 10SM -RA FEW027 OVC065 16/12 A2977 RMK AO2 RAB34 SLP077 P0001 T01610117 CWOY 271500Z AUTO 11009KT 17/10 RMK AO1 SLP134 T01680101 51008 UMMS 271530Z 05005MPS 9999 -SHRA SCT054CB BKN200 23/11 Q1018 R31/CLRD// NOSIG KCDH 271555Z AUTO 17009KT 10SM BKN034 22/19 A2990 RMK AO2 NZHS 271500Z 36004KT 40KM BKN085 15/10 Q1003 RMK ALT NZNR VATSIM USE ONLY CWQH 271500Z AUTO 19010KT 26/16 RMK AO1 T02570155 KCCR 271553Z 20003KT 10SM CLR 18/09 A2996 RMK AO2 SLP132 T01780089 KBMI 271556Z 18019G27KT 10SM -RA SCT020 SCT036 BKN070 23/19 A2991 RMK AO2 T02330194 RAB18E34B56 P0000 PK WND 16027/1548 SLP118 NZHT 271500Z 14009KT 60KM BKN020 10/05 Q0989 RMK ALT VATSIM USE ONLY CWPR 271500Z AUTO 08002KT 07/04 RMK AO1 2PAST HR 1009 SLP165 P0001 T00650042 50002 KBNA 271553Z 19010KT 170V230 10SM FEW200 BKN250 29/17 A3005 RMK AO2 SLP169 T02890167 KCDJ 271552Z AUTO 18010G18KT 26/21 A2973 RMK AO1 SLP057 T02560206 KAUS 271553Z 04014KT 6SM -RA BR OVC005 19/19 A2979 RMK AO2 SLP083 P0000 T01940189 CWPS 271500Z AUTO 18/15 RMK AO1 SLP154 T01770154 CWRA 271500Z AUTO 05022G27KT 05/02 RMK AO1 PK WND 04028/1438 SLP241 T00520018 51013 KAVK 271550Z AUTO 23010G16KT 8SM BKN022 23/17 A2969 RMK AO2 CXIB 271500Z AUTO 13004KT 06/05 RMK AO1 5003 SLP259 T00550049 50002 CWQK 271500Z AUTO 26018KT 10/07 RMK AO1 PK WND 26021/1447 SLP202 T01030072 51011 KBML 271552Z AUTO 17008KT 10SM CLR 23/12 A3007 RMK AO2 SLP179 T02280117 EFHK 271550Z 34004KT CAVOK 19/06 Q1022 NOSIG KAVL 271554Z 18006KT 10SM CLR 25/16 A3018 RMK AO2 SLP195 T02500161 KBLU 271552Z AUTO 33003KT 10SM CLR 15/00 A3009 RMK AO2 SLP132 T01500000 TSNO KCEC 271556Z AUTO 36012G18KT 10SM CLR 12/08 A3015 RMK AO2 SLP210 T01220083 OPRN 271600Z 05010KT 7000 FEW040 SCT100 33/13 Q1002.9/29.62 KBLV 271540Z AUTO 10010KT 10SM -RA OVC006 20/20 A2989 RMK AO2 RAE08RAB10 CIG 005V007 EEPU 271250Z 21006KT 150V250 CAVOK 19/07 Q1021 CXHM 271500Z AUTO 27005KT 27/18 RMK AO1 SLP137 T02700184 55001 PGRO 270950Z 12005KT 7SM SCT013 27/24 A2995 RMK LAST KAUW 271554Z AUTO 00000KT 10SM OVC090 21/16 A2987 RMK AO2 RAB04E32 SLP115 P0000 T02060156 KCEF 271458Z 18004KT 10SM BKN200 27/15 A3005 RMK AO2A SLP180 58006 PHJH 270345Z 06017G22KT 15SM FEW030 FEW050 SCT070 25/19 A3005 RMK LAST CWQO 271500Z AUTO 17010KT 10/07 RMK AO1 PK WND 17023/1403 T00960071 CWRF 271500Z AUTO ///// M07/ A3007 RMK SLP220 CWPX 271500Z AUTO 03005KT M06/ A3026 RMK SLP269 KAVP 271554Z 25008KT 8SM CLR 28/17 A3006 RMK AO2 SLP168 T02830172 KAWG 271555Z AUTO 18015G22KT 10SM BKN024 BKN029 24/24 A2978 RMK AO2 KCCY 271555Z AUTO 10009KT 3SM RA FEW021 BKN033 OVC038 19/18 A2980 RMK AO2 P0001 CWQP 271500Z AUTO 24004KT 18/14 RMK AO1 SLP155 T01790135 51005 CXHP 271500Z AUTO 27006KT 09/08 RMK AO1 T00900083 KBMQ 271553Z AUTO 07011G18KT 10SM OVC006 19/17 A2985 RMK AO2 SLP093 T01890172 $ KAVQ 271555Z AUTO 00000KT 10SM CLR 23/M04 A2993 RMK AO2 T02331039 CWPZ 271500Z AUTO 11002KT 04/01 RMK AO1 SLP155 T00400005 58002 CWRH 271500Z AUTO ///// M04/ A3005 RMK SLP213 KCDR 271553Z AUTO 33003KT 10SM CLR 16/07 A2987 RMK AO2 SLP114 T01610072 CXHR 271500Z AUTO 18008KT 10/08 RMK AO1 T01030078 CWQR 271500Z AUTO 11012KT 06/ RMK AO1 T0064 KCDS 271553Z AUTO 21012G19KT 10SM CLR 23/12 A2976 RMK AO2 SLP052 T02330122 OPSK 271600Z 18006KT 4000 HZ FEW200 36/25 Q0998 RH53 PC KAXA 271555Z AUTO 15009KT 10SM FEW042 FEW050 BKN060 19/16 A2979 RMK AO2 CWQS 271500Z AUTO 31011KT 09/08 RMK AO1 4PAST HR M SLP181 P0002 T00860082 CWRJ 271500Z AUTO 18002KT 17/10 RMK AO1 SLP120 T01670103 50006 CWSA 271500Z AUTO 06014KT 8SM OVC003 10/07 A3022 RMK SLP236 EGAA 271550Z 10008KT 060V130 9999 FEW022 SCT027 16/11 Q1018 KBMT 271555Z AUTO 14013G26KT 10SM BKN019 OVC030 28/23 A2982 RMK AO2 LTG DSNT N AND NW T02830234 CYAB 271527Z 27006KT 15SM -SN FEW015 BKN040 M03/M07 A2994 RMK SF2SC5 SLP142 CWRK 271500Z AUTO 27003KT 25/17 RMK AO1 SLP144 T02450171 50000 ORBD 271455Z 17008KT 9999 CLR 39/03 A2961 RMK SLP026 WND DATA/ALSTG/SLP ESTMD 56009 LAST KBNL 271555Z AUTO 10007KT 10SM CLR 29/17 A3015 RMK AO2 LTG DSNT NE AND SE EGAC 271550Z 06008KT 9999 FEW020 15/11 Q1018 UMOO 271500Z 03005MPS 9999 BKN034 BKN/// 23/12 Q1017 NOSIG KAWM 271553Z AUTO 18015KT 10SM BKN026 OVC032 24/21 A2993 RMK AO2 SLP130 T02440211 PGSN 271554Z 00000KT 10SM OVC110 27/24 A2991 RMK AO2 SLP151 T02670244 KCFD 271535Z AUTO 01010G16KT 3SM TSRA SCT008 BKN037 OVC050 18/18 A2982 RMK AO2 LTG DSNT ALQS P0031 T01810181 CWRM 271400Z AUTO 31006KT 07/06 RMK AO1 SLP101 T00670056 55001 CWSD 271500Z AUTO 05005KT 09/05 RMK AO1 SLP247 T00880053 55002 CWQV 271500Z AUTO 07012G21KT RMK AO1 PK WND 08021/1452 KCDW 271553Z AUTO VRB04KT 9SM CLR 29/18 A3005 RMK AO2 SLP179 T02940178 TSNO KCFE 271554Z AUTO 00000KT 4SM RA SCT024 BKN029 OVC046 18/15 A2983 RMK AO2 P0006 T01760153 EGAE 271550Z 05010KT 010V070 9999 FEW022 SCT035 16/12 Q1017 CWRN 271500Z AUTO 10009KT 07/06 RMK AO1 SLP252 T00710063 53004 KBNO 271553Z AUTO 22008KT 10SM CLR 08/M01 A3010 RMK AO2 SLP187 T00831006 KAVX 271551Z AUTO 00000KT 10SM BKN005 14/11 A2996 RMK AO2 CIG 003V007 SLP141 T01390111 KAWO 271555Z AUTO 21006KT 10SM FEW014 SCT027 BKN033 11/06 A3017 RMK AO1 CWSF 271500Z AUTO 14017G22KT 12/05 RMK AO1 PK WND 16024/1402 SLP212 T01190053 56024 CWRO 271500Z AUTO 28016KT 10/ RMK AO1 PK WND 28021/1419 SLP166 T0097 56006 NZKI 271500Z 27005KT 0100 FG BKN004 08/08 Q0996 RMK ALT VATSIM USE ONLY CWSG 271500Z AUTO 25006KT 10/08 RMK AO1 SLP205 T00960077 56015 PHJR 271553Z 05003KT 10SM CLR 22/19 A3007 RMK AO2 SLP188 T02220189 ORBI 271600Z 14008KT CAVOK 37/08 Q1002 NOSIG KAXH 271555Z AUTO 15015KT 120V180 28/24 A2979 RMK AO2 LTG DSNT N T02800243 PWINO PGUA 271548Z AUTO 12005KT 10SM BKN010 OVC019 27/25 A2993 RMK AO2 CIG 010V019 BKN V SCT $ CYAH 271524Z AUTO 10007KT 070V140 9SM -RA BKN050 OVC065 12/08 A2986 RMK SLP124 KBOI 271553Z 33009KT 10SM CLR 13/02 A3002 RMK AO2 SLP148 T01280022 NZKK 271527Z 36012KT 25KM -SHRA SCT020 17/15 Q1002 RMK NZAA VATSIM USE ONLY OPST 271500Z 27006KT 4000 HZ FEW040 33/17 Q1000 NOSIG RH39 KCFJ 271555Z AUTO 17008KT 10SM CLR 25/19 A2998 RMK AO2 T02470189 CXKA 271500Z AUTO 31004KT 13/10 RMK AO1 SLP131 T01260101 51016 KBOK 271556Z AUTO VRB03KT 10SM CLR 15/07 A3015 RMK AO2 SLP224 T01500072 CWSK 271500Z AUTO 00000KT 10/08 RMK AO1 SOG 00 2004 SLP185 T01020083 CWRT 271500Z AUTO 17001KT 10/06 RMK AO1 T00970056 CYBB 271500Z 29012KT 20SM -SN BKN016 M05/M08 A3016 RMK ST7 SLP218 EGBB 271550Z 12008KT 090V160 9999 SCT036 SCT044 18/09 Q1017 KCEU 271554Z AUTO 26006KT 10SM FEW035 27/16 A3017 RMK AO2 SLP206 T02670156 KCGC 271555Z AUTO 07006KT 10SM SCT037 SCT050 BKN075 27/18 A3007 RMK AO2 KBPC 271555Z AUTO 32007KT 280V340 10SM CLR 19/07 A2976 RMK AO2 CWRU 271500Z AUTO 34008KT 09/06 RMK AO1 SLP195 T00930062 CWSL 271500Z AUTO 22001KT 10/07 RMK AO1 SLP144 T01010068 51007 CYBC 271557Z AUTO 10011G17KT 5SM -RA BR OVC018 08/07 A3007 RMK SLP187 CYBD 271500Z 28006KT 12SM FEW030 FEW043 SCT060 BKN070 OVC200 11/06 A3006 RMK SF1SC1SC4AC3CS1 SF TR SC TR VIS E 15 VIA CYZT SLP181 EFIV 271550Z 22008KT 180V260 CAVOK 18/M00 Q1025 CYAM 271527Z 07007KT 8SM FEW012 BKN240 17/16 A2995 RMK SC1CI5 SF TR CC TR SLP146 DENSITY ALT 900FT VDPP 271530Z 16007KT 9000 SCT017 BKN040 27/26 Q1009 KAXN 271553Z AUTO 06003KT 10SM OVC090 18/14 A2979 RMK AO2 SLP084 T01830139 KCEW 271553Z AUTO 11006KT 10SM CLR 31/17 A3006 RMK AO2 SLP175 T03060172 PHKO 271553Z AUTO 06005KT 10SM SCT060 23/21 A3003 RMK AO2 SLP170 T02330211 TSNO KCGE 271553Z AUTO 15005KT CLR 27/20 A3010 RMK AO1 KBNW 271555Z AUTO 09005KT 1 3/4SM -RA SCT003 BKN010 OVC025 17/17 A2976 RMK AO2 P0014 KCGF 271545Z 23008KT 10SM SCT140 27/17 A3003 EGBE 271550Z 08007KT 020V110 9999 FEW040 SCT048 18/08 Q1017 CXKE 271500Z AUTO 23005KT 28/19 RMK AO1 SLP137 T02750186 58004 EFKE 271550Z AUTO 25006KT 220V300 CAVOK 17/03 Q1026 CWRX 271500Z AUTO 31016KT M05/ A2997 EFJO 271450Z 03007KT 360V070 9999 OVC019 11/07 Q1025 KBPG 271555Z AUTO 25003KT 10SM CLR 24/03 A2984 RMK AO2 T02400025 KCEY 271535Z AUTO 18008G16KT 10SM CLR 23/22 A2999 RMK AO1 CWTG 271500Z AUTO 05010KT 09/07 RMK AO1 SLP205 T00910072 58014 CWSP 271500Z AUTO 26013KT 10/08 RMK AO1 PK WND 26017/1437 SLP205 T01010083 51007 CWRY 271500Z AUTO 19008KT 12/08 RMK AO1 SLP104 T01210080 51008 CYBG 271500Z 09019G24KT 25SM BKN040 BKN130 11/10 A2991 RMK SC5AC2 SLP132 ZSNB 271500Z 36001MPS 2000 BR FEW005 SCT020 23/22 Q1008 NOSIG KCEZ 271553Z AUTO 33007KT 10SM CLR 16/01 A2997 RMK AO2 SLP097 T01610011 PHLI 271553Z 05014KT 10SM SCT021 BKN060 25/21 A3007 RMK SS VEGT 270630Z 25004KT 4000 RA SCT018 FEW025CB BKN100 26/23 Q1006 NOSIG CWRZ 271500Z AUTO 13008KT 06/04 RMK AO1 SLP247 T00620037 58006 KBPI 271553Z AUTO 00000KT 10SM CLR 11/02 A3003 RMK AO2 SLP110 T01110017 KCGI 271553Z 15010KT 10SM SCT017 BKN040 23/20 A2992 RMK AO2 SLP130 T02280200 CXKI 271500Z AUTO 16/13 RMK AO1 SLP136 T01640133 53017 CWSR 271500Z AUTO 11011G16KT 16/11 RMK AO1 PK WND 12017/1421 SLP123 T01590106 53008 EFKI 271550Z AUTO 13005KT 100V160 9999 OVC039 13/05 Q1026 KCHA 271553Z VRB04KT 10SM SCT033 SCT065 BKN250 28/18 A3010 RMK AO2 SLP185 T02780183 KBOS 271554Z 08012KT 9SM FEW150 SCT250 BKN300 18/14 A3010 RMK AO2 SLP192 T01830139 KCFS 271555Z AUTO 00000KT 10SM CLR 27/18 A2997 RMK AO2 T02670176 KAXS 271555Z AUTO 20017G21KT 10SM CLR 24/14 A2975 RMK AO2 T02410143 NZMC 271500Z 14009KT 60KM BKN020 10/05 Q0989 RMK ALT NZHT VATSIM USE ONLY CYAS 271500Z 09009G15KT 15SM FEW012 01/M05 A3019 RMK SC2 SLP233 EGBJ 271550Z 07006KT 030V110 9999 FEW042 20/11 Q1016 CWSS 271500Z AUTO 12003KT 09/07 RMK AO1 2PAST HR 5002 SLP240 P0001 T00900071 50002 KBPK 271053Z AUTO 14006KT 7SM OVC003 19/19 A2981 RMK AO2 SLP086 T01940194 KE80 271555Z AUTO 29012G16KT 10SM CLR 20/M03 A2995 RMK AO2 T01951029 CWST 271500Z AUTO 18009G17KT 16/13 RMK AO1 PK WND 14017/1457 SLP154 T01560132 58025 CYCB 271500Z VRB02KT 15SM OVC011 M05/M08 A3028 RMK SC8 SLP260 CYBK 271500Z 25013KT 20SM BKN100 BKN220 02/M04 A3028 RMK AC5CI2 SLP255 CYAT 271500Z AUTO 00000KT 9SM CLR 17/02 A2988 RMK SLP119 DENSITY ALT 300FT PGUM 271554Z 11004KT 10SM FEW034 SCT041 28/24 A2992 RMK AO2 SLP122 T02830239 EFKK 271550Z AUTO 11006KT 070V140 9999 OVC040 16/08 Q1024 KAZC 271555Z AUTO 00000KT 10SM CLR 15/05 A3005 RMK AO2 CYBL 271500Z 28007KT 30SM FEW050 FEW080 BKN250 11/04 A3008 RMK CU1AC1CI3 SLP190 KCHD 271547Z 00000KT 40SM SKC 24/01 A2989 CXLC 271500Z AUTO 07004KT 09/00 RMK AO1 SLP190 T00890000 53001 KCFV 271552Z AUTO 12012G18KT 10SM CLR 22/18 A2969 RMK AO2 SLP049 T02220183 EGCC 271550Z 11006KT 080V150 9999 SCT047 18/07 Q1017 NOSIG KAXV 271552Z AUTO 18007KT 10SM CLR 27/17 A3002 RMK AO2 NZMF 271500Z 18002KT 10KM SHRA BKN080 02/01 Q0998 RMK ALT NZQN VATSIM USE ONLY CYCD 271500Z 28003KT 170V310 25SM FEW055 SCT100 BKN250 13/06 A3010 RMK SC2AC1CI2 SLP196 CXKM 271500Z AUTO 15009KT 14/11 RMK AO1 4PAST HR M P0002 T01370108 VEGY 271500Z 00000KT 4000 HZ SCT020 BKN100 31/22 Q1001 KBOW 271550Z 09009KT 15SM BKN040 28/17 A3007 KAZE 271555Z AUTO 17005KT 10SM CLR 28/13 A3012 RMK AO2 T02800125 CWSW 271532Z 17010G18KT 130V210 15SM -RA FEW016 OVC035 08/06 A2986 RMK SF1SC8 SF TR SLP116 DENSITY ALT 3900FT CYAW 271550Z 11007KT 10SM OVC008 11/09 A3026 RMK SF8 DA-588FT SLP248 CWTN 271500Z AUTO 09002KT 13/12 RMK AO1 SLP174 T01290118 53002 CYBN 271500Z AUTO 32006KT 280V350 9SM CLR 25/18 A2997 RMK SLP148 EETN 271550Z 07010KT CAVOK 16/06 Q1022 NOSIG KAXX 271555Z AUTO 30007KT 10SM SCT038 SCT046 BKN055 08/00 A2999 RMK AO2 T00820004 ZSNJ 271500Z 06003MPS 1600 -RA BR BKN004 OVC026 19/18 Q1009 NOSIG CYCG 271500Z 18005KT 090V220 15SM FEW012 SCT032 BKN140 BKN250 11/09 A2993 RMK SF1SC2AC2CI1 SLP142 CYAY 271500Z AUTO VRB02KT 9SM CLR 07/M04 A3029 RMK SLP260 EFJY 271550Z AUTO 04006KT 9999 OVC021 12/07 Q1025 CYAZ 271500Z 16003KT 130V210 15SM FEW015 FEW240 10/08 A3012 RMK CU1CI1 CU TR SLP201 CYBQ 271500Z AUTO 11010G15KT 9SM OVC012 M01/M03 A3027 RMK SLP273 TVSC 271400Z 10013KT 9999 SCT018 31/24 Q1015 CYBR 271526Z 05009G15KT 12SM -RA OVC012 14/13 A2985 RMK SC8 SLP116 DENSITY ALT 1600FT PHMK 271554Z 34004KT 10SM CLR 20/18 A3007 RMK AO2 SLP187 T02000178 KCGS 271550Z AUTO 00000KT 10SM CLR 28/18 A3007 RMK AO1 KAYS 271555Z AUTO 11010G17KT 10SM BKN049 27/17 A3012 RMK AO2 T02680168 CYDA 271500Z VRB02KT 20SM SKC 03/M02 A3022 RMK SLP252 VEIM 271300Z 23005KT 5000 BR FEW018 BKN100 23/21 Q1008 NOSIG EFKS 271550Z AUTO 11006KT 070V140 CAVOK 14/00 Q1027 EFMA 271550Z AUTO 13007KT 090V180 9999 OVC011 12/10 Q1020 KBPT 271553Z 14023G29KT 10SM BKN020 BKN028 28/23 A2982 RMK AO2 PK WND 14031/1520 SLP096 T02780233 KCHK 271535Z AUTO 20007KT 10SM CLR 23/17 A2969 RMK AO2 KBQK 271535Z AUTO 07010KT 10SM SCT036 BKN044 BKN050 28/18 A3013 RMK AO2 CWTT 271500Z AUTO 23010KT 21/15 RMK AO1 T02050152 CXKT 271500Z AUTO 03005KT 12/08 RMK AO1 SLP243 T01160075 58006 ZSOF 271500Z 30002MPS 1900 BR BKN003 OVC033 18/17 Q1010 NOSIG EFKT 271550Z 13005KT 060V190 CAVOK 18/02 Q1026 CYDB 271500Z 28005KT 25SM BKN050 BKN090 05/02 A3017 RMK CU5AC1 SLP248 KCIC 271547Z VRB05KT 40SM SKC 20/08 A2996 CYCK 271500Z AUTO 22015KT 9SM CLR 23/17 A2999 RMK SLP154 DENSITY ALT 1600FT CYDC 271521Z 12004KT 15SM BR FEW015 BKN040 07/05 A3002 RMK SF2SC5 SLP171 CWTU 271500Z AUTO ///// 01/ A3011 RMK SLP233 CYBU 271500Z AUTO 03014G19KT 9SM OVC014 10/06 A3000 RMK SLP171 EETU 271550Z 06007KT 020V080 CAVOK 18/07 Q1021 KCID 271552Z 15007KT 10SM BKN015 BKN023 23/20 A2977 RMK AO2 SLP076 T02280200 EFKU 271550Z AUTO 04007KT 9999 OVC021 11/07 Q1026 KBRD 271553Z AUTO VRB06KT 10SM -RA FEW032 OVC090 17/14 A2983 RMK AO2 SLP103 P0000 T01720139 CYBV 271500Z 06009G20KT 040V100 15SM OVC007 08/06 A2992 RMK SC8 BLN CIG SLP140 CXMD 271500Z AUTO 36004KT 16/13 RMK AO1 SOG 02 1003 SLP089 T01570126 CWVD 271500Z AUTO 20004KT M06/ A2981 RMK SLP145 CYBW 271500Z AUTO 01004KT 9SM OVC014 08/06 A2981 RMK SLP109 DENSITY ALT 4100FT KAZO 271553Z 19010KT 10SM CLR 26/18 A2997 RMK AO2 SLP142 T02560178 EGCN 271550Z 09005KT 030V130 9999 SCT024 BKN046 16/10 Q1019 KCHO 271553Z 20003KT 10SM CLR 28/21 A3010 RMK AO2 SLP185 T02830206 PHNG 271557Z 09008KT SCT020 BKN025 BKN030 25/21 A3004 RMK AO2 SLP168 T02500206 $ CYBX 271500Z 22011KT 15SM FEW015 FEW220 05/M02 A3029 RMK SC1CI2 SC TR SLP260 CYDF 271500Z 07007KT 040V130 15SM BKN031 08/00 A3031 RMK SC7 SLP265 CWVF 271545Z AUTO 27008KT 12/ RMK AO1 T0121 CYCO 271539Z 35009KT 2 1/2SM -SG FEW003 OVC014 M04/M05 A3030 RMK SF2ST6 SLP266 KF05 271555Z AUTO 18011KT 10SM CLR 24/13 A2973 RMK AO1 T02380131 KBQP 271535Z AUTO 13003KT 7SM -RA SCT011 BKN018 BKN023 23/23 A2991 RMK AO2 LTG DSNT W T02330230 CYCP 271500Z VRB02KT 5SM -RA BR FEW002 BKN015 BKN040 OVC110 08/06 A2989 RMK SF2SC3SC2AS1 VIS VLY S 10 -RA INTMT SUN DIMLY VSB SLP135 EFLP 271550Z AUTO 04005KT 010V070 9999 FEW015 SCT018 BKN023 13/10 Q1024 CXMG 271400Z AUTO 34006KT 10/09 RMK AO1 T00980094 CWTY 271500Z AUTO 12011KT 15/13 RMK AO1 PK WND 34018/1412 SLP140 T01450132 58010 CWUP 271500Z AUTO 24015KT M07/ A2983 RMK SLP136 KCGZ 271555Z AUTO 00000KT 10SM CLR 23/01 A2991 RMK AO1 CYCQ 271500Z 26004KT 35SM SCT110 OVC200 06/01 A2988 RMK AC3CI5 CONTRAILS SLP137 CWVH 271500Z AUTO 06009KT M02/ A3032 RMK SLP288 CWVI 271500Z AUTO 10007KT 14/12 RMK AO1 SLP080 T01440121 55001 CXMI 271500Z AUTO 17007KT 09/07 RMK AO1 SLP245 T00870074 53001 ZSPD 271530Z 07003MPS 2500 -RA BR BKN002 OVC040 20/19 Q1009 NOSIG EFMI 271550Z AUTO 05002KT 9999 OVC017 13/10 Q1024 KCHS 271556Z 09009G16KT 10SM FEW050 FEW250 28/14 A3015 RMK AO2 SLP208 T02830144 KDAA 271458Z AUTO 20003KT 10SM CLR 28/20 A3009 RMK AO2 SLP192 T02750202 53001 CYCS 271500Z 29012KT 15SM FEW090 SCT250 02/M02 A3029 RMK AC1CI3 AC TR SLP260 CWWA 271500Z AUTO 12001KT 09/08 RMK AO1 SLP194 T00930081 52008 CWUS 271500Z AUTO 15004KT 08/05 RMK AO1 4PAST HR 1018 SLP162 P0005 T00800049 50020 KDAB 271553Z 07013KT 10SM SCT030 BKN055 28/20 A3009 RMK AO2 SLP188 T02780200 PHNL 271553Z 35003KT 10SM FEW027 SCT060 22/21 A3006 RMK AO2 SLP177 T02220206 $ CWWB 271500Z AUTO 13003KT 23/18 RMK AO1 SLP144 T02330175 53001 KBRL 271553Z AUTO 18015G24KT 10SM OVC014 21/19 A2980 RMK AO2 PK WND 19026/1530 SLP086 T02060189 EGEC 271550Z 25005KT 230V290 9999 SCT020 14/10 Q1018 CYDL 271502Z AUTO VRB02KT 9SM OVC007 04/04 A2995 RMK SLP159 CXMM 271500Z AUTO 12008KT 11/08 RMK AO1 SLP116 T01140075 51006 EGDM 271511Z 10006KT 9999 TS FEW030CB FEW035TCU BKN045 20/10 Q1015 BLU TEMPO 5000 TSRA WHT CYED 271500Z AUTO 35002KT 9SM OVC008 12/09 A2978 RMK SLP093 KCIN 271535Z AUTO 11005KT 10SM OVC055 19/16 A2976 RMK AO2 NZNP 271500Z 02029G44KT 3000 RA BKN031 16/14 Q0999 RMK ALT VATSIM USE ONLY CWVN 271500Z AUTO 16007KT 13/08 RMK AO1 SLP131 T01290083 50003 CWWE 271500Z AUTO 08006KT 11/08 RMK AO1 SLP249 T01070083 53002 CYDN 271500Z AUTO 02013G18KT 9SM OVC009 11/09 A2992 RMK SLP142 CWUW 271553Z AUTO 32007KT 7SM SCT010 BKN016 OVC057 OVC077 M09/ A2982 KBRO 271553Z 17020G28KT 10SM FEW026 SCT034 31/25 A2975 RMK AO2 PK WND 16032/1521 SLP074 T03110250 PHOG 271554Z 17003KT 10SM CLR 19/18 A3005 RMK AO2 SLP182 T01890178 $ KBQX 271555Z AUTO 16019G28KT 5SM HZ FEW030 28/25 A2980 RMK A01 NZOH 271500Z 08010KT 20KM BKN075 13/11 Q1000 RMK ALT NZPM VATSIM USE ONLY CXMO 271500Z AUTO 20006KT 11/09 RMK AO1 T01140087 CWWF 271500Z AUTO 34004KT 14/11 RMK AO1 SLP123 T01390111 51002 CWUX 271500Z AUTO 06008KT 11/10 RMK AO1 8PAST HR 8030 SLP132 P0019 T01060099 50048 CYCX 271519Z 10003KT 050V130 8SM -SHRA BKN055 OVC071 08/07 A3023 RMK SC5AC3 DA-863FT CVCTV CLD EMBD VIS IMPRD RPDLY SLP237 VDSR 271530Z 15005KT 8000 SCT017 SCT040 29/27 Q1008 KDAG 271550Z AUTO 29011KT 10SM CLR 23/05 A2992 RMK AO2 SLP111 T02330050 NZNR 271500Z 36004KT 40KM BKN085 15/10 Q1003 RMK ALT VATSIM USE ONLY VEJS 271100Z 11006KT 2500 TSRA SCT015 SCT025 FEW030CB BKN100 23/23 Q1003 CYDP 271500Z 10004KT 15SM BKN200 04/M06 A3016 RMK CS7 SLP214 CWVP 271500Z AUTO 16008KT 09/07 RMK AO1 SLP121 T00930073 51003 CYCY 271500Z 34009KT 25SM -SN BKN028 OVC033 M03/M06 A2990 RMK SC6SC2 SLP128 CYEG 271500Z 31005KT 2 1/2SM BR OVC003 10/09 A2979 RMK ST8 SLP096 DENSITY ALT 2500FT ORER 271500Z 02012KT 7000 TS FEW025CB BKN030 31/05 Q1007 TEMPO -SHRA NZNS 271500Z 05033G50KT 3000 RA BKN030 13/12 Q0993 RMK ALT VATSIM USE ONLY CWVQ 271500Z AUTO 18003KT 24/14 RMK AO1 SLP143 T02350142 58007 CYDQ 271500Z AUTO 27010KT 9SM CLR 10/02 A2986 RMK SLP126 KCIR 271535Z AUTO 15009KT 10SM CLR 23/21 A2993 RMK AO2 T02300208 KF17 271535Z AUTO 33006KT 10SM -RA BKN020 OVC090 22/21 A2987 RMK AO2 T02150207 UNKL 271530Z 22001MPS CAVOK 06/02 Q1015 R29/CLRD65 NOSIG RMK QFE736 ZSQD 271500Z 26001MPS 4000 BR NSC 19/14 Q1011 NOSIG PGWT 270950Z 09004KT 7SM FEW018 FEW140 27/24 A2994 RMK LAST EGDR 271450Z AUTO 25007KT 9999 // BKN011/// BKN022/// 14/10 Q1016 KBTA 271555Z AUTO 07006KT 10SM SCT017 21/16 A2975 RMK AO2 LTG DSNT SW T02090158 TVSV 271600Z 09015KT 9999 -SHRA BKN080 30/27 Q1013 KCKB 271553Z VRB04KT 10SM FEW060 27/17 A3010 RMK AO2 SLP176 T02720167 NZNV 271500Z 11003KT 0700 FG BKN002 02/02 Q0999 RMK ALT VATSIM USE ONLY CWWK 271500Z AUTO 14003KT 11/09 RMK AO1 1008 SLP200 T01140091 50002 CWVT 271500Z AUTO 13007KT 10/07 RMK AO1 SLP159 T01010066 50002 CYEK 271500Z 06006KT 020V110 15SM OVC013 M02/M04 A3037 RMK SC8 SLP285 CYFB 271500Z 33008KT 290V350 30SM BKN020 M00/M05 A3014 RMK SC7 SLP210 KDAL 271553Z 13017G24KT 10SM -RA FEW007 SCT100 OVC120 19/18 A2979 RMK AO2 SLP082 P0004 T01940183 KCIU 271555Z AUTO 12005KT 10SM 21/18 A2996 RMK AO1 KCKC 271553Z AUTO 00000KT 10SM CLR 17/11 A2994 RMK AO2 VEKO 271200Z 32012KT 4000 DU SCT100 41/17 Q0999 CWXC 271500Z AUTO 20003KT 14/13 RMK AO1 1PAST HR M SLP114 P0004 T01420126 CWWL 271500Z AUTO 29008KT 09/08 RMK AO1 0PAST HR M SLP171 P0004 T00850075 CWVU 271500Z AUTO 33004KT 08/07 RMK AO1 SLP255 T00830068 53007 CYFC 271551Z AUTO 09006KT 9SM SCT034 OVC055 09/07 A3021 RMK SLP233 KDAN 271553Z AUTO 20005KT 10SM CLR 27/19 A3013 RMK AO2 SLP193 T02670189 CYEN 271500Z 32005KT 270V340 15SM OVC050 14/12 A2986 RMK SC8 CVCTV CLD EMBD SLP124 DENSITY ALT 2200FT PHNY 271556Z AUTO 02006KT 10SM CLR 20/18 A3011 RMK AO2 SLP180 T02000183 KCKF 271555Z AUTO 09007KT 10SM CLR 29/15 A3012 RMK AO2 T02870153 EGEO 271520Z VRB05KT 9999 BKN033 14/10 Q1019 EGDX 271550Z 13006KT 9999 SCT029 BKN060 18/11 Q1015 BLU EGFF 271550Z AUTO 13006KT 090V160 9999 FEW047 19/11 Q1015 CXNP 271500Z AUTO 06003KT 11/06 RMK AO1 SLP245 T01080064 58009 CXMY 271500Z AUTO 10/08 RMK AO1 T00950083 EGDY 271450Z 19002KT 9999 FEW032 BKN045 BKN090 20/13 Q1015 BLU NOSIG KCKI 271555Z AUTO 09006KT 10SM CLR 27/13 A3015 RMK AO2 KCJR 271535Z AUTO 00000KT 10SM CLR 29/20 A3010 RMK AO2 T02930200 CWXI 271500Z AUTO 31004KT 05/M03 RMK AO1 SLP255 T00511033 58020 KDCA 271552Z 18008KT 10SM FEW040 BKN250 28/21 A3008 RMK AO2 SLP187 T02830206 CYER 271554Z AUTO 01014G23KT 3SM -RA BR OVC005 02/02 A3005 RMK SLP180 CWWS 271500Z AUTO 05018KT 06/04 RMK AO1 PK WND 04023/1421 SLP142 T00630040 CXPA 271500Z AUTO 28004KT 10/08 RMK AO1 T00960081 NZPM 271500Z 08010KT 20KM BKN075 13/11 Q1000 RMK ALT VATSIM USE ONLY CYET 271500Z AUTO 27005KT 9SM -RA OVC032 07/07 A2983 RMK SLP122 KBTL 271553Z 16010KT 10SM CLR 26/18 A2998 RMK AO2 SLP144 T02560183 CWWU 271500Z 02014KT 15SM FEW018 SCT034 05/03 A3028 RMK SC1SC2 T0007 SLP254 CXOL 271500Z AUTO 31010KT 06/06 RMK AO1 T00550060 50005 CXPC 271500Z AUTO 17/15 RMK AO1 SLP142 T01710146 53004 CWXL 271500Z AUTO 16012KT 15/10 RMK AO1 PK WND 16019/1415 T01450102 KBTM 271553Z AUTO 00000KT 10SM FEW070 10/03 A2996 RMK AO2 SLP121 T01000033 KCKM 271555Z AUTO 15011G18KT 9SM SCT020 BKN026 BKN034 26/23 A2995 RMK A01 VELP 270800Z 04004KT 5000 HZ SCT015 BKN100 27/23 Q1003 NOSIG CYEV 271500Z 05007KT 15SM BKN030 04/M02 A3030 RMK SC6 SLP267 EGGD 271550Z AUTO 08007KT 9999 BKN031/// BKN046/// //////CB 17/11 Q1015 KDAW 271551Z AUTO 34006KT 10SM FEW018 20/13 A3011 RMK AO2 SLP194 T02000128 KCLE 271551Z 18010KT 10SM FEW040 SCT250 27/16 A3003 RMK AO2 SLP163 T02670161 $ KCKN 271554Z AUTO 00000KT 10SM CLR 19/14 A2982 RMK AO2 KDBN 271555Z AUTO 14006KT 10SM SCT060 26/14 A3014 RMK AO2 NZPP 271500Z 05017KT 15KM VCSH BKN075 14/11 Q0997 RMK ALT VATSIM USE ONLY CYGE 271500Z 32003KT 290V360 12SM -RA BCFG FEW006 SCT030 OVC080 09/08 A2984 RMK FG1ST1SC2AS4 VIS E 3 SLP112 KBUF 271554Z 24010G20KT 10SM FEW022 FEW038 FEW250 SCT350 24/18 A3002 RMK AO2 SLP161 T02440178 CYFO 271500Z 05008KT 040V100 15SM OVC015 04/01 A3008 RMK SC8 SLP200 VELR 271000Z 12004KT 3500 BR FEW010 SCT018 BKN100 27/23 Q1005 NOSIG CWWX 271500Z AUTO 32003KT 11/10 RMK AO1 SLP146 T01120095 KBTP 271555Z AUTO 24007KT 220V290 10SM FEW042 26/18 A3010 RMK AO1 KDAY 271556Z 00000KT 10SM FEW150 SCT250 26/17 A3004 RMK AO2 SLP165 T02610172 KCKP 271535Z AUTO 00000KT 10SM SCT011 OVC090 18/17 A2977 RMK AO2 T01800169 KDBQ 271553Z 15013KT 10SM BKN015 BKN110 21/18 A2983 RMK AO2 SLP095 T02060178 CYGH 271500Z VRB02KT 20SM FEW100 FEW260 05/M02 A3033 RMK AC1CI1 AC TR CI TR SLP276 CWWZ 271500Z AUTO 23002KT 24/17 RMK AO1 SLP150 T02360168 53007 KBTR 271553Z 16009KT 10SM FEW026 SCT032 27/21 A2998 RMK AO2 SLP151 T02720206 KCLI 271555Z AUTO 00000KT 10SM BKN110 23/16 A2988 RMK AO2 CYFR 271500Z 12005KT 070V140 15SM BKN077 BKN300 12/03 A3000 RMK AC6CS1 SLP167 CWXR 271500Z AUTO 34011KT M05/ A3032 RMK SLP279 KCMA 271555Z 29004KT 10SM BKN017 18/12 A2996 RMK AO2 SLP153 T01780122 NZRC 271500Z 11003KT 0700 FG BKN002 02/02 Q0999 RMK ALT NZNV VATSIM USE ONLY CYHA 271500Z 30009KT 15SM SCT010 SCT030 00/M05 A3019 RMK SF3SC1 SLP227 CWZA 271500Z AUTO 34001KT 09/08 RMK AO1 2PAST HR 3009 SLP201 P0001 T00920080 50005 CWYJ 271500Z AUTO 23004KT 11/08 RMK AO1 SLP201 T01060079 52008 CYFS 271500Z 35010G19KT 15SM BKN008 OVC050 08/05 A3009 RMK SC7SC1 SLP199 KCLK 271555Z AUTO 23016G22KT 10SM 24/12 A2972 RMK AO2 CYGK 271500Z 15007KT 6SM HZ FEW050 BKN270 18/15 A2997 RMK CU2CI4 SLP151 DENSITY ALT 600FT CYFT 271500Z 23009KT 15SM SCT070 09/M05 A3015 RMK AC4 SLP216 VEMN 270600Z 05005KT 3000 -RA FEW008 SCT018 FEW025CB OVC090 26/25 Q1007 NOSIG CWYK 271500Z AUTO 02014KT M07/ A3000 RMK SLP216 KDDC 271552Z AUTO 32007KT 10SM BKN009 BKN020 16/13 A2970 RMK AO2 CIG 007V013 SLP035 T01610133 KCLL 271553Z 02012G18KT 1 1/2SM +TSRA BR BKN008 OVC037 19/18 A2981 RMK AO2 WSHFT 1440 LTG DSNT ALQDS TSE28B39 SLP090 P0051 T01890183 NZQN 271500Z 18002KT 10KM SHRA BKN080 02/01 Q0998 RMK ALT VATSIM USE ONLY CXPL 271500Z AUTO 17013KT 16/09 RMK AO1 PK WND 17017/1459 T01580092 CWYL 271500Z AUTO 03/03 RMK AO1 8PAST HR SOG 00 1002 SLP094 P0003 T00320029 50031 CYGL 271500Z 12005KT 110V170 15SM FEW040 SCT120 BKN220 16/05 A2984 RMK CU1AC3CI2 CU TR SLP113 DENSITY ALT 1000FT KCKV 271552Z AUTO 20010KT 10SM CLR 26/19 A3001 RMK AO2 SLP158 T02610194 EFOU 271550Z AUTO 09005KT 350V140 9999 FEW062/// 19/01 Q1025 KCLM 271553Z AUTO 30006KT 10SM FEW049 OVC080 13/04 A3014 RMK AO2 SLP207 T01280044 KBTV 271554Z 22012KT 10SM FEW060 FEW100 FEW160 30/15 A2996 RMK AO2 SLP144 T03000156 $ KDCM 271555Z AUTO 16006KT 7SM CLR 27/14 A3017 RMK AO2 KCMD 271555Z AUTO 18008KT 10SM CLR 28/17 A3011 RMK AO2 T02820165 PWINO CWYM 271500Z AUTO 27024KT M06/ A2983 RMK SLP153 CYHD 271502Z AUTO VRB02KT 9SM BKN019 17/12 A2984 RMK SLP111 DENSITY ALT 2000FT KBVE 271551Z AUTO 13008KT 10SM FEW032 27/20 A3001 RMK AO2 SLP162 T02670200 EGHE 271550Z 19005KT 9999 FEW010 14/11 Q1016 CYHE 271558Z AUTO 27006KT 250V310 9SM -RA SCT016 BKN021 BKN026 OVC042 09/08 A3010 RMK SLP196 KF44 271535Z AUTO 13004KT 10SM -VCTSRA BKN060 OVC070 18/18 A2988 RMK AO2 LTG DSNT E THRU SW P0003 VEMR 270800Z 00000KT 5000 HZ FEW020 BKN100 30/22 Q1005 NOSIG CXOX 271500Z AUTO 09009KT 06/03 RMK AO1 SLP188 T00620029 52007 EFPO 271550Z AUTO 09007KT 050V130 9999 SCT033/// BKN066/// 17/09 Q1022 CXOY 271500Z AUTO 16014KT 16/09 RMK AO1 PK WND 17019/1457 T01590093 CWZG 271500Z AUTO 08001KT 07/06 RMK AO1 6001 SLP093 T00740059 50003 CYGP 271510Z 12011KT 15SM SCT020 OVC120 09/02 A3025 RMK SC4AC4 WSHFT 1455 SLP245 EGGP 271550Z 12005KT 060V190 CAVOK 19/10 Q1017 KCMH 271551Z 21007KT 160V230 10SM FEW035 SCT150 SCT250 26/17 A3004 RMK AO2 SLP166 T02560172 KDDH 271554Z AUTO VRB03KT 10SM SCT110 28/17 A3004 RMK AO2 SLP167 T02780172 TSNO KCKZ 271555Z AUTO 23008KT 200V260 10SM CLR 28/19 A3008 RMK AO2 KF46 271555Z AUTO 15009G16KT 10SM -RA OVC004 19/19 A2984 RMK AO2 LTG DSNT SE THRU W P0003 T01930192 KBVI 271547Z 22006G15KT 10SM SCT045 26/18 A3007 CYGQ 271500Z 09004KT 060V200 15SM FEW012 SCT014 BKN110 17/13 A2989 RMK SC2SC2AC3 SLP128 DENSITY ALT 1600FT EGHH 271550Z 18009KT 130V210 9999 FEW035TCU 18/11 Q1016 KBUR 271553Z 22003KT 10SM FEW016 16/12 A2995 RMK AO2 SLP134 T01610117 KCMI 271553Z 17018KT 10SM -RA FEW034 SCT070 BKN110 24/17 A2994 RMK AO2 RAB42 SLP134 P0000 T02390172 CYHI 271500Z 36004KT 15SM OVC015 M04/M07 A3033 RMK ST8 SLP276 CYGR 271540Z 12009KT 2 1/2SM -DZ BR OVC002 07/07 A3024 RMK FG3SF5 SLP241 KCLS 271555Z AUTO 26003KT 10SM FEW020 SCT032 OVC050 13/07 A3019 RMK AO2 EGHI 271550Z 09004KT 040V110 9999 SCT036 18/11 Q1015 KCLT 271552Z 22007KT 10SM FEW055 SCT250 27/15 A3017 RMK AO2 SLP205 T02670150 KCNB 271555Z AUTO 23004KT 10SM BKN060 BKN070 22/15 A2978 RMK AO2 T02190147 CYGT 271500Z 29008KT 14SM BKN020 OVC026 M05/M09 A3003 RMK SC6SC2 SLP176 CXRB 271500Z AUTO 32008KT M04/M07 RMK AO1 SOG 08 6002 SLP162 T10441072 CYHK 271500Z 29009KT 15SM BKN011 M05/M07 A3024 RMK ST7 SLP246 KDCU 271553Z AUTO 18009KT 10SM CLR 28/17 A3007 RMK AO2 SLP174 T02830172 KDEC 271554Z AUTO 17012G20KT 10SM -RA BKN085 OVC110 21/18 A2992 RMK AO2 RAB02 SLP128 P0000 T02110178 KBUU 271555Z AUTO 20007KT 10SM OVC015 23/19 A2989 RMK AO2 T02290188 KCNC 271535Z AUTO 13004KT 1 1/4SM BR OVC007 19/19 A2974 RMK AO2 CWZL 271500Z AUTO 27006KT 09/07 RMK AO1 SLP185 T00940067 KBWD 271555Z AUTO 13016G22KT 10SM CLR 21/17 A2981 RMK AO2 KDED 271535Z AUTO 07009KT 28/17 A3009 RMK AO1 NZRO 271500Z 00000KT 15KM VCSH BKN018 13/13 Q1005 RMK ALT NZTG VATSIM USE ONLY PHSF 271556Z AUTO 13004KT 10SM FEW240 08/04 A3036 RMK AO2 SLP181 T00750037 $ CYGV 271500Z AUTO 15015G22KT 9SM FEW015 OVC034 08/03 A3026 RMK SLP252 CYHM 271500Z 22009KT 15SM SCT039 BKN045 BKN250 26/19 A2999 RMK CU3SC2CI1 SLP153 DENSITY ALT 2100FT KBVN 271555Z AUTO 13004KT 10SM VCTS SCT030 20/13 A2976 RMK AO2 LTG DSNT S T02030127 KCLW 271535Z AUTO 00000KT 10SM SCT032 BKN040 BKN045 27/17 A3005 RMK AO2 CWZN 271500Z AUTO 08010KT 06/02 RMK AO1 SLP260 T00550020 CYGW 271500Z AUTO VRB03KT 9SM OVC075 13/02 A2984 RMK SLP108 KBVO 271553Z AUTO 15007G19KT 120V200 10SM SCT017 22/18 A2969 RMK AO2 SLP043 T02220183 TSNO EGGW 271550Z AUTO 03007KT 9999 SCT035 18/10 Q1016 CWZO 271500Z AUTO 24010KT RMK AO1 CYGX 271500Z 04011G18KT 15SM OVC020 01/M01 A3020 RMK SC8 SLP238 ZSSS 271530Z 08002MPS 040V110 7000 BKN006 20/19 Q1009 NOSIG KBWG 271553Z AUTO 19009KT 10SM CLR 27/19 A3005 RMK AO2 SLP168 T02720194 KBUY 271554Z AUTO 18006KT 10SM CLR 27/15 A3015 RMK AO2 SLP201 T02720150 KDCY 271535Z AUTO 19008KT 10SM CLR 25/21 A2998 RMK AO2 T02530205 CWYY 271500Z AUTO 35008KT 15/02 RMK AO1 SLP147 T01470017 51013 KDEH 271535Z AUTO VRB06KT 10SM SCT013 BKN042 OVC055 20/19 A2980 RMK AO2 EGHQ 271550Z 29008KT 260V320 9999 SCT006 SCT012 14/12 Q1016 UNNT 271530Z VRB01MPS CAVOK 13/03 Q1014 R25/090070 R34/090070 NOSIG RMK QFE750/1000 CXRH 271500Z AUTO 18006KT 10/M00 RMK AO1 T01031001 CWZQ 271540Z AUTO 23005KT 09/08 RMK AO1 T00910077 KBWI 271554Z 10SM FEW050 BKN250 31/19 A3006 RMK AO2 SLP177 T03060189 KCMR 271555Z AUTO 29009G14KT 10SM CLR 15/M02 A3017 RMK AO2 KCNI 271535Z AUTO 12006KT 10SM SCT042 SCT048 SCT065 25/13 A3017 RMK AO2 KBXA 271555Z AUTO 17006KT 10SM SCT027 28/20 A3003 RMK AO2 LTG DSNT NW T02770203 PWINO KBVS 271555Z AUTO 18005KT 4SM BR FEW013 BKN020 BKN025 10/09 A3015 RMK A01 P0001 EGJA 271550Z 09002KT 8000 FEW009 15/13 Q1016 CWZS 271500Z AUTO 15008G17KT 08/05 RMK AO1 PK WND 16017/1452 SLP211 T00780052 58017 EFSA 271550Z AUTO 01006KT 340V050 9999 OVC018 12/08 Q1025 KCNK 271555Z AUTO 13005KT 10SM SCT031 BKN039 OVC065 17/15 A2976 RMK AO2 RAB18E51 SLP070 P0002 T01720150 CYIK 271500Z 26006KT 15SM OVC020 M02/M06 A3022 RMK SC8 SLP240 EGJB 271550Z 30005KT 280V010 6000 FEW008 15/12 Q1016 KBVU 271555Z AUTO 05004KT 10SM FEW090 SCT120 24/02 A2991 RMK AO2 CXSC 271500Z AUTO 13013KT 14/11 RMK AO1 T01440109 UNOO 271530Z 07002MPS CAVOK 21/07 Q1014 R07/CLRD60 NOSIG RMK QFE752 CXRL 271500Z AUTO 08005KT 15/13 RMK AO1 T01530126 CYHU 271500Z AUTO 23011G16KT 190V260 9SM CLR 25/15 A2995 RMK SLP142 DENSITY ALT 1200FT KCNM 271553Z AUTO 29012G16KT 10SM CLR 26/M05 A2986 RMK AO2 SLP054 T02561050 KCOD 271555Z AUTO 20013KT 10SM CLR 15/03 A2991 RMK AO1 CWZV 271500Z AUTO 31012KT 08/ RMK AO1 4PAST HR M SLP184 P0002 T0081 KDEN 271553Z 35017KT 10SM BKN025 BKN040 OVC070 10/07 A2989 RMK AO2 SLP089 T01000067 KCOE 271555Z AUTO 18011KT 130V190 10SM FEW027 BKN033 OVC039 10/04 A2998 RMK AO1 NZTG 271500Z 00000KT 15KM VCSH BKN018 13/13 Q1005 RMK ALT VATSIM USE ONLY NZSP 271150Z 09012KT 9999 IC SKC M60/ A2809 RMK CLN AIR 09011KT ALL WNDS GRID SDF/HDP CXSE 271500Z AUTO 30008KT M05/M07 RMK AO1 SLP222 T10521072 CWZW 271500Z AUTO 25002KT 07/02 RMK AO1 SOG 09 1004 SLP193 T00740015 CYIN 271500Z AUTO 31008KT 9SM OVC120 05/01 A2995 RMK SLP162 KCMX 271553Z AUTO 00000KT 10SM CLR 17/15 A2991 RMK AO2 SLP129 T01720150 TSNO KCNO 271553Z VRB03KT 7SM BKN020 19/11 A2996 RMK AO2 SLP140 T01890111 KBVX 271555Z AUTO 18009G16KT 130V210 10SM SCT019 BKN027 OVC034 26/21 A2987 RMK AO1 KCOF 271458Z AUTO 06012KT 10SM FEW031 28/20 A3005 RMK AO2 SLP180 T02780195 51009 $ CYIO 271527Z 22006KT 8SM -SN BKN026 OVC033 M04/M06 A2992 RMK SC5SC3 SLP141 EFRO 271550Z AUTO 16005KT 070V220 CAVOK 17/M01 Q1026 KBVY 271553Z VRB04KT 10SM CLR 21/14 A3009 RMK AO2 SLP183 T02110144 KCMY 271535Z AUTO 14010KT 10SM SCT095 BKN120 23/17 A2983 RMK AO2 T02260165 KBWP 271530Z AUTO 36009KT 10SM BKN100 23/10 A2976 RMK AO1 CYHY 271500Z 09005KT 15SM FEW050 SCT070 BKN100 BKN230 09/04 A3000 RMK SC2AC2ACC1CI2 CC ASOCTD SLP167 ZUCK 271500Z 17002MPS 4000 -RA BR SCT002 SCT007 OVC026 16/15 Q1012 NOSIG KDEQ 271553Z AUTO 16007KT 10SM SCT100 23/21 A2983 RMK AO2 SLP095 T02280206 CXSH 271500Z AUTO 10003KT 16/13 RMK AO1 6PAST HR PRESFR 8012 SLP144 P0010 T01560133 50044 CYHZ 271500Z VRB02KT 15SM OVC013 11/08 A3024 RMK SC8 SLP245 CWZZ 271551Z AUTO 09003KT M02/ A3010 KDFI 271553Z AUTO VRB04KT 10SM CLR 26/17 A3000 RMK AO2 SLP154 T02610167 EFSI 271550Z AUTO 11006KT 9999 BKN025 BKN046 13/09 Q1024 EGKA 271550Z 21006KT 5000 HZ FEW022 16/13 Q1015 CYKA 271500Z CCA 26011G16KT 40SM FEW014 FEW025 BKN050 OVC100 09/07 A2996 RMK SF1SC1SC6AC1 SF TR SH E SLP154 KDET 271553Z 17006KT 10SM CLR 27/18 A2998 RMK AO2 SLP148 T02720183 EGJJ 271550Z 30009KT 9000 FEW008 FEW015CB 16/14 Q1015 NOSIG KBXK 271555Z AUTO 14003KT 10SM CLR 24/04 A2989 RMK AO1 KF70 271535Z AUTO 00000KT 10SM OVC011 15/11 A2995 RMK AO1 EGKB 271550Z 06009KT 9999 FEW025 19/12 Q1016 KCNU 271552Z AUTO 13009KT 10SM CLR 21/17 A2972 RMK AO2 SLP054 T02110172 KCPC 271550Z AUTO 00000KT 10SM CLR 27/16 A3015 RMK AO2 T02710158 EHAK 271555Z AUTO 07008KT 9999 NCD 11/11 Q1019 CXSL 272200Z AUTO 12004KT 19/12 RMK AO1 T01870115 50011 KCOM 271555Z AUTO 14013G17KT 10SM OVC009 22/19 A2981 RMK AO2 LTG DSNT E T02150185 CYKD 271500Z 36004KT 15SM FEW025 SCT052 SCT070 04/M01 A3032 RMK SC1SC2AC1 SLP270 KCNW 271555Z 08004KT 10SM -RA OVC050 18/18 A2984 CXTD 271500Z AUTO 14005KT 09/08 RMK AO1 SLP260 T00850079 55000 CYIV 271500Z 03010G18KT 360V060 15SM OVC007 04/03 A3004 RMK SC8 SLP182 KCON 271551Z AUTO VRB04KT 10SM CLR 22/13 A3010 RMK AO2 SLP194 T02170133 KDEW 271553Z AUTO 18009KT 10SM BKN016 BKN090 09/05 A3000 RMK AO2 SLP160 T00890050 PHTO 271553Z 24006KT 10SM FEW035 SCT060 21/16 A3008 RMK AO2 SLP183 T02060161 EHAM 271555Z 03010KT 360V080 9999 FEW035 20/12 Q1016 NOSIG CYKF 271500Z AUTO 20003KT 8SM SCT023 25/20 A2998 RMK SLP150 DENSITY ALT 2300FT CZBF 271500Z 14004KT 110V170 5SM -RA BR FEW008 OVC080 07/06 A3023 RMK SF1AS8 SF TR SLP239 KCNY 271553Z AUTO 35005KT 10SM CLR 18/02 A2994 RMK AO2 SLP099 T01780017 KBYG 271553Z AUTO VRB04KT 10SM CLR 14/04 A2992 RMK AO2 SLP100 T01440039 $ KBYH 271458Z 17011G17KT 10SM BKN024 BKN085 OVC110 23/20 A2991 CYKG 271500Z 29004KT 260V340 40SM OVC023 M01/M07 A3016 RMK SC8 SLP229 CXSP 271500Z AUTO 10007KT 16/10 RMK AO1 T01570103 KCOQ 271555Z AUTO 12003KT 10SM -RA SCT037 SCT080 13/11 A2989 RMK AO2 P0002 CXTH 271500Z AUTO 12010KT 14/11 RMK AO1 T01410111 VEPT 271530Z 09008KT 3000 HZ FEW020 SCT100 30/23 Q1001 NOSIG KBYI 271553Z AUTO 26012G22KT 10SM CLR 14/04 A2997 RMK AO2 SLP122 T01440044 CXSR 271500Z AUTO 31008KT 07/02 RMK AO1 3004 SLP118 T00680019 50006 VERC 271530Z 18003KT 4000 HZ SCT018 FEW030CB BKN100 25/21 Q1007 NOSIG KCOS 271554Z 34021G30KT 10SM SCT050 BKN120 12/02 A2985 RMK AO2 PK WND 34037/1537 SLP073 T01220022 NZTU 271500Z 09005KT 10KM VCDZ BKN007 09/09 Q0998 RMK ALT VATSIM USE ONLY CYLA 271500Z 06009KT 060V120 15SM FEW016 FEW230 02/M04 A3018 RMK SC1CI1 SC TR SLP225 CYKJ 271532Z AUTO 10012KT 9SM OVC009 04/01 A3007 RMK SLP206 KCOT 271553Z AUTO 23008KT 10SM CLR 31/21 A2972 RMK AO2 SLP053 T03110211 KCPK 271535Z AUTO 17006KT 10SM CLR 27/17 A3016 RMK AO2 T02700173 KCQB 271535Z AUTO 00000KT 10SM SCT018 20/18 A2967 RMK AO2 CYJT 271500Z 14005KT 15SM BKN028 10/03 A3027 RMK SC7 SLP252 KBYL 271535Z AUTO 00000KT 10SM CLR 26/18 A3012 RMK AO1 KCQC 271553Z AUTO 30020G30KT 10SM CLR 13/M02 A2995 RMK AO2 PK WND 29031/1538 SLP077 T01331022 EGKK 271550Z 07008KT 030V100 9999 FEW034 20/12 Q1015 KCOU 271554Z 16013KT 10SM SCT019 OVC028 23/20 A2980 RMK AO2 SLP083 T02330200 EHBK 271555Z AUTO 04011KT 010V070 9999 TS NSC 20/15 Q1014 TEMPO SCT025CB CYLC 271500Z 32005KT 290V360 15SM BKN020 M00/M05 A3016 RMK SC7 SLP218 CYKL 271500Z AUTO VRB05KT 9SM FEW170 SCT190 12/M00 A2997 RMK SLP170 EGLC 271550Z 09010KT 9999 FEW030 20/12 Q1016 CYLD 271500Z 26005KT 230V310 15SM BKN020 BKN130 17/13 A2995 RMK SC5AC1 SLP151 DENSITY ALT 2000FT KDFW 271553Z 14017G28KT 10SM -TSRA FEW005 SCT041CB OVC100 19/18 A2976 RMK AO2 PK WND 13028/1548 TSE52B53 SLP070 OCNL LTGCGICCC SW-NW TS SW-NW MOV E P0003 T01940178 KCQF 271535Z AUTO 12010G16KT 10SM CLR 27/17 A3003 RMK AO2 EGLF 271550Z 05008KT 9999 FEW047 20/08 Q1015 CXTO 271500Z AUTO 24/18 RMK AO1 SLP150 T02360183 53006 CXTP 271500Z AUTO 08004KT 07/M00 RMK AO1 SLP264 T00701003 52006 CYKP 271500Z AUTO 15004KT 050V210 9SM OVC110 17/10 A2988 RMK SLP118 DENSITY ALT 1000FT OSDI 271600Z 25020KT 9999 FEW030 23/07 Q1010 EFTP 271550Z AUTO 07008KT 9999 SCT037 BKN042 14/10 Q1024 CYKQ 271500Z 02005KT 330V060 15SM BKN013 BKN120 15/11 A2983 RMK SC6AC1 SLP104 DENSITY ALT 100FT CYLH 271508Z AUTO 05005KT 9SM OVC065 13/11 A2987 RMK SLP122 KCPR 271553Z VRB05KT 10SM CLR 14/04 A2994 RMK AO2 SLP107 T01440039 NZWB 271500Z 05033G50KT 3000 RA BKN030 13/12 Q0993 RMK ALT NZNS VATSIM USE ONLY KCPS 271553Z 15012G22KT 10SM BKN009 22/20 A2987 RMK AO2 RAE46 SLP112 P0002 T02220200 KBYS 271555Z AUTO VRB03KT 10SM CLR 22/04 A2992 RMK AO2 SLP099 T02240035 PWINO $ CYLJ 271500Z 10011KT 15SM FEW200 FEW230 17/11 A2988 RMK CC1CS1 CC TR SLP124 DENSITY ALT 2100FT CYMA 271500Z 13003KT 060V150 20SM FEW120 FEW240 06/01 A3019 RMK AC1CI1 AC TR SLP246 EFVA 271550Z AUTO 09006KT 060V130 9999 FEW033/// OVC048/// 15/08 Q1024 KCPT 271535Z AUTO 15006G15KT 10SM FEW007 SCT029 BKN080 18/18 A2985 RMK AO2 LTG DSNT ALQDS CYLK 271500Z 06008KT 25SM FEW080 SCT210 08/01 A3007 RMK AC1CI2 SLP193 CZDB 271500Z AUTO 33002KT 11/07 RMK AO1 SLP249 T01080072 55001 ORMM 271500Z 12006KT CAVOK 41/M02 Q1004 NOSIG KCPU 271535Z AUTO 33003KT 10SM CLR 19/09 A2996 RMK AO2 T01920086 CYLL 271500Z 15011KT 15SM FEW120 SCT270 18/10 A2984 RMK AC2CI2 SLP111 DENSITY ALT 3100FT EGMC 271550Z 08013KT 8000 NSC 16/11 Q1016 EFTU 271550Z AUTO 19005KT 120V250 9999 SCT047/// 18/07 Q1022 EGLL 271550Z AUTO 07006KT 040V110 9999 BKN049 20/09 Q1016 NOSIG KCQM 271555Z AUTO 14005KT 10SM RA SCT021 BKN065 BKN080 17/13 A2990 RMK AO2 CXTV 271500Z AUTO 06008KT M00/M03 RMK AO1 SLP273 T10031026 VERP 271530Z 11008KT 5000 -TSRA SCT020 FEW030CB 28/20 Q1004 TEMPO 3000 TSRA KCRE 271553Z 13009KT 10SM CLR 26/17 A3017 RMK AO1 SLP215 T02610172 EGMD 271550Z 04012KT 8000 NSC 19/13 Q1016 KDGW 271553Z AUTO A2994 RMK AO2 SLPNO PWINO KDHN 271553Z VRB03KT 10SM CLR 28/16 A3011 RMK AO2 SLP191 T02780161 KCPW 271557Z AUTO 00000KT SCT024 BKN032 BKN038 01/M05 A3015 RMK AO2 PWINO KBZN 271556Z 06005KT 10SM BKN060 OVC080 10/07 A2995 RMK AO2 RAE19 SLP131 P0002 T01000072 KCRG 271553Z 09011KT 10SM BKN033 27/18 A3011 RMK AO2 RAE24 SLP194 P0000 T02670183 KBYY 271555Z AUTO 16014G23KT 7SM OVC017 28/25 A2980 RMK AO2 T02850247 CYKY 271400Z 16010KT 15SM FEW050 FEW070 15/08 A2987 RMK SC1AC1 SC TR AC TR SLP116 DENSITY ALT 2800FT CZCP 271500Z AUTO 35003KT 9SM M03/ A3036 RMK SLP290 ORNI 271500Z 10009KT CAVOK 40/02 Q1002 NOSIG CYMH 271525Z AUTO 14012KT 9SM CLR 06/M03 A3027 RMK WSHFT AT 1513Z SLP252 CYKZ 271500Z 00000KT 11SM BKN055 BKN200 26/19 A2997 RMK SC6CI1 SLP147 DENSITY ALT 2000FT NZWK 271500Z 00000KT 15KM VCSH BKN018 13/13 Q1005 RMK ALT NZTG VATSIM USE ONLY CZCR 271500Z AUTO 10007KT 08/06 RMK AO1 6016 SLP239 T00770057 50006 KDIJ 271556Z AUTO 18014KT 10SM CLR 13/02 A3000 RMK AO2 SLP131 T01280022 CYMJ 270717Z 25005KT 15SM BKN064 BKN110 BKN260 12/10 A2990 RMK SC5AC1CI0 LAST OBS/NEXT 271700 UTC SLP134 KCQT 271547Z AUTO 00000KT 9SM OVC019 17/13 A2995 RMK AO2 SLP141 T01720128 CYNA 271500Z AUTO 13012G20KT 9SM OVC036 08/M00 A3030 RMK SLP262 KDHT 271553Z AUTO 31013KT 10SM CLR 18/06 A2983 RMK AO2 SLP058 T01830056 KDIK 271556Z AUTO 36006KT 10SM SCT027 17/08 A2983 RMK AO2 SLP099 T01670078 CYLT 271500Z 00000KT 8SM OVC015 M05/M06 A3006 RMK SC8 SLP183 CXWB 271500Z AUTO 30008KT 02/M01 RMK AO1 T00221009 EFUT 271550Z AUTO 03005KT 360V070 9999 OVC007 13/12 Q1024 CYLU 271500Z 11006KT 060V210 15SM FEW030 FEW032 02/M06 A3018 RMK SF1CU1 SF TR CU TR SLP227 EGNC 271550Z 07007KT 290V220 9999 SCT025 16/10 Q1017 NZWN 271530Z AUTO 03017KT 8000 -RA SCT041/// BKN049/// BKN060/// 13/10 Q0996 TEMPO 5000 RA BECMG 36025G40KT TXKF 271555Z 11011KT 9999 FEW015 SCT080 BKN300 26/21 Q1024 EHDL 271555Z AUTO 06008KT 010V140 9999 NCD 20/12 Q1015 BLU CYND 271500Z VRB02KT 15SM BKN130 BKN240 24/16 A2993 RMK AC5CI1 SLP137 DENSITY ALT 1200FT CXVM 271500Z AUTO 16007KT 16/10 RMK AO1 T01610095 CYMM 271509Z AUTO 12010G15KT 9SM OVC075 12/08 A2986 RMK SLP124 KCQW 271555Z AUTO 33003KT 10SM SCT050 27/15 A3016 RMK AO2 NZWP 271527Z 36012KT 25KM -SHRA SCT020 17/15 Q1002 RMK NZAA VATSIM USE ONLY CXVN 271500Z AUTO 23009KT 25/19 RMK AO1 SLP138 T02500189 53005 CYNE 271500Z AUTO 07011G19KT 010V100 9SM OVC012 05/02 A3004 RMK SLP182 CYLW 271548Z AUTO 15009KT 9SM -RA BKN044 OVC050 09/04 A2998 RMK SLP158 KCQX 271552Z AUTO 21011G15KT 10SM CLR 19/15 A3013 RMK AO2 SLP205 T01890150 CYMO 271550Z AUTO VRB03KT 9SM BKN026 16/09 A2989 RMK SLP122 DENSITY ALT 100FT KCSG 271551Z 12005KT 10SM CLR 27/14 A3010 RMK AO2 SLP186 T02720144 KCRP 271551Z 18016KT 8SM SCT020 BKN031 BKN037 BKN200 30/26 A2973 RMK AO2 SLP067 T03000256 NZWR 271527Z 36012KT 25KM -SHRA SCT020 17/15 Q1002 RMK NZAA VATSIM USE ONLY KCRQ 271553Z AUTO 22004KT 10SM FEW013 OVC019 17/13 A2994 RMK AO2 SLP137 T01720133 TSNO NZWS 271500Z 05020G30KT 3000 RA BKN009 14/13 Q0991 RMK ALT VATSIM USE ONLY EGNH 271550Z 32008KT 9999 FEW044 17/11 Q1018 EHEH 271555Z AUTO 05009KT 350V090 9999 NCD 21/13 Q1015 BLU 04010KT 9999 FEW035 KCRS 271557Z AUTO 12010KT 6SM -RA BR FEW050 BKN070 OVC090 19/18 A2990 RMK AO2 LTG DSNT ALQDS P0001 T01940178 KEBA 271535Z AUTO 00000KT 10SM BKN060 OVC070 28/18 A3018 RMK AO2 T02800177 PWINO NZWU 272000Z 03002KT 0600 FG BKN001 03/01 Q1018 RMK FOG DRIFTING OVER FROM RIVER CZFA 271500Z 00000KT 30SM BKN060 BKN080 05/03 A3011 RMK SC5AC2 SLP231 CYOA 271500Z 08004KT 15SM SCT100 BKN220 08/M01 A3010 RMK AC4CS2 EGNJ 271550Z 07006KT 040V100 9999 FEW026 SCT040 15/10 Q1018 KCTB 271556Z AUTO 25017G25KT 10SM BKN070 14/04 A2985 RMK AO2 PK WND 24027/1539 SLP097 T01440044 $ KDKB 271535Z AUTO 17010KT 10SM SCT020 SCT100 24/19 A2990 RMK AO2 T02360194 CYMT 271500Z 19009G15KT 8SM OVC005 13/13 A2978 RMK ST8 SLP093 DENSITY ALT 1500FT CYMU 271500Z 07023G30KT 15SM BKN065 OVC087 07/M01 A2985 RMK SC6AC2 SLP115 CYOC 271500Z 00000KT 35SM BKN040 08/03 A3023 RMK SC7 CU ASOCTD SLP250 CZEL 271500Z AUTO 21004KT 24/18 RMK AO1 SLP154 T02360184 53002 KCSM 271553Z 21020G27KT 10SM CLR 25/14 A2973 RMK AO2 PK WND 20027/1502 SLP045 T02500144 CZEM 271500Z 07004KT 020V110 15SM BKN010 15/11 A2983 RMK SC6 SLP103 DENSITY ALT 100FT CXWM 271400Z AUTO 16006KT 12/08 RMK AO1 T01180079 CYNM 271514Z AUTO 28012G20KT 9SM BKN019 BKN025 OVC031 16/13 A2982 RMK SLP105 DENSITY ALT 1300FT CYOD 271500Z 10011KT 15SM FEW085 FEW100 SCT250 16/10 A2986 RMK AC1AC2CI0 SLP117 EGNM 271550Z 09004KT 040V150 9000 SCT012 SCT039 13/10 Q1018 KCRW 271554Z 27005KT 10SM FEW050 SCT120 28/17 A3009 RMK AO2 SLP180 T02830167 EHDV 271555Z AUTO 04010KT 360V100 9999 FEW007/// SCT008/// 12/09 Q1019 EHFD 271555Z AUTO 07007G22KT 9000 NCD 12/11 Q1018 KEAN 271535Z AUTO 00000KT 10SM CLR 13/06 A2991 RMK AO2 T01340063 EGMW 271550Z 02012KT 9999 FEW009 13/10 Q1018 CXVW 271500Z AUTO 28005KT 09/07 RMK AO1 T00860072 CXWN 271500Z AUTO 01002KT 16/14 RMK AO1 SLP088 T01640142 51004 KCRX 271555Z AUTO 17008KT 10SM CLR 25/19 A3000 RMK AO2 EGNO 271550Z VRB03KT CAVOK 18/07 Q1017 CYMX 271500Z 24005KT 120V260 20SM FEW050TCU FEW070 FEW140 OVC250 22/14 A2996 RMK TCU1AC1AC1CI6 AC TR SLP148 DENSITY ALT 1100FT KEBG 271535Z AUTO 17014G20KT 10SM SCT025 32/24 A2974 RMK AO2 T03240240 KCSQ 271535Z AUTO 05005KT 9SM BKN005 OVC014 18/17 A2976 RMK AO2 UNTT 271530Z 17002MPS CAVOK 10/05 Q1013 NOSIG RMK QFE745 KEAR 271555Z AUTO 10010KT 10SM VCTS FEW023 BKN032 OVC049 16/13 A2980 RMK AO1 LTG DSNT NE TSB08 P0004 EGNR 271550Z VRB06KT 9999 FEW038 20/09 Q1017 KCTJ 271535Z AUTO 15003KT 10SM SCT025 27/19 A3016 RMK AO2 T02650190 CYPA 271500Z 10013G18KT 15SM FEW018 SCT100 13/08 A2995 RMK SC1AC3 SC TR SLP150 CYOJ 271500Z 35004KT 15SM BKN050 OVC260 11/07 A2986 RMK SC6CS2 SLP121 KCUB 271553Z AUTO 15005KT 10SM FEW070 28/14 A3016 RMK AO2 SLP209 T02830144 EGNS 271550Z 09007KT 9999 FEW025 16/09 Q1017 NOSIG EGPA 271550Z 08008KT 9999 SCT012 11/07 Q1022 KDKK 271553Z AUTO 26012KT 10SM CLR 24/17 A3003 RMK AO2 SLP165 T02440172 KEAT 271555Z AUTO 29012KT 10SM CLR 14/M01 A3001 RMK AO2 SLP162 T01391011 EGPB 271550Z 10004KT 9999 BKN014 09/06 Q1023 NOSIG EGNT 271550Z 08007KT 9999 BKN020 13/08 Q1019 KEAU 271556Z 02004KT 10SM OVC090 19/15 A2980 RMK AO2 SLP090 T01940150 CYPC 271500Z 34005KT 15SM FEW016 SCT210 M03/M04 A3038 RMK CU2CC1 SLP288 ZUGY 271500Z 35003MPS 8000 -RA FEW004 BKN015 OVC030 16/16 Q1012 NOSIG KCSV 271553Z AUTO VRB04KT 10SM SCT031 26/18 A3015 RMK AO2 SLP189 T02560178 EGPC 271550Z 11009KT 9999 FEW006 BKN007 10/07 Q1022 CZFM 271500Z 32005KT 290V360 35SM FEW040 06/01 A3030 RMK SC1 SLP264 CZEV 271500Z AUTO 06007KT 04/M02 RMK AO1 SLP270 T00431022 58005 EGOM 271450Z AUTO 05008KT 9999 FEW021/// 13/07 Q1018 CYPD 271553Z AUTO 16007KT 5SM BR OVC003 07/07 A3026 RMK SLP254 EGNV 271550Z 05007KT 020V090 9999 FEW021 SCT043 15/09 Q1018 EGPD 271550Z 11008KT 9999 FEW010 SCT040 11/08 Q1021 NOSIG CZFN 271500Z 01009KT 25SM FEW015 FEW110 FEW260 06/M01 A3029 RMK CU1AC1CI1 CU TR 2.5/7.5/6.0 SLP265 CYPE 271513Z 31005KT 15SM OVC010 10/08 A2982 RMK SC8 SLP112 EGPE 271550Z 04010KT 9999 BKN009 12/10 Q1020 KDLF 271458Z AUTO 32005KT 10SM CLR 27/20 A2977 RMK AO2 SLP067 T02690201 52021 CYOO 271500Z AUTO 19006KT 140V210 7SM SCT065 24/18 A2996 RMK SLP146 DENSITY ALT 1500FT EGPF 271550Z AUTO 07009G19KT 030V100 9999 OVC011 13/10 Q1019 EGNX 271550Z VRB05KT 9999 SCT041 17/08 Q1017 KECG 271554Z 21008KT 10SM SCT050 BKN060 27/16 A3018 RMK AO2 SLP219 T02670161 CYPG 271528Z 34004KT 10SM BKN009 OVC014 16/15 A2981 RMK SF6SC2 SLP099 EGOP 271450Z AUTO 25008KT 9000 // FEW027/// BKN100/// 15/13 Q1016 EHGG 271555Z AUTO 01006KT 320V060 9999 BKN023 BKN028 18/13 Q1016 NOSIG KDLH 271555Z 13006KT 10SM -RA OVC085 17/11 A2989 RMK AO2 RAB27 SLP124 P0000 T01670111 KCUH 271535Z AUTO 21009G15KT 10SM SCT024 21/17 A2966 RMK AO2 T02140171 CYPH 271500Z AUTO 06017G22KT 9SM CLR 04/02 A3003 RMK SLP172 EGPH 271550Z AUTO 07009KT 6000 OVC003 10/10 Q1020 KDKR 271535Z AUTO 02010G15KT 3SM TSRA SCT001 BKN010 OVC032 19/18 A2990 RMK AO2 P0041 KDMA 271458Z AUTO 17004KT 10SM CLR 20/M03 A2995 RMK AO2 SLP107 T01981028 52009 $ KEBS 271535Z AUTO 10006KT 4SM BR FEW006 BKN022 OVC027 17/17 A2977 RMK AO2 EGPI 271550Z 13005KT 060V180 9999 FEW027 SCT048 15/09 Q1018 EGQA 261950Z 06006KT 9999 BKN013 09/// Q1022 GRN CZFS 271400Z AUTO 33013KT 07/05 RMK AO1 PK WND 34018/1324 SLP197 T00730050 53006 EGOS 271550Z 13006KT CAVOK 19/09 Q1016 BLU NOSIG CYQA 271500Z AUTO 29007KT 9SM CLR 23/17 A2996 RMK SLP147 DENSITY ALT 2000FT KCVB 271535Z AUTO 19005KT 5SM HZ SCT023 SCT032 OVC042 29/22 A2976 RMK AO2 T02860216 EHFS 271525Z AUTO 02013KT 350V050 8000 FEW035/// 20/13 Q1015 CYQB 271554Z 08008KT 050V120 8SM SCT004 BKN006 BKN040 OVC120 14/13 A2997 RMK SF4SF2SC1AC1 SLP151 EGPK 271550Z 07005KT 9999 FEW020 SCT045 14/11 Q1019 KCUL 271535Z AUTO 18008KT 10SM SCT050 23/20 A2997 RMK AO2 T02310202 KEDC 271535Z AUTO 06016G20KT 5SM -RA BKN006 OVC013 18/18 A2981 RMK AO2 KCVC 271535Z AUTO 00000KT 10SM SCT055 SCT075 27/16 A3014 RMK AO2 KDLL 271535Z AUTO 12006KT 10SM SCT055 BKN065 BKN080 23/17 A2987 RMK AO2 T02260171 CYPL 271500Z 03003KT 360V100 15SM BKN008 BKN015 16/14 A2984 RMK SC6SC1 CU ASOCTD LWR LYR SLP111 DENSITY ALT 1800FT CXZC 271500Z AUTO 02004KT 15/10 RMK AO1 2PAST HR 2019 SLP120 P0001 T01520095 50002 EGPL 271550Z 26008KT 9999 FEW018 15/10 Q1020 VGEG 271500Z 15004KT 5000 SCT120 29/25 Q1003 NOSIG CYQD 271500Z 06006KT 030V110 15SM OVC009 05/02 A3006 RMK SF8 BLN DSAPRD 900 FT SLP189 KDLN 271553Z AUTO VRB03KT 10SM CLR 11/06 A2994 RMK AO2 SLP110 T01060056 KEDE 271550Z AUTO 20003KT 10SM SCT050 27/19 A3018 RMK AO2 T02740188 EGPM 271550Z AUTO 10009KT 070V130 9999 OVC017/// 10/06 Q1023 EGOV 271550Z 04010KT 9999 FEW035 BKN120 17/08 Q1017 BLU NOSIG EGPN 271550Z 09010KT 9999 -RA FEW015 SCT038 12/10 Q1020 CYOW 271500Z 23007KT 170V310 15SM FEW030 FEW050 FEW130 BKN270 27/19 A2993 RMK CU1SC2AC1CI3 CU TR AC TR SLP136 DENSITY ALT 1700FT KDKX 271555Z AUTO 00000KT 10SM CLR 27/19 A3011 RMK A01 CYQF 271500Z 31007KT 3SM -DZ BR OVC006 08/07 A2980 RMK ST8 SLP108 KCTY 271553Z AUTO 10008KT 28/16 A3007 RMK AO1 SLP182 T02830156 KCVG 271552Z 20005KT 10SM FEW095 SCT110 BKN250 27/19 A3005 RMK AO2 SLP166 ACC N E T02720189 EGPO 271550Z 05010KT 9999 FEW028 15/09 Q1020 CYPO 271500Z AUTO 34006KT 310V020 9SM OVC005 04/ A2993 RMK SLP137 KECP 271553Z 15008KT 10SM FEW036 28/20 A3004 RMK AO2 SLP183 T02830200 $ KDLP 271555Z AUTO 16009G17KT 9SM FEW028 FEW035 27/21 A2999 RMK A01 CYOY 271545Z 11005KT 080V160 12SM FEW007 SCT023 BKN060 14/14 A2996 RMK SF2SC2SC3 DA765FT SLP149 CYQG 271500Z 19008KT 170V240 15SM FEW030 SCT280 25/19 A2998 RMK CU1CI2 SLP151 DENSITY ALT 1800FT KCTZ 271550Z AUTO 17004KT 10SM CLR 27/18 A3016 RMK AO2 T02740180 KCVH 271550Z AUTO 00000KT 5SM OVC006 12/12 A3000 RMK AO1 KDMH 271554Z AUTO 31/18 A3006 RMK AO1 SLP178 T03060183 CYQH 271500Z VRB03KT 10SM -RA BKN018 OVC042 05/02 A3004 RMK SC7SC1 SLP193 CYPQ 271500Z AUTO 27006KT 220V030 9SM CLR 26/20 A2996 RMK SLP145 DENSITY ALT 1900FT EHFZ 271555Z AUTO 02007KT 9999 FEW007 12/10 Q1019 CYQI 271500Z 19009KT 15SM SCT040 BKN250 14/10 A3022 RMK SC3CI4 SLP237 CYPR 271500Z AUTO 14005KT 9SM -RA OVC035 09/08 A3001 RMK SLP166 KDLS 271553Z AUTO 31013G19KT 10SM CLR 15/04 A3014 RMK AO2 PK WND 27026/1458 SLP205 T01500039 EHGR 271555Z AUTO 03010KT 350V120 9999 FEW039 21/13 Q1015 BLU KEDJ 271550Z AUTO 21004KT 10SM CLR 25/17 A3004 RMK AO1 KECS 271555Z AUTO 33007KT 292V352 10SM CLR 15/03 A2990 RMK AO2 KCWA 271545Z VRB05KT 10SM OVC080 18/17 A2990 CYRA 271500Z 33010KT 15SM BKN070 09/03 A3010 RMK AC6 SLP204 KCUT 271553Z AUTO 29010KT 10SM SCT042 13/03 A2990 RMK AO2 SLP084 T01330028 EGQK 271450Z AUTO 06013KT 9999 NCD 15/10 Q1019 CYRB 271500Z 33010KT 9SM -SN SCT017 BKN033 OVC040 M05/M06 A3001 RMK SC4SC2SC2 SLP172 CYQK 271500Z VRB02KT 15SM SCT020 BKN160 BKN260 17/12 A2982 RMK CU4AC2CI1 SLP103 DENSITY ALT 2000FT KCWC 271555Z AUTO 17016G25KT 10SM CLR 22/16 A2973 RMK AO2 LTG DSNT SE T02150161 KECU 271535Z AUTO 28010KT CLR 26/20 A2985 RMK AO2 CYQL 271500Z 23008KT 30SM SCT085 SCT100 BKN270 13/06 A2982 RMK AC3AC1CI2 SLP104 DENSITY ALT 3600FT KEED 271556Z AUTO VRB03KT 10SM CLR 27/01 A2985 RMK AO2 SLP079 T02720011 EGQL 271550Z 07010KT 9999 SCT004 BKN034 10/09 Q1020 YLO2 EGPU 271550Z 14008KT 9999 FEW024 SCT042 14/09 Q1019 CYQM 271500Z 00000KT 15SM FEW019 BKN130 BKN160 10/05 A3024 RMK SC1AC6AC1 SC TR SLP245 KDMN 271553Z AUTO 32010KT 10SM CLR 21/M02 A2998 RMK AO2 SLP090 T02111022 TSNO KCVN 271555Z AUTO 24008KT 230V300 10SM CLR 18/04 A2985 RMK AO1 KEDN 271555Z AUTO 12007KT 10SM CLR 27/18 A3007 RMK AO2 EGQM 271550Z AUTO 04005KT 9999 FEW003/// BKN012/// BKN033/// 11/10 Q1019 CYPW 271500Z 29006KT 40SM SCT025 SCT280 10/05 A3009 RMK SC3CI1 SLP195 KDMO 271553Z AUTO 18015KT 10SM BKN021 BKN027 25/20 A2977 RMK AO2 SLP074 T02500200 $ KCVO 271555Z 31005KT 10SM 12/07 A3025 RMK AO1 KCWF 271550Z 13018G21KT 10SM BKN023 27/23 A2987 CYPX 271500Z AUTO 06011KT 9SM CLR M00/M04 A3016 RMK SLP218 CYPY 271500Z AUTO 08011KT 9SM -RA OVC075 07/06 A2994 RMK SLP151 KDLZ 271558Z AUTO 19007KT 10SM CLR 26/15 A3004 RMK AO2 CYQQ 271500Z 29003KT 20SM FEW045 FEW120 FEW240 12/05 A3010 RMK SC1AC1CI0 SLP193 KCWI 271556Z AUTO 17015G20KT 10SM OVC016 23/19 A2983 RMK AO2 RAE12 SLP114 P0000 T02280194 CYQR 271500Z 10006KT 15SM FEW100 FEW300 18/11 A2989 RMK AC1CI2 AC TR SLP131 DENSITY ALT 2700FT KCVS 271458Z AUTO 24010KT 10SM CLR 16/04 A2986 RMK AO2 SLP062 T01620040 50005 $ CYRJ 271500Z 09005KT 040V150 20SM FEW007 BKN015 13/12 A2986 RMK SF1SC6 SLP116 EHJA 271555Z AUTO 05012KT 320V130 9999 SCT034/// 12/10 Q1019 EGQS 271550Z 08018KT 9999 FEW030 12/10 Q1019 BLU CYQT 271541Z 07003KT 010V110 5SM BR OVC005 12/10 A2992 RMK ST8 SLP138 CYSB 271500Z 29008KT 220V310 20SM FEW240 23/14 A2994 RMK CI1 SLP140 DENSITY ALT 2300FT KEDU 271600Z AUTO 36005KT 10SM CLR 19/11 A2996 RMK AO1 KDNL 271553Z AUTO 13006KT 10SM FEW055 28/14 A3016 RMK AO2 SLP206 T02780139 TSNO OTBD 271500Z 34006KT CAVOK 37/09 Q1005 NOSIG CYRL 271500Z 03003KT 360V100 15SM OVC005 15/13 A2983 RMK SC8 CIG RAG SLP110 DENSITY ALT 1600FT EGSC 271550Z 02008KT 9999 FEW040 20/10 Q1017 UOOO 271500Z 09004MPS 6000 BKN035CB 03/M00 Q1002 R19/29//47 NOSIG RMK QFE736 CYSC 271500Z AUTO 19010KT 140V230 9SM FEW049 25/16 A3000 RMK LTNG DIST N SLP159 DENSITY ALT 2000FT CYQU 271500Z 32004KT 15SM FEW005 BKN080 OVC220 09/05 A2985 RMK ST2AC5CI1 SLP126 KEFD 271450Z 14014KT 7SM BKN015 BKN035 OVC150 24/20 A2981 CXZV 271500Z AUTO 13010G17KT 08/04 RMK AO1 PK WND 12020/1434 SLP232 T00840038 55011 CYQV 271500Z AUTO 03009KT 9SM CLR 15/11 A2991 RMK SLP136 DENSITY ALT 2000FT KEEN 271555Z AUTO 20006KT 10SM CLR 27/17 A3006 RMK AO1 KDMW 271555Z AUTO 23006KT 10SM CLR 29/27 A3009 RMK AO2 KCVW 271555Z AUTO 15016G22KT 10SM CLR 27/24 A2991 RMK A01 KCXE 271555Z AUTO 17005KT 10SM CLR 27/17 A3014 RMK AO1 T02690173 KCWN 271558Z AUTO 34017G33KT 10SM BKN130 BKN160 09/00 A2979 RMK AO2 PK WND 33037/23 SLP958 T00940002 $ KEDW 271458Z VRB04KT 90SM FEW250 18/06 A2994 RMK AO2A SLP122 T01790060 52012 KDNN 271535Z AUTO 13005KT 10SM 26/18 A3012 RMK AO2 KEEO 271553Z AUTO 20005KT 10SM CLR 12/04 A3000 RMK AO2 SLP105 T01170039 CYQW 271500Z AUTO 12008KT 9SM BKN120 17/09 A2990 RMK SLP132 DENSITY ALT 2400FT KCVX 271555Z AUTO 33004KT 10SM CLR 25/17 A2997 RMK AO2 T02460166 EHHW 271555Z AUTO 08011KT 7000 FEW004/// OVC020/// 12/12 Q1018 OTBH 271558Z 32009KT 9999 CLR 35/03 A2971 RMK AO2A SLP062 T03540027 $ CYSF 271500Z AUTO 09011KT 9SM OVC017 05/01 A3014 RMK SLP219 CYQX 271500Z VRB04KT 20SM BKN032 07/M01 A3029 RMK SC7 LWR SC TR SLP267 CZHY 272200Z AUTO 06006KT 08/02 RMK AO1 SLP155 T00760021 56005 CYQY 271500Z 13008KT 5SM -DZ BR OVC005 07/06 A3028 RMK ST8 SLP256 CYQZ 271500Z AUTO 00000KT 9SM CLR 07/04 A2997 RMK SLP165 EGSH 271550Z 05008KT 010V090 9999 SCT015 BKN026 14/11 Q1018 TEMPO BKN014 CYRQ 271500Z AUTO 11006KT 080V170 9SM CLR 18/14 A2995 RMK SLP145 DENSITY ALT 600FT KDNS 262150Z AUTO 12007KT 10SM SCT110 24/15 A2978 RMK AO2 KDPA 271552Z AUTO 18013KT 10SM FEW100 25/19 A2990 RMK AO2 SLP119 T02500189 CYSJ 271500Z 14005KT 120V210 15SM -SHRA BKN060 OVC120 09/06 A3023 RMK SC5AC3 CVCTV CLD EMBDD PRESFR SLP242 OSKL 271600Z 01013KT 9999 FEW020CB SCT026 OVC100 25/07 Q1005 KEET 271553Z AUTO 17007G17KT 10SM CLR 29/17 A3007 RMK AO2 SLP174 T02940167 ORSU 271600Z 18008KT CAVOK 29/04 Q1011 KEFK 271535Z AUTO 17007KT 10SM CLR 25/17 A3002 RMK AO2 T02520168 CYSK 271551Z 01014KT 15SM -DZ FEW020 BKN030 02/00 A2993 RMK SC2SC4 SLP141 CYRT 271500Z 26008KT 15SM FEW250 01/M03 A3031 RMK CI2 SLP270 EGTC 271550Z 02007KT 9999 FEW028 18/11 Q1017 KCWV 271535Z AUTO 11006KT 10SM CLR 28/16 A3013 RMK AO2 T02770156 KDNV 271535Z AUTO 18011G16KT 10SM SCT120 25/19 A2993 RMK AO2 T02530185 CZKD 271500Z AUTO 06009G15KT 02/M01 RMK AO1 SLP224 T00191009 52009 CYSM 271500Z 12008KT 060V150 15SM BKN030 BKN090 09/03 A2998 RMK SC6AC1 SLP163 EHKD 271555Z AUTO 04011KT 360V080 9999 NCD 16/11 Q1017 BLU 04013KT CAVOK CYRV 271523Z AUTO VRB02KT 9SM -RA FEW011 OVC039 10/08 A2990 RMK SLP132 KEGE 271550Z 00000KT 10SM SCT010 08/06 A3002 CYSN 271500Z 22012G19KT 12SM SCT040TCU BKN280 26/20 A2997 RMK TCU4CI2 SLP149 DENSITY ALT 1600FT CYTE 271500Z 26023KT 15SM OVC017 M03/M05 A3009 RMK SC8 VIA CYQB SLP197 EGTE 271550Z 15007KT 100V180 6000 FEW020 17/12 Q1015 KCXO 271553Z 03006KT 8SM -RA OVC011 21/19 A2980 RMK AO2 LTG DSNT NW-NE RAB21E30B52 SLP089 P0000 T02110194 KDPG 262154Z 32010G19KT 10SM SCT060 SCT250 22/02 A2996 RMK SLP110 NOSPECI T02170016 FU DSNT E LAST KCXP 271555Z AUTO 00000KT 10SM CLR 14/04 A3009 RMK AO2 CYSP 271526Z 18005KT 1/4SM FG VV003 RMK FG8 VIS VRB 1/8-3/8 WND ESTD DENSITY ALT MISG CYTH 271542Z 05010KT 15SM OVC017 02/M01 A3017 RMK SC8 SLP233 KEGI 271458Z AUTO 12006KT 10SM CLR 28/18 A3003 RMK AO2 SLP170 T02840178 58005 $ EHJR 271525Z AUTO 05015G16KT //// ///////// 11/09 Q1018 W11/H8 OSLK 271600Z 22010KT 9999 FEW026TCU SCT030 22/17 Q1009 KEHA 271548Z AUTO 28020KT 17/06 RMK AO1 PK WND 28 000 T01720056 EGSS 271550Z AUTO 04007KT 010V080 9999 BKN033 19/11 Q1016 CYUA 271551Z AUTO 04009KT 6SM BKN005 BKN064 BKN073 BKN085 M00/ A3035 KEFT 271555Z AUTO 17011KT 10SM BKN026 24/17 A2986 RMK AO2 EGTK 271550Z 05006KT 360V090 9999 FEW039 18/10 Q1016 CYUB 271500Z 01006KT 15SM FEW012 OVC030 M01/M04 A3037 RMK SC1SC8 SC TR SLP285 KDPL 271600Z AUTO 00000KT 10SM CLR 27/15 A3018 RMK AO2 T02670147 KCXU 271555Z AUTO 09005KT 10SM CLR 26/16 A3009 RMK AO2 T02610159 EGUB 271550Z 05009KT 9999 FEW040 SCT060 20/10 Q1016 BLU NOSIG KEHC 271555Z AUTO 22.52000023KT 10SM FEW021 30/23 A2990 RMK A01 CYTL 271548Z AUTO 01009G16KT 9SM OVC004 05/04 A2998 RMK SLP164 KDOV 271503Z AUTO 21008KT 4SM HZ CLR 29/22 A3007 RMK AO2 VISNO RWY19 CHINO RWY19 $ KCXY 271556Z 10SM FEW041 29/18 A3006 RMK AO2 SLP177 T02890183 CYSY 271500Z 29006KT 4SM -FZDZ BCFG OVC005 M05/M05 A3036 RMK ST8 SLP291 VGHS 271530Z 16004KT 4000 HZ SCT010 FEW025CB BKN100 27/23 Q1002 TEMPO TSRA KDQH 271555Z AUTO 09004KT 10SM CLR 28/11 A3013 RMK AO2 CYTQ 271500Z 13010G16KT 070V140 15SM FEW015 FEW058 SCT150 04/M05 A3016 RMK SC1SC1AC2 SC TR SLP216 CYTR 271500Z 20010KT 12SM FEW050 BKN250 23/19 A2995 RMK CF1CI1 HAZY SLP144 KCYS 271553Z 34014G22KT 10SM SCT028 BKN080 11/03 A2992 RMK AO2 PK WND 36026/1502 SLP087 T01060028 KDRA 271553Z AUTO 26004KT 10SM CLR 22/01 A2995 RMK AO2 SLP102 T02170006 CYTS 271500Z 29005KT 10SM OVC009 15/13 A2993 RMK ST8 CIG RAG SLP140 DENSITY ALT 1100FT EGVA 271558Z AUTO 06009KT 9999 CLR 22/12 A2999 RMK AO2 SLP158 T02180115 $ EHMA 271555Z AUTO 02009KT 300V060 6000 FEW001 SCT003 BKN015 13/12 Q1017 KCZL 271555Z AUTO 19005KT 5SM HZ SCT047 SCT055 SCT075 27/17 A3011 RMK AO2 T02730169 EICK 271530Z 10007KT 9999 FEW008 BKN018CB 12/11 Q1016 NOSIG CYVC 271500Z 06011G17KT 050V110 15SM OVC010 06/03 A3005 RMK SC8 SLP190 CYUL 271500Z 21006KT 130V240 15SM FEW040 FEW090 FEW220 OVC250 24/14 A2995 RMK CU1AC1CC1CI7 CU TR CC TR SLP145 DENSITY ALT 1100FT EGUL 271558Z AUTO 07013KT 9999 SCT036 SCT046 18/10 A3002 RMK AO2 SLP169 T01770098 KEGV 271530Z AUTO 00000KT 10SM 20/14 A2991 RMK AO2 T02010141 CZMD 271500Z AUTO 02010G15KT 5SM BR BKN005 OVC010 05/04 A2998 RMK SLP162 EHKV 271555Z AUTO 03014KT //// // NCD 12/10 Q1018 RE// KEHO 271550Z AUTO 19008KT 10SM CLR 25/17 A3016 RMK AO2 T02530169 EGUN 271558Z AUTO 04010KT 9999 FEW044 19/11 A3002 RMK AO2 RAB18E27 SLP169 P0000 T01850105 $ EGUO 271450Z 06009KT 9999 BKN030 18/10 Q1017 BLU EHMG 271555Z AUTO 04012KT 9999 FEW005 BKN006 12/10 Q1018 CYTZ 271529Z AUTO VRB02KT 6SM HZ SCT060 SCT072 20/18 A2997 RMK SLP151 DENSITY ALT 800FT KEHR 271555Z AUTO 17011KT 10SM CLR 25/19 A2997 RMK AO1 KDRI 271555Z AUTO 09004KT 10SM SCT005 SCT100 22/21 A2990 RMK AO2 LTG DSNT W AND NW P0001 T02200212 CZMJ 271500Z AUTO 10001KT 16/11 RMK AO1 SLP132 T01550106 50001 CYUS 271546Z AUTO 30014KT OVC006 OVC069 M05/ A3019 CYWA 271534Z AUTO 06005KT 360V090 9SM BKN026 21/17 A2991 KEIK 271555Z AUTO 01015G23KT 10SM SCT090 15/05 A2989 RMK AO2 T01450050 KCZT 271555Z AUTO 30005KT 10SM CLR 30/20 A2973 RMK AO2 CYUT 271500Z 35015G21KT 25SM BKN010 OVC025 M04/M07 A3015 RMK ST7SC1 SLP213 EIDL 271530Z 33008KT 9999 FEW027 SCT055 16/11 Q1018 CYVL 271512Z AUTO 04007KT 9SM SCT011 M01/M04 A3029 RMK SLP279 KDRM 271555Z AUTO 19003KT 10SM CLR 21/16 A2996 RMK AO2 T02080158 CYVM 271500Z 35004KT 15SM FEW019 BKN040 M03/M07 A2995 RMK SC2SC4 SLP145 CYWE 271500Z AUTO 07005KT 9SM CLR 08/M02 A3007 RMK SLP203 EHLW 271555Z AUTO 03009KT 340V100 9999 SCT008 BKN010 OVC013 14/12 Q1017 GRN KDRO 271553Z AUTO 00000KT 10SM CLR 13/00 A2996 RMK AO2 SLP096 T01330000 EGVN 271550Z 08009KT 9999 FEW040 19/09 Q1016 BLU NOSIG EGUW 271450Z 06009KT 9999 SCT030 17/10 Q1017 BLU NOSIG KFAF 271458Z AUTO 23007KT 10SM CLR 27/19 A3012 RMK AO2 SLP203 T02650193 50004 $ CYUX 271500Z 32016KT 12SM -SN BKN028 M05/M08 A3005 RMK SC7 SLP178 EGVO 271550Z 08008KT 9999 FEW044 SCT250 20/09 Q1015 BLU CYVO 271500Z 24010G15KT 220V310 15SM BKN029 BKN260 20/15 A2988 RMK SC6CI1 SLP124 DENSITY ALT 1900FT KEHY 271535Z AUTO 02005KT 10SM SCT029 SCT042 SCT048 10/01 A2998 RMK AO2 EGVP 271510Z 08006KT 9999 TS FEW040CB BKN070 20/09 Q1015 BLU TEMPO 7000 TSRA WHT CYUY 271500Z 28013KT 250V310 15SM BKN020 18/13 A2990 RMK SC7 SLP129 DENSITY ALT 1600FT CYVP 271500Z 07009G15KT 15SM FEW070 FEW160 BKN220 05/M04 A3014 RMK AC1AC1CI5 SLP211 CYWG 271545Z 03010KT 10SM -DZ BKN008 OVC027 16/15 A2980 RMK SF5SC3 SLP096 DENSITY ALT 1200FT KCZZ 271552Z AUTO 00000KT 17/09 A2991 RMK AO1 SLP107 T01720094 CYWH 271500Z 23009KT 15SM FEW012 BKN055 11/08 A3012 RMK CF2SC5 SLP203 CYVQ 271500Z 29006KT 220V010 30SM FEW040 FEW100 FEW260 08/M00 A3029 RMK SC1AC1CI2 SC TR AC TR SLP264 KEIR 271555Z AUTO 17012G18KT 10SM FEW065 FEW085 SCT110 27/22 A2996 RMK A01 CYVR 271500Z 09006KT 15SM FEW008 SCT030 BKN120 BKN210 11/09 A3010 RMK SF1SC2AC2CI1 CU ASOCTD SLP195 KDTA 271535Z AUTO 14003KT 10SM CLR 14/03 A3002 RMK AO1 CYWJ 271500Z 35011G16KT 20SM BKN009 03/01 A3023 RMK SC7 CIG RAG SLP253 KDRT 271553Z AUTO 32010KT 10SM CLR 29/17 A2977 RMK AO2 SLP065 T02940167 CZMT 271504Z 27006KT 240V310 15SM -RA BKN008 BKN012 OVC220 09/07 A3004 RMK SC6SC1CI1 SLP175 CYVT 271500Z 16009KT 110V170 15SM BKN013 BKN017 10/07 A2993 RMK SC6CU1 SLP147 CYWK 271500Z 16006KT 140V200 15SM BKN090 OVC240 11/03 A3002 RMK AS6CS2 SLP185 CZMU 271400Z AUTO 08008KT 12/11 RMK AO1 T01200113 50018 CYXC 271500Z 17013KT 25SM FEW015 SCT040 OVC075 10/06 A2986 RMK SF1SC3AC4 SLP114 DENSITY ALT 3200FT CYWL 271500Z 27004KT 15SM FEW007 SCT090 BKN150 BKN220 05/00 A2995 RMK CF1AC3AC2CI2 CF TR SLP168 KFAM 271556Z AUTO 17010KT 10SM OVC010 21/19 A2990 RMK AO2 RAE35 CIG 007V013 SLP152 T02060194 PNO $ KDSM 271554Z 09004KT 2 1/2SM -DZ BR OVC005 18/17 A2974 RMK AO2 SFC VIS 4 RAE47DZB47 SLP067 PCPN VRY LGT P0001 T01830167 EGXC 271550Z 09009KT 9999 FEW030 SCT040 15/07 Q1018 BLU EGXD 271450Z AUTO 04003KT 9999 // OVC044/// 15/09 Q1019 CYVV 271500Z 28004KT 220V320 15SM SCT250 21/16 A2997 RMK CI3 SLP151 DENSITY ALT 1500FT EGXE 271450Z 08002KT 9999 FEW022 BKN043 15/08 Q1018 BLU NOSIG CYXE 271500Z 10006KT 15SM FEW130 SCT300 18/11 A2990 RMK AC2CI1 SLP131 DENSITY ALT 2300FT EIDW 271530Z 05007KT 9000 FEW008 BKN050 BKN250 13/09 Q1017 NOSIG KFBG 271458Z AUTO 17005KT 10SM CLR 26/17 A3015 RMK AO2 SLP211 T02640167 58003 $ CYXH 271500Z 23004KT 150V260 15SM -SHRA FEW050 BKN075 BKN270 14/10 A2983 RMK SC1AC4CI2 SLP105 DENSITY ALT 2800FT KFAR 271553Z 03006KT 10SM CLR 21/14 A2978 RMK AO2 SLP083 T02110139 KDUA 271535Z AUTO 18011KT 10SM CLR 20/17 A2976 RMK AO2 KELA 271535Z AUTO 17015G25KT 10SM SCT017 BKN024 BKN048 29/26 A2975 RMK AO2 LTG DSNT N AND NE T02930255 CYXJ 271500Z 27004KT 250V320 10SM OVC003 06/05 A2988 RMK ST8 SLP137 KFAT 271553Z 11005KT 10SM CLR 22/11 A2994 RMK AO2 SLP134 MTNS OBSC HZ DSNT N-E-S T02170111 KDUB 271535Z AUTO 30007G15KT 265V325 10SM SCT049 11/00 A2999 RMK AO2 KFBL 271550Z AUTO 13006KT 7SM SCT027 OVC035 17/16 A2983 RMK AO2 CYYB 271500Z 23009KT 6SM BR BKN008 19/16 A2995 RMK CU7 SLP145 DENSITY ALT 1900FT KDTL 271555Z AUTO 08006KT 10SM CLR 21/12 A2980 RMK AO2 KDUC 271555Z AUTO 19011G18KT 10SM CLR 21/16 A2971 RMK AO2 TSNO KEKM 271550Z 21008KT 10SM CLR 24/20 A2997 RMK AO2 CZOL 271500Z AUTO 33002KT 11/11 RMK AO1 T01130106 EGWU 271550Z 05007KT 9999 SCT048 20/09 Q1015 BLU NOSIG CZPC 271500Z AUTO 23013G19KT 9SM SCT110 BKN130 BKN240 13/04 A2983 RMK SLP102 DENSITY ALT 4600FT CYXL 271500Z 22003KT 140V270 15SM SCT019 BKN220 18/13 A2982 RMK CU4CI1 SLP106 DENSITY ALT 2000FT CYYC 271552Z 33007KT 300V360 10SM OVC008 08/06 A2981 RMK SC8 SLP110 DENSITY ALT 3700FT KELD 271553Z AUTO 30003KT 10SM SCT008 OVC016 22/21 A2991 RMK AO2 RAE17 SLP127 P0001 T02170211 KDSV 271554Z AUTO VRB04KT 10SM BKN039 28/19 A3001 RMK AO2 SLP164 T02830194 EGYD 271550Z 07009KT 9999 FEW028 15/08 Q1018 BLU NOSIG CYYD 271500Z 17003KT 25SM BKN080 05/02 A2995 RMK AC5 SLP152 KEKN 271551Z AUTO 00000KT 10SM CLR 27/15 A3014 RMK AO2 SLP196 T02670150 TSNO KDTN 271553Z 25011KT 10SM SCT016 BKN041 OVC110 23/19 A2991 RMK AO2 SLP126 T02280194 CYXN 262200Z 08008KT 15SM BKN015 M02/M05 A3032 RMK ST7 -1.2/-3.0/0/0 LAST STFD OB/NXT 271200Z SLP269 EGYE 271450Z 08009KT 9999 FEW030 SCT040 ///// Q1018 BLU CYYE 271500Z 33009G16KT 15SM BKN015 OVC020 08/05 A2997 RMK SC6SC2 SLP162 KDTO 271553Z 16018G31KT 10SM FEW095 SCT120 19/18 A2971 RMK AO2 PK WND 13043/1521 LTG DSNT S AND SW RAE48 PRESRR SLP055 P0003 T01940178 KEKO 271556Z AUTO VRB03KT 10SM CLR 12/06 A3001 RMK AO2 SLP137 T01220061 CYYF 271500Z 34003KT 10SM -RA BKN038 OVC080 10/06 A3001 RMK SC6AC2 SLP165 KFAY 271553Z AUTO 27004KT 10SM SCT055 SCT070 28/17 A3015 RMK AO2 SLP204 T02780167 KDUG 271556Z AUTO 00000KT 10SM CLR 20/M04 A3001 RMK AO2 SLP110 T02001044 OTHH 271500Z 36007KT CAVOK 34/16 Q1005 NOSIG CYWY 271500Z 32008KT 280V010 15SM BKN011 OVC020 05/02 A3023 RMK SF7SC1 SLP246 CYXP 271500Z 28012G18KT 15SM FEW015 SCT030 BKN090 BKN220 01/M05 A2999 RMK ST1SC2AC2CI2 SLP159 EGXP 271450Z 07008KT 9999 FEW027 SCT045 15/08 Q1018 BLU CYYG 271500Z 36004KT 15SM OVC009 08/07 A3026 RMK SC8 SLP249 KDUH 271554Z AUTO 27004KT 10SM CLR 27/18 A3001 RMK AO2 T02680178 KEKQ 271556Z AUTO VRB06KT 10SM FEW033 28/19 A3011 RMK AO2 SLP205 T02780194 EHPG 271555Z AUTO 03020KT 9999 NSC 13/11 Q1017 KFCH 271555Z AUTO 10SM CLR 21/12 A2994 RMK A01 CYXQ 262200Z 03008G15KT 010V080 30SM BKN050TCU BKN100 08/03 A3020 RMK TCU6AC1 CLIMAT 10.5/5.0/1.4/LAST STFD OBS/NXT 271600Z SLP252 EGYH 270950Z 0614KT 9999 FEW022 14/09 Q1019 BLU CYYH 271500Z 31015KT 15SM -SN FEW010 FEW014 OVC020 M04/M07 A3017 RMK ST1SC2SC6 ST TR SLP222 KFCI 271555Z AUTO 19006KT 10SM CLR 28/17 A3013 RMK AO1 KFBR 271555Z AUTO 29008KT 10SM BKN085 13/04 A3006 RMK AO2 T01260039 KEKS 271555Z AUTO 34009KT 10SM BKN045 OVC060 10/06 A3001 RMK A01 CYXR 271503Z AUTO 31010KT 9SM OVC025 20/14 A2991 RMK SLP133 DENSITY ALT 1500FT KDTS 271553Z AUTO 14011KT 10SM CLR 28/22 A3004 RMK AO2 SLP173 T02830222 TSNO KDUJ 271553Z AUTO 20006KT 10SM FEW033 25/16 A3009 RMK AO2 SLP177 T02500161 EGXS 271450Z AUTO 06006KT 9999 // BKN040/// 12/09 Q1019 CYXS 271500Z AUTO 16006KT 9SM CLR 06/02 A2994 RMK SLP158 CYYJ 271500Z 00000KT 20SM FEW030 SCT056 BKN080 12/07 A3011 RMK CU1SC4AC3 CU TR SLP199 KELK 271535Z AUTO 22015G18KT 10SM SCT032 BKN039 22/16 A2973 RMK AO2 T02210155 EGXT 271450Z 05009KT 9999 FEW036 16/07 Q1018 BLU CYXT 271552Z 18009G16KT 10SM -RA FEW008 BKN013 OVC036 08/06 A3001 RMK SF2SC4SC2 SLP170 EGXU 271450Z 31002KT 9999 FEW020 BKN045 16/09 Q1018 BLU NOSIG CYYL 271500Z AUTO 08013KT 9SM OVC013 02/M01 A3016 RMK SLP234 CYXU 271500Z 27005KT 200V330 15SM FEW024 FEW200 BKN270 26/20 A2998 RMK CU1CI2CI3 CU TR SLP150 DENSITY ALT 2300FT KFCM 271553Z 12009KT 2SM -RA BR FEW010 BKN020 OVC070 18/16 A2982 RMK AO2 RAB05 SLP095 P0013 T01780156 KELM 271553Z 24007KT 9SM FEW038 28/18 A3002 RMK AO2 SLP158 T02830178 KDTW 271553Z 20007KT 9SM FEW035 SCT130 SCT230 27/18 A3000 RMK AO2 SLP153 T02670178 KELN 271553Z AUTO 32014G20KT 10SM CLR 11/01 A3007 RMK AO2 SLP184 T01060006 EGXV 271550Z AUTO 08007KT 9999 FEW023/// BKN040/// 14/09 Q1018 EGYM 271550Z 04012KT 9999 SCT030 16/09 Q1018 BLU NOSIG CYYN 271500Z AUTO 17007KT 9SM CLR 16/10 A2989 RMK SLP126 DENSITY ALT 3400FT KELO 271553Z AUTO 00000KT 10SM BKN110 20/10 A2989 RMK AO2 CYZE 271544Z AUTO 22004KT 180V260 9SM SCT005 18/17 A2996 RMK SLP148 DENSITY ALT 1000FT EGXW 271550Z 08008KT 9999 FEW032 BKN044 15/08 Q1018 BLU NOSIG EHQE 271555Z AUTO ///17KT 9999 NSC 13/11 Q1017 CYZF 271500Z VRB02KT 15SM BKN070 BKN240 11/02 A3005 RMK AC6CI1 SLP186 CYXX 271500Z 19007KT 15SM FEW010 SCT030 BKN040 BKN070 09/08 A3012 RMK SF1CU3SC3AC1 SF TR SLP201 KELP 271551Z 27011KT 10SM CLR 22/M05 A2995 RMK AO2 SLP076 T02221050 CYZG 271500Z 17007KT 15SM OVC021 M03/M08 A3017 RMK SC8 SLP238 CYXY 271500Z 35010G17KT 40SM FEW045 SCT075 06/M01 A3010 RMK CU1AC3 SLP218 EGYP 271550Z 27007KT 0200 FG VV/// 02/02 Q1031 RED BECMG 1500 BR BKN002 AMB CYXZ 271547Z 36003KT 320V060 8SM BKN010 BKN087 16/15 A2995 RMK ST6AC1 SLP150 DENSITY ALT 1200FT EGXZ 271450Z AUTO 21002KT 9000 FEW027/// BKN033/// 14/10 Q1019 CYYQ 271500Z 04014G19KT 15SM OVC012 M01/M03 A3033 RMK SC8 SLP274 CYZH 271500Z AUTO 26006KT 9SM OVC010 11/09 A2979 RMK SLP098 DENSITY ALT 2000FT CYYR 271500Z 00000KT 15SM FEW032 FEW140 BKN220 OVC270 11/M03 A3019 RMK CF1AC0CS0CI1 CONTRAILS HALO SLP224 KFCS 271458Z AUTO 34014G22KT 10SM FEW200 11/04 A2984 RMK AO2 PK WND 33026/03 SLP093 60000 T01120036 55001 CZPS 271500Z AUTO 34008KT 09/08 RMK AO1 T00880078 KFDK 271550Z 00000KT 10SM SKC 29/22 A3010 KDVK 271555Z AUTO 21009KT 10SM CLR 27/18 A3010 RMK AO2 KEMK 271555Z AUTO 16025KT 5SM HZ FEW020 SCT024 BKN044 27/24 A2986 RMK A01 CYYT 271500Z 04015G20KT 15SM SCT015 06/02 A3026 RMK CU4 SLP256 KDVL 271556Z AUTO 26007KT 10SM FEW021 17/12 A2982 RMK AO2 SLP111 T01720117 CYYU 271500Z 32004KT 6SM BR OVC010 12/10 A2994 RMK ST8 SLP144 KEND 271458Z AUTO 27003KT 10SM FEW150 SCT190 22/17 A2966 RMK AO2 SLP034 T02150171 53001 $ KEMM 271535Z AUTO 27006KT 10SM 10/03 A3005 RMK AO2 KDVN 271552Z AUTO 16020G27KT 10SM BKN017 BKN120 22/19 A2981 RMK AO2 PK WND 16027/1549 SLP088 T02220189 EHRD 271555Z AUTO 02008KT 340V060 9999 NSC 20/13 Q1015 NOSIG CYYW 271500Z AUTO 15004KT 100V190 9SM FEW008 16/12 A2985 RMK SLP103 DENSITY ALT 1400FT KDVO 271555Z AUTO 00000KT 10SM CLR 15/10 A2998 RMK AO2 KDUX 271555Z AUTO 30015G22KT 10SM CLR 19/06 A2980 RMK AO2 T01870062 KELY 271553Z AUTO VRB04KT 10SM FEW095 13/02 A3006 RMK AO2 SLP116 T01280022 KDVP 271555Z AUTO 19008KT 10SM SCT030 BKN040 OVC090 18/14 A2981 RMK AO2 T01820136 KEMP 271553Z AUTO 15011G19KT 10SM BKN100 20/16 A2972 RMK AO2 SLP059 T02000156 CYYY 271500Z 13011G32KT 15SM -SHRA SCT020 OVC060 10/07 A3006 RMK SC4SC4 SLP182 CYZP 271500Z AUTO 25009KT 8SM -RA FEW038 BKN048 OVC055 09/07 A3005 RMK SLP178 KDWH 271553Z 08004KT 10SM BKN012 OVC019 26/23 A2978 RMK AO2 SLP081 T02610233 KELZ 271556Z AUTO VRB04KT 10SM FEW040 26/17 A3009 RMK AO2 SLP173 T02610167 KFDR 270153Z AUTO 13017G23KT 10SM FEW090 FEW120 25/20 A2963 RMK AO2 PK WND 14030/0106 RAB08E17 SLP017 P0000 T02500200 TSNO CYYZ 271500Z 16007KT 12SM FEW030 BKN050 BKN070 26/20 A2997 RMK CU2CU3AC2 SLP147 DENSITY ALT 1800FT CYZR 271500Z AUTO 01006KT 310V050 9SM CLR 26/19 A2997 RMK SLP147 DENSITY ALT 1900FT KFFA 271550Z AUTO 15005KT 10SM CLR 29/13 A3017 RMK AO2 T02870134 KEMT 271452Z VRB03KT 10SM SCT017 17/12 A2996 EHSA 271525Z AUTO 03017G19KT 8000 ///////// 13/12 Q1016 W12/H9 CYZS 271513Z 30014G19KT 15SM SCT010 BKN020 BKN210 M00/M03 A3016 RMK SC4SC1CI1 SLP220 KDVT 271553Z 15004KT 10SM CLR 24/02 A2989 RMK AO2 SLP099 T02390017 CYZT 271500Z 22005KT 20SM FEW035 OVC056 10/07 A3012 RMK SC2SC6 SLP203 KENL 271535Z AUTO 15007KT 5SM RA SCT060 BKN070 OVC080 20/19 A2995 RMK AO2 P0009 T01970194 CYZU 271543Z 30010KT 3SM -RA BR OVC006 08/07 A2981 RMK SF8 SLP114 EHSC 271525Z AUTO 04019G21KT 8000 ///////// 14/12 Q//// W13/H8 KEMV 271535Z AUTO 16005KT CLR 27/16 A3016 RMK AO2 PWINO CYZV 271500Z 13020G25KT 30SM FEW015 BKN050 09/03 A3021 RMK SC2SC5 SLP234 KFDW 271535Z AUTO 32004KT 10SM CLR 25/17 A3017 RMK AO1 KEOE 271555Z AUTO 23003KT 10SM SCT055 26/15 A3019 RMK AO2 CYZW 270000Z 30012G23KT 20SM BKN040TCU 13/M01 A2995 RMK TCU6 CLIMAT 14.5/8.4/0.0/LAST STFD OBS/NXT 271600Z SLP163 DENSITY ALT 2600FT CYZX 271500Z 04003KT 15SM BKN100 14/08 A3024 RMK AC7 WNDY HILL 12004KT SLP241 KFDY 271553Z AUTO 24006KT 10SM CLR 27/16 A3000 RMK AO2 SLP149 T02720156 KFEP 271555Z AUTO 15014G21KT 10SM BKN030 OVC090 24/18 A2987 RMK AO2 T02380177 CZRP 271500Z AUTO 28017KT M04/M06 RMK AO1 PK WND 28021/1459 SLP211 T10441060 CYZY 271500Z AUTO 16004KT 9SM CLR 06/01 A2992 RMK SLP149 CZSJ 271500Z AUTO 01009KT 350V060 9SM OVC008 06/04 A2996 RMK SLP156 KDYB 271555Z AUTO 11003KT 10SM CLR 28/15 A3016 RMK AO1 KFET 271555Z AUTO 11005KT 10SM SCT023 21/15 A2975 RMK AO2 LTG DSNT SW AND W T02140149 KEOK 271535Z AUTO 17010G20KT 6SM HZ OVC013 22/19 A2978 RMK AO2 CZTB 271500Z AUTO 06004KT 11/11 RMK AO1 SLP136 T01080108 53008 KDWU 271555Z AUTO 00000KT 10SM CLR 26/21 A3005 RMK AO1 KFFL 271535Z AUTO RMK AO2 PNO PWINO KENV 271555Z AUTO 17004KT 10SM CLR 17/03 A2998 RMK AO1 KFFM 271554Z AUTO 09007KT 10SM BKN075 21/11 A2975 RMK AO2 CZSM 271500Z AUTO 01004KT 10/03 RMK AO1 SLP157 T01020033 51004 KENW 271553Z 18010KT 10SM OVC016 24/20 A2989 RMK AO2 LTG DSNT E RAE20 SLP119 P0000 T02440200 KFEW 271558Z AUTO 01013G19KT 10SM FEW029 11/04 A2995 RMK AO2 SLP106 T01090037 $ VHHH 271530Z 19015KT 160V220 9999 -SHRA FEW010 SCT020 28/25 Q1007 NOSIG KFFO 271458Z 19006KT 10SM FEW150 FEW250 25/19 A3003 RMK AO2A SLP167 T02460193 58004 KDWX 271535Z AUTO 00000KT 10SM CLR 10/04 A3003 RMK AO2 T01000040 PLCH 271500Z 00000KT 9999 FEW019 26/24 Q1010 CZSP 271500Z AUTO 31007KT 08/06 RMK AO1 SLP256 T00790061 55002 KEPH 271553Z AUTO 31014KT 10SM CLR 15/M01 A3000 RMK AO2 SLP156 T01501011 ZUUU 271500Z VRB01MPS 4000 BR SCT050 19/14 Q1012 NOSIG KDXR 271553Z 16007KT 9SM CLR 27/18 A3008 RMK AO2 SLP182 T02720183 KEQA 271535Z AUTO 14012G17KT 10SM SCT026 21/17 A2972 RMK AO2 KFFT 271553Z AUTO 21008KT 10SM BKN110 28/19 A3005 RMK AO2 SLP169 T02780189 KDZB 271555Z AUTO 08004KT 10SM OVC003 20/19 A2981 RMK AO2 LTG DSNT E T02010190 KFHB 271535Z AUTO 07010KT 10SM SCT035 BKN046 BKN060 28/17 A3010 RMK AO1 CZST 271500Z VRB02KT 10SM -RA BKN008 OVC025 10/08 A2998 RMK SC5SC3 SLP155 KDYL 271554Z AUTO VRB06KT 10SM FEW041 26/17 A3006 RMK AO2 SLP175 T02610172 FABL 271500Z 19004KT CAVOK 17/02 Q1029 NOSIG KFGN 271554Z AUTO 18004KT 10SM SCT001 16/13 A2983 RMK AO2 KDXX 271553Z AUTO 03004KT 10SM -RA SCT050 18/13 A2976 RMK AO2 KFFX 271553Z AUTO 12003KT 7SM BKN018 OVC024 24/22 A2994 RMK AO2 T02410215 EIKN 271530Z 15002KT 9999 SCT028 BKN047 15/08 Q1017 NOSIG PKMJ 271155Z 10006KT 15SM FEW015 SCT050 SCT300 28/24 A2991 KDYR 271555Z AUTO 16009G14KT 10SM SCT021 BKN110 26/21 A2994 RMK AO1 KDYS 271533Z AUTO 15013KT 10SM OVC010 22/17 A2977 RMK AO2 $ KDZJ 271555Z AUTO 10SM A3017 RMK AO2 KDYT 271554Z AUTO 04006KT 10SM DZ OVC003 08/07 A2991 RMK AO2 VIAG 270630Z 30009KT 2000 DU SKC 41/1001 NOSIG CZUM 271500Z AUTO 16005KT 130V200 9SM CLR 12/00 A3006 RMK SLP198 EIME 271530Z 09007KT 9999 FEW020 BKN050 13/10 Q1017 KFGX 271555Z AUTO 18006KT 10SM CLR A3008 RMK AO2 KFIG 271554Z AUTO 20011G16KT 10SM CLR 26/17 A3009 RMK AO2 SLP178 T02610172 EIKY 271530Z 13003KT 060V210 9999 BKN038 18/09 Q1015 PKMR 271353Z 06005KT 15SM FEW016 SCT300 28/25 A2986 RMK SLP115 T02830251 KFHR 271553Z AUTO 22011KT 190V250 10SM BKN048 BKN100 12/08 A3014 RMK AO2 SLP205 T01220078 KERI 271551Z 29009KT 10SM CLR 24/18 A3002 RMK AO2 SLP162 T02440178 FACT 271500Z 20010KT CAVOK 16/12 Q1022 NOSIG KESC 271555Z AUTO 11006KT 10SM CLR 18/13 A2991 RMK AO1 EHVK 271555Z AUTO 04009KT 360V070 9999 NCD 20/13 Q1015 BLU KFHU 271558Z AUTO 32002KT 8SM CLR 19/M04 A3004 RMK AO2 SLP115 T01881040 CZVL 271532Z AUTO 29004KT 9SM -RA OVC003 10/09 A2979 RMK SLP095 DENSITY ALT 2300FT EHVL 271555Z AUTO 03015KT 9999 FEW008 14/11 Q1017 BLU KGAD 271556Z AUTO VRB04KT 10SM CLR 28/18 A3009 RMK AO2 SLP201 T02780183 FACV 270822Z 13009KT CAVOK 20/01 Q1027 KFIN 271550Z 10010G15KT 10SM SCT035 27/18 A3009 KESF 271553Z AUTO 16008KT 6SM -RA BKN100 OVC110 25/22 A2991 RMK AO2 TSB14E29 SLP124 P0014 T02500222 KGAF 271555Z AUTO 14004KT 10SM BKN025 BKN030 18/13 A2983 RMK AO2 VIAR 271530Z 26006KT 5000 DU FEW200 32/16 Q1000 NOSIG KGAG 271553Z AUTO 28008KT 10SM BKN034 19/11 A2973 RMK AO2 SLP052 T01940111 KI16 271555Z AUTO 10SM CLR 28/14 A3019 RMK AO2 T02790138 KFKA 271555Z AUTO 06004KT 10SM SCT018 BKN075 OVC080 18/15 A2983 RMK AO2 T01800151 KFIT 271552Z AUTO 18004KT 8SM CLR 24/14 A3010 RMK AO2 SLP191 T02440144 KI19 271552Z AUTO 21004KT CLR 27/18 A3005 RMK AO2 PWINO KETB 271530Z AUTO 14006KT 7SM BKN110 22/19 A2988 RMK AO2 KETC 271550Z AUTO 17005KT 10SM SCT065 28/18 A3017 RMK AO2 T02820178 FAEL 271500Z 00000KT CAVOK 18/12 Q1023 KGBD 271555Z AUTO 14011KT 10SM OVC008 18/13 A2970 RMK AO1 KERV 271555Z AUTO 18003KT 10SM SCT024 SCT032 BKN047 27/23 A2980 RMK AO2 T02680225 VICG 271230Z 32014KT 6000 SKC 39/06 Q0999 NOSIG KESN 271555Z 21007KT 10SM SKC 28/23 A3013 KGAO 271555Z AUTO 14006KT 10SM SCT026 BKN033 BKN045 28/21 A2999 RMK AO2 LTG DSNT W T02760210 EINN 271530Z 17004KT 110V280 9999 SCT040 18/07 Q1016 NOSIG FAEO 271000Z 14005KT 9999 FEW020 15/04 Q1031 VIBR 270600Z 00000KT 8000 FEW040 29/12 Q1009 EHWO 271555Z AUTO 06011KT 360V110 9999 FEW039 21/12 Q1014 BLU KERY 271554Z AUTO 19006KT 7SM CLR 24/17 A2994 RMK AO2 T02380172 KGBG 271535Z AUTO 14011G17KT 10SM BKN012 22/19 A2982 RMK AO2 T02150190 KETH 271556Z AUTO 05007KT 10SM SCT070 22/13 A2978 RMK AO2 VIDD 271300Z 29006KT 1000 DU FEW040 SCT100 39/17 Q1000 NOSIG KEST 271552Z AUTO 16008KT 10SM SCT018 BKN080 OVC095 19/16 A2977 RMK AO2 SLP077 T01940156 KGBK 271555Z AUTO 11009G21KT 070V130 10SM FEW023 FEW028 27/22 A2992 RMK A01 KGCC 271553Z AUTO 33010KT 290V020 10SM FEW035 SCT042 SCT049 14/06 A2990 RMK AO2 SLP108 T01440061 KFKL 271555Z 22010KT 170V240 10SM SCT038 26/17 A3009 RMK AO1 KFLD 271553Z AUTO 21006KT 10SM OVC050 24/19 A2987 RMK AO2 LTG DSNT N AND NW SLP111 T02390194 KGCD 271535Z AUTO RMK AO2 PWINO PNO TSNO KFKN 271535Z AUTO 18009KT 10SM CLR 27/17 A3015 RMK AO2 T02730172 KEUF 271458Z AUTO 10005KT 10SM CLR 28/17 A3008 RMK AO2 SLP182 T02780172 58003 $ KEUG 271554Z VRB03KT 10SM BKN055 13/07 A3023 RMK AO2 SLP237 T01330072 KFLG 271557Z VRB04KT 10SM CLR 13/M02 A3010 RMK AO2 SLP129 T01331017 KI35 271535Z AUTO 00000KT CLR 26/18 A3014 RMK AO1 FAGG 271500Z 23005KT 9999 FEW002 14/13 Q1022 KFKR 271555Z AUTO 00000KT 10SM 26/12 A3001 RMK AO2 T02600121 KFKS 271554Z AUTO 13004KT 10SM CLR 27/19 A2991 RMK AO2 T02650189 KEVB 271550Z 08012G17KT 10SM SCT025 26/18 A3008 KGCK 271554Z 33006KT 10SM BKN031 18/10 A2970 RMK AO2 SLP037 T01780100 KGDB 271553Z AUTO 15010G15KT 10SM BKN110 23/14 A2978 RMK AO2 T02260144 KI39 271535Z AUTO 20009KT 10SM CLR 27/18 A3009 RMK AO2 VIDN 271230Z 27009KT 5000 HZ FEW040 38/09 Q1000 KFLL 271553Z 05010KT 10SM SCT028 29/21 A3000 RMK AO2 SLP157 T02890211 KEUL 271556Z AUTO 27018G21KT 10SM CLR 14/02 A3003 RMK AO2 SLP159 T01390022 KGCM 271555Z AUTO 14012G20KT 10SM CLR 22/19 A2972 RMK AO2 LTG DSNT S FAGM 270800Z VRB04KT 6000 NSC 11/09 Q1032 VIDP 271530Z 28006KT 2500 DU NSC 37/14 Q1001 NOSIG KGCN 271554Z VRB06KT 10SM CLR 16/M02 A3008 RMK AO2 SLP132 T01561017 KFME 271554Z AUTO 21004KT 10SM CLR 29/19 A3009 RMK AO1 KFLO 271553Z 00000KT 10SM CLR 27/17 A3016 RMK AO2 SLP210 T02720167 KFLP 271555Z 17005KT 10SM FEW026 BKN036 OVC046 A2980 RMK AO1 KFMH 271555Z AUTO 27005KT 10SM CLR 24/16 A3011 RMK AO2 KGDJ 271535Z AUTO 13006KT 10SM -TSRA SCT011 OVC110 18/17 A2980 RMK AO2 LTG DSNT ALQS P0004 T01810168 CZZJ 271500Z AUTO 28003KT 07/06 RMK AO1 0003 SLP125 T00710056 50009 KFNB 271553Z AUTO 17007KT 10SM BKN015 OVC022 20/17 A2976 RMK AO2 SLP073 T02000172 KEWB 271553Z 12009KT 10SM CLR 23/16 A3009 RMK AO2 SLP190 T02330161 URFF 271530Z 25004MPS 9999 SCT033CB 17/13 Q1014 R19/010095 TEMPO VRB15MPS -TSRA BKN020CB KGED 271554Z AUTO 23010KT 10SM CLR 29/19 A3010 RMK AO2 SLP193 T02890189 KEVM 271553Z AUTO 00000KT 10SM -RA CLR 15/13 A2991 RMK AO2 P0002 KFMM 271555Z AUTO 36012KT 10SM -RA OVC048 09/08 A2985 RMK AO2 T00910077 KFMN 271553Z 28013G22KT 10SM CLR 16/00 A2994 RMK AO2 SLP101 T01610000 KGDP 271451Z AUTO 24016G26KT 10SM CLR 19/M06 A2999 RMK AO2 PK WND 25028/1409 SLP083 T01941061 51010 $ KGEG 271553Z 20011KT 10SM SCT020 SCT035 BKN070 OVC130 08/03 A2999 RMK AO2 SLP156 T00830033 KFLY 271558Z AUTO 36020KT 10SM BKN011 BKN017 OVC027 07/05 A2988 RMK AO2 T00700053 KGFA 271458Z AUTO 22004KT 10SM CLR 12/09 A2989 RMK AO2 SLP128 T01210086 50003 TSNO $ KFOA 271555Z AUTO 19010KT 10SM -DZ SCT060 SCT110 23/20 A2997 RMK AO2 T02310200 FAHS 271300Z AUTO 17009KT //// // ////// 23/08 Q1024 KEWK 271555Z AUTO 14013G22KT 10SM BKN013 20/16 A2973 RMK AO1 FAJB 271600Z AUTO 21001KT //// // ////// 14/04 Q1029 KFNL 271555Z AUTO 35013G23KT 10SM BKN060 01/ A2991 RMK AO1 KFOD 271555Z AUTO 12006KT 5SM FEW013 SCT040 OVC048 17/15 A2980 RMK AO1 P0001 KGDV 271555Z AUTO 36004KT 10SM OVC010 13/10 A2990 RMK AO1 KEVV 271554Z 18007KT 10SM CLR 25/19 A2999 RMK AO2 SLP152 T02500189 DRRM 271500Z 28008KT 8000 NSC 41/18 Q1010 VIGG 270930Z 20008KT 6000 FEW040 37/13 Q1004 KFOE 271553Z 15003KT 10SM SCT110 19/16 A2974 RMK AO2 SLP066 T01940161 KEVW 271553Z AUTO VRB03KT 10SM CLR 11/02 A3005 RMK AO2 SLP119 T01060017 KEWN 271554Z 08007KT 10SM CLR 27/16 A3018 RMK AO2 SLP219 T02720161 KI63 271535Z AUTO 17013G17KT 10SM DZ OVC008 20/19 A2983 RMK AO2 P0002 T01950186 DRRN 271500Z 28006KT 220V320 6000 NSC 41/14 Q1009 NOSIG KFMY 271553Z 10010G15KT 10SM CLR 30/16 A3001 RMK AO2 SLP163 T03000156 EISG 271530Z VRB02KT CAVOK 16/08 Q1017 EKAH 271550Z AUTO 04006KT 010V070 9999NDV BKN032/// 16/07 Q1019 KEWR 271551Z 15006KT 10SM FEW160 BKN250 30/18 A3005 RMK AO2 SLP175 T03000183 KI67 271555Z AUTO 18006KT 10SM BKN100 26/17 A3003 RMK AO1 FAIR 270737Z 14006KT CAVOK 15/10 Q1031 KFOK 271553Z 22008KT 190V250 10SM CLR 21/16 A3011 RMK AO2 SLP196 T02110156 KFNT 271553Z VRB04KT 10SM FEW050 29/18 A2998 RMK AO2 SLP145 T02890178 KGFK 271553Z VRB03KT 10SM FEW021 SCT130 BKN250 19/12 A2981 RMK AO2 SLP096 T01940117 KI69 271554Z AUTO 25007KT 10SM CLR 27/17 A3005 RMK AO2 T02690170 KGEU 271547Z 20005KT 20SM SKC 25/03 A2989 DRRT 271500Z 20006KT 8000 NSC 40/18 Q1010 KGFL 271553Z AUTO 14007KT 10SM CLR 29/17 A3000 RMK AO2 SLP154 T02940172 KGEV 271550Z AUTO 00000KT 10SM SCT090 23/15 A3022 RMK AO2 T02330154 KGGE 271555Z AUTO 10008KT 10SM CLR 26/15 A3017 RMK AO2 KEYE 271553Z AUTO 20007KT 10SM CLR 26/18 A3000 RMK AO2 SLP151 T02560178 KEYF 271605Z AUTO 00000KT 10SM CLR 28/16 A3016 RMK AO2 T02760162 VIGR 271500Z 00000KT 3000 HZ NSC 35/20 Q1000 KGEY 271553Z AUTO 00000KT 10SM CLR 14/07 A2991 RMK AO2 SLP111 T01440067 KGGG 271553Z 21004KT 4SM +RA BR BKN060 OVC075 19/19 A2989 RMK AO2 SLP116 P0022 T01940194 KI75 271535Z AUTO 11004KT 5SM BR OVC004 18/18 A2974 RMK AO2 P0001 T01840177 KGEZ 271553Z AUTO 19009KT 10SM CLR 27/18 A3000 RMK AO2 SLP154 T02720178 TSNO KGGI 271555Z AUTO 13006KT 7SM BKN008 OVC011 19/18 A2977 RMK AO2 T01930175 EKBI 271550Z 04009KT 9999 FEW035 BKN066 18/11 Q1018 FALA 271500Z 15005KT 9999 FEW040 18/06 Q1028 NOSIG KFPK 271555Z AUTO 16007KT 10SM CLR 26/19 A2996 RMK AO2 T02630190 KFOT 271555Z AUTO 30007KT 8SM SCT010 12/10 A3014 RMK AO1 KGHB 271555Z AUTO 14007G17KT 070V240 9SM CLR 27/22 A2993 RMK A01 KFQD 271550Z AUTO 16008KT 10SM CLR 26/19 A3016 RMK AO2 T02570193 FAKM 271500Z 31002KT CAVOK 20/01 Q1028 KEZF 271535Z AUTO 00000KT 10SM CLR 29/21 A3009 RMK AO2 T02900205 FALE 271500Z 04004KT CAVOK 20/14 Q1023 NOSIG FAKN 271500Z 09006KT 9999 SCT020 19/08 Q1027 NOSIG KEXX 271550Z AUTO 19007KT 10SM CLR 27/17 A3015 RMK AO2 T02670165 KGGP 271535Z AUTO 20012G18KT 10SM CLR 26/17 A2999 RMK AO2 KGHG 271535Z AUTO VRB05KT 10SM CLR 20/15 A3010 RMK AO2 KFOZ 271552Z AUTO 09004KT 10SM BKN070 19/13 A2986 RMK AO2 WAAA 271530Z 34005KT 290V360 7000 VCTS FEW018CB 27/26 Q1014 NOS IG KFPR 271553Z 06011G17KT 10SM FEW024 SCT060 BKN085 28/21 A3004 RMK AO2 SLP171 T02780206 EKCH 271550Z 36011KT CAVOK 17/08 Q1018 NOSIG PKWA 271540Z AUTO 16004KT 10SM SCT015 27/23 A2986 RMK AO2 T02720232 KGIC 271555Z AUTO 00000KT 10SM SCT019 BKN025 OVC037 08/04 A3004 RMK AO1 KEZM 271535Z AUTO 14005KT 10SM CLR 28/15 A3015 RMK AO2 T02780150 KGGW 271553Z AUTO VRB04KT 10SM CLR 16/09 A2988 RMK AO2 SLP118 T01560089 KEYW 271553Z 11011KT 10SM FEW035 BKN065 BKN080 29/21 A2999 RMK AO2 SLP154 T02890211 KGIF 271553Z AUTO 04005KT 10SM FEW039 28/16 A3007 RMK AO2 SLP181 T02830161 TSNO KFRG 271553Z 17009KT 10SM CLR 25/18 A3009 RMK AO2 SLP188 T02500183 URKA 271530Z 03007MPS 9999 FEW///TCU 21/14 Q1012 R04/010070 RMK QFE755/1007 WABB 271000Z 00000KT 9000 SCT018 28/25 Q1011 NOSIG KFRI 271458Z AUTO 17006KT 10SM FEW019 SCT095 20/16 A2976 RMK AO2 SLP070 T01960158 52023 KEZS 271600Z AUTO 06003KT 10SM SCT110 23/18 A2989 RMK AO2 LTG DSNT S T02290178 EKEB 271550Z AUTO 26009KT 240V300 9999NDV FEW061/// 20/10 Q1017 VIJO 270630Z 26014KT 6000 FEW 020 36/22 Q1006 NOSIG KFRM 271555Z AUTO 15007KT 10SM FEW017 BKN024 OVC095 18/14 A2978 RMK AO1 KFSD 271556Z 20004KT 10SM FEW023 FEW065 OVC150 19/14 A2978 RMK AO2 RAE1459 SLP080 P0000 T01890144 FAMM 271500Z 22005KT 9999 FEW030 20/05 Q1028 NOSIG KGHW 271553Z AUTO 13009KT 10SM CLR 21/16 A2978 RMK AO2 KFSE 271555Z AUTO 05003KT 10SM SCT080 21/21 A2981 RMK AO2 VIJP 271530Z 29008KT 2500 HZ NSC 37/12 Q1004 NOSIG KHAE 271535Z AUTO 16010G18KT 10SM OVC012 23/20 A2980 RMK AO2 FALW 271500Z AUTO 23005KT //// // ////// 22/09 Q1020 PMDY 271556Z AUTO 05004KT 10SM SCT120 22/21 A3007 RMK AO2 SLPNO T02170206 KHAF 271555Z AUTO 17009KT 5SM HZ SCT013 13/10 A3000 RMK AO2 EIWF 271530Z 12008KT 9999 SCT015 BKN031 14/11 Q1016 URKK 271530Z 08003MPS 050V110 9999 FEW///CB 23/15 Q1012 R23C/CLRD70 NOSIG RMK QFE756 KFSI 271458Z AUTO 21010G16KT 10SM CLR 21/18 A2969 RMK AO2 SLP047 T02080179 51017 $ KHAI 271555Z AUTO 17009KT 10SM CLR 25/17 A2997 RMK AO2 T02490173 KFRR 271555Z AUTO 00000KT 10SM CLR 29/17 A3008 RMK AO1 VIJU 271230Z 24008KT 6000 FEW030TCU SCT200 40/11 Q0998 NOSIG USCC 271530Z 12001MPS CAVOK 23/09 Q1016 R27/000060 NOSIG RMK QFE742 VILD 271000Z 32002KT 5000 HZ NSC 41/15 Q1000 FAOB 271500Z AUTO 18005KT //// // ////// 17/12 Q1022 KFSM 271553Z 16006KT 10SM SCT100 24/19 A2980 RMK AO2 SLP085 T02440189 VILH 270630Z 30009KT 6000 FEW070 SCT090 19/M10 Q1020 NOSIG KHAO 271553Z AUTO 24004KT 10SM CLR 28/19 A3004 RMK AO2 SLP168 T02830189 KFSO 271555Z AUTO 17007KT 140V240 10SM CLR 29/16 A2995 RMK AO2 T02880156 KFTG 271554Z 35012KT 5SM -RA BKN012 OVC019 08/07 A2989 KHBG 271553Z AUTO 16006KT 10SM CLR 27/19 A3003 RMK AO2 SLP167 T02720194 VILK 271530Z 00000KT 3000 HZ SCT020 FEW030CB BKN100 30/24 Q0999 NOSIG KHBI 271550Z AUTO 18009KT 10SM CLR 26/15 A3018 RMK AO2 T02630146 KGKJ 271553Z AUTO 18007KT 160V220 10SM CLR 24/16 A3005 RMK AO2 SLP168 T02440161 TSNO WADD 271530Z 24005KT 170V270 8000 TS FEW015CB BKN016 28/25 Q1013 NOSIG RMK CB TO NE IN APCH TO S USCM 271530Z 33002MPS 9999 BKN040CB 23/10 Q1018 R01/090065 NOSIG RMK QFE725 USDD 271530Z 31009MPS 9999 SCT033CB 04/M02 Q1016 R22/120060 NOSIG RMK QFE757/1010 KFST 271553Z AUTO 31015G24KT 10SM CLR 28/M06 A2989 RMK AO2 SLP071 T02781056 $ KGJT 271553Z VRB05KT 10SM CLR 16/03 A2994 RMK AO2 SLP097 T01560033 KFTK 271458Z 18005KT 10SM FEW040 SCT250 25/19 A3003 RMK AO2A SLP167 T02510191 53005 KGLD 271553Z AUTO 07007KT 10SM BKN015 OVC020 14/11 A2974 RMK AO2 SLP053 T01390111 KHCD 271554Z AUTO 13007KT 10SM -RA SCT029 OVC036 18/16 A2981 RMK AO2 P0003 T01800164 URMG 271430Z 31002MPS 9999 SKT040 24/15 Q1011 R26/000070 NOSIG RMK QFE744/0992 KFTN 271555Z AUTO RMK A01 PNO KFSW 271535Z AUTO 16016G21KT 10SM OVC014 21/19 A2979 RMK AO2 KGLE 271535Z AUTO 23008KT 10SM SCT016 SCT120 19/17 A2974 RMK AO2 T01880166 FAPE 271500Z 15002KT CAVOK 20/07 Q1022 NOSIG KGLH 271553Z AUTO 20007KT 10SM FEW047 SCT100 24/21 A2995 RMK AO2 LTG DSNT NW RAB1459E53 SLP146 P0000 T02440206 KHBR 271553Z AUTO 22018G23KT 10SM CLR 24/15 A2973 RMK AO2 PK WND 22027/1459 SLP050 T02390150 URML 271530Z 12003MPS 9999 BKN010 19/17 Q1012 R14/01//70 NOSIG RMK MT OBSC QFE759/1012 WADL 271530Z 30003KT 270V340 6000 SCT016 25/24 Q1014 NOSIG FAOR 271600Z 19006KT CAVOK 12/02 Q1030 NOSIG DRZA 271500Z 04016KT 8000 NSC 43/09 Q1011 URMM 271530Z 18002MPS 9999 SCT046CB 21/16 Q1013 R30/000070 NOSIG RMK QFE731/0975 KGKT 271555Z AUTO 22003KT 10SM CLR 26/18 A3011 RMK URMN 2705300Z 35004MPS 9999 OVC026 18/14 Q1012 R24/110060 NOSIG RMK QFE722 FBFT 271500Z 12008KT 9999 SCT025 20/07 Q1025 KFUL 271553Z 22004KT 10SM OVC021 18/12 A2994 RMK AO2 SLP138 T01830122 KHDC 271555Z AUTO 15010G15KT 10SM SCT032 28/18 A2999 RMK AO2 LTG DSNT W URMO 271530Z 07002MPS 9999 BKN050CB 20/14 Q1013 R10/010070 NOSIG RMK QFE716/0955 KHBV 271535Z AUTO 18009KT 10SM CLR 30/24 A2975 RMK AO2 T02960237 ZWSH 271500Z 29004MPS 9999 SCT040CB SCT040 24/M02 Q1010 NOSIG KFVE 271553Z AUTO 15014KT 10SM OVC005 07/06 A3009 RMK AO2 SLP191 T00720056 KFTW 271553Z 14020G27KT 10SM VCTS -RA FEW043 FEW075 BKN110 19/17 A2974 RMK AO2 PK WND 13027/1522 LTG DSNT ALQDS RAE35B46 SLP065 P0001 T01940172 KHDE 271535Z AUTO 08008KT 10SM -RA SCT010 SCT019 OVC027 15/13 A2979 RMK AO2 LTG DSNT NE P0001 T01470134 FAPN 271400Z AUTO 06005KT //// // ////// 21/06 Q1026 KHCO 271554Z AUTO 15005KT 10SM BKN018 BKN025 17/13 A2981 RMK AO2 KFTY 271553Z VRB03KT 10SM FEW060 SCT070 BKN090 26/17 A3013 RMK AO2 SLP193 T02560167 KGKY 271553Z 12016G23KT 9SM -RA FEW070 BKN100 OVC120 21/18 A2976 RMK AO2 LTG DSNT SW-N PRESFR SLP069 P0003 T02060178 FAPP 271500Z 07006KT 9999 FEW035 18/08 Q1026 NOSIG URMT 271530Z 02001MPS 9999 SCT040CB 20/15 Q1014 R07/110060 NOSIG RMK QFE720 KGLR 271553Z AUTO 21006KT 10SM CLR 26/14 A2997 RMK AO2 SLP144 T02610144 FAPR 271127Z 05003KT 9999 SCT030 17/05 Q1028 KGLS 271552Z 15022G28KT 10SM CLR 28/25 A2981 RMK AO2 PK WND 16029/1501 SLP093 T02780250 KFWA 271554Z 22006KT 10SM FEW080 BKN100 BKN250 23/17 A3001 RMK AO2 SLP157 T02280172 KGNA 271556Z AUTO 06003KT 07/06 A2993 RMK AO1 SLP141 T00670056 KGMJ 271555Z AUTO 16009KT 10SM CLR 23/20 A2977 RMK AO2 KFWB 271535Z AUTO 16005KT 10SM BKN015 OVC023 22/20 A2983 RMK AO2 KGNC 271535Z AUTO 29007KT 10SM CLR 23/M01 A2987 RMK AO2 T02291015 KFWC 271535Z AUTO 15007KT 10SM -RA SCT017 SCT028 BKN048 22/19 A2995 RMK AO1 T02240193 KHDN 271555Z AUTO 31003KT 10SM FEW020 10/03 A3000 RMK AO1 KGLW 271535Z AUTO 22008KT 10SM SCT060 26/19 A3007 RMK AO2 T02630190 KHDO 271551Z AUTO 19005KT 10SM FEW027 28/22 A2978 RMK AO2 SLP065 T02830222 KHEF 271545Z 00000KT 10SM CLR 29/19 A3009 KGLY 271555Z AUTO 20010KT 10SM FEW021 24/19 A2977 RMK AO2 ZYCC 271500Z 23008MPS CAVOK 21/00 Q1003 NOSIG KHEI 271553Z AUTO 33009KT 10SM FEW033 18/08 A2984 RMK AO2 SLP105 T01830083 DRZR 271500Z 36004KT 9999 FEW040 BKN300 43/10 Q1009 FASB 270850Z 03011KT CAVOK 21/M03 Q1027 KGMU 271553Z 18010KT 10SM CLR 27/11 A3017 RMK AO2 SLP205 T02670106 KHFD 271553Z 16009KT 10SM CLR 28/18 A3006 RMK AO2 SLP178 T02830183 KFXE 271553Z 04010G16KT 10SM SCT030 SCT037 SCT047 28/20 A3000 RMK AO2 RAB02E12 SLP162 P0000 T02830200 KFWN 271553Z AUTO VRB06KT 10SM CLR 29/19 A3005 RMK AO2 SLP172 T02890194 KHFF 271556Z AUTO 22005KT 10SM FEW049 28/15 A3016 RMK AO2 SLP226 T02780152 $ KFVX 271535Z AUTO 18006KT 10SM CLR 28/19 A3010 RMK AO2 T02800189 KHEQ 270125Z AUTO 01016G22KT 10SM -RA BKN009 BKN018 OVC070 16/08 A2977 RMK AO2 LTG DSNT NE THRU SW KGNR 271556Z AUTO VRB06KT 11/09 A3011 RMK AO1 SLP201 T01060089 KFWS 271553Z 13013G18KT 4SM TSRA SCT037 BKN048 OVC110 18/17 A2979 KHFJ 271535Z AUTO 18012G16KT 10SM SCT020 SCT026 SCT050 22/18 A2979 RMK AO2 DTKA 271500Z 27010KT 9999 FEW020 22/18 Q1014 NOSIG EKKA 271550Z AUTO 05007KT 9999NDV OVC043/// 17/11 Q1018 KGOK 271553Z AUTO 24007KT 10SM CLR 24/16 A2967 RMK AO2 SLP039 T02390161 KGNT 271555Z AUTO 32014G22KT 10SM CLR 16/M03 A3002 RMK AO2 T01631029 FCBB 271500Z 30006KT 250V330 8000 FEW020 30/23 Q1012 NOSIG KGNV 271553Z 10010KT 10SM FEW047 FEW070 28/16 A3009 RMK AO2 SLP185 T02830161 KGON 271556Z 17007KT 10SM FEW100 18/16 A3010 RMK AO2 SLP193 T01830156 USHH 271530Z 02005MPS 9999 BKN016CB 11/07 Q1013 R06/190060 NOSIG RMK QFE756 KGOO 271600Z AUTO 34006KT 10SM CLR 19/04 A3001 RMK AO1 FBKE 271500Z 14004KT 100V170 9999 SCT030 24/05 Q1022 KGOP 271535Z AUTO 10004KT 5SM -RA BKN006 BKN033 18/18 A2987 RMK AO2 LTG DSNT E AND NW KFYG 271535Z AUTO 15012G16KT 10SM OVC014 22/20 A2984 RMK AO2 KGPH 271555Z AUTO 21006KT 10SM CLR 22/17 A2974 RMK AO2 KHEZ 271555Z AUTO 17012KT 10SM BKN016 OVC022 26/22 A2996 RMK AO1 VIPT 271030Z 14004KT 4000 HZ NSC 35/22 Q0999 KGPI 271555Z 16004KT 10SM FEW042 SCT050 OVC090 12/10 A2992 RMK AO2 SLP131 T01170100 KFYJ 271555Z AUTO 17007KT 10SM CLR 28/19 A3013 RMK AO2 T02760187 KFYM 271555Z AUTO 20009KT 10SM CLR 28/17 A3008 RMK A01 KGOV 271555Z AUTO 15007KT 130V190 10SM SCT049 SCT055 26/15 A2998 RMK AO2 T02630145 KGPM 271550Z 13011G17KT 10SM RA SCT012 SCT020 19/19 A2981 KHHF 271555Z AUTO 28006KT 10SM CLR 20/11 A2975 RMK AO2 T01970105 KFZG 271555Z AUTO 10005KT 10SM SCT002 28/14 A3014 RMK AO2 T02750142 KHHG 271535Z AUTO 18003KT 10SM BKN100 23/18 A2999 RMK AO2 T02290179 KFXY 271535Z AUTO 14004KT 10SM RA SCT008 BKN033 OVC070 17/16 A2980 RMK AO2 WAHS 271530Z 09011KT 7000 FEW018 27/22 Q1010 NOSIG UTAA 271500Z 04002KT 9999 SKC 33/09 Q1010 NOSIG KHGR 271553Z 20006KT 10SM CLR 28/17 A3008 RMK AO2 SLP188 T02830172 KHIB 271553Z AUTO 09004KT 8SM -RA BKN065 OVC080 14/13 A2989 RMK AO2 RAB07 SLP128 P0002 T01440128 KGPT 271553Z 14013KT 10SM CLR 28/17 A3001 RMK AO2 SLP162 T02780172 KGRB 271553Z 04007KT 10SM SCT120 23/17 A2987 RMK AO2 LTG DSNT SW SLP114 T02280172 PNO $ DTMB 271530Z 07014KT CAVOK 27/20 Q1012 NOSIG KFYV 271553Z 19011KT 10SM SCT110 21/19 A2981 RMK AO2 RAB1457E34 SLP084 P0000 T02110194 KGRD 271556Z AUTO VRB05KT 10SM FEW055 26/15 A3018 RMK AO2 SLP211 T02610150 KHIE 271552Z AUTO VRB03KT 8SM CLR 24/14 A3006 RMK AO2 SLP174 T02390144 KGRF 271538Z AUTO 23005KT 10SM BKN025 12/06 A3016 RMK AO2 BKN V SCT KHIF 271523Z 11007KT 10SM SCT110 BKN250 13/06 A2999 URRR 271530Z 33002MPS 290V010 9999 FEW028CB 20/14 Q1014 R22/CLRD70 NOSIG RMK QFE754/1005 FAUP 271500Z 35004KT CAVOK 24/01 Q1025 NOSIG KGPZ 271556Z AUTO 01004KT 6SM RA BR BKN075 OVC090 14/12 A2989 RMK AO2 RAB04 SLP123 P0006 T01390122 WAJJ 271500Z 00000KT 9999 FEW013 26/24 Q1011 NOSIG UTAK 271500Z 36012KT CAVOK 31/11 Q1011 NOSIG KHHR 271553Z 00000KT 10SM OVC019 17/12 A2996 RMK AO2 SLP144 T01720122 KGRI 271553Z 14004KT 10SM -RA FEW050 BKN070 OVC090 17/14 A2979 RMK AO2 LTG DSNT E AND SE AND W RAB45 SLP084 P0000 T01720139 KHII 271535Z AUTO 00000KT 10SM CLR 25/04 A2985 RMK AO2 VISM 270700Z 27005KT 6000 NSC 28/11 Q1013 KIAB 271458Z AUTO 15012KT 10SM OVC011 19/17 A2971 RMK AO2 OVC V BKN SLP052 T01940168 58002 PNO $ UTAM 271500Z 32004KT CAVOK 34 /08 Q1008 NOSIG ZWWW 271530Z 26001MPS CAVOK 23/07 Q1009 NOSIG KGRK 271546Z AUTO 06010KT 10SM -RA OVC006 18/17 A2984 RMK AO2 LTG DSNT N AND E RAE29RAB36 KGSB 271458Z AUTO VRB04KT 10SM FEW060 27/17 A3015 RMK AO2 SLP212 T02690171 50000 $ FAWB 271500Z VRB03KT 9999 FEW045 17/08 Q1026 FAUT 271500Z 21003KT CAVOK 21/02 Q1025 KIAD 271552Z VRB03KT 10SM SCT250 29/18 A3008 RMK AO2 SLP183 T02890178 KHHV 271555Z AUTO 16017G29KT 140V200 4SM HZ FEW019 28/24 A2985 RMK A01 KHHW 271535Z AUTO 11011KT 10SM -RA SCT045 BKN090 OVC110 21/19 A2976 RMK AO2 LTG DSNT S T02070190 FBMN 271500Z 13011KT 9999 FEW030 23/05 Q1024 KHIO 271553Z 30006KT 10SM OVC070 13/07 A3020 RMK AO2 SLP227 T01330072 VISR 271030Z VRB02KT 6000 PLOUDY SCT025 FEW030TCU 28/08 Q1013 NOSIG KIAG 271553Z 21011KT 10SM FEW040 SCT250 26/18 A3000 RMK AO2 SLP152 TCU DSNT N-NE T02610183 KFZY 271554Z AUTO VRB04KT 10SM SCT029 SCT045 29/21 A3000 RMK AO2 SLP154 T02890206 URSS 271530Z 32005G10MPS 9999 FEW040TCU 20/16 Q1010 R06/090070 R02/090070 NOSIG RMK R02/30004MPS MT OBSC QFE757 ZYHB 271500Z 12002MPS CAVOK 16/08 Q1001 NOSIG KIAH 271553Z 13008KT 10SM BKN022 OVC041 24/23 A2978 RMK AO2 SLP083 CB DSNT W-NE MOVG NE T02440228 KGSH 271553Z AUTO 19009KT 10SM -RA FEW046 FEW080 BKN110 24/17 A2997 RMK AO2 RAB44 SLP145 P0000 T02390172 KHJH 271535Z AUTO 00000KT 10SM SCT016 OVC022 18/14 A2978 RMK AO2 LTG DSNT NW T01800143 DTNH 271530Z 04009KT 010V070 8000 NSC 24/19 Q1013 NOSIG UTAT 271500Z VRB04KT CAVOK 31/13 Q1010 NOSIG KGRR 271553Z 16007KT 10SM FEW030 SCT160 SCT250 28/19 A2995 RMK AO2 SLP135 T02830189 KHKA 271553Z AUTO 17015G22KT 10SM CLR 24/21 A2993 RMK AO2 SLP133 T02440206 UTAV 271500Z 32012KT CAVOK 32/09 Q1007 NOSIG KGTB 271458Z AUTO 20009KT 10SM CLR 26/19 A3000 RMK AO2 SLP156 T02600189 50004 FAWK 271500Z AUTO 17002KT //// // ////// 16/04 Q1029 EKOD 271550Z 05008KT 020V080 9999 FEW040 16/10 Q1018 FAVV 271600Z AUTO 18006KT //// // ////// 14/02 Q1028 KHJO 271553Z AUTO 32005KT 10SM CLR 21/08 A2993 RMK AO2 SLP136 T02110083 KGTF 271553Z 22008KT 10SM FEW100 15/07 A2988 RMK AO2 SLP111 T01500072 KGSO 271554Z 21007KT 10SM FEW040 27/17 A3014 RMK AO2 SLP196 T02720172 KGSP 271553Z 23007KT 10SM CLR 27/14 A3015 RMK AO2 SLP198 T02670144 KGRY 271555Z AUTO 15016KT 10SM FEW028 27/20 A2995 RMK A01 WALL 271500Z 01002KT 9000 FEW020 28/25 Q1012 NOSIG UTDD 271530Z VRB01MPS 9999 VCTS SCT066CB BKN120 26/10 Q1011 R09/CLRD// TEMPO TS RMK QFE690/0920 KHLC 271553Z AUTO 05008KT 2 1/2SM BR SCT006 OVC012 15/14 A2973 RMK AO2 SLP058 T01500139 KGUC 271555Z AUTO 21004KT 10SM CLR 11/M01 A3001 RMK AO1 VITX 271230Z 30014G24KT 6000 SCT070 SCT100 21/M11 Q1020 NOSIG RMK AC KIBM 271535Z AUTO 35011KT 10SM -RA BKN013 OVC018 10/09 A2989 RMK AO2 T01030090 KHLG 271553Z 23007KT 200V270 10SM CLR 27/17 A3008 RMK AO2 SLP177 T02670172 URWA 271530Z 10004MPS CAVOK 26/14 Q1012 R09/010070 NOSIG RMK QFE761/1014 UTDK 271530Z 03004MPS 9999 TS SCT060CB BKN150 27/13 Q1009 0109//70 RMK QFE699/0932 KGTR 271550Z 18010 10SM FEW040 BKN120 26/19 A3002 UTDL 271530Z 20004MPS 9999 SCT066CB BKN110 26/07 Q1010 NOSIG RMK QFE720/0960 88CLRD70 KHKS 271553Z 16014G20KT 10SM SCT020 26/21 A2999 RMK AO2 SLP148 T02610211 KIDA 271553Z 21016G19KT 10SM CLR 13/05 A2996 RMK AO2 SLP120 T01330050 WAMM 271530Z VRB01KT 9000 FEW025 24/24 Q1012 NOSIG KGTU 271553Z 06010KT 10SM OVC008 18/16 A2983 KGUL 271555Z AUTO 18019KT 8SM FEW022 FEW027 27/22 A2989 RMK A01 KICL 271535Z AUTO 10SM 19/17 A2977 RMK AO2 PWINO KHME 271350Z 36012KT 9999 FEW035 33/M04 Q1013 KHLN 271553Z VRB06KT 10SM SCT090 13/09 A2991 RMK AO2 SLP129 T01330089 KGVE 271535Z AUTO 20004KT 10SM CLR 28/21 A3009 RMK AO1 T02780207 URWI 271530Z AUTO 06004MPS 040V100 9999 // ///046 24/17 Q1013 KHKY 271553Z VRB04KT 10SM CLR 26/19 A3015 RMK AO2 SLP188 T02560189 KGUP 271553Z AUTO 25007KT 10SM CLR 14/00 A3003 RMK AO2 SLP076 T01390000 UTFA 271530Z 02005KT 9999 NSC 24/11 Q1011 R88/09//70 UTDT 271530Z 32006MPS 9999 VCTS SCT050CB SCT086 30/08 Q1006 35CLRD70 RMK QFE716/0954 KICR 271553Z AUTO 28007KT 1 3/4SM RA BR OVC065 14/13 A2985 RMK AO2 LTG DSNT SE SLP101 P0013 T01440128 KIDI 271555Z AUTO 24009KT 10SM CLR 27/18 A3012 RMK A01 KGUR 271555Z AUTO 34011KT 10SM CLR 18/09 A2990 RMK AO2 T01770088 PWINO KHLR 271515Z AUTO 09007KT 8SM -RA OVC006 17/17 A2982 RMK AO2 LTG DSNT N AND E AND S RAB15 KGUS 271458Z AUTO 20006KT 10SM FEW100 24/19 A2997 RMK AO2 SLP147 T02420187 58002 KICT 271553Z 12011KT 10SM BKN011 OVC015 21/18 A2969 RMK AO2 SLP040 T02060178 $ KHNB 271555Z AUTO 19014G19KT 10SM FEW031 27/20 A3000 RMK AO1 KGWB 271555Z AUTO 23005KT 10SM CLR 23/17 A3001 RMK AO2 USNN 271530Z 34005MPS 9999 SCT009 BKN025CB 14/13 Q1007 R21/290351 NOSIG RMK QFE751 KGVL 271553Z AUTO 15004KT 10SM FEW085 OVC110 22/14 A3019 RMK AO2 SLP208 T02170144 UTFF 271500Z 17009KT 9999 SCT060CB 25/09 Q1011 R18/CLRD70 KHND 271556Z 11003KT 10SM CLR 24/03 A2993 RMK AO2 SLP115 T02390033 KHMN 271558Z AUTO 30004KT 10SM CLR 21/M04 A2993 RMK AO2 SLP076 T02121038 $ KHLX 271555Z AUTO 00000KT 10SM BKN065 25/16 A3019 RMK AO2 T02500158 KGUY 271553Z AUTO 28018G24KT 10SM CLR 20/06 A2973 RMK AO2 SLP033 T02000056 KIDP 271535Z AUTO 11013G17KT 10SM CLR 21/17 A2968 RMK AO2 WBGB 271500Z 26001KT 9999 FEW018 BKN150 28/26 Q1012 KGXA 271455Z AUTO 28005KT 10SM CLR 20/03 A2997 RMK AO2 SLP123 WND DATA ESTMD T01990026 51006 TSNO $ KIFA 271555Z AUTO 00000KT 4SM +RA BKN010 OVC013 18/17 A2979 RMK AO2 P0019 T01770165 KHOB 271550Z 24010G16KT 10SM SKC 24/M05 A2988 KGVT 271536Z AUTO 16010KT 10SM -RA SCT039 BKN047 OVC060 20/19 A2986 RMK AO2 LTG DSNT SE AND S P0006 UTFN 271530Z 35004KT 9999 VCTS BKN050CB 23/12 Q1011 R28/CLRD70 NOSIG URWW 271530Z 25006MPS 230V300 9999 -TSRA BKN030CB 16/15 Q1016 RETSRA WS R11 R11/290060 NOSIG EKRK 271550Z AUTO 33006KT 290V030 9999NDV FEW043/// 18/09 Q1018 EKSB 271550Z 15005KT 120V180 9999 FEW015 18/10 Q1017 WAOO 271530Z AUTO 00000KT 9999NDV OVC150 26/25 Q1012 WBGG 271530Z 24001KT 9999 SCT020 BKN150 28/25 Q1012 NOSIG KIEN 271552Z AUTO 08006KT 10SM BKN080 OVC095 14/07 A2987 RMK AO2 SLP105 T01390067 KHOE 271535Z AUTO 16004KT 10SM CLR 27/15 A3012 RMK AO2 EKRN 271550Z AUTO 23004KT 210V270 9999NDV NCD 16/07 Q1018 KGWO 271553Z AUTO 17010KT 10SM FEW017 BKN110 24/21 A2999 RMK AO2 SLP153 T02440206 KGXF 271458Z AUTO 00000KT 10SM CLR 23/03 A2987 RMK AO2 SLP105 T02300026 52013 KHMZ 271535Z AUTO 00000KT 10SM CLR 26/18 A3008 RMK AO2 T02610179 KGWR 271555Z AUTO 35006KT 10SM CLR 20/14 A2979 RMK AO1 KIER 271555Z AUTO 17006KT 10SM SCT011 SCT120 24/23 A2988 RMK AO2 LTG DSNT W T02370230 KHNR 271535Z AUTO 10004KT 10SM BKN021 20/16 A2978 RMK AO2 DTTA 271530Z 03010KT CAVOK 26/18 Q1012 NOSIG KGYB 270615Z AUTO 05013G20KT 7SM RA SCT013 BKN019 OVC023 21/19 A2985 RMK AO2 P0007 T02050187 DTTB 271500Z 02006KT 340V060 8000 SCT020 29/19 Q1013 FBSK 271500Z 15004KT 9999 FEW025 21/05 Q1026 NOSIG WAPP 271000Z 29003KT 9999 FEW020 27/25 Q1011 NOSIG USPP 271530Z 27002MPS CAVOK 27/10 Q1015 R21/090060 NOSIG RMK QFE750 DTTD 271500Z 20004KT 8000 FEW030 43/M02 Q1014 RMK SIROCCO KGWW 271550Z AUTO 23005KT 10SM SCT055 28/17 A3016 RMK AO2 T02770168 KHON 271555Z AUTO 18010KT 10SM -RA BKN014 BKN023 OVC028 18/16 A2977 RMK AO2 LTG DSNT S RAB42 SLP078 P0000 T01780156 EKSN 271350Z 08007KT 9999 BKN030 16/08 Q1020 DTTF 271500Z 26012KT 210V280 8000 NSC 42/06 Q1010 SIROCCO NOSIG WBGR 271500Z 09004KT 9999 SCT014 BKN150 29/27 Q1011 KIFP 271455Z AUTO 17006KT 10SM CLR 24/01 A2987 RMK AO2 KHOP 271458Z AUTO 19007KT 10SM FEW200 24/19 A3001 RMK AO2 SLP160 T02440193 50005 WBGS 271500Z 11006KT 8000 -TSRA FEW015CB SCT016 BKN150 25/23 Q1012 DTTG 271500Z 09009KT 050V110 8000 FEW020 39/16 Q1012 SIROCCO NOSIG FBSP 271500Z 16006KT 9999 FEW020 BKN075 20/13 Q1025 EKSP 271550Z 13006KT 070V160 CAVOK 19/10 Q1017 KHNZ 271550Z AUTO 22007KT 10SM CLR 26/16 A3015 RMK AO2 T02570157 KGYH 271547Z 26005KT 10SM CLR 26/16 A3017 KGYI 271535Z AUTO 13030G37KT 10SM -RA SCT040 SCT050 BKN110 18/15 A2967 RMK AO2 LTG DSNT SE T01760149 DTTJ 271530Z 12007KT 8000 NSC 38/10 Q1011 NOSIG KHOT 271113Z AUTO 16007KT 9SM SCT011 BKN016 22/21 A2984 RMK AO2 T02220206 DTTK 271500Z 35006KT 280V080 9999 FEW023 38/18 Q1011 SIROCCO KHOU 271553Z 16017G26KT 10SM SCT020 29/24 A2977 RMK AO2 PK WND 16027/1543 SLP085 T02940239 KGYL 271556Z AUTO 00000KT 7SM -RA OVC046 19/17 A2980 RMK AO2 P0005 T01860172 DTTL 271500Z VRB06KT CAVOK 23/18 Q1014 KIGM 271551Z AUTO 23009KT 10SM CLR 24/M01 A2996 RMK AO2 SLP083 T02391011 WBGY 271500Z 00000KT 9999 SCT022 BKN150 27/25 Q1012 KHPN 271556Z 16004KT 10SM CLR 27/18 A3007 RMK AO2 SLP178 T02670178 WAQQ 271000Z 09003KT 8000 SCT015 29/25 Q1010 DTTN 271500Z 33006KT 9999 SCT020 FEW026CB 42/18 Q1011 SIROCCO CB KGXY 271555Z AUTO 35021G27KT 10SM SCT047 OVC060 12/06 A2989 RMK AO1 KHQG 271535Z AUTO 30019G24KT 10SM CLR 19/05 A2973 RMK AO2 T01880045 KGZH 271553Z AUTO 13007KT 10SM FEW039 28/18 A3006 RMK AO2 SLP176 T02780183 TSNO KIGQ 271555Z AUTO 19011KT 10SM SCT110 24/18 A2994 RMK AO2 T02390183 KGYR 271547Z VRB05KT 10SM SKC 24/04 A2990 KHQI 271555Z AUTO 13017G26KT 8SM FEW041 FEW047 SCT055 A2990 RMK A01 DTTR 271500Z 23006KT 9999 FEW030 44/04 Q1011 RMK SIROCCO KK88 271535Z AUTO 14006KT 10SM CLR 20/16 A2976 RMK AO1 T02040164 KIIB 271555Z AUTO 15010KT 10SM OVC021 20/17 A2980 RMK AO2 KGZL 271555Z AUTO 13008KT 10SM 24/16 A2974 RMK AO2 PWINO TSNO KHQM 271553Z AUTO 27005KT 4SM -RA FEW023 BKN041 OVC050 11/08 A3019 RMK AO2 RAB50 SLP227 P0000 T01110083 EKVD 271350Z 05002KT 9999 FEW044 20/08 Q1018 KIGX 271556Z AUTO VRB04KT 10SM CLR 28/14 A3016 RMK AO2 SLP205 T02780144 TSNO USRR 271530Z 01008MPS 7000 SCT015CB SCT030 10/08 Q1011 R07/CLRD60 TEMPO 4000 -SHRA RMK QFE753 DTTX 271500Z 11007KT 070V150 CAVOK 30/17 Q1012 NOSIG KGYY 271545Z 18007KT 12SM FEW021 BKN110 24/22 A2993 WARR 271530Z 12009KT 7000 SCT020 27/24 Q1012 TEMPO TL1600 6000 RA SCT018CB EKVG 271550Z AUTO 16009KT 120V180 9999NDV NCD 09/04 Q1023 DTTZ 271500Z 24010KT 200V280 7000 NSC 44/04 Q1011 NOSIG KHRI 271553Z AUTO 15/03 A3009 RMK AO2 SLPNO T01500033 PWINO TSNO $ KHSA 271551Z 16010G16KT 7SM CLR 28/14 A3001 UUBC 271530Z 03002MPS 350V060 CAVOK 24/13 Q1016 R31/010060 NOSIG RMK QFE745/0993 KHRJ 271550Z AUTO 00000KT 10SM CLR 27/16 A3016 RMK AO2 T02740156 EKVJ 271350Z 29006KT 9999 SCT030 19/05 Q1019 KHSB 271555Z AUTO 16007KT 10SM SCT017 SCT024 SCT075 23/21 A2996 RMK AO2 T02300206 KHRL 271552Z 19022G29KT 10SM SCT031 33/24 A2974 RMK AO2 PK WND 18032/1501 SLP069 T03330239 KJAC 271551Z 20005KT 10SM FEW080 09/04 A3000 KHQU 271535Z AUTO 00000KT 10SM SCT055 SCT065 27/17 A3020 RMK AO1 T02700174 KHSD 271555Z AUTO 18009KT 10SM CLR 24/15 A2970 RMK A01 KIJD 271552Z AUTO 19007KT 10SM CLR 28/17 A3008 RMK AO2 SLP183 T02830167 KHSE 271551Z AUTO 14004KT 10SM CLR 28/16 A3019 RMK AO2 SLP224 T02780156 TSNO KHRO 271553Z AUTO 19005KT 10SM SCT024 BKN030 OVC050 22/19 A2984 RMK AO2 SLP092 T02220189 ELLX 271550Z 19005KT 150V240 9999 FEW028TCU 21/14 Q1014 NOSIG KHSG 271535Z AUTO 32004KT 10SM CLR 13/05 A2993 RMK AO2 T01340053 USSS 271530Z 22003MPS CAVOK 25/13 Q1015 R26R/010060 NOSIG RMK QFE741/0988 KHQZ 271550Z 16008KT 5SM -RABR SCT005 BKN029 OVC045 19/19 A2986 WBKK 271530Z 11007KT 080V140 9999 FEW014 SCT140 BKN270 27/22 Q1012 NOSIG KHSI 271553Z AUTO 08006KT 10SM -RA FEW017 SCT027 OVC050 16/15 A2978 RMK AO2 LTG DSNT NW-NE TSB1459E14 SLP079 P0004 T01610150 WBKL 271500Z 11005KT 040V170 8000 -RA SCT010 FEW014CB SCT040 OVC280 28/24 Q1011 KL18 271555Z AUTO 00000KT 10SM OVC016 16/11 A2996 RMK AO2 KHRT 271458Z AUTO 08008KT 10SM CLR 28/18 A3002 RMK AO2 SLP167 60000 T02780180 58002 $ UUBP 271500Z 06004MPS 9999 BKN040 25/13 Q1015 R16/CLRD70 NOSIG RMK QFE743/0991 KJAN 271554Z 16011KT 10SM FEW015 BKN120 OVC250 27/21 A2999 RMK AO2 SLP151 T02670211 KHRX 271555Z AUTO 31009G17KT 280V350 10SM CLR 21/05 A2984 RMK AO2 T02080051 USTR 271530Z 24001MPS 9999 FEW040CB 22/10 Q1014 R21/CLRD65 NOSIG RMK QFE751/1002 KHSP 271555Z AUTO 14004KT 10SM SCT022 23/16 A3024 RMK AO2 T02250163 KIIY 271555Z AUTO 20003KT 10SM CLR 27/17 A3016 RMK AO2 WBKS 271500Z 25003KT 9000 FEW015 BKN280 26/25 Q1012 KJAQ 271535Z AUTO 00000KT 10SM CLR 19/10 A2996 RMK AO1 T01870098 WATT 271500Z 14002KT 8000 FEW020 26/23 Q1014 NOSIG WBKT 271500Z 00000KT 9999 FEW015 BKN270 26/25 Q1012 KJCA 271555Z AUTO 00000KT 10SM SCT043 SCT120 21/17 A3016 RMK AO2 KHUA 271458Z AUTO VRB06KT 10SM SCT050 26/19 A3006 RMK AO2 SLP174 T02640188 50002 KJAS 271535Z AUTO 11005KT 10SM SCT030 BKN055 OVC070 22/20 A2988 RMK AO2 T02220200 UUDD 271530Z 04003MPS CAVOK 25/12 Q1017 R88/010095 NOSIG KHST 271458Z AUTO 04013KT 10SM CLR 28/21 A2999 RMK AO2 SLP159 T02820207 51009 KIKK 271535Z AUTO 18015G20KT 10SM SCT027 26/19 A2993 RMK AO2 T02590188 UUBW 271530Z 06004MPS CAVOK 26/11 Q1016 R30/010060 NOSIG WBKW 271500Z 34001KT 9999 FEW017 BKN300 25/24 Q1013 KHTL 271553Z AUTO 16008KT 10SM CLR 26/16 A2999 RMK AO2 SLP149 T02610161 KHSV 271553Z 15009KT 10SM FEW045 BKN060 BKN250 29/16 A3007 RMK AO2 SLP175 T02940156 KILE 271556Z AUTO 11004KT 10SM -RA OVC005 18/17 A2985 RMK AO2 CIG 003V008 SLP118 P0001 T01780172 KHUF 271553Z 16012KT 10SM CLR 26/19 A2997 RMK AO2 SLP145 T02560189 KJAX 271556Z 07014G19KT 10SM SCT039 BKN070 27/17 A3010 RMK AO2 SLP194 T02670172 KHTO 271535Z AUTO 18007KT 10SM BKN065 BKN080 19/15 A3010 RMK AO2 T01870151 KIJX 271535Z AUTO 16011G15KT 10SM -RA BKN011 BKN038 OVC060 21/19 A2986 RMK AO2 P0002 T02090192 KILG 271551Z 24009KT 10SM CLR 29/20 A3007 RMK AO2 SLP182 T02890200 $ KL35 271535Z AUTO 00000KT 10SM CLR 12/M02 A3011 RMK AO2 KJBR 271553Z AUTO 18011KT 10SM BKN013 BKN019 BKN100 24/22 A2990 RMK AO2 SLP121 T02440217 UUDL 271530Z 00000MPS CAVOK 24/14 Q1017 R23/010095 NOSIG RMK QFE755 KHTS 271551Z VRB04KT 10SM CLR 27/20 A3008 RMK AO2 SLP176 T02670200 KL38 271535Z AUTO 15006KT 10SM SCT027 SCT031 28/21 A2997 RMK AO2 LTG DSNT NW T02750213 KIKT 271555Z AUTO 12020KT 10SM CLR 27/20 A3000 RMK A01 UUEE 271530Z 05004MPS 9999 FEW066TCU 24/10 Q1017 R06L/CLRD62 R06R/CLRD62 NOSIG KHUL 271553Z AUTO 17007G15KT 10SM OVC012 11/08 A3015 RMK AO2 RAB1459E11 SLP212 P0000 T01110083 KILM 271553Z AUTO VRB06KT 10SM CLR 26/15 A3017 RMK AO2 SLP217 T02610150 KJDD 271555Z AUTO 16004KT 3SM VCTS +RA FEW003 SCT018 BKN029 20/19 A2990 RMK AO2 LTG DSNT S AND SW P0013 KHUM 271550Z 15010G15KT 7SM SCT027 26/22 A2995 KIKV 271535Z AUTO 10005KT 2 1/2SM BR BKN005 BKN010 18/18 A2974 RMK AO2 KIKW 271553Z AUTO 15005KT 7SM CLR 27/18 A2997 RMK AO2 T02660183 KILN 271554Z AUTO 19007KT 160V220 10SM BKN110 27/19 A3005 RMK AO2 SLP167 T02670189 KHVE 271555Z AUTO 00000KT 10SM CLR 18/00 A2998 RMK AO2 FCPP 271500Z 22010KT 170V240 9999 FEW013 SCT023 28/23 Q1013 NOSIG KHUT 271552Z 14011KT 10SM OVC011 19/17 A2971 RMK AO2 SLP045 T01940172 KJCT 271551Z AUTO VRB06KT 10SM BKN031 28/20 A2979 RMK AO2 SLP051 T02780200 UTNN 271530Z 35006KT CAVOK 29/10 Q1011 R33/CLRD60 NOSIG EKYT 271550Z 10007KT 9999 SCT028 BKN032 16/10 Q1019 KIML 271553Z AUTO 04010KT 10SM OVC022 14/12 A2978 RMK AO2 SLP076 T01390117 KIND 271554Z 20009KT 10SM FEW026 FEW140 26/19 A2999 RMK AO2 SLP148 T02560189 KHWD 271554Z 00000KT 10SM CLR 16/10 A2997 RMK AO2 SLP158 T01560100 KHVN 271553Z 14007KT 10SM CLR 24/17 A3008 RMK AO2 SLP185 T02440172 KJDN 271548Z AUTO 02007KT 13/09 A2988 RMK AO1 SLP120 T01330094 KJEF 271553Z 15010KT 10SM BKN018 BKN023 OVC032 23/19 A2980 RMK AO2 SLP078 T02280194 KINF 271555Z AUTO 09006KT 7SM SCT075 28/18 A3008 RMK AO2 ZYTL 271530Z VRB01MPS CAVOK 17/10 Q1010 NOSIG KHVR 271553Z AUTO 09005KT 10SM CLR 16/10 A2986 RMK AO2 SLP105 T01610100 $ UTNU 271530Z 26003KT CAVOK 29/07 Q1010 R13/CLRD70 NOSIG KHVS 271555Z AUTO 00000KT 10SM CLR 26/16 A3017 RMK AO2 KIMS 271551Z AUTO 18007KT 10SM CLR 27/17 A3006 RMK AO1 KINJ 271555Z AUTO 11013G18KT 10SM -VCTSRA SCT050 BKN075 OVC090 18/17 A2984 RMK AO2 LTG DSNT ALQS P0008 T01800173 KINK 271553Z AUTO 30011G15KT 10SM CLR 27/M06 A2985 RMK AO2 SLP061 T02671061 TSNO KIMT 271554Z AUTO 10004KT 10SM CLR 23/14 A2989 RMK AO2 SLP120 T02280144 TSNO KIOB 271535Z AUTO 22005KT 10SM CLR 26/20 A3010 RMK AO2 KINL 271555Z AUTO 06003KT 10SM CLR 21/13 A2984 RMK AO2 SLP105 T02060128 KHXD 271450Z 06007KT 10SM SKC 28/16 A3015 KHWO 271553Z 08012KT 10SM SCT029 BKN037 OVC060 29/21 A3001 RMK AO2 SLP163 T02940206 KJER 271553Z AUTO 23015G21KT 10SM CLR 14/04 A2999 RMK AO2 SLP133 T01390039 KHYA 271556Z 18008KT 10SM CLR 20/15 A3011 RMK AO2 SLP196 T02000150 KJES 271555Z AUTO 12006KT 10SM SCT043 SCT048 26/16 A3012 RMK AO2 KINS 271458Z AUTO 30004KT 10SM CLR 20/M01 A2994 RMK AO2 VIS 1 1/4 RWY08 SLP097 T02041006 51011 KJFK 271551Z 17008KT 10SM FEW090 SCT160 SCT250 23/17 A3009 RMK AO2 SLP189 T02280172 KINT 271554Z VRB05KT 10SM CLR 27/17 A3015 RMK AO2 SLP199 T02670172 ZYTX 271530Z 19002MPS CAVOK 17/09 Q1006 NOSIG ENAL 271550Z 36003KT 340V040 CAVOK 15/09 Q1022 KHWV 271556Z AUTO 20008KT 170V230 10SM CLR 23/17 A3010 RMK AO2 SLP191 T02330172 TSNO $ KINW 271556Z AUTO VRB06KT 10SM CLR 19/M02 A3001 RMK AO2 SLP109 T01941017 ENAN 271550Z 27011KT CAVOK 14/06 Q1024 KHWY 271535Z AUTO 00000KT 10SM CLR 30/17 A3009 RMK AO2 T02950166 KJGG 271535Z AUTO 17008KT 140V200 10SM CLR 29/19 A3014 RMK AO1 KHYI 271546Z AUTO 15009KT 5SM BR SCT019 BKN024 OVC055 27/24 A2977 FDJR 271500Z AUTO 05003KT //// // ////// 19/06 Q1026 KIPJ 271555Z AUTO 24006KT 10SM CLR 27/15 A3015 RMK AO2 T02680154 FDLB 271500Z AUTO 34003KT //// // ////// 23/10 Q1026 KIPL 271553Z AUTO 30004KT 10SM CLR 26/10 A2983 RMK AO2 SLP103 T02610100 ENAT 271550Z 32006KT CAVOK 20/03 Q1022 RMK WIND 700FT 23011KT ENBL 271550Z 32008KT CAVOK 18/05 Q1021 KIOW 271552Z AUTO 15009KT 10SM FEW017 SCT024 BKN080 23/19 A2979 RMK AO2 SLP082 T02330194 KHZE 271435Z AUTO 32006KT 10SM OVC015 14/11 A2987 RMK AO2 TSNO KIPN 271555Z AUTO 12020KT 10SM CLR 26/20 A2998 RMK A01 ENBN 271550Z 06007KT CAVOK 20/04 Q1024 KJFX 271555Z AUTO 17004KT 9SM CLR 30/19 A3006 RMK AO2 PWINO ENBO 271550Z 36005KT 320V030 CAVOK 16/04 Q1025 NOSIG UTSA 271530Z 02005KT 9999 NSC 28/05 Q1009 R07/CLRD70 NOSIG KJFZ 271535Z AUTO 27005KT 10SM CLR 25/20 A3019 RMK AO2 T02500203 UTSB 271530Z 32005KT CAVOK 30/07 Q1008 R19/CLRD70 NOSIG WBSB 271530Z 08002KT 9999 SCT015 BKN140 29/23 Q1011 NOSIG KHYR 271553Z AUTO 02004KT 10SM OVC110 18/14 A2987 RMK AO2 SLP114 T01830139 ENBR 271550Z 33007KT 9999 FEW050 16/08 Q1021 NOSIG RMK WIND 1200FT 26004KT KHYS 271555Z AUTO 13009KT 10SM OVC009 01/ A2972 RMK AO1 ENBS 271450Z VRB03KT CAVOK 15/03 Q1023 KIPT 271554Z 13006KT 10SM SCT045 27/19 A3003 RMK AO2 SLP167 T02720189 KHZL 271555Z AUTO 33003KT 10SM SCT032 26/18 A3013 RMK AO2 ENBV 271550Z 09012KT CAVOK 14/09 Q1023 KHYW 271555Z AUTO 11005KT 7SM CLR 27/16 A3016 RMK AO2 KJHN 271555Z AUTO 26017G23KT 10SM CLR 17/06 A2973 RMK AO2 T01720057 ENCN 271550Z 17004KT 110V230 CAVOK 18/09 Q1020 KHYX 271555Z AUTO 16005KT 10SM SCT043 27/16 A2997 RMK AO2 UTSK 271530Z 29015KT CAVOK 31/04 Q1006 R34/CLRD70 KHZR 271535Z AUTO 15006KT 10SM CLR 25/22 A2997 RMK AO2 LTG DSNT W T02510223 KIRK 271555Z AUTO 18011G23KT 10SM -RA BKN019 OVC024 24/20 A2977 RMK AO2 SLP076 P0000 T02390200 KJHW 271555Z AUTO 20007KT 10SM CLR 24/16 A3006 RMK AO1 KHZX 271554Z AUTO 11003KT 4SM SCT033 OVC060 15/13 A2987 RMK AO2 P0008 KHZY 271553Z AUTO 22007KT 10SM CLR 26/18 A3003 RMK AO2 SLP163 T02610183 TSNO UTSS 271530Z 07009KT 040V110 6000 NSC 24/08 Q1010 R88/CLRD70 NOSIG UTST 271530Z 25008KT CAVOK 29/05 Q1007 R88/CLRD70 NOSIG VLLB 271300Z 22002KT 6000 TS SCT020 FEW030CB BKN080 31/22 Q1001 CB SW NOSIG ENDR 271550Z AUTO 04018KT 12/08 Q1023 KIRS 271555Z AUTO 18007KT 10SM CLR 24/18 A2998 RMK AO2 T02380175 KJKA 271555Z AUTO 12010G19KT 10SM CLR 27/20 A3004 RMK AO2 T02660203 FDMS 271500Z 00000KT CAVOK 20/12 Q1025 NOSIG KM19 271556Z AUTO 18017KT 10SM BKN015 OVC085 25/23 A2989 RMK AO2 T02500233 SLP119 ENEK 271550Z 04007KT CAVOK 12/09 Q1020 W10/S3 ENFB 271550Z AUTO 02009KT 9999NDV BKN006/// 08/07 Q1023 W///S3 KM21 271555Z AUTO 18010KT 10SM CLR 26/19 A3001 RMK AO2 T02600185 KISM 271450Z 08010KT 10SM BKN037 28/18 A3007 ENDU 271550Z 24008KT 200V300 CAVOK 20/01 Q1024 NOSIG FDMV 271500Z AUTO 11003KT //// // ////// 23/14 Q1030 KISN 271552Z AUTO 01008KT 10SM SCT023 BKN040 BKN047 18/11 A2986 RMK AO2 SLP112 T01780106 KISO 271556Z 12005KT 10SM CLR 28/16 A3018 RMK AO2 FEFF 271500Z 24002KT 9999 FEW023 FEW030TCU 34/23 Q1010 NOSIG KM25 271555Z AUTO 18010G14KT 10SM SCT050 A2999 RMK AO2 PWINO KISP 271556Z 17009KT 10SM FEW100 FEW150 BKN250 23/17 A3009 RMK AO2 SLP188 T02330172 LBBG 271530Z 17004KT 9999 FEW007 SCT011 SCT030CB 17/15 Q1015 NOSIG KISQ 271555Z AUTO 15004KT 5SM BR OVC004 15/15 A2995 RMK AO2 T01520147 KITH 271556Z 30008KT 10SM BKN045 28/18 A3004 RMK AO2 SLP164 T02830183 UTTT 271530Z 00000KT CAVOK 26/12 Q1010 R08R/CLRD70 NOSIG KJKJ 271553Z AUTO 01007KT 10SM CLR 22/13 A2978 RMK AO2 KM30 271535Z AUTO 17004KT 10SM SCT019 SCT034 24/22 A2996 RMK AO2 T02400218 VLLN 271200Z 18002KT 6000 SCT040 SCT100 30/24 Q1004 NOSIG KJKL 271553Z AUTO VRB03KT 10SM CLR 28/19 A3011 RMK AO2 SLP182 T02780189 ENFL 271550Z 24005KT 9999 FEW050 15/07 Q1021 ENGC 271550Z 03009KT 4500 BR BCFG SCT002 BKN004 10/08 Q1022 W07/S3 KM33 271555Z AUTO 17007KT 150V230 10SM CLR 27/20 A3008 RMK A01 ENEV 271550Z 22008KT CAVOK 17/02 Q1025 RMK WIND 1400FT 22015KT KISW 271554Z AUTO 11009KT 10SM SCT075 23/16 A2986 RMK AO2 RAE1459 SLP109 P0000 T02330156 KITR 271553Z AUTO 04011KT 10SM FEW012 BKN038 14/09 A2975 RMK AO2 SLP049 T01440089 KM40 271555Z AUTO 18009KT 7SM FEW036 FEW049 FEW070 28/18 A3003 RMK AO2 FEFT 271000Z 18016KT 9999 SCT018 30/23 Q1013 UUMO 271530Z 10003MPS CAVOK 24/14 Q1017 R08/090060 NOSIG RMK QFE747/0997 KJLN 271553Z 16008KT 10SM BKN022 23/19 A2977 RMK AO2 SLP073 T02280189 ENHD 271550Z 32008KT CAVOK 12/08 Q1021 ENGM 271550Z 07012KT 020V110 CAVOK 16/05 Q1020 NOSIG ENHE 271550Z 03012KT CAVOK 08/08 Q1024 W///S3 ENHF 271550Z 04008KT CAVOK 13/04 Q1023 RMK WIND 1254FT 32005KT FDPP 271200Z AUTO 12003KT //// // ////// 18/11 Q1029 UUOB 271530Z 07003MPS 9999 SCT040CB 21/16 Q1012 R11/090060 NOSIG KIWA 271547Z 14004KT 45SM SKC 23/01 A2990 ENHK 271350Z 30011KT CAVOK 12/05 Q1023 KIWD 271555Z AUTO 06004KT 10SM FEW120 18/16 A2987 RMK AO1